Date: 07-Oct-2565

SAAE31 VDPP 070000
METAR VDPP 070000Z VRB02KT 9000 SCT015 27/26 Q1010=


......................................................................................


Date: 07-Oct-2565

SATH31 VTBU 070000
METAR VTBU 070000Z 01007KT 9000 FEW020 25/24 Q1010 NOSIG=


......................................................................................


Date: 07-Oct-2565

SATH31 VTCL 070000
METAR VTCL 070000Z VRB02KT 9999 FEW010 SCT025 23/22 Q1014 NOSIG=


......................................................................................


Date: 07-Oct-2565

SATH31 VTUO 070000
METAR VTUO 070000Z 08004KT 9999 FEW015 26/26 Q1012 NOSIG=


......................................................................................


Date: 07-Oct-2565

SATH31 VTUW 070000
METAR VTUW 070000Z 00000KT CAVOK 26/24 Q1013 NOSIG=


......................................................................................


Date: 07-Oct-2565

SATH31 VTPO 070000
METAR VTPO 070000Z VRB02KT 9999 FEW020 25/24 Q1012 NOSIG=


......................................................................................


Date: 07-Oct-2565

SATH31 VTSC 070000
METAR VTSC 070000Z 22003KT 180V240 6000 SCT005 24/24 Q1009 NOSIG=


......................................................................................


Date: 07-Oct-2565

SATH31 VTUL 070000
METAR VTUL 070000Z 01004KT 4000 BR BKN025 24/24 Q1014 NOSIG=


......................................................................................


Date: 07-Oct-2565

SANP31 VNKT 070000
METAR VNKT 070000Z VRB02KT 6000 FEW008 SCT030 BKN100 18/18 Q1019
NOSIG=


......................................................................................


Date: 07-Oct-2565

SATH31 VTSF 070000
METAR VTSF 070000Z 27003KT 210V340 9999 FEW018 BKN022 26/26 Q1010 NOSIG=


......................................................................................


Date: 07-Oct-2565

SATH31 VTUD 070000
METAR VTUD 070000Z VRB01KT 9999 FEW030 27/26 Q1013 NOSIG=


......................................................................................


Date: 07-Oct-2565

SAOM32 OOMS 070000
METAR OOMS 062350Z 06009KT 8000 NSC 29/29 Q1005 NOSIG=
METAR OOSA 062350Z 03002KT 9999 BKN025 26/22 Q1009 NOSIG=
METAR OOSH 070000Z NIL=
METAR OODQ 062350Z AUTO 22016KT CAVOK ////// 24/23 Q1007 NOSIG=
METAR OOKB 062350Z AUTO 18004KT 9999 // NSC 31/24 Q1006 NOSIG=
METAR OOAD 070000Z NIL=


......................................................................................


Date: 07-Oct-2565

SASD31 OEJD 070000
METAR OEDF 070000Z 27008KT CAVOK 26/07 Q1006 NOSIG=
METAR OEDR 070000Z 28007KT CAVOK 26/12 Q1005=
METAR OEJN 070000Z 01003KT CAVOK 28/23 Q1006 NOSIG=
METAR OEMA 070000Z 36004KT CAVOK 26/M08 Q1015 NOSIG=
METAR OERK 070000Z 28005KT CAVOK 24/00 Q1013 NOSIG=
METAR OERY 070000Z NIL=
METAR OEAB 070000Z 00000KT CAVOK 19/01 Q1023 NOSIG=
METAR OYAA 070000Z NIL=
METAR OYSN 070000Z NIL=


......................................................................................


Date: 07-Oct-2565

SATH31 VTBD 070000
METAR VTBD 070000Z 06003KT 020V080 9999 FEW020 26/26 Q1011 NOSIG=


......................................................................................


Date: 07-Oct-2565

SATH31 VTBS 070000
METAR VTBS 070000Z 02005KT 8000 FEW020 SCT040 26/24 Q1011 NOSIG=


......................................................................................


Date: 07-Oct-2565

SATH31 VTCC 070000
METAR VTCC 070000Z VRB01KT 9999 SCT035 25/23 Q1014 NOSIG=


......................................................................................


Date: 07-Oct-2565

SATH31 VTCH 070000
METAR VTCH 070000Z 00000KT 2000 BR FEW010 BKN025 24/24 Q1013 BECMG
4000 BR=


......................................................................................


Date: 07-Oct-2565

SATH31 VTCN 070000
METAR VTCN 070000Z 03003KT 360V060 4000 BR SCT002 BKN004 23/23 Q1014
BECMG TL0100 8000 NSW=


......................................................................................


Date: 07-Oct-2565

SATH31 VTCP 070000
METAR VTCP 070000Z 01003KT 340V060 9999 BKN004 BKN007 OVC010 25/24
Q1013 NOSIG=


......................................................................................


Date: 07-Oct-2565

SATH31 VTCT 070000
METAR VTCT 070000Z VRB02KT 8000 BKN005 24/24 Q1015 NOSIG=


......................................................................................


Date: 07-Oct-2565

SATH31 VTPB 070000
METAR VTPB 070000Z 34002KT 9999 SCT030 26/26 Q1012 NOSIG=


......................................................................................


Date: 07-Oct-2565

SATH31 VTPH 070000
METAR VTPH 070000Z 00000KT 9999 FEW030 25/24 Q1010 NOSIG=


......................................................................................


Date: 07-Oct-2565

SATH31 VTPM 070000
METAR VTPM 070000Z VRB01KT 1500 R27/P2000U BR OVC015 23/23 Q1012 NOSIG=


......................................................................................


Date: 07-Oct-2565

SATH31 VTPP 070000
METAR VTPP 070000Z 36001KT CAVOK 26/26 Q1011 NOSIG=


......................................................................................


Date: 07-Oct-2565

SATH31 VTPT 070000
METAR VTPT 070000Z /////KT 7000 SCT024 26/24 Q1012 NOSIG=


......................................................................................


Date: 07-Oct-2565

SATH31 VTSE 070000
METAR VTSE 070000Z 00000KT 9000 -RA FEW018TCU BKN020 25/25 Q1009 TEMPO TL0115 4500 RA=


......................................................................................


Date: 07-Oct-2565

SATH31 VTSR 070000
METAR VTSR 070000Z 00000KT 9999 FEW020 25/24 Q1009 NOSIG=


......................................................................................


Date: 07-Oct-2565

SATH31 VTSS 070000
METAR VTSS 070000Z 00000KT 6000 FEW002 BKN100 24/24 Q1009 NOSIG=


......................................................................................


Date: 07-Oct-2565

SATH31 VTSY 070000
METAR VTSY 070000Z VRB02KT 3000 BR OVC005 22/22 Q1011 BECMG TL0200
7000 NSW=


......................................................................................


Date: 07-Oct-2565

SATH31 VTUK 070000
METAR VTUK 070000Z 36002KT 9000 FEW030 25/24 Q1013 NOSIG=


......................................................................................


Date: 07-Oct-2565

SATH31 VTUU 070000
METAR VTUU 070000Z 03003KT 360V090 9000 SCT006 BKN020 25/25 Q1012
NOSIG=


......................................................................................


Date: 07-Oct-2565

SATH31 VTUV 070000
METAR VTUV 070000Z 08004KT 040V110 CAVOK 26/23 Q1012 NOSIG=


......................................................................................


Date: 07-Oct-2565

SAPK31 OPKC 070000
METAR OPIS 070000Z 23008KT 6000 FEW040 18/13 Q1013 NOSIG=
METAR OPKC 062355Z 31002KT 5000 FU FEW030 25/22 Q1007 NOSIG=
METAR OPLA 062355Z 00000KT 4000 FU NSC 25/22 Q1009 BECMG 3500
RMK QFE984 A29.82=
METAR OPMT 070000Z 13004KT 4000 FU NSC 27/17 Q1007 NOSIG=
METAR OPPS 070000Z 18006KT 5000 BR FEW040 FEW100 19/16 Q1013=
METAR OPSK 070000Z 00000KT 4000 HZ NSC 24/21 Q1004 NOSIG=
METAR OPST 070000Z 00000KT 4000 FU NSC 25/21 Q1010 NOSIG 80?=
METAR OPFA 070000Z NIL=
METAR OPNH 070000Z NIL=


......................................................................................


Date: 07-Oct-2565

SATH31 VTCL 070000 CCA
METAR COR VTCL 070000Z VRB02KT 6000 FEW010 SCT025 23/22 Q1014 NOSIG=


......................................................................................


Date: 07-Oct-2565

SATH31 VTSG 070000
METAR VTSG 070000Z 00000KT 5000 BR FEW020 SCT050 BKN100 24/23 Q1010
BECMG FM0030 TL0100 NSW=


......................................................................................


Date: 07-Oct-2565

SATH31 VTSM 070000
METAR VTSM 070000Z 19004KT 150V240 6000 -RA FEW012 FEW016CB SCT018 OVC100 24/24 Q1011 RERA NOSIG=


......................................................................................


Date: 07-Oct-2565

SATH31 VTSP 070000
METAR VTSP 070000Z VRB02KT 9999 -RA FEW020 SCT080 24/23 Q1009 NOSIG=


......................................................................................


Date: 07-Oct-2565

SATH31 VTST 070000
METAR VTST 070000Z VRB01KT 1500 BR SCT002 24/24 Q1009 BECMG TL0200 6000 NSW=


......................................................................................


Date: 07-Oct-2565

SATH31 VTPN 070000
METAR VTPN 070000Z 00000KT 8000 RA SCT022 25/24 Q1011=


......................................................................................


Date: 07-Oct-2565

SATH31 VTSB 070000
METAR VTSB 070000Z 00000KT 0800 R22///// -RA FG OVC005 24/24 Q1010
BECMG TL0030 1500 BR=


......................................................................................


Date: 07-Oct-2565

SATH31 VTUI 070000
METAR VTUI 070000Z VRB01KT CAVOK 26/24 Q1012 NOSIG=


......................................................................................


Date: 07-Oct-2565

SAIR31 OIII 070000
METAR OIAW 070000Z 18004KT 8000 NSC 26/07 Q1005=
METAR OIFM 070000Z 02004KT CAVOK 10/M08 Q1023 A3023=
METAR OIII 070000Z 04006KT CAVOK 22/M01 Q1021 A3015 NOSIG=
METAR OIKB 070000Z NIL=
METAR OIKK 070000Z 11010KT CAVOK 09/M09 Q1022 A3018=
METAR OIMM 070000Z 30006KT CAVOK 10/M05 Q1023 A3023=
METAR OISS 070000Z 00000KT CAVOK 14/M02 Q1020 A3012=
METAR OITT 070000Z 08008KT CAVOK 19/05 Q1022 A3020=
METAR OIZH 070000Z 19006KT CAVOK 07/M21 Q1018 A3009=


......................................................................................


Date: 07-Oct-2565

SAIR32 OIII 070000
METAR OIAA 070000Z 30002KT CAVOK 24/06 Q1006=
METAR OIBK 070000Z NIL=
METAR OICC 070000Z 00000KT CAVOK 12/M16 Q1020 A3012=
METAR OIGG 070000Z NIL=
METAR OIIE 070000Z 31010KT CAVOK 18/09 Q1020=
METAR OINZ 070000Z NIL=
METAR OITR 070000Z 30004KT CAVOK 11/02 Q1020=
METAR OIYY 070000Z 24004KT CAVOK 18/M06 Q1021=


......................................................................................


Date: 07-Oct-2565

SAIR34 OIII 070000
METAR OIAG 070000Z NIL=
METAR OIAM 070000Z 28004KT CAVOK 25/06 Q1005=
METAR OICI 070000Z 12006KT CAVOK 20/M06 Q1020 A3012=
METAR OIKQ 070000Z 11006KT 2000 BR NSC 28/27 Q1005=
METAR OINN 070000Z 25002KT 8000 FEW023CB BKN027 22/20 Q1020=
METAR OINR 070000Z 34006KT 9999 FEW022CB BKN025 22/20 Q1020=
METAR OISL 070000Z 00000KT CAVOK 19/02 Q1011=
METAR OISY 070000Z 00000KT CAVOK 13/M05 Q1023=
METAR OITZ 070000Z NIL=


......................................................................................


Date: 07-Oct-2565

SAIR35 OIII 070000
METAR OIAD 070000Z NIL=
METAR OIBJ 070000Z AUTO VRB01KT //// // ////// 23/02 Q1012=
METAR OIBS 070000Z NIL=
METAR OIHR 070000Z NIL=
METAR OIKM 070000Z NIL=
METAR OIKR 070000Z NIL=
METAR OING 070000Z 22008KT 9999 FEW030 22/19 Q1022=
METAR OIZB 070000Z 34027G37KT CAVOK 18/M15 Q1013=
METAR OIZI 070000Z 00000KT CAVOK 24/M13 Q1011=


......................................................................................


Date: 07-Oct-2565

SAIR36 OIII 070000
METAR OIBA 070000Z NIL=
METAR OIBV 070000Z NIL=
METAR OIFS 070000Z 36002KT CAVOK 05/M12 Q1026=
METAR OIIP 070000Z 31008KT CAVOK 14/10 Q1021 A3015=
METAR OIMB 070000Z 11006KT CAVOK 03/M33 Q1020 A3013=
METAR OIMN 070000Z 26004KT 7000 FEW005 16/13 Q1023=
METAR OIMS 070000Z NIL=
METAR OIMT 070000Z NIL=
METAR OIZJ 070000Z 03006KT 5000 BR NSC 28/26 Q1004=


......................................................................................


Date: 07-Oct-2565

SAIR37 OIII 070000
METAR OIBL 070000Z 06004KT 3500 BR NSC 28/26 Q1004=
METAR OIBQ 070000Z NIL=
METAR OIIK 070000Z NIL=
METAR OIMD 070000Z NIL=
METAR OIMQ 070000Z NIL=
METAR OINE 070000Z 00000KT 9999 SCT025 OVC080 22/19 Q1020=
METAR OITK 070000Z NIL=
METAR OITM 070000Z 09008KT CAVOK 18/00 Q1020=


......................................................................................


Date: 07-Oct-2565

SAIR38 OIII 070000
METAR OIAH 070000Z 00000KT CAVOK 21/04 Q1009=
METAR OIBH 070000Z NIL=
METAR OICM 070000Z NIL=
METAR OIIS 070000Z NIL=
METAR OIMJ 070000Z AUTO 05013KT //// // ////// 13/08 Q1023=
METAR OISF 070000Z 34004KT CAVOK 18/M01 Q1018=
METAR OISR 070000Z NIL=
METAR OITP 070000Z 14012KT 9999 BKN040 20/16 Q1021=
METAR OITU 070000Z NIL=


......................................................................................


Date: 07-Oct-2565

SAPK31 OPKC 070000
METAR OPKC 062355Z 31002KT 5000 FU FEW030 25/22 Q1007 NOSIG=


......................................................................................


Date: 07-Oct-2565

SAPK31 OPKC 070000 RRA
METAR OPFA 070000Z NIL=
METAR OPNH 070000Z NIL=


......................................................................................


Date: 07-Oct-2565

SAPK31 OPKC 070000 RRB
METAR OPFA 070001Z 00000KT 4000 FU NSC 25/22 Q1010 BECMG 3000 BR=


......................................................................................


Date: 07-Oct-2565

SATH40 VTBB 070000
METAR VTBD 070000Z 06003KT 020V080 9999 FEW020 26/26 Q1011 NOSIG=
METAR VTBS 070000Z 02005KT 8000 FEW020 SCT040 26/24 Q1011 NOSIG=
METAR VTBU 070000Z 01007KT 9000 FEW020 25/24 Q1010 NOSIG=
METAR VTCC 070000Z VRB01KT 9999 SCT035 25/23 Q1014 NOSIG=
METAR VTCT 070000Z VRB02KT 8000 BKN005 24/24 Q1015 NOSIG=
METAR VTSB 070000Z 00000KT 0800 R22///// -RA FG OVC005 24/24 Q1010
BECMG TL0030 1500 BR=
METAR VTSG 070000Z 00000KT 5000 BR FEW020 SCT050 BKN100 24/23 Q1010
BECMG FM0030 TL0100 NSW=
METAR VTSP 070000Z VRB02KT 9999 -RA FEW020 SCT080 24/23 Q1009 NOSIG=
METAR VTSS 070000Z 00000KT 6000 FEW002 BKN100 24/24 Q1009 NOSIG=
METAR VTUD 070000Z VRB01KT 9999 FEW030 27/26 Q1013 NOSIG=
METAR VTUU 070000Z 03003KT 360V090 9000 SCT006 BKN020 25/25 Q1012
NOSIG=


......................................................................................


Date: 07-Oct-2565

SAHK31 VHHH 070000
METAR VHHH 070000Z 09010KT 9999 FEW022 29/22 Q1015 NOSIG=


......................................................................................


Date: 07-Oct-2565

SAIR36 OIII 070000 RRA
METAR OIMS 070000Z 06010KT CAVOK 11/M16 Q1022=


......................................................................................


Date: 07-Oct-2565

SAMV31 VRMM 070000
METAR VRMH 070000Z 29011KT 9999 FEW018 SCT270 27/24 Q1008=
METAR VRMM 070000Z 31012KT 9999 FEW018TCU SCT280 28/24
Q1008 NOSIG=
METAR VRMG 070000Z 29008KT 7000 -SHRA SCT016 FEW017CB OVC100
25/25 Q1010 CB S,W TEMPO 4000 SHRA=


......................................................................................


Date: 07-Oct-2565

SAOM32 OOMS 070000 RRA
METAR OOSH 062350Z AUTO 23003KT //// ////// 28/20 Q1005=


......................................................................................


Date: 07-Oct-2565

SAPK31 OPKC 070000
METAR OPIS 070000Z 23008KT 6000 FEW040 18/13 Q1013 NOSIG=
METAR OPKC 062355Z 31002KT 5000 FU FEW030 25/22 Q1007 NOSIG=
METAR OPLA 062355Z 00000KT 4000 FU NSC 25/22 Q1009 BECMG 3500
RMK QFE984 A29.82=
METAR OPMT 070000Z 13004KT 4000 FU NSC 27/17 Q1007 NOSIG=
METAR OPPS 070000Z 18006KT 5000 BR FEW040 FEW100 19/16 Q1013=
METAR OPSK 070000Z 00000KT 4000 HZ NSC 24/21 Q1004 NOSIG=
METAR OPST 070000Z 00000KT 4000 FU NSC 25/21 Q1010 NOSIG 80%=
METAR OPFA 070000Z NIL=
METAR OPNH 070000Z NIL=


......................................................................................


Date: 07-Oct-2565

SASR31 WSSS 070000
METAR WSSS 070000Z VRB02KT 9999 FEW016 BKN160 27/24 Q1010 NOSIG=


......................................................................................


Date: 07-Oct-2565

SATH31 VTUQ 070000
METAR VTUQ 070000Z 00000KT 9000 SCT025 24/24 Q1013 NOSIG=


......................................................................................


Date: 07-Oct-2565

SAAE31 VTBB 070000
METAR VTCT 070000Z VRB02KT 8000 BKN005 24/24 Q1015 NOSIG=
METAR VTSG 070000Z 00000KT 5000 BR FEW020 SCT050 BKN100 24/23 Q1010
BECMG FM0030 TL0100 NSW=
METAR VTBD 070000Z 06003KT 020V080 9999 FEW020 26/26 Q1011 NOSIG=
METAR VTBS 070000Z 02005KT 8000 FEW020 SCT040 26/24 Q1011 NOSIG=
METAR VTCC 070000Z VRB01KT 9999 SCT035 25/23 Q1014 NOSIG=
METAR VTSP 070000Z VRB02KT 9999 -RA FEW020 SCT080 24/23 Q1009 NOSIG=
METAR VTSS 070000Z 00000KT 6000 FEW002 BKN100 24/24 Q1009 NOSIG=
METAR VTBU 070000Z 01007KT 9000 FEW020 25/24 Q1010 NOSIG=


......................................................................................


Date: 07-Oct-2565

SAAE32 VTBB 070000
METAR VDPP 070000Z VRB02KT 9000 SCT015 27/26 Q1010=
METAR VDSR 070000Z VRB02KT 9999 SCT017 26/24 Q1010=
METAR VLVT 070000Z 34006KT 8000 SCT100 25/25 Q1013 NOSIG=
METAR VYMD 070000Z NIL=
METAR VYNT 070000Z NIL=
METAR VYYY 070000Z 23002KT 6000 BKN015 FEW020CB BKN090 25/24 Q1010
NOSIG=
METAR VDSV 070000Z 07003KT 9999 SCT015 25/24 Q1010=


......................................................................................


Date: 07-Oct-2565

SAAE33 VTBB 070000
METAR VLLB 070000Z 00000KT 9999 FEW006 FEW060 24/23 Q1014 NOSIG=
METAR VLLN 070000Z 09002KT 2000 BR FEW010 OVC100 22/22 Q1015 NOSIG=
METAR VLPS 070000Z 09006KT 9999 FEW017 FEW100 BKN200 25/24 Q1012
NOSIG=
METAR VLSK 070000Z 36002KT 5000 BR SCT040 FEW100 24/23 Q1013 NOSIG=


......................................................................................


Date: 07-Oct-2565

SAAE34 VTBB 070000
METAR VVCI 070000Z 27002KT 9999 -RA FEW019 OVC042 24/24 Q1014 NOSIG=
METAR VVCR 070000Z 33004KT 9999 FEW015 26/24 Q1011 NOSIG=
METAR VVCT 070000Z VRB02KT 8000 NSC 26/26 Q1010 NOSIG=
METAR VVDN 070000Z 30002KT 9999 FEW015 28/23 Q1012 NOSIG=
METAR VVNB 070000Z 00000KT 5000 BR FEW033 BKN041 25/24 Q1015 BECMG
6000 NSW=
METAR VVPB 070000Z 23002KT 6000 FEW015 SCT050 26/24 Q1014 NOSIG=
METAR VVPQ 070000Z 08006KT 9999 FEW015 27/24 Q1010 NOSIG=
METAR VVTS 070000Z VRB03KT 8000 FEW017 27/25 Q1010 NOSIG =


......................................................................................


Date: 07-Oct-2565

SAPK31 OPKC 070000
METAR OPIS 070000Z 23008KT 6000 FEW040 18/13 Q1013 NOSIG=
METAR OPKC 062355Z 31002KT 5000 FU FEW030 25/22 Q1007 NOSIG=
METAR OPLA 062355Z 00000KT 4000 FU NSC 25/22 Q1009 BECMG 3500

RMK QFE984 A29.82=
METAR OPMT 070000Z 13004KT 4000 FU NSC 27/17 Q1007 NOSIG=
METAR OPPS 070000Z 18006KT 5000 BR FEW040 FEW100 19/16 Q1013=
METAR OPSK 070000Z 00000KT 4000 HZ NSC 24/21 Q1004 NOSIG=
METAR OPST 070000Z 00000KT 4000 FU NSC 25/21 Q1010 NOSIG 80=
METAR OPFA 070000Z NIL=
METAR OPNH 070000Z NIL=


......................................................................................


Date: 07-Oct-2565

SAUZ31 UTTW 070000
METAR UTFN 070000Z 00000KT 9999 NSC 11/04 Q1021 R28/CLRD70 NOSIG=
METAR UTNN 070000Z 00000KT CAVOK 06/M09 Q1021 R15/CLRD60 NOSIG=
METAR UTNU 070000Z 34002KT CAVOK 05/01 Q1021 R31/CLRD70 NOSIG=
METAR UTSA 070000Z 10008KT 7000 NSC 10/M01 Q1020 R07/CLRD70 NOSIG=
METAR UTSB 070000Z 09002KT CAVOK 07/00 Q1020 R01/CLRD70 NOSIG=
METAR UTSK 070000Z 07006KT CAVOK 10/M03 Q1021 R16/CLRD70=
METAR UTSS 070000Z 13004KT 100V160 9999 NSC 08/02 Q1021 R09/CLRD70
NOSIG=
METAR UTST 070000Z 06004KT CAVOK 07/M01 Q1021 R25/CLRD70 NOSIG=
METAR UTFA 070000Z NIL=
METAR UTFF 070000Z 14006KT 9999 NSC 13/02 Q1021 R18/CLRD70=
METAR UTTT 070000Z 07004KT CAVOK 10/M00 Q1021 R08L/CLRD70 NOSIG=


......................................................................................


Date: 07-Oct-2565

SAIR31 OIII 070000
METAR OIAA 062351Z 30002KT CAVOK 24/06 Q1006=
METAR OIAG 070000 NIL=
METAR OIAH 070000Z 00000KT CAVOK 21/04 Q1009=
METAR OIAI 070000 NIL=
METAR OIAM 070000Z 28004KT CAVOK 25/06 Q1005=
METAR OIAW 062348Z 18004KT 8000 NSC 26/07 Q1005=
METAR OIBA 070000 NIL=
METAR OIBB 062350Z 08004KT 8000 NSC 27/22 Q1005 A2968=
METAR OIBK 070000Z 19004KT 3000 BR NSC 26/25 Q1005=
METAR OIBL 070000Z 06004KT 3500 BR NSC 28/26 Q1004=
METAR OIBS 070000 NIL=
METAR OICC 062350Z 00000KT CAVOK 12/M16 Q1020 A3012=
METAR OICI 070000Z 12006KT CAVOK 20/M06 Q1020 A3012=
METAR OICJ 070000 NIL=
METAR OICK 062351Z 13006KT CAVOK 18/M06 Q1017=
METAR OICS 070000Z 00000KT CAVOK 12/M05 Q1022 A3018=
METAR OIFK 070000 NIL=
METAR OIFM 070000Z 02004KT CAVOK 10/M08 Q1023 A3023=
METAR OIFS 062351Z 36002KT CAVOK 05/M12 Q1026=
METAR OIGG 070000Z 00000KT 9999 BKN025 SCT070 21/21 Q1021=
METAR OIGK 070000 NIL=
METAR OIHH 070000Z 13004KT CAVOK 10/M09 Q1023 A3021=
METAR OIHM 070000Z 08004KT CAVOK 13/M07 Q1023=
METAR OIIE 070000Z 31010KT CAVOK 18/09 Q1020 NOSIG=
METAR OIII 070000Z 04006KT CAVOK 22/M01 Q1021 A3015 NOSIG=
METAR OIIK 070000 NIL=
METAR OIIP 070000Z 31008KT CAVOK 14/10 Q1021 A3015=
METAR OIIS 070000 NIL=
METAR OIKB 070000Z 03004KT 4000 BR NSC 27/25 Q1005 A2970=
METAR OIKK 062350Z 11010KT CAVOK 09/M09 Q1022 A3018=
METAR OIKO 070000 NIL=
METAR OIKQ 070000Z 11006KT 2000 BR NSC 28/27 Q1005=
METAR OIMB 070000Z 11006KT CAVOK 03/M33 Q1020 A3013=
METAR OIMC 070000 NIL=
METAR OIMD 070000 NIL=
METAR OIMM 070000Z 30006KT CAVOK 10/M05 Q1023 A3023=
METAR OINB 070000 NIL=
METAR OING 070000Z 22008KT 9999 FEW030 22/19 Q1022=
METAR OINK 070000 NIL=
//END PART 01//


......................................................................................


Date: 07-Oct-2565

SAIR77 OIII 070000
METAR AZUH 070000 NIL=
METAR KHME 070000 NIL=
METAR OIAA 062351Z 30002KT CAVOK 24/06 Q1006=
METAR OIAG 070000 NIL=
METAR OIAH 070000Z 00000KT CAVOK 21/04 Q1009=
METAR OIAI 070000 NIL=
METAR OIAM 070000Z 28004KT CAVOK 25/06 Q1005=
METAR OIAW 062348Z 18004KT 8000 NSC 26/07 Q1005=
METAR OIBA 070000 NIL=
METAR OIBB 062350Z 08004KT 8000 NSC 27/22 Q1005 A2968=
METAR OIBK 070000Z 19004KT 3000 BR NSC 26/25 Q1005=
METAR OIBL 070000Z 06004KT 3500 BR NSC 28/26 Q1004=
METAR OIBS 070000 NIL=
METAR OICC 062350Z 00000KT CAVOK 12/M16 Q1020 A3012=
METAR OICI 070000Z 12006KT CAVOK 20/M06 Q1020 A3012=
METAR OICJ 070000 NIL=
METAR OICK 062351Z 13006KT CAVOK 18/M06 Q1017=
METAR OICS 070000Z 00000KT CAVOK 12/M05 Q1022 A3018=
METAR OIFK 070000 NIL=
METAR OIFM 070000Z 02004KT CAVOK 10/M08 Q1023 A3023=
METAR OIFS 062351Z 36002KT CAVOK 05/M12 Q1026=
METAR OIGG 070000Z 00000KT 9999 BKN025 SCT070 21/21 Q1021=
METAR OIGK 070000 NIL=
METAR OIHM 070000Z 08004KT CAVOK 13/M07 Q1023=
METAR OIIE 070000Z 31010KT CAVOK 18/09 Q1020 NOSIG=
METAR OIII 070000Z 04006KT CAVOK 22/M01 Q1021 A3015 NOSIG=
METAR OIIK 070000 NIL=
METAR OIIP 070000Z 31008KT CAVOK 14/10 Q1021 A3015=
METAR OIIS 070000 NIL=
METAR OIKB 070000Z 03004KT 4000 BR NSC 27/25 Q1005 A2970=
METAR OIKK 062350Z 11010KT CAVOK 09/M09 Q1022 A3018=
METAR OIKO 070000 NIL=
METAR OIKQ 070000Z 11006KT 2000 BR NSC 28/27 Q1005=
METAR OIMB 070000Z 11006KT CAVOK 03/M33 Q1020 A3013=
METAR OIMC 070000 NIL=
METAR OIMD 070000 NIL=
METAR OIMM 070000Z 30006KT CAVOK 10/M05 Q1023 A3023=
METAR OIMN 070000Z 26004KT 7000 FEW005 16/13 Q1023=
METAR OINB 070000 NIL=
METAR OING 070000Z 22008KT 9999 FEW030 22/19 Q1022=
METAR OINK 070000 NIL=
METAR OINN 070000Z 25002KT 8000 FEW023CB BKN027 22/20 Q1020=
METAR OINR 070000Z 34006KT 9999 FEW022CB BKN025 22/20 Q1020=
METAR OISA 070000 NIL=
METAR OISF 070000Z 34004KT CAVOK 18/M01 Q1018=
METAR OISL 070000Z 00000KT CAVOK 19/02 Q1011=
METAR OISS 070000Z 00000KT CAVOK 14/M02 Q1020 A3012=
METAR OISY 070000Z 00000KT CAVOK 13/M05 Q1023=
METAR OITL 062351Z 07010KT 4000 -DZ PRFG OVC003 13/13 Q1025=
METAR OITR 062352Z 30004KT CAVOK 11/02 Q1020=
METAR OITT 070000Z 08008KT CAVOK 19/05 Q1022 A3020=
METAR OITU 070000 NIL=
METAR OIYY 062350Z 24004KT CAVOK 18/M06 Q1021=
METAR OIZB 070000Z 34027G37KT CAVOK 18/M15 Q1013=
METAR OIZC 070000 NIL=
METAR OIZH 070000Z 19006KT CAVOK 07/M21 Q1018 A3009=
METAR OIZI 070000Z 00000KT CAVOK 24/M13 Q1011=
METAR OIZJ 070000Z 03006KT 5000 BR NSC 28/26 Q1004=
METAR SESG 070000 NIL=
METAR YAYT 070000 NIL=


......................................................................................


Date: 07-Oct-2565

SATR31 UTAA 070000
METAR UTAA 070000Z 17004KT 9999 NSC 12/M02 Q1019 R88/CLRD70
NOSIG=
METAR UTAK 070000Z 33008KT CAVOK 13/09 Q1020 R16R/CLRD70 NOSIG=
METAR UTAV 070000Z 00000KT CAVOK 07/M04 Q1020 R31/CLRD70
NOSIG=
METAR UTAM 070000Z 00000KT 6000 NSC 10/01 Q1021 R88/CLRD70 NOSIG=
METAR UTAT 070000Z 03004KT CAVOK 08/M02 Q1021 R08/CLRD70
NOSIG=


......................................................................................


Date: 07-Oct-2565

SAHK31 VHHH 070000
METAR VHHH 070000Z 09010KT 9999 FEW022 29/22 Q1015 NOSIG=
METAR RCTP 070000Z 04017KT 9999 FEW015 SCT022 BKN060 26/23 Q1016
NOSIG RMK A3001=
METAR RCKH 070000Z 06004KT 020V100 9999 FEW014 29/24 Q1014 NOSIG
RMK A2995=
METAR RCSS 070000Z 08010KT 9999 -RA FEW012 BKN025 BKN040 26/24
Q1016 NOSIG RMK A3002=
METAR RCMQ 070000Z 36006KT 8000 FEW010 BKN025 BKN040 26/24 Q1016
NOSIG RMK A3001=
METAR RCNN 070000Z 07002KT 9000 FEW012 SCT100 29/24 Q1014 NOSIG
RMK A2997=
METAR RCFN 070000Z 02005KT 300V070 9999 FEW025 SCT085 28/24 Q1016
NOSIG RMK A3001=
METAR VMMC 070000Z 08011KT 040V100 9999 FEW015 SCT040 27/25 Q1015
NOSIG=
METAR RPLL 070000Z VRB02KT 9999 FEW025 BKN300 29/23 Q1011 NOSIG RMK
A2985=
METAR RPVM 070000Z 05009KT 020V090 9999 FEW018CB SCT300 30/25 Q1011
RMK A2985 CB WSW=
METAR RPMD 070000Z 02004KT 340V080 9999 FEW016 29/25 Q1011 RMK A2985=
METAR RPLB 070000Z 04004KT 360V090 9999 FEW018 BKN300 28/23 Q1012
NOSIG RMK A2988=
METAR RPLI 070000Z VRB02KT 9999 FEW018 30/23 Q1011 NOSIG RMK A2985=
METAR RPMZ 070000Z 09004KT 060V130 9999 FEW017 BKN300 29/24 Q1010 RMK
A2983=


......................................................................................


Date: 07-Oct-2565

SAJP31 RJTD 070000
METAR RJAA 070000Z 35010KT 8000 -RA FEW015 BKN035 BKN040 14/12 Q1018
TEMPO 4000 -RA BR FEW008 BKN012=
METAR RJBB 070000Z 01014KT 3000 SHRA BR FEW003 BKN008 BKN010 18/17
Q1014 NOSIG=
METAR RJTT 070000Z 33012KT 6000 RA FEW006 BKN023 12/12 Q1019 TEMPO
4000 RA BR FEW005 BKN008=
METAR RJOO 070000Z 31005KT 5000 SHRA BR FEW005 SCT008 BKN015 16/15
Q1015=
METAR ROAH 070000Z 04007KT 010V070 9999 VCSH FEW020 29/24 Q1016=
METAR RJGG 070000Z 36007KT 9999 -RA FEW006 SCT015 BKN030 16/15 Q1014
NOSIG=
METAR RJCH 070000Z 06004KT 020V090 9999 FEW030 SCT060 BKN170 11/05
Q1022=
METAR RJSS 070000Z 32007KT 9999 FEW010 BKN030 BKN100 12/07 Q1021=


......................................................................................


Date: 07-Oct-2565

SAJP32 RJTD 070000
METAR RJFF 070000Z 33007KT 9000 -SHRA FEW005 SCT015 BKN030 17/15
Q1017 TEMPO 4000 -SHRA BR FEW003 SCT005 BKN008=
METAR RJCC 070000Z VRB02KT 9999 FEW020 BKN/// 07/05 Q1023=
METAR RJFK 070000Z 34007KT 9999 BCFG FEW005 SCT012 BKN045 19/17
Q1016=
METAR RJSN 070000Z VRB02KT 9999 -RA FEW030 SCT050 BKN070 14/08
Q1018=
METAR RJFT 070000Z 25003KT 210V290 3000 -SHRA BR BCFG FEW001 SCT005
BKN007 17/16 Q1017=
METAR RJFU 070000Z 35014KT 9999 -SHRA FEW007 SCT015 BKN025 18/15
Q1017=
METAR RJNK 070000Z VRB01KT 6000 -RA FEW020 BKN030 OVC040 13/13
Q1014=
METAR RJOA 070000Z 33003KT 290V040 4000 -RA BCFG BR FEW000 SCT009
BKN030 15/14 Q1015=
METAR RJOB 070000Z 35003KT 4500 -SHRA BR BCFG FEW000 SCT004 BKN007
14/14 Q1014=
METAR RJOT 070000Z VRB02KT 9000 -SHRA FEW000 SCT010 BKN020 16/16
Q1014=


......................................................................................


Date: 07-Oct-2565

SAJP32 RJTD 070000 RRA
METAR RJFO 070000Z 31009KT 280V340 9999 -SHRA FEW010 SCT025 BKN050
19/16 Q1015=
METAR RJNT 070000Z VRB01KT 7000 -RA FEW002 SCT070 OVC080 13/12
Q1015=


......................................................................................


Date: 07-Oct-2565

SAJP38 RJTD 070000
METAR RJNS 070000Z 05006KT 310V110 9999 -RA FEW008 SCT050 BKN060
13/13 Q1016=
METAR RJSA 070000Z 04003KT 340V070 9999 FEW050 BKN120 10/04 Q1021=
METAR RJSF 070000Z 36005KT 6000 -RA FEW001 SCT003 BKN005 08/08
Q1021=
METAR RJOM 070000Z 13006KT 9999 VCSH FEW007 SCT020 BKN035 19/19
Q1014=
METAR RJOK 070000Z 35004KT 310V040 9999 -SHRA FEW003 BKN025 BKN040
19/18 Q1013=
METAR RJFM 070000Z 27010KT 9999 FEW020 SCT050 BKN130 22/17 Q1014=
METAR RJEC 070000Z 16008KT 120V190 9999 FEW020 SCT/// 09/04 Q1021=
METAR RJFR 070000Z 31012KT 9999 -SHRA FEW005 SCT010 BKN045 17/15
Q1016=
METAR RJSK 070000Z 13004KT 100V160 9999 FEW010 SCT100 BKN130 09/08
Q1020=
METAR RJAH 070000Z 01009KT 9999 -RA FEW015 SCT050 BKN080 12/12
Q1018=


......................................................................................


Date: 07-Oct-2565

SAJP38 RJTD 070000 RRA
METAR RJCK 070000Z 35004KT 9999 FEW040 BKN/// 08/03 Q1022=
METAR RJCM 070000Z 19007KT 170V260 9999 FEW030 SCT/// 09/04 Q1022=
METAR RJCB 070000Z VRB02KT 9999 FEW020 BKN/// 06/03 Q1022=
METAR RJOC 070000Z 22007KT 180V240 9999 -SHRA FEW004 SCT020 BKN030
17/15 Q1014=
METAR RJOH 070000Z 19004KT 9999 -SHRA FEW005 SCT030 BKN050 16/16
Q1014=
METAR ROIG 070000Z 05011KT 9999 VCSH SCT015 FEW025TCU 29/25 Q1015=
METAR RJFS 070000Z 30014KT 6000 -SHRA FEW010 SCT030 BKN045 17/16
Q1017=
METAR RJSI 070000Z 03005KT 340V050 9999 FEW003 SCT120 BKN170 09/07
Q1022=


......................................................................................


Date: 07-Oct-2565

SAJP51 RJTD 070000
METAR RJAA 070000Z 35010KT 8000 -RA FEW015 BKN035 BKN040 14/12 Q1018
TEMPO 4000 -RA BR FEW008 BKN012=
METAR RJAF 070000Z VRB01KT 3500 -RA BR FEW002 BKN005 BKN010 09/09
Q1018=
METAR RJAH 070000Z 01009KT 9999 -RA FEW015 SCT050 BKN080 12/12
Q1018=
METAR RJBB 070000Z 01014KT 3000 SHRA BR FEW003 BKN008 BKN010 18/17
Q1014 NOSIG=
METAR RJBD 070000Z 36005KT 9999 -SHRA FEW008 SCT020 BKN040 20/18
Q1013=
METAR RJBE 070000Z 05006KT 3500 SHRA BR FEW003 SCT012 BKN020 17/16
Q1014=
METAR RJBT 070000Z 20004KT 2000 -RA BCFG FEW000 SCT003 BKN050 13/13
Q1014=
METAR RJCB 070000Z VRB02KT 9999 FEW020 BKN/// 06/03 Q1022=
METAR RJCC 070000Z VRB02KT 9999 FEW020 BKN/// 07/05 Q1023=
METAR RJCH 070000Z 06004KT 020V090 9999 FEW030 SCT060 BKN170 11/05
Q1022=
METAR RJCK 070000Z 35004KT 9999 FEW040 BKN/// 08/03 Q1022=
METAR RJCM 070000Z 19007KT 170V260 9999 FEW030 SCT/// 09/04 Q1022=
METAR RJCN 070000Z VRB02KT 9999 FEW025 BKN/// 09/04 Q1022=
METAR RJCO 070000Z 15006KT 9999 FEW015 SCT230 11/03 Q1024=
METAR RJCW 070000Z VRB05KT 9999 FEW030 10/02 Q1021=
METAR RJDB 070000Z AUTO VRB01KT 9999 -RA FEW033 SCT046 BKN090 17/15
Q1017=
METAR RJDC 070000Z 34006KT 230V050 9999 -SHRA FEW006 SCT015 BKN060
16/15 Q1016=
METAR RJDT 070000Z 30006KT 260V340 9999 FEW025 SCT100 BKN130 18/14
Q1016=
METAR RJEB 070000Z 26007KT 9999 FEW020 BKN090 12/01 Q1022=
METAR RJEC 070000Z 16008KT 120V190 9999 FEW020 SCT/// 09/04 Q1021=


......................................................................................


Date: 07-Oct-2565

SAJP51 RJTD 070000 RRA
METAR RJFE 070000Z 35007KT 9999 -RA FEW020 SCT030 BKN100 17/13
Q1018=
METAR RJFF 070000Z 33007KT 9000 -SHRA FEW005 SCT015 BKN030 17/15
Q1017 TEMPO 4000 -SHRA BR FEW003 SCT005 BKN008=
METAR RJFG 070000Z 31012KT 9999 SCT020 BKN025 22/19 Q1015=
METAR RJFK 070000Z 34007KT 9999 BCFG FEW005 SCT012 BKN045 19/17
Q1016=
METAR RJFM 070000Z 27010KT 9999 FEW020 SCT050 BKN130 22/17 Q1014=
METAR RJFO 070000Z 31009KT 280V340 9999 -SHRA FEW010 SCT025 BKN050
19/16 Q1015=
METAR RJFR 070000Z 31012KT 9999 -SHRA FEW005 SCT010 BKN045 17/15
Q1016=
METAR RJFS 070000Z 30014KT 6000 -SHRA FEW010 SCT030 BKN045 17/16
Q1017=
METAR RJFT 070000Z 25003KT 210V290 3000 -SHRA BR BCFG FEW001 SCT005
BKN007 17/16 Q1017=
METAR RJFU 070000Z 35014KT 9999 -SHRA FEW007 SCT015 BKN025 18/15
Q1017=
METAR RJGG 070000Z 36007KT 9999 -RA FEW006 SCT015 BKN030 16/15 Q1014
NOSIG=
METAR RJKA 070000Z VRB02KT 9999 FEW020 SCT030 BKN035 25/23 Q1015=
METAR RJKI 070000Z AUTO 31007KT 9999 FEW029 BKN033 OVC047 27/21
Q1015=
METAR RJNK 070000Z VRB01KT 6000 -RA FEW020 BKN030 OVC040 13/13
Q1014=
METAR RJNS 070000Z 05006KT 310V110 9999 -RA FEW008 SCT050 BKN060
13/13 Q1016=
METAR RJNT 070000Z VRB01KT 7000 -RA FEW002 SCT070 OVC080 13/12
Q1015=
METAR RJNW 070000Z 07009KT 9999 -RA FEW000 SCT010 OVC090 12/12
Q1015=
METAR RJOA 070000Z 33003KT 290V040 4000 -RA BCFG BR FEW000 SCT009
BKN030 15/14 Q1015=
METAR RJOB 070000Z 35003KT 4500 -SHRA BR BCFG FEW000 SCT004 BKN007
14/14 Q1014=
METAR RJOC 070000Z 22007KT 180V240 9999 -SHRA FEW004 SCT020 BKN030
17/15 Q1014=


......................................................................................


Date: 07-Oct-2565

SAJP51 RJTD 070000 RRB
METAR RJOH 070000Z 19004KT 9999 -SHRA FEW005 SCT030 BKN050 16/16
Q1014=
METAR RJOK 070000Z 35004KT 310V040 9999 -SHRA FEW003 BKN025 BKN040
19/18 Q1013=
METAR RJOM 070000Z 13006KT 9999 VCSH FEW007 SCT020 BKN035 19/19
Q1014=
METAR RJOO 070000Z 31005KT 5000 SHRA BR FEW005 SCT008 BKN015 16/15
Q1015=
METAR RJOR 070000Z 18003KT 140V200 9999 -RA FEW020 SCT050 BKN070
16/14 Q1014=
METAR RJOS 070000Z 27007KT 4000 -SHRA BR FEW008 SCT012 BKN025 17/16
Q1014=
METAR RJOT 070000Z VRB02KT 9000 -SHRA FEW000 SCT010 BKN020 16/16
Q1014=
METAR RJOW 070000Z 30010KT 7000 SHRA BR FEW005 SCT015 BKN025 16/14
Q1016=
METAR RJOY 070000Z 36007KT 4000 SHRA BR FEW002 BKN008 BKN020 16/16
Q1014=
METAR RJSA 070000Z 04003KT 340V070 9999 FEW050 BKN120 10/04 Q1021=
METAR RJSC 070000Z 22003KT 180V260 8000 FEW004 SCT070 BKN080 09/08
Q1021=
METAR RJSF 070000Z 36005KT 6000 -RA FEW001 SCT003 BKN005 08/08
Q1021=
METAR RJSI 070000Z 03005KT 340V050 9999 FEW003 SCT120 BKN170 09/07
Q1022=
METAR RJSK 070000Z 13004KT 100V160 9999 FEW010 SCT100 BKN130 09/08
Q1020=
METAR RJSM 070000Z 24005KT 220V280 9999 FEW030 BKN150 12/03 Q1022=
METAR RJSN 070000Z VRB02KT 9999 -RA FEW030 SCT050 BKN070 14/08
Q1018=
METAR RJSR 070000Z VRB02KT 9999 FEW010 BKN120 09/08 Q1021=
METAR RJSS 070000Z 32007KT 9999 FEW010 BKN030 BKN100 12/07 Q1021=
METAR RJSY 070000Z 09015KT 9999 FEW050 SCT070 BKN090 12/06 Q1019=
METAR RJTF 070000Z 35005KT 310V020 6000 -RA FEW010 BKN030 BKN060
13/11 Q1019=


......................................................................................


Date: 07-Oct-2565

SAJP51 RJTD 070000 RRC
METAR RJTI 070000Z 31007KT 230V010 3500 -RA BR FEW015 BKN025 BKN050
12/10 Q1019=
METAR RJTO 070000Z 01016KT 3000 -SHRA BR FEW005 BKN008 BKN010 15/14
Q1017=
METAR RJTT 070000Z 33012KT 6000 RA FEW006 BKN023 12/12 Q1019 TEMPO
4000 RA BR FEW005 BKN008=
METAR ROAH 070000Z 04007KT 010V070 9999 VCSH FEW020 29/24 Q1016=
METAR ROIG 070000Z 05011KT 9999 VCSH SCT015 FEW025TCU 29/25 Q1015=
METAR ROMD 070000Z AUTO 02008KT 360V060 9999 SCT021 29/24 Q1015=
METAR ROMY 070000Z 06012KT 9999 SCT015 FEW020TCU 28/24 Q1015=
METAR RORK 070000Z AUTO 01010KT 9999 FEW023 29/23 Q1015=
METAR RORS 070000Z 07011KT 9999 SCT016 29/24 Q1015=
METAR RORY 070000Z AUTO 35013KT 9999 BKN018 BKN027 BKN032 //////TCU
28/23 Q1016=
METAR ROYN 070000Z AUTO 04018KT 9999 SCT015 SCT020 BKN025 //////TCU
28/25 Q1015=


......................................................................................


Date: 07-Oct-2565

SAPA31 KWBC 070000
METAR
AGGG NIL=
AGGH 070000Z 05008KT 9999 FEW020 31/24 Q1010=
ANAU NIL=
AYPY NIL=
PGNT NIL=
PGRO 062350Z VRB05KT 6SM RA BR SCT015 BKN120 26/25 A2980=
PGSN 062354Z VRB06KT 10SM FEW016 SCT075 31/27 A2981 RMK AO2 SLP116
T03060272 10306 20272 51012 $=
PGUA 062356Z AUTO 13003KT 10SM FEW190 30/24 A2985 RMK AO2 SLP099
T02960237 10298 20236 52022 $=
PGUM 070001Z 00000KT 10SM BKN020 BKN029 OVC041 30/26 A2984 RMK AO2
T03000261=
PGUM 062354Z 00000KT 10SM SCT017 29/26 A2984 RMK AO2 SLP097
T02890256 10294 20244 51022=
PGWT 062354Z 05004KT 7SM VCSH SCT015 SCT060 BKN100 29/26 RMK VCSH
NE=
PHJH NIL=
PHJR 062353Z 16008KT 10SM BKN040 BKN047 29/21 A2993 RMK AO2 SLP142
T02890211 10300 20261 58015=
PHMK 062354Z 03013G20KT 10SM CLR 28/21 A2993 RMK AO2 SLP137
T02830211 10300 20261 58016 $=
PJON NIL=
PKMJ NIL=
PKMR 062350Z 13007KT 15SM SCT014TCU BKN045 OVC110 26/24 A2982 RMK
SHRAE06 TCU OHD SLP098 60022 8/87/ T02610238 10303 20255
58002=
PKWA 070000Z AUTO 12007KT 10SM SCT017 BKN023 BKN050 29/25 A2982
RMK AO2 T02940246=
PLCH 070000Z 09010G23KT 9999 FEW019 30/22 Q1008=
PMDY 062356Z AUTO 10012G20KT 10SM FEW032 SCT044 SCT055 29/21 A3016
RMK AO2 SLP214 T02890206 10294 20250 58013 TSNO=
PTKK NIL=
PTKR NIL=
PTPN 062350Z 52004KT 15SM SCT18 BKN130 OVC300 29/26 A2982 RMK
LAST=
PTRO 062350Z 05007KT 14SM SCT016 BKN120 BKN300 30/24 A2984=
PTSA 062358Z 20003KT 10SM -SHRA BKN014TCU BKN120 OVC290 26/25
A2983 RMK TCU NE-SW LAST=
PTTP 062353Z 34002KT 15SM SCT018 SCT130 BKN300 31/26 A2984 RMK
SHRAE11 SLP103 60004 8/171 T03110256 10311 20238 50000=
PTYA 062354Z VRB02KT 12SM FEW016 SCT300 30/25 A2984 RMK SLP107
8/101 T03030250 10303 20246 52019=
PWAK NIL=


......................................................................................


Date: 07-Oct-2565

SAIR31 OIII 070000
METAR OIAA 062351Z 30002KT CAVOK 24/06 Q1006=
METAR OIAG 070000 NIL=
METAR OIAH 070000Z 00000KT CAVOK 21/04 Q1009=
METAR OIAI 070000 NIL=
METAR OIAM 070000Z 28004KT CAVOK 25/06 Q1005=
METAR OIAW 062348Z 18004KT 8000 NSC 26/07 Q1005=
METAR OIBA 070000 NIL=
METAR OIBB 062350Z 08004KT 8000 NSC 27/22 Q1005 A2968=
METAR OIBK 070000Z 19004KT 3000 BR NSC 26/25 Q1005=
METAR OIBL 070000Z 06004KT 3500 BR NSC 28/26 Q1004=
METAR OIBS 070000 NIL=
METAR OICC 062350Z 00000KT CAVOK 12/M16 Q1020 A3012=
METAR OICI 070000Z 12006KT CAVOK 20/M06 Q1020 A3012=
METAR OICJ 070000 NIL=
METAR OICK 062351Z 13006KT CAVOK 18/M06 Q1017=
METAR OICS 070000Z 00000KT CAVOK 12/M05 Q1022 A3018=
METAR OIFK 070000 NIL=
METAR OIFM 070000Z 02004KT CAVOK 10/M08 Q1023 A3023=
METAR OIFS 062351Z 36002KT CAVOK 05/M12 Q1026=
METAR OIGG 070000Z 00000KT 9999 BKN025 SCT070 21/21 Q1021=
METAR OIGK 070000 NIL=
METAR OIHH 070000Z 13004KT CAVOK 10/M09 Q1023 A3021=
METAR OIHM 070000Z 08004KT CAVOK 13/M07 Q1023=
METAR OIIE 070000Z 31010KT CAVOK 18/09 Q1020 NOSIG=
METAR OIII 070000Z 04006KT CAVOK 22/M01 Q1021 A3015 NOSIG=
METAR OIIK 070000 NIL=
METAR OIIP 070000Z 31008KT CAVOK 14/10 Q1021 A3015=
METAR OIIS 070000 NIL=
METAR OIKB 070000Z 03004KT 4000 BR NSC 27/25 Q1005 A2970=
METAR OIKK 062350Z 11010KT CAVOK 09/M09 Q1022 A3018=
METAR OIKO 070000 NIL=
METAR OIKQ 070000Z 11006KT 2000 BR NSC 28/27 Q1005=
METAR OIMB 070000Z 11006KT CAVOK 03/M33 Q1020 A3013=
METAR OIMC 070000 NIL=
METAR OIMD 070000 NIL=
METAR OIMM 070000Z 30006KT CAVOK 10/M05 Q1023 A3023=
METAR OINB 070000 NIL=
METAR OING 070000Z 22008KT 9999 FEW030 22/19 Q1022=
METAR OINK 070000 NIL=


......................................................................................


Date: 07-Oct-2565

SAIR77 OIII 070000
METAR AZUH 070000 NIL=
METAR KHME 070000 NIL=
METAR OIAA 062351Z 30002KT CAVOK 24/06 Q1006=
METAR OIAG 070000 NIL=
METAR OIAH 070000Z 00000KT CAVOK 21/04 Q1009=
METAR OIAI 070000 NIL=
METAR OIAM 070000Z 28004KT CAVOK 25/06 Q1005=
METAR OIAW 062348Z 18004KT 8000 NSC 26/07 Q1005=
METAR OIBA 070000 NIL=
METAR OIBB 062350Z 08004KT 8000 NSC 27/22 Q1005 A2968=
METAR OIBK 070000Z 19004KT 3000 BR NSC 26/25 Q1005=
METAR OIBL 070000Z 06004KT 3500 BR NSC 28/26 Q1004=
METAR OIBS 070000 NIL=
METAR OICC 062350Z 00000KT CAVOK 12/M16 Q1020 A3012=
METAR OICI 070000Z 12006KT CAVOK 20/M06 Q1020 A3012=
METAR OICJ 070000 NIL=
METAR OICK 062351Z 13006KT CAVOK 18/M06 Q1017=
METAR OICS 070000Z 00000KT CAVOK 12/M05 Q1022 A3018=
METAR OIFK 070000 NIL=
METAR OIFM 070000Z 02004KT CAVOK 10/M08 Q1023 A3023=
METAR OIFS 062351Z 36002KT CAVOK 05/M12 Q1026=
METAR OIGG 070000Z 00000KT 9999 BKN025 SCT070 21/21 Q1021=
METAR OIGK 070000 NIL=
METAR OIHM 070000Z 08004KT CAVOK 13/M07 Q1023=
METAR OIIE 070000Z 31010KT CAVOK 18/09 Q1020 NOSIG=
METAR OIII 070000Z 04006KT CAVOK 22/M01 Q1021 A3015 NOSIG=
METAR OIIK 070000 NIL=
METAR OIIP 070000Z 31008KT CAVOK 14/10 Q1021 A3015=
METAR OIIS 070000 NIL=
METAR OIKB 070000Z 03004KT 4000 BR NSC 27/25 Q1005 A2970=
METAR OIKK 062350Z 11010KT CAVOK 09/M09 Q1022 A3018=
METAR OIKO 070000 NIL=
METAR OIKQ 070000Z 11006KT 2000 BR NSC 28/27 Q1005=
METAR OIMB 070000Z 11006KT CAVOK 03/M33 Q1020 A3013=
METAR OIMC 070000 NIL=
METAR OIMD 070000 NIL=
METAR OIMM 070000Z 30006KT CAVOK 10/M05 Q1023 A3023=
METAR OIMN 070000Z 26004KT 7000 FEW005 16/13 Q1023=
METAR OINB 070000 NIL=
METAR OING 070000Z 22008KT 9999 FEW030 22/19 Q1022=
METAR OINK 070000 NIL=


......................................................................................


Date: 07-Oct-2565

SAJP37 RJTD 070000
METAR RJAA 070000Z 35010KT 8000 -RA FEW015 BKN035 BKN040 14/12 Q1018
TEMPO 4000 -RA BR FEW008 BKN012=
METAR RJBB 070000Z 01014KT 3000 SHRA BR FEW003 BKN008 BKN010 18/17
Q1014 NOSIG=
METAR RJTT 070000Z 33012KT 6000 RA FEW006 BKN023 12/12 Q1019 TEMPO
4000 RA BR FEW005 BKN008=
METAR RJOO 070000Z 31005KT 5000 SHRA BR FEW005 SCT008 BKN015 16/15
Q1015=
METAR RJFF 070000Z 33007KT 9000 -SHRA FEW005 SCT015 BKN030 17/15
Q1017 TEMPO 4000 -SHRA BR FEW003 SCT005 BKN008=
METAR RJGG 070000Z 36007KT 9999 -RA FEW006 SCT015 BKN030 16/15 Q1014
NOSIG=
METAR RJFK 070000Z 34007KT 9999 BCFG FEW005 SCT012 BKN045 19/17
Q1016=
METAR RJFU 070000Z 35014KT 9999 -SHRA FEW007 SCT015 BKN025 18/15
Q1017=
METAR RJCH 070000Z 06004KT 020V090 9999 FEW030 SCT060 BKN170 11/05
Q1022=
METAR RJNS 070000Z 05006KT 310V110 9999 -RA FEW008 SCT050 BKN060
13/13 Q1016=


......................................................................................


Date: 07-Oct-2565

SAJP37 RJTD 070000 RRA
METAR RJFR 070000Z 31012KT 9999 -SHRA FEW005 SCT010 BKN045 17/15
Q1016=


......................................................................................


Date: 07-Oct-2565

SAMS31 WMKK 070000
METAR WBGG 070000Z 00000KT 8000 FEW005 SCT020 24/24 Q1011 NOSIG=
METAR WBKK 070000Z 09004KT 050V120 9999 FEW014 26/24 Q1009 NOSIG=
METAR WBSB 070000Z 20004KT 9999 FEW005 FEW015CB BKN140 26/26 Q1010 NOSIG=
METAR WMKK 070000Z VRB02KT 9999 FEW017CB 26/24 Q1010 NOSIG=
METAR WMKP 070000Z VRB02KT 8000 FEW017CB 27/24 Q1009 NOSIG=
METAR WSSL 070000Z VRB01KT 9999 FEW018 BKN150 26/25 Q1010=
METAR WSSS 070000Z VRB02KT 9999 FEW016 BKN160 27/24 Q1010 NOSIG=


......................................................................................


Date: 07-Oct-2565

SAJP35 RJTD 070000
METAR RJAA 070000Z 35010KT 8000 -RA FEW015 BKN035 BKN040 14/12 Q1018
TEMPO 4000 -RA BR FEW008 BKN012=
METAR RJBB 070000Z 01014KT 3000 SHRA BR FEW003 BKN008 BKN010 18/17
Q1014 NOSIG=
METAR RJTT 070000Z 33012KT 6000 RA FEW006 BKN023 12/12 Q1019 TEMPO
4000 RA BR FEW005 BKN008=
METAR RJOO 070000Z 31005KT 5000 SHRA BR FEW005 SCT008 BKN015 16/15
Q1015=
METAR RJGG 070000Z 36007KT 9999 -RA FEW006 SCT015 BKN030 16/15 Q1014
NOSIG=
METAR RJSN 070000Z VRB02KT 9999 -RA FEW030 SCT050 BKN070 14/08
Q1018=
METAR RJCH 070000Z 06004KT 020V090 9999 FEW030 SCT060 BKN170 11/05
Q1022=
METAR RJSA 070000Z 04003KT 340V070 9999 FEW050 BKN120 10/04 Q1021=
METAR RJSF 070000Z 36005KT 6000 -RA FEW001 SCT003 BKN005 08/08
Q1021=
METAR RJSI 070000Z 03005KT 340V050 9999 FEW003 SCT120 BKN170 09/07
Q1022=


......................................................................................


Date: 07-Oct-2565

SASD20 OEJD 070000
METAR OEAB 070000Z 00000KT CAVOK 19/01 Q1023 NOSIG=
METAR OEAH 070000Z 33007KT CAVOK 28/00 Q1007 NOSIG=
METAR OEAO 070000Z 00000KT CAVOK 27/01 Q1013 NOSIG=
METAR OEBA 070000Z 00000KT 9999 FEW030 21/06 Q1019 NOSIG=
METAR OEBH 070000Z 00000KT CAVOK 22/05 Q1015 NOSIG=
METAR OEDF 070000Z 27008KT CAVOK 26/07 Q1006 NOSIG=
METAR OEDM 070000Z NIL=
METAR OEDR 070000Z 28007KT CAVOK 26/12 Q1005=
METAR OEGN 070000Z 09006KT CAVOK 29/21 Q1007 NOSIG=
METAR OEGS 070000Z 02002KT CAVOK 26/02 Q1012=
METAR OEGT 070000Z 36008KT CAVOK 21/08 Q1012 NOSIG=
METAR OEHL 070000Z 15002KT CAVOK 20/M05 Q1017=
METAR OEJB 070000Z AUTO 30006KT CAVOK 26/06 Q1006 NOSIG=
METAR OEJN 070000Z 01003KT CAVOK 28/23 Q1006 NOSIG=
METAR OEKJ 070000Z 30005KT CAVOK 26/M06 Q1014=
METAR OEKK 070000Z NIL=


......................................................................................


Date: 07-Oct-2565

SASD21 OEJD 070000
METAR OEKM 070000Z 00000KT CAVOK 20/M01 Q1022 NOSIG=
METAR OEMA 070000Z 36004KT CAVOK 26/M08 Q1015 NOSIG=
METAR OEMN 070000Z 36004KT CAVOK 32/13 Q1009=
METAR OEMK 070000Z NIL=
METAR OENG 070000Z 00000KT 9999 FEW030 BKN090 25/06 Q1016 NOSIG=
METAR OEPA 070000Z 00000KT CAVOK 25/00 Q1010 NOSIG=
METAR OERF 070000Z 22005KT CAVOK 24/M07 Q1011 NOSIG=
METAR OERK 070000Z 28005KT CAVOK 24/00 Q1013 NOSIG=
METAR OERY 070000Z NIL=
METAR OERR 070000Z 26010KT CAVOK 25/01 Q1011 NOSIG=
METAR OESH 070000Z 00000KT 9999 SCT040 25/05 Q1011 NOSIG=
METAR OESK 070000Z 29003KT CAVOK 26/02 Q1016 NOSIG=
METAR OETB 070000Z 00000KT CAVOK 24/01 Q1014 NOSIG=
METAR OETF 070000Z 00000KT CAVOK 23/M02 Q1020 NOSIG=
METAR OETR 070000Z 06006KT CAVOK 22/08 Q1015 NOSIG=
METAR OEWD 070000Z 12008KT CAVOK 25/10 Q1011 NOSIG=
METAR OEWJ 070000Z 33003KT CAVOK 27/22 Q1007 NOSIG=
METAR OEYN 070000Z 00000KT CAVOK 27/10 Q1005 NOSIG=


......................................................................................


Date: 07-Oct-2565

SAAE32 VTBB 070000 RRA
METAR VYNT 070000Z 15005KT 6000 BKN016 FEW020CB OVC100 25/23 Q1011
NOSIG=


......................................................................................


Date: 07-Oct-2565

SAIR31 OIII 070000
METAR OINN 070000Z 25002KT 8000 FEW023CB BKN027 22/20 Q1020=
METAR OINR 070000Z 34006KT 9999 FEW022CB BKN025 22/20 Q1020=
METAR OISA 070000Z NIL=
METAR OISF 070000Z 34004KT CAVOK 18/M01 Q1018=
METAR OISL 070000Z 00000KT CAVOK 19/02 Q1011=
METAR OISS 070000Z 00000KT CAVOK 14/M02 Q1020 A3012=
METAR OISY 070000Z 00000KT CAVOK 13/M05 Q1023=
METAR OITL 062351Z 07010KT 4000 -DZ PRFG OVC003 13/13 Q1025=
METAR OITR 062352Z 30004KT CAVOK 11/02 Q1020=
METAR OITT 070000Z 08008KT CAVOK 19/05 Q1022 A3020=
METAR OITU 070000Z NIL=
METAR OIYY 062350Z 24004KT CAVOK 18/M06 Q1021=
METAR OIZB 070000Z 34027G37KT CAVOK 18/M15 Q1013=
METAR OIZC 070000Z NIL=
METAR OIZH 070000Z 19006KT CAVOK 07/M21 Q1018 A3009=
METAR OIZI 070000Z 00000KT CAVOK 24/M13 Q1011=
METAR OIZJ 070000Z 03006KT 5000 BR NSC 28/26 Q1004=


......................................................................................


Date: 07-Oct-2565

SAMS31 WMKK 070000
METAR WBGG 070000Z NIL=
METAR WBKK 070000Z NIL=
METAR WBSB 070000Z NIL=
METAR WMKK 070000Z NIL=
METAR WMKP 070000Z NIL=
METAR WSSL 070000Z VRB01KT 9999 FEW018 BKN150
26/25 Q1010=
METAR WSSS 070000Z VRB02KT 9999 FEW016 BKN160 27/24 Q1010 NOSIG=


......................................................................................


Date: 07-Oct-2565

SAMS32 WMKK 070000
NIL


......................................................................................


Date: 07-Oct-2565

SAMS34 WMKK 070000
NIL


......................................................................................


Date: 07-Oct-2565

SAMS38 WMKK 070000
NIL


......................................................................................


Date: 07-Oct-2565

SAPA31 KWBC 070000 RRA
METAR
AYPY 070000Z VRB03KT 9999 HZ SCT030 BKN040 31/25 Q1010=


......................................................................................


Date: 07-Oct-2565

SAMS33 WMKK 070000
NIL


......................................................................................


Date: 07-Oct-2565

SAMS38 WMKK 070000 RRA
METAR WMKM 070000Z 04003KT 010V070 9999 FEW012 25/24 Q1011=


......................................................................................


Date: 07-Oct-2565

SAMS31 WMKK 070000 RRA
METAR WMKK 070000Z VRB02KT 9999 FEW017CB 26/24 Q1010 NOSIG=
METAR WMKP 070000Z VRB02KT 8000 FEW017CB 27/24 Q1009 NOSIG=


......................................................................................


Date: 07-Oct-2565

SAMS33 WMKK 070000 RRA
METAR WMKM 070000Z 04003KT 010V070 9999 FEW012 25/24 Q1011=


......................................................................................


Date: 07-Oct-2565

SAPA31 KWBC 070000
PTTP 062353Z 34002KT 15SM SCT018 SCT130 BKN300 31/26 A2984 RMK
SHRAE11 SLP103 60004 8/171 T03110256 10311 20238 50000=
PTYA 062354Z VRB02KT 12SM FEW016 SCT300 30/25 A2984 RMK SLP107
8/101 T03030250 10303 20246 52019=
PWAK NIL=
// END PART 02/02 //


......................................................................................


Date: 07-Oct-2565

SAMS32 WMKK 070000 RRA
METAR WMKJ 070000Z VRB01KT 9999 FEW010 24/23 Q1010=
METAR WMKK 070000Z VRB02KT 9999 FEW017CB 26/24 Q1010 NOSIG=
METAR WMKP 070000Z VRB02KT 8000 FEW017CB 27/24 Q1009 NOSIG=
METAR WMSA 070000Z VRB02KT 9999 FEW017CB 26/24 Q1010=


......................................................................................


Date: 07-Oct-2565

SAMS34 WMKK 070000 RRA
METAR WBGB 070000Z 20003KT 160V250 9999 FEW004 SCT016 25/24 Q1011=
METAR WBGR 070000Z VRB03KT 9999 SCT014 26/24 Q1010=
METAR WBGS 070000Z 01003KT 340V040 9999 FEW008 SCT016 24/24 Q1011=
METAR WBGY 070000Z VRB02KT 8000 -RA FEW008 SCT022 24/23 Q1011=
METAR WBKL 070000Z 00000KT 9999 FEW014 28/25 Q1010=
METAR WBKS 070000Z 24003KT 190V290 9999 FEW015 27/25 Q1010=
METAR WBKT 070000Z 12005KT 030V190 9999 FEW014 28/26 Q1010=
METAR WBKW 070000Z VRB01KT 9999 FEW016 27/25 Q1010=


......................................................................................


Date: 07-Oct-2565

SAMS38 WMKK 070000 RRA
METAR WBGB 070000Z 20003KT 160V250 9999 FEW004 SCT016 25/24 Q1011=
METAR WBGR 070000Z VRB03KT 9999 SCT014 26/24 Q1010=
METAR WBGS 070000Z 01003KT 340V040 9999 FEW008 SCT016 24/24 Q1011=
METAR WBKL 070000Z 00000KT 9999 FEW014 28/25 Q1010=
METAR WBKS 070000Z 24003KT 190V290 9999 FEW015 27/25 Q1010=
METAR WBKW 070000Z VRB01KT 9999 FEW016 27/25 Q1010=
METAR WMKD 070000Z VRB01KT 9000 FEW008 25/24 Q1010 NOSIG=
METAR WMKL 070000Z 00000KT 9999 FEW020 26/24 Q1009=


......................................................................................


Date: 07-Oct-2565

SAAR20 OEJD 070000
METAR OBBI 070000Z 27004KT 250V310 CAVOK 30/27 Q1005 NOSIG=
METAR OKBK 070000Z 26007KT CAVOK 27/M04 Q1006
NOSIG=
METAR OMAA 070000Z 31003KT 240V360 8000 NSC 29/26 Q1005 NOSIG=
METAR OMAD 070000Z VRB01KT CAVOK 29/27 Q1005 NOSIG=
METAR OMAL 070000Z 06006KT 7000 NSC 28/19 Q1007 NOSIG=
METAR OMDB 070000Z 08006KT 020V120 7000 NSC 31/23 Q1005 NOSIG=
METAR OMFJ 062350Z 29004KT 270V360 6000 NSC 29/20 Q1006 RMK A2972=
METAR OMRK 070000Z VRB01KT 3000 BR NSC 25/24 Q1006 A2971=
METAR OMSJ 070000Z 00000KT 4000 HZ NSC 27/22 Q1006 BECMG 3000=
METAR OOMS 062350Z 06009KT 8000 NSC 29/29 Q1005 NOSIG=
METAR OOSA 062350Z 03002KT 9999 BKN025 26/22 Q1009 NOSIG=
METAR OOSH 062350Z AUTO 23003KT //// ////// 28/20 Q1005 RMK 1002=
METAR OODQ 062350Z AUTO 22016KT CAVOK ////// 24/23 Q1007 NOSIG RMK
RH95? 0=
METAR OTBD 070000Z 32003KT 9000 NSC 30/26 Q1005 NOSIG=
METAR OTBH 062355Z 26006KT 8000 HZ CLR 26/26 A2970=
METAR OTHH 070000Z VRB02KT CAVOK 28/25 Q1005 NOSIG=
METAR OYAA 070000Z NIL=
METAR OYSN 070000Z NIL=


......................................................................................


Date: 07-Oct-2565

SAKO51 RJTD 070000
METAR RKPC 070000Z 33009KT 280V010 9999 BKN035 BKN150 18/11 Q1021
NOSIG=
METAR RKPK 070000Z 32005KT CAVOK 18/10 Q1017=
METAR RKSI 070000Z 34012KT CAVOK 14/07 Q1021 NOSIG=
METAR RKSM 070000Z 01007KT 9999 BKN030 15/09 A3013=
METAR RKSS 070000Z 35011KT 9999 FEW025 14/08 Q1021 NOSIG=
METAR RKTN 070000Z 30010KT 9999 FEW050 SCT070 BKN200 18/09 Q1017=
METAR RKTU 070000Z 28005KT 9999 FEW015 BKN025 15/12 Q1019=


......................................................................................


Date: 07-Oct-2565

SAMS38 WMKK 070000 RRB
METAR WMKM 070000Z 04003KT 010V070 9999 FEW012 25/24 Q1011=


......................................................................................


Date: 07-Oct-2565

SAMS33 WMKK 070000 RRB
METAR WMKM 070000Z 04003KT 010V070 9999 FEW012 25/24 Q1011=


......................................................................................


Date: 07-Oct-2565

SACI51 RJTD 070000
METAR ZBAA 070000Z 00000MPS CAVOK 09/05 Q1024 NOSIG=
METAR ZBTJ 070000Z 19002MPS 160V240 4000 BR NSC 11/08 Q1024 NOSIG=
METAR ZBYN 070000Z 20002MPS 170V230 1600 BR FEW026 07/05 Q1026 BECMG
TL0030 1400=
METAR ZGGG 070000Z 02006MPS 9999 SCT040 26/21 Q1016 NOSIG=
METAR ZGKL 070000Z 04004MPS 9999 FEW020 SCT030 OVC053 16/11 Q1022
NOSIG=
METAR ZGNN 070000Z 07002MPS 040V120 9999 SCT015 BKN036 26/23 Q1016
NOSIG=
METAR ZGOW 070000Z 05002MPS 020V090 8000 BKN040 26/22 Q1017 NOSIG=
METAR ZGSZ 070000Z 09004MPS 9999 FEW030 28/23 Q1015 NOSIG=
METAR ZLXY 070000Z 07002MPS 030V090 2800 BR SCT012 OVC050 09/09
Q1026 NOSIG=
METAR ZPPP 070000Z 04004MPS 9999 FEW005 SCT020 OVC033 11/11 Q1027
NOSIG=
METAR ZSAM 070000Z 36002MPS 320V050 9999 SCT050 27/21 Q1017 BECMG
TL0150 08006MPS=
METAR ZSHC 070000Z 36004MPS 330V030 8000 -RA BKN006 BKN020 15/14
Q1025 NOSIG=
METAR ZSNJ 070000Z VRB01MPS 9999 SCT008 13/12 Q1026 NOSIG=
METAR ZSQD 070000Z 32003MPS 7000 NSC 11/06 Q1026 NOSIG=
METAR ZSSS 070000Z 02002MPS 8000 -RA BKN009 15/14 Q1024 BECMG TL0130
BKN010=
METAR ZWWW 070000Z 14002MPS CAVOK 10/M02 Q1026 NOSIG=
METAR ZYTL 070000Z 29001MPS CAVOK 14/07 Q1024 NOSIG=
METAR ZYTX 070000Z 11003MPS 070V150 CAVOK 08/M01 Q1024 NOSIG=


......................................................................................


Date: 07-Oct-2565

SASB31 VCCC 070010
METAR VCBI 070010Z 25006KT 220V280 9999 BKN016 27/24 Q1008 NOSIG=
METAR VRMM 070000Z 31012KT 9999 FEW018TCU SCT280 28/24
Q1008 NOSIG=
METAR VCRI 070010Z 26002KT 9999 FEW018 23/23 Q1007 NOSIG=


......................................................................................


Date: 07-Oct-2565

SPTH31 VTCN 070022
SPECI VTCN 070022Z 03003KT 340V070 8000 FEW002 BKN004 24/23 Q1014
NOSIG=


......................................................................................


Date: 07-Oct-2565

SAPA31 KWBC 070000 RRB
METAR
PKWA 070020Z AUTO 09004KT 10SM SCT023 SCT065 SCT110 29/25 A2981
RMK AO2 T02930246=


......................................................................................


Date: 07-Oct-2565

SAAE31 VDPP 070030
METAR VDPP 070030Z VRB03KT 9999 SCT015 27/25 Q1010=


......................................................................................


Date: 07-Oct-2565

SATH31 VTBU 070030
METAR VTBU 070030Z 01005KT 9000 FEW020 26/25 Q1011 NOSIG=


......................................................................................


Date: 07-Oct-2565

SAOM81 OOMS 070000
METAR OOAD 070000Z NIL=
METAR OOBH 070000Z NIL=
METAR OOBR 062350Z AUTO 08007KT //// ////// 29/01 Q1007=
METAR OODB 062350Z AUTO 33001KT //// ////// 27/26 Q1007=
METAR OODQ 062350Z AUTO 22016KT CAVOK ////// 24/23 Q1007 NOSIG=
METAR OOFD 062350Z AUTO 11009KT //// ////// 26/12 Q1007=
METAR OOIB 070000Z NIL=
METAR OOIR 062350Z AUTO 33003KT //// ////// 25/16 Q1009=
METAR OOJB 070000Z NIL=
METAR OOJS 070000Z NIL=
METAR OOKB 062350Z AUTO 18004KT 9999 // NSC 31/24 Q1006 NOSIG=
METAR OOMA 062350Z AUTO 20007KT //// ////// 25/24 Q1007=
METAR OOMJ 062350Z AUTO 00000KT //// ////// 29/23 Q1005=
METAR OOML 070000Z NIL=
METAR OOMQ 062350Z AUTO 35007KT //// ////// 29/26 Q1005=
METAR OOMS 062350Z 06009KT 8000 NSC 29/29 Q1005 NOSIG=
METAR OONZ 062350Z AUTO VRB01KT //// ////// 25/12 Q1009=
METAR OOQA 070000Z NIL=
METAR OOQH 062350Z AUTO VRB03KT 2300 ////// 19/19 Q1013=
METAR OOQL 062350Z AUTO 32008KT //// ////// 28/24 Q1005=
METAR OOQQ 062350Z AUTO 01009KT //// 19/M05 Q1021=
METAR OORA 062350Z AUTO VRB00KT //// ////// 25/23 Q1008=
METAR OORH 062350Z AUTO 19006KT //// ////// 25/24 Q1006=
METAR OORQ 070000Z NIL=
METAR OOSA 062350Z 03002KT 9999 BKN025 26/22 Q1009 NOSIG=
METAR OOSM 062350Z AUTO 17004KT //// ////// 27/07 Q1009=
METAR OOSQ 070000Z NIL=
METAR OOSR 062350Z AUTO 23011KT //// ////// 28/20 Q1005=
METAR OOTH 070000Z NIL=
METAR OOYA 062350Z AUTO 16010KT //// ////// 23/22 Q1007=


......................................................................................


Date: 07-Oct-2565

SPTH31 VTSG 070028
SPECI VTSG 070028Z 20006KT 5000 BR FEW002 SCT012 BKN015 24/24 Q1011
BECMG TL0100 NSW=


......................................................................................


Date: 07-Oct-2565

SAPK31 OPKC 070030
METAR OPKC 070030Z 31004KT 5000 FU FEW030 25/23 Q1007 NOSIG=


......................................................................................


Date: 07-Oct-2565

SATH31 VTBD 070030
METAR VTBD 070030Z 05003KT 9999 FEW020 26/26 Q1011 NOSIG=


......................................................................................


Date: 07-Oct-2565

SATH31 VTBS 070030
METAR VTBS 070030Z 02005KT 9000 FEW010 SCT040 26/24 Q1011 NOSIG=


......................................................................................


Date: 07-Oct-2565

SATH31 VTCC 070030
METAR VTCC 070030Z 03003KT 9999 BKN035 25/23 Q1014 NOSIG=


......................................................................................


Date: 07-Oct-2565

SATH31 VTSP 070030
METAR VTSP 070030Z 00000KT 9999 -RA SCT020 BKN100 25/24 Q1010 NOSIG=


......................................................................................


Date: 07-Oct-2565

SATH31 VTSS 070030
METAR VTSS 070030Z 00000KT 7000 SCT003 BKN100 25/24 Q1010 NOSIG=


......................................................................................


Date: 07-Oct-2565

SPTH31 VTSE 070028
SPECI VTSE 070028Z VRB02KT 5000 2000E RA FEW018CB SCT020 BKN100 25/25 Q1010 TEMPO TL0115 2000 +RA=


......................................................................................


Date: 07-Oct-2565

SAIR20 OIII 070030
METAR OIAA 070030 NIL=
METAR OIAW 070030 NIL=
METAR OIFM 070030Z 00000KT CAVOK 09/M08 Q1023 A3023=
METAR OIGG 070030 NIL=
METAR OIIE 070030Z 32012KT CAVOK 17/10 Q1020=
METAR OIII 070021Z 03004KT CAVOK 20/01 Q1021 A3016=
METAR OIKB 070030 NIL=
METAR OIMM 070030Z 26004KT CAVOK 09/M04 Q1023 A3023=
METAR OISS 070030Z 00000KT CAVOK 13/M02 Q1020 A3012=
METAR OITT 070030Z 07008KT CAVOK 19/05 Q1022 A3020=
METAR OIYY 070030 NIL=
METAR OIZH 070030 NIL=


......................................................................................


Date: 07-Oct-2565

SAPK31 OPKC 070030
METAR OPIS 070030Z 23007KT 6000 FEW100 18/13 Q1013 NOSIG=
METAR OPKC 070030Z 31004KT 5000 FU FEW030 25/23 Q1007 NOSIG=
METAR OPLA 070025Z 00000KT 4000 FU NSC 25/22 Q1009 BECMG 3500
RMK QFE984 A29.82=
METAR OPMT 070030Z 13004KT 4000 FU NSC 27/17 Q1007 NOSIG=
METAR OPPS 070030Z 18006KT 5000 BR FEW040 FEW100 19/16 Q1013=
METAR OPSK 070030Z NIL=
METAR OPFA 070030Z NIL=
METAR OPST 070030Z NIL=
METAR OPNH 070030Z NIL=


......................................................................................


Date: 07-Oct-2565

SAPK31 OPKC 070030 RRA
METAR OPFA 070030Z NIL=
METAR OPNH 070030Z NIL=
METAR OPSK 070030Z NIL=
METAR OPST 070030Z NIL=


......................................................................................


Date: 07-Oct-2565

SASR31 WSSS 070030
METAR WSSS 070030Z 18004KT 140V210 9999 FEW018 BKN150 27/24 Q1011
NOSIG=


......................................................................................


Date: 07-Oct-2565

SAIR31 OIII 070030
METAR OIAW 070030Z NIL=
METAR OIFM 070030Z 00000KT CAVOK 09/M08 Q1023 A3023=
METAR OIII 070030Z 03004KT CAVOK 20/01 Q1021 A3016=
METAR OIKB 070030Z NIL=
METAR OIKK 070030Z NIL=
METAR OIMM 070030Z 26004KT CAVOK 09/M04 Q1023 A3023=
METAR OISS 070030Z 00000KT CAVOK 13/M02 Q1020 A3012=
METAR OITT 070030Z 07008KT CAVOK 19/05 Q1022 A3020=
METAR OIZH 070030Z NIL=


......................................................................................


Date: 07-Oct-2565

SAAE31 VTBB 070030
METAR VTCT 070030Z NIL=
METAR VTSG 070030Z NIL=
METAR VTBD 070030Z 05003KT 9999 FEW020 26/26 Q1011 NOSIG=
METAR VTBS 070030Z 02005KT 9000 FEW010 SCT040 26/24 Q1011 NOSIG=
METAR VTCC 070030Z 03003KT 9999 BKN035 25/23 Q1014 NOSIG=
METAR VTSP 070030Z 00000KT 9999 -RA SCT020 BKN100 25/24 Q1010 NOSIG=
METAR VTSS 070030Z 00000KT 7000 SCT003 BKN100 25/24 Q1010 NOSIG=
METAR VTBU 070030Z 01005KT 9000 FEW020 26/25 Q1011 NOSIG=


......................................................................................


Date: 07-Oct-2565

SAAE32 VTBB 070030
METAR VDPP 070030Z VRB03KT 9999 SCT015 27/25 Q1010=
METAR VDSR 070030Z VRB02KT 9999 SCT017 26/24 Q1010=
METAR VLVT 070030Z 36008KT 8000 SCT100 26/25 Q1013 NOSIG=
METAR VYMD 070030Z 00000KT 6000 SCT020 SCT120 26/25 Q1011 NOSIG=
METAR VYNT 070030Z NIL=
METAR VYYY 070030Z 27002KT 6000 BKN015 FEW020CB BKN090 26/25 Q1010
NOSIG=
METAR VDSV 070030Z VRB01KT 9999 FEW015 27/25 Q1010=


......................................................................................


Date: 07-Oct-2565

SAAE34 VTBB 070030 RRA
METAR VVCT 070030Z VRB03KT 8000 FEW015 26/26 Q1010 NOSIG=


......................................................................................


Date: 07-Oct-2565

SAAE34 VTBB 070030
METAR VVCI 070030Z VRB02KT 9999 -RA SCT023 BKN048 25/25 Q1015 NOSIG=
METAR VVCR 070030Z NIL=
METAR VVCT 070030Z NIL=
METAR VVDN 070030Z VRB02KT 9999 FEW015 29/24 Q1013 NOSIG=
METAR VVNB 070030Z VRB01KT 6000 BKN037 27/24 Q1015 NOSIG=
METAR VVPB 070030Z 30002KT 9000 FEW015 SCT050 27/24 Q1014 NOSIG=
METAR VVPQ 070030Z 07007KT 9999 FEW015 28/24 Q1010 NOSIG=
METAR VVTS 070030Z VRB03KT 9999 FEW017 28/25 Q1010 NOSIG =


......................................................................................


Date: 07-Oct-2565

SAHK31 VHHH 070030
METAR VHHH 070030Z 09009KT 9999 FEW022 30/22 Q1015 NOSIG=


......................................................................................


Date: 07-Oct-2565

SAUZ31 UTTW 070030
METAR UTFN 070030Z 35004KT 9999 NSC 10/04 Q1021 R28/CLRD70 NOSIG=
METAR UTNN 070030Z 00000KT CAVOK 05/M08 Q1021 R15/CLRD60 NOSIG=
METAR UTNU 070030Z 31002KT CAVOK 05/M01 Q1021 R31/CLRD70 NOSIG=
METAR UTSA 070030Z 10008KT 7000 NSC 10/M00 Q1020 R07/CLRD70 NOSIG=
METAR UTSB 070030Z NIL=
METAR UTSK 070030Z 07006KT CAVOK 10/M03 Q1021 R16/CLRD70=
METAR UTSS 070030Z 14008KT 9999 NSC 10/M00 Q1021 R09/CLRD70 NOSIG=
METAR UTST 070030Z NIL=
METAR UTFA 070030Z NIL=
METAR UTFF 070030Z 13004KT 9999 NSC 13/01 Q1021 R18/CLRD70=
METAR UTTT 070030Z 08004KT CAVOK 10/00 Q1022 R08L/CLRD70 NOSIG=


......................................................................................


Date: 07-Oct-2565

SAAE34 VTBB 070030 RRB
METAR VVCR 070030Z 34005KT 9999 FEW015 28/24 Q1012 NOSIG=


......................................................................................


Date: 07-Oct-2565

SAHK31 VHHH 070030
METAR VHHH 070030Z 09009KT 9999 FEW022 30/22 Q1015 NOSIG=
METAR RCTP 070030Z 05018KT 9999 FEW015 BKN025 BKN060 26/24 Q1016
NOSIG RMK A3001=
METAR RCKH 070030Z 05003KT 310V120 9999 FEW014 SCT025 30/24 Q1014
NOSIG RMK A2995=
METAR RCSS 070030Z 08008KT 9999 -RA SCT008 BKN020 BKN040 26/24
Q1016 NOSIG RMK A3001=
METAR RCMQ 070030Z 36005KT 8000 FEW010 SCT025 27/23 Q1015 NOSIG
RMK A3000=
METAR RCNN 070030Z 00000KT 9000 FEW012 SCT100 30/24 Q1014 NOSIG
RMK A2996=
METAR RCFN 070030Z 04005KT 350V090 9999 FEW020 SCT045 28/24 Q1016
NOSIG RMK A3001=
METAR VMMC 070030Z 09009KT 9999 FEW015 SCT040 28/25 Q1015 NOSIG=


......................................................................................


Date: 07-Oct-2565

SAMS31 WMKK 070030
METAR WBGG 070030Z 00000KT 8000 -RA FEW005 SCT020 24/24 Q1011 NOSIG=
METAR WBKK 070030Z VRB03KT 9999 FEW014 27/24 Q1010 NOSIG=
METAR WBSB 070030Z 22003KT 9999 FEW005 FEW015CB BKN140 27/26 Q1010 NOSIG=
METAR WMKK 070030Z VRB03KT 9999 FEW017CB 27/24 Q1010 NOSIG=
METAR WMKP 070030Z VRB03KT 8000 FEW017CB 27/24 Q1010 NOSIG=
METAR WSSL 070030Z NIL=
METAR WSSS 070030Z 18004KT 140V210 9999 FEW018 BKN150 27/24 Q1011 NOSIG=


......................................................................................


Date: 07-Oct-2565

SAUZ31 UTTW 070030 RRA
METAR UTST 070030Z 03004KT CAVOK 07/M01 Q1021 R25/CLRD70 NOSIG=


......................................................................................


Date: 07-Oct-2565

SAJP51 RJTD 070030
METAR RJAA 070030Z 34011KT 5000 -SHRA BR FEW010 BKN012 13/13 Q1018
TEMPO 4000 -SHRA BR=
METAR RJBB 070030Z 02013KT 5000 -SHRA BR FEW003 BKN008 BKN010 18/18
Q1014 TEMPO 2000 SHRA BR=
METAR RJCC 070030Z VRB02KT 9999 FEW020 BKN/// 09/05 Q1022=
METAR RJFF 070030Z 30006KT 9999 -SHRA FEW005 SCT020 BKN030 17/15
Q1017 TEMPO TL0200 4000 -SHRA BR FEW003 SCT005 BKN008=
METAR RJGG 070030Z 35005KT 310V030 8000 -RA FEW006 SCT015 BKN025
16/14 Q1014 NOSIG=
METAR RJTT 070030Z 33012KT 7000 -RA FEW006 BKN020 12/11 Q1018 TEMPO
4000 -RA BR FEW005 BKN008=
METAR ROAH 070030Z 01009KT 9999 SHRA FEW017 FEW025TCU 28/24 Q1015=


......................................................................................


Date: 07-Oct-2565

SAMS31 WMKK 070030
METAR WBGG 070030Z NIL=
METAR WBKK 070030Z NIL=
METAR WBSB 070030Z NIL=
METAR WMKK 070030Z NIL=
METAR WMKP 070030Z NIL=
METAR WSSL 070030Z NIL=
METAR WSSS 070030Z 18004KT 140V210 9999 FEW018 BKN150 27/24 Q1011
NOSIG=


......................................................................................


Date: 07-Oct-2565

SPTH31 VTSG 070040
SPECI VTSG 070040Z 20003KT 170V240 9999 FEW002 SCT012 BKN060 24/24
Q1011 NOSIG=


......................................................................................


Date: 07-Oct-2565

SAPA31 KWBC 070000 RRC
METAR
PKWA 070040Z AUTO 13006KT 10SM SCT020 SCT027 SCT049 30/25 A2980
RMK AO2 T02950247=


......................................................................................


Date: 07-Oct-2565

SPTH31 VTCH 070043
SPECI VTCH 070043Z 00000KT 3000 BR FEW012 BKN025 25/24 Q1014 BECMG
6000 NSW=


......................................................................................


Date: 07-Oct-2565

SAPA31 KWBC 070000 RRD
METAR
PGUM 070040Z 2 1/2SM +RA BR SCT020 BKN034 OVC047 28/26 A2984 RMK
AO2 VIS 1 3/4V4 RAB28 P0005 T02780256=


......................................................................................


Date: 07-Oct-2565

SAMS31 WMKK 070030 RRA
METAR WMKK 070030Z VRB03KT 9999 FEW017CB 27/24 Q1010 NOSIG=
METAR WMKP 070030Z VRB03KT 8000 FEW017CB 27/24 Q1010 NOSIG=


......................................................................................


Date: 07-Oct-2565

SPTH31 VTSB 070044
SPECI VTSB 070044Z VRB01KT 2000 -RA BR BKN005 24/24 Q1011 BECMG
TL0100 5000 BR=


......................................................................................


Date: 07-Oct-2565

SPTH31 VTSE 070048
SPECI VTSE 070048Z 05003KT 010V100 6000 -RA FEW003 FEW018TCU BKN020 24/24 Q1010 RERA NOSIG=


......................................................................................


Date: 07-Oct-2565

SANP31 VNKT 070030 RRA
METAR VNKT 070030Z 00000KT 6000 FEW008 SCT030 BKN100 18/18 Q1019
NOSIG=


......................................................................................


Date: 07-Oct-2565

SPTH31 VTSE 070048 CCA
SPECI COR VTSE 070048Z 05003KT 010V100 6000 -RA FEW003 FEW018TCU BKN020 24/24 Q1011 RERA NOSIG=


......................................................................................


Date: 07-Oct-2565

SAOM81 OOMS 070000 RRA
METAR OOTH 062350Z AUTO 16009KT 9999 ////// 23/10 Q1010=


......................................................................................


Date: 07-Oct-2565

SATH31 VTBU 070100
METAR VTBU 070100Z 01004KT 9000 FEW020 27/24 Q1011 NOSIG=


......................................................................................


Date: 07-Oct-2565

SATH31 VTCL 070100
METAR VTCL 070100Z 35003KT 320V030 6000 FEW010 BKN025 24/23 Q1014 NOSIG=


......................................................................................


Date: 07-Oct-2565

SATH31 VTPO 070100
METAR VTPO 070100Z 11004KT 9999 FEW020 26/25 Q1013 NOSIG=


......................................................................................


Date: 07-Oct-2565

SATH31 VTSF 070100
METAR VTSF 070100Z VRB02KT 9999 FEW018 BKN022 26/26 Q1011 NOSIG=


......................................................................................


Date: 07-Oct-2565

SATH31 VTSM 070100
METAR VTSM 070100Z 15005KT 9999 -RA FEW020 25/24 Q1011 NOSIG=


......................................................................................


Date: 07-Oct-2565

SATH31 VTUI 070100
METAR VTUI 070100Z 09003KT 040V120 CAVOK 28/24 Q1013 NOSIG=


......................................................................................


Date: 07-Oct-2565

SATH31 VTUL 070100
METAR VTUL 070100Z 35005KT 310V030 4000 BR BKN025 25/24 Q1014 NOSIG=


......................................................................................


Date: 07-Oct-2565

SATH31 VTUO 070100
METAR VTUO 070100Z 05007KT 9999 FEW015 27/26 Q1012 NOSIG=


......................................................................................


Date: 07-Oct-2565

SAAE31 VDPP 070100
METAR VDPP 070100Z 01004KT 330V060 9999 SCT015 28/25 Q1010=


......................................................................................


Date: 07-Oct-2565

SANP31 VNKT 070100
METAR VNKT 070100Z 16003KT 6000 FEW008 SCT030 BKN100 18/18 Q1020
NOSIG=


......................................................................................


Date: 07-Oct-2565

SATH31 VTSC 070100
METAR VTSC 070100Z 18006KT 9000 SCT010 24/24 Q1011 NOSIG=


......................................................................................


Date: 07-Oct-2565

SATH31 VTUD 070100
METAR VTUD 070100Z VRB02KT 9999 SCT030 28/25 Q1014 NOSIG=


......................................................................................


Date: 07-Oct-2565

SATH31 VTST 070100
METAR VTST 070100Z 28003KT 240V320 2500 1000W BR FEW003 SCT040 24/24 Q1010 BECMG TL0230 6000 NSW=


......................................................................................


Date: 07-Oct-2565

SAOM32 OOMS 070100
METAR OOMS 070050Z 09005KT 8000 NSC 29/29 Q1006 NOSIG=
METAR OOSA 070050Z VRB01KT 9999 BKN025 26/23 Q1009 NOSIG=
METAR OOSH 070100Z NIL=
METAR OODQ 070050Z AUTO 22015KT CAVOK ////// 23/23 Q1007 NOSIG=
METAR OOKB 070050Z AUTO 18004KT 140V200 9999 // NSC 30/23 Q1006
NOSIG=
METAR OOAD 070100Z NIL=


......................................................................................


Date: 07-Oct-2565

SAPK31 OPKC 070100
METAR OPKC 070055Z 33005KT 5000 FU FEW030 25/22 Q1007 NOSIG=


......................................................................................


Date: 07-Oct-2565

SASD31 OEJD 070100
METAR OEDF 070100Z 30006KT CAVOK 25/07 Q1006 NOSIG=
METAR OEDR 070100Z 29009KT CAVOK 26/10 Q1004=
METAR OEJN 070100Z 35003KT CAVOK 28/23 Q1006 NOSIG=
METAR OEMA 070100Z 36003KT CAVOK 26/M08 Q1015 NOSIG=
METAR OERK 070100Z 27005KT CAVOK 24/00 Q1013 NOSIG=
METAR OERY 070100Z NIL=
METAR OEAB 070100Z 00000KT CAVOK 17/02 Q1023 NOSIG=
METAR OYAA 070100Z NIL=
METAR OYSN 070100Z NIL=


......................................................................................


Date: 07-Oct-2565

SATH31 VTBD 070100
METAR VTBD 070100Z 05004KT 9999 FEW020 SCT040 26/26 Q1012 NOSIG=


......................................................................................


Date: 07-Oct-2565

SATH31 VTBS 070100
METAR VTBS 070100Z 02005KT 9999 FEW010 SCT040 27/24 Q1011 NOSIG=


......................................................................................


Date: 07-Oct-2565

SATH31 VTCC 070100
METAR VTCC 070100Z 03004KT 360V060 9999 FEW015 SCT035 26/23 Q1014
NOSIG=


......................................................................................


Date: 07-Oct-2565

SATH31 VTCH 070100
METAR VTCH 070100Z 00000KT 4000 BR FEW012 BKN025 25/24 Q1014 BECMG
6000 NSW=


......................................................................................


Date: 07-Oct-2565

SATH31 VTCN 070100
METAR VTCN 070100Z VRB02KT 9999 SCT004 24/23 Q1014 NOSIG=


......................................................................................


Date: 07-Oct-2565

SATH31 VTCP 070100
METAR VTCP 070100Z 04003KT 310V090 9999 BKN007 26/24 Q1013 NOSIG=


......................................................................................


Date: 07-Oct-2565

SATH31 VTCT 070100
METAR VTCT 070100Z 02004KT 9000 BKN005 25/25 Q1016 NOSIG=


......................................................................................


Date: 07-Oct-2565

SATH31 VTPB 070100
METAR VTPB 070100Z VRB02KT 9999 FEW030 28/26 Q1013 NOSIG=


......................................................................................


Date: 07-Oct-2565

SATH31 VTPH 070100
METAR VTPH 070100Z VRB02KT 9999 FEW030 26/25 Q1011 NOSIG=


......................................................................................


Date: 07-Oct-2565

SATH31 VTPM 070100
METAR VTPM 070100Z VRB01KT 3000 BR OVC015 24/24 Q1012 NOSIG=


......................................................................................


Date: 07-Oct-2565

SATH31 VTPP 070100
METAR VTPP 070100Z VRB01KT 9999 CAVOK 27/27 Q1012 NOSIG=


......................................................................................


Date: 07-Oct-2565

SATH31 VTPT 070100
METAR VTPT 070100Z /////KT 7000 SCT024 27/24 Q1013 NOSIG=


......................................................................................


Date: 07-Oct-2565

SATH31 VTSE 070100
METAR VTSE 070100Z 05003KT 360V080 7000 -RA FEW004 FEW018TCU SCT020 24/24 Q1011 RERA NOSIG=


......................................................................................


Date: 07-Oct-2565

SATH31 VTSG 070100
METAR VTSG 070100Z VRB01KT 9999 FEW020 SCT030 BKN060 25/24 Q1011
NOSIG=


......................................................................................


Date: 07-Oct-2565

SATH31 VTSP 070100
METAR VTSP 070100Z 10003KT 050V120 9000 -RA FEW010 SCT020 BKN100
25/24 Q1010 NOSIG=


......................................................................................


Date: 07-Oct-2565

SATH31 VTSS 070100
METAR VTSS 070100Z 00000KT 9000 FEW004 SCT020 BKN100 26/24 Q1010
NOSIG=


......................................................................................


Date: 07-Oct-2565

SATH31 VTSY 070100
METAR VTSY 070100Z 27003KT 250V310 5000 BR BKN005 23/22 Q1012 BECMG
TL0200 NSW=


......................................................................................


Date: 07-Oct-2565

SATH31 VTUK 070100
METAR VTUK 070100Z 36005KT 330V030 9999 FEW030 27/24 Q1014 NOSIG=


......................................................................................


Date: 07-Oct-2565

SATH31 VTUV 070100
METAR VTUV 070100Z 05007KT 020V080 9999 FEW025 27/23 Q1013 NOSIG=


......................................................................................


Date: 07-Oct-2565

SATH31 VTUW 070100
METAR VTUW 070100Z 00000KT CAVOK 28/22 Q1014 NOSIG=


......................................................................................


Date: 07-Oct-2565

SAPK31 OPKC 070100
METAR OPIS 070100Z 23008KT 6000 SCT040 SCT100 18/13 Q1013 NOSIG=
METAR OPKC 070055Z 33005KT 5000 FU FEW030 25/22 Q1007 NOSIG=
METAR OPLA 070055Z 00000KT 4000 FU NSC 24/21 Q1009 BECMG 3000 BR
RMK QFE984 A29.82=
METAR OPMT 070100Z 00000KT 4000 FU NSC 24/18 Q1008 NOSIG=
METAR OPPS 070100Z 18006KT 5000 HZ FEW040 FEW100 19/15 Q1013=
METAR OPSK 070100Z 00000KT 4000 HZ NSC 24/21 Q1004 NOSIG=
METAR OPST 070100Z 00000KT 2500 BR NSC 24/21 Q1011 NOSIG 83?=
METAR OPFA 070100Z NIL=
METAR OPNH 070100Z NIL=


......................................................................................


Date: 07-Oct-2565

SATH31 VTSB 070100
METAR VTSB 070100Z 00000KT 6000 -RA SCT010 BKN100 24/24 Q1011 NOSIG=


......................................................................................


Date: 07-Oct-2565

SAHK31 VHHH 070100
METAR VHHH 070100Z 09010KT 9999 FEW022 30/22 Q1016 NOSIG=


......................................................................................


Date: 07-Oct-2565

SAMV31 VRMM 070100
METAR VRMH 070100Z 30011KT 9999 FEW018 27/24 Q1009=
METAR VRMM 070100Z 31013KT 9999 FEW018TCU 28/24 Q1009 NOSIG=
METAR VRMG 070100Z 25014KT 7000 -SHRA SCT016 FEW017CB OVC100
24/21 Q1011 CB SW,W TEMPO 4000 SHRA=


......................................................................................


Date: 07-Oct-2565

SAPK31 OPKC 070100 RRA
METAR OPFA 070100Z NIL=
METAR OPNH 070100Z NIL=


......................................................................................


Date: 07-Oct-2565

SASR31 WSSS 070100
METAR WSSS 070100Z 16005KT 9999 FEW018 BKN150 28/25 Q1011 NOSIG=


......................................................................................


Date: 07-Oct-2565

SATH31 VTSR 070100
METAR VTSR 070100Z 00000KT 9999 FEW020 28/24 Q1010 NOSIG=


......................................................................................


Date: 07-Oct-2565

SATH31 VTUQ 070100
METAR VTUQ 070100Z 00000KT 9999 BKN030 26/26 Q1013 NOSIG=


......................................................................................


Date: 07-Oct-2565

SAIR31 OIII 070100
METAR OIAW 070100Z 26002KT 8000 NSC 24/07 Q1005=
METAR OIFM 070100Z 01004KT CAVOK 10/M07 Q1024 A3024=
METAR OIII 070100Z 00000KT CAVOK 19/00 Q1021 A3017 NOSIG=
METAR OIKB 070100Z NIL=
METAR OIKK 070100Z 12006KT CAVOK 08/M10 Q1022 A3020=
METAR OIMM 070100Z 26004KT CAVOK 08/M05 Q1023 A3023=
METAR OISS 070100Z 00000KT CAVOK 13/M02 Q1020 A3013=
METAR OITT 070100Z 07008KT CAVOK 18/05 Q1022 A3020=
METAR OIZH 070100Z 18004KT CAVOK 06/M19 Q1019 A3009=


......................................................................................


Date: 07-Oct-2565

SAIR32 OIII 070100
METAR OIAA 070100Z 29002KT CAVOK 24/06 Q1006=
METAR OIBK 070100Z NIL=
METAR OICC 070100Z 00000KT CAVOK 13/M13 Q1020 A3013=
METAR OIGG 070100Z NIL=
METAR OIIE 070100Z 31008KT CAVOK 18/10 Q1021=
METAR OINZ 070100Z NIL=
METAR OITR 070100Z 27004KT CAVOK 11/02 Q1021=
METAR OIYY 070100Z 27004KT CAVOK 18/M06 Q1021=


......................................................................................


Date: 07-Oct-2565

SAIR33 OIII 070100
METAR OIBB 070100Z 00000KT CAVOK 25/20 Q1005 A2969=
METAR OIBP 070100Z NIL=
METAR OICK 070100Z NIL=
METAR OICS 070100Z NIL=
METAR OIHH 070100Z NIL=
METAR OITL 070100Z NIL=
METAR OIZC 070100Z NIL=


......................................................................................


Date: 07-Oct-2565

SAIR34 OIII 070100
METAR OIAG 070100Z NIL=
METAR OIAM 070100Z 33006KT CAVOK 25/06 Q1005=
METAR OICI 070100Z NIL=
METAR OIKQ 070100Z 00000KT 1500 BR NSC 25/25 Q1005=
METAR OINN 070100Z 27004KT 9999 FEW023CB BKN027 22/20 Q1020=
METAR OINR 070100Z 23002KT 9999 FEW020CB SCT025 OVC080 21/20 Q1020=
METAR OISL 070100Z 00000KT CAVOK 19/02 Q1011 A2986=
METAR OISY 070100Z 00000KT CAVOK 12/M04 Q1023=
METAR OITZ 070100Z NIL=


......................................................................................


Date: 07-Oct-2565

SAIR35 OIII 070100
METAR OIAD 070100Z NIL=
METAR OIBJ 070100Z AUTO VRB02KT //// // ////// 22/01 Q1012=
METAR OIBS 070100Z NIL=
METAR OIHR 070100Z NIL=
METAR OIKM 070100Z NIL=
METAR OIKR 070100Z NIL=
METAR OING 070100Z 22004KT 9999 FEW030 22/19 Q1022=
METAR OIZB 070100Z NIL=
METAR OIZI 070100Z NIL=


......................................................................................


Date: 07-Oct-2565

SAIR36 OIII 070100
METAR OIBA 070100Z NIL=
METAR OIBV 070100Z NIL=
METAR OIFS 070100Z 31004KT CAVOK 05/M10 Q1026=
METAR OIIP 070100Z 33006KT CAVOK 12/09 Q1021 A3017=
METAR OIMB 070100Z 11010KT CAVOK 03/M35 Q1020 A3013=
METAR OIMN 070100Z NIL=
METAR OIMS 070100Z 08014KT CAVOK 11/M19 Q1022=
METAR OIMT 070100Z AUTO 06004KT //// // ////// 15/M23 Q1016=
METAR OIZJ 070100Z NIL=


......................................................................................


Date: 07-Oct-2565

SAIR37 OIII 070100
METAR OIBL 070100Z NIL=
METAR OIBQ 070100Z NIL=
METAR OIIK 070100Z 07002KT CAVOK 13/07 Q1022=
METAR OIMD 070100Z NIL=
METAR OIMQ 070100Z NIL=
METAR OINE 070100Z NIL=
METAR OITK 070100Z 00000KT 9999 FEW040 13/04 Q1020=
METAR OITM 070100Z NIL=


......................................................................................


Date: 07-Oct-2565

SAPK31 OPKC 070100
METAR OPIS 070100Z 23008KT 6000 SCT040 SCT100 18/13 Q1013 NOSIG=
METAR OPKC 070055Z 33005KT 5000 FU FEW030 25/22 Q1007 NOSIG=
METAR OPLA 070055Z 00000KT 4000 FU NSC 24/21 Q1009 BECMG 3000 BR
RMK QFE984 A29.82=
METAR OPMT 070100Z 00000KT 4000 FU NSC 24/18 Q1008 NOSIG=
METAR OPPS 070100Z 18006KT 5000 HZ FEW040 FEW100 19/15 Q1013=
METAR OPSK 070100Z 00000KT 4000 HZ NSC 24/21 Q1004 NOSIG=
METAR OPST 070100Z 00000KT 2500 BR NSC 24/21 Q1011 NOSIG 83%=
METAR OPFA 070100Z NIL=
METAR OPNH 070100Z NIL=


......................................................................................


Date: 07-Oct-2565

SATH31 VTUU 070100
METAR VTUU 070100Z 07003KT 010V120 9999 SCT010 SCT020 27/26 Q1012
NOSIG=


......................................................................................


Date: 07-Oct-2565

SATH40 VTBB 070100
METAR VTBD 070100Z 05004KT 9999 FEW020 SCT040 26/26 Q1012 NOSIG=
METAR VTBS 070100Z 02005KT 9999 FEW010 SCT040 27/24 Q1011 NOSIG=
METAR VTBU 070100Z 01004KT 9000 FEW020 27/24 Q1011 NOSIG=
METAR VTCC 070100Z 03004KT 360V060 9999 FEW015 SCT035 26/23 Q1014
NOSIG=
METAR VTCT 070100Z 02004KT 9000 BKN005 25/25 Q1016 NOSIG=
METAR VTSB 070100Z 00000KT 6000 -RA SCT010 BKN100 24/24 Q1011 NOSIG=
METAR VTSG 070100Z VRB01KT 9999 FEW020 SCT030 BKN060 25/24 Q1011
NOSIG=
METAR VTSP 070100Z 10003KT 050V120 9000 -RA FEW010 SCT020 BKN100
25/24 Q1010 NOSIG=
METAR VTSS 070100Z 00000KT 9000 FEW004 SCT020 BKN100 26/24 Q1010
NOSIG=
METAR VTUD 070100Z VRB02KT 9999 SCT030 28/25 Q1014 NOSIG=
METAR VTUU 070100Z NIL=


......................................................................................


Date: 07-Oct-2565

SAIR38 OIII 070100
METAR OIAH 070100Z 00000KT CAVOK 20/02 Q1009=
METAR OIBH 070100Z NIL=
METAR OICM 070100Z NIL=
METAR OIIS 070100Z NIL=
METAR OIMJ 070100Z AUTO 03018KT //// // ////// 15/07 Q1023=
METAR OISF 070100Z 33010KT CAVOK 18/M01 Q1018=
METAR OISR 070100Z NIL=
METAR OITP 070100Z NIL=
METAR OITU 070100Z NIL=


......................................................................................


Date: 07-Oct-2565

SAOM32 OOMS 070100 RRA
METAR OOSH 070050Z AUTO 25006KT //// ////// 28/19 Q1006=


......................................................................................


Date: 07-Oct-2565

SAOM81 OOMS 070000 RRB
METAR OORQ 062350Z AUTO 02003KT //// ////// 27/13 Q1007=


......................................................................................


Date: 07-Oct-2565

SATH40 VTBB 070100 RRA
METAR VTUU 070100Z 07003KT 010V120 9999 SCT010 SCT020 27/26 Q1012
NOSIG=


......................................................................................


Date: 07-Oct-2565

SAAE31 VTBB 070100
METAR VTCT 070100Z 02004KT 9000 BKN005 25/25 Q1016 NOSIG=
METAR VTSG 070100Z VRB01KT 9999 FEW020 SCT030 BKN060 25/24 Q1011
NOSIG=
METAR VTBD 070100Z 05004KT 9999 FEW020 SCT040 26/26 Q1012 NOSIG=
METAR VTBS 070100Z 02005KT 9999 FEW010 SCT040 27/24 Q1011 NOSIG=
METAR VTCC 070100Z 03004KT 360V060 9999 FEW015 SCT035 26/23 Q1014
NOSIG=
METAR VTSP 070100Z 10003KT 050V120 9000 -RA FEW010 SCT020 BKN100
25/24 Q1010 NOSIG=
METAR VTSS 070100Z 00000KT 9000 FEW004 SCT020 BKN100 26/24 Q1010
NOSIG=
METAR VTBU 070100Z 01004KT 9000 FEW020 27/24 Q1011 NOSIG=


......................................................................................


Date: 07-Oct-2565

SAAE32 VTBB 070100
METAR VDPP 070100Z 01004KT 330V060 9999 SCT015 28/25 Q1010=
METAR VDSR 070100Z 08003KT 050V110 9999 SCT015 SCT040 26/25 Q1010=
METAR VLVT 070100Z NIL=
METAR VYMD 070100Z NIL=
METAR VYNT 070100Z 13005KT 6000 BKN018 FEW022CB BKN110 26/25 Q1012
NOSIG=
METAR VYYY 070100Z 04002KT 6000 BKN015 FEW020CB BKN090 26/25 Q1011
NOSIG=
METAR VDSV 070100Z 14006KT 100V180 9999 FEW015 28/25 Q1010=


......................................................................................


Date: 07-Oct-2565

SAAE33 VTBB 070100
METAR VLLB 070100Z NIL=
METAR VLLN 070100Z NIL=
METAR VLPS 070100Z NIL=
METAR VLSK 070100Z NIL=


......................................................................................


Date: 07-Oct-2565

SAAE34 VTBB 070100
METAR VVCI 070100Z 28006KT 9999 FEW019 FEW024TCU BKN035 26/26 Q1015
TEMPO 4000 RA=
METAR VVCR 070100Z 01003KT 9999 FEW015 29/24 Q1012 NOSIG=
METAR VVCT 070100Z NIL=
METAR VVDN 070100Z 36003KT 310V030 9999 FEW015 30/23 Q1014 NOSIG=
METAR VVNB 070100Z VRB02KT 7000 SCT034 BKN048 27/24 Q1016 NOSIG=
METAR VVPB 070100Z 30003KT 9999 FEW015 BKN050 28/24 Q1015 NOSIG=
METAR VVPQ 070100Z 07009KT 9999 FEW015 28/24 Q1011 NOSIG=
METAR VVTS 070100Z VRB05KT 9999 FEW020 29/25 Q1011 NOSIG =


......................................................................................


Date: 07-Oct-2565

SAAE34 VTBB 070100 RRA
METAR VVCT 070100Z VRB03KT 8000 FEW015 27/26 Q1011 NOSIG=


......................................................................................


Date: 07-Oct-2565

SAIR31 OIII 070100
METAR OIAA 070050Z 29002KT CAVOK 24/06 Q1006=
METAR OIAG 070100 NIL=
METAR OIAH 070100Z 00000KT CAVOK 20/02 Q1009=
METAR OIAI 070100 NIL=
METAR OIAM 070100Z 33006KT CAVOK 25/06 Q1005=
METAR OIAW 070052Z 26002KT 8000 NSC 24/07 Q1005=
METAR OIBA 070100 NIL=
METAR OIBB 070051Z 00000KT CAVOK 25/20 Q1005 A2969=
METAR OIBK 070100Z 17004KT 3000 BR NSC 26/25 Q1005=
METAR OIBL 070100 NIL=
METAR OIBS 070100 NIL=
METAR OICC 070051Z 00000KT CAVOK 13/M13 Q1020 A3013=
METAR OICI 070100 NIL=
METAR OICJ 070100 NIL=
METAR OICK 070051Z 00000KT CAVOK 17/M06 Q1017=
METAR OICS 070100Z 00000KT CAVOK 10/M03 Q1022 A3018=
METAR OIFK 070100Z 00000KT CAVOK 16/M06 Q1019 A3010=
METAR OIFM 070100Z 01004KT CAVOK 10/M07 Q1024 A3024=
METAR OIFS 070055Z 31004KT CAVOK 05/M10 Q1026=
METAR OIGG 070100Z 00000KT 9999 BKN025 SCT070 21/21 Q1022=
METAR OIGK 070100 NIL=
METAR OIHH 070100Z 29002KT CAVOK 07/M08 Q1023 A3021=
METAR OIHM 070100Z 08004KT CAVOK 12/M07 Q1023=
METAR OIIE 070100Z 31008KT CAVOK 18/10 Q1021 NOSIG=
METAR OIII 070100Z 00000KT CAVOK 19/00 Q1021 A3017 NOSIG=
METAR OIIK 070051Z 07002KT CAVOK 13/07 Q1022=
METAR OIIP 070100Z 33006KT CAVOK 12/09 Q1021 A3017=
METAR OIIS 070100Z 36002KT CAVOK 19/M04 Q1021=
METAR OIKB 070100Z VRB02KT 4000 BR NSC 26/23 Q1006 A2971=
METAR OIKK 070050Z 12006KT CAVOK 08/M10 Q1022 A3020=
METAR OIKO 070100Z AUTO 00000KT //// // ////// 25/22 Q1006=
METAR OIKQ 070100Z 00000KT 1500 BR NSC 25/25 Q1005=
METAR OIMB 070100Z 11010KT CAVOK 03/M35 Q1020 A3013=
METAR OIMC 070100 NIL=
METAR OIMD 070100 NIL=
METAR OIMM 070100Z 26004KT CAVOK 08/M05 Q1023 A3023=
METAR OINB 070100Z 00000KT CAVOK 23/20 Q1020=
METAR OING 070100Z 22004KT 9999 FEW030 22/19 Q1022=
METAR OINK 070100Z AUTO VRB02KT //// // ////// 22/19 Q1019=
METAR OINN 070100Z 27004KT 9999 FEW023CB BKN027 22/20 Q1020=
METAR OINR 070100Z 23002KT 9999 FEW020CB SCT025 OVC080 21/20 Q1020=
METAR OISA 070100 NIL=
METAR OISF 070100Z 33010KT CAVOK 18/M01 Q1018=
METAR OISL 070100Z 00000KT CAVOK 19/02 Q1011 A2986=
METAR OISS 070100Z 00000KT CAVOK 13/M02 Q1020 A3013=
METAR OISY 070100Z 00000KT CAVOK 12/M04 Q1023=
METAR OITL 070051Z 07010KT 4000 -DZ PRFG OVC003 13/13 Q1025=
METAR OITR 070054Z 27004KT CAVOK 11/02 Q1021=
METAR OITT 070100Z 07008KT CAVOK 18/05 Q1022 A3020=
METAR OITU 070051Z 00000KT CAVOK 15/02 Q1022=
METAR OIYY 070050Z 27004KT CAVOK 18/M06 Q1021=
METAR OIZB 070100 NIL=
METAR OIZC 070100Z 00000KT 9999 FEW035 24/21 Q1005=
METAR OIZH 070100Z 18004KT CAVOK 06/M19 Q1019 A3009=
METAR OIZI 070100 NIL=
METAR OIZJ 070100 NIL=


......................................................................................


Date: 07-Oct-2565

SAPK31 OPKC 070100
METAR OPIS 070100Z 23008KT 6000 SCT040 SCT100 18/13 Q1013 NOSIG=
METAR OPKC 070055Z 33005KT 5000 FU FEW030 25/22 Q1007 NOSIG=
METAR OPLA 070055Z 00000KT 4000 FU NSC 24/21 Q1009 BECMG 3000 BR

RMK QFE984 A29.82=
METAR OPMT 070100Z 00000KT 4000 FU NSC 24/18 Q1008 NOSIG=
METAR OPPS 070100Z 18006KT 5000 HZ FEW040 FEW100 19/15 Q1013=
METAR OPSK 070100Z 00000KT 4000 HZ NSC 24/21 Q1004 NOSIG=
METAR OPST 070100Z 00000KT 2500 BR NSC 24/21 Q1011 NOSIG 83=
METAR OPFA 070100Z NIL=
METAR OPNH 070100Z NIL=


......................................................................................


Date: 07-Oct-2565

SAUZ31 UTTW 070100 RRA
METAR UTST 070100Z 02006KT CAVOK 07/M00 Q1022 R25/CLRD70 NOSIG=


......................................................................................


Date: 07-Oct-2565

SAUZ31 UTTW 070100
METAR UTFN 070100Z 33006KT 9999 NSC 11/04 Q1021 R28/CLRD70 NOSIG=
METAR UTNN 070100Z NIL=
METAR UTNU 070100Z 31004KT CAVOK 04/M00 Q1021 R31/CLRD70 NOSIG=
METAR UTSA 070100Z 09008KT 7000 NSC 10/M00 Q1021 R07/CLRD70 NOSIG=
METAR UTSB 070100Z NIL=
METAR UTSK 070100Z 07004KT CAVOK 09/M03 Q1021 R16/CLRD70=
METAR UTSS 070100Z 15008KT 9999 NSC 09/M00 Q1021 R09/CLRD70 NOSIG=
METAR UTST 070100Z NIL=
METAR UTFA 070100Z 00000KT 9999 NSC 09/05 Q1022=
METAR UTFF 070100Z 13004KT 9999 NSC 13/01 Q1021 R18/CLRD70=
METAR UTTT 070100Z 08004KT CAVOK 10/M00 Q1022 R08L/CLRD70 NOSIG=


......................................................................................


Date: 07-Oct-2565

SAIR33 OIII 070100 RRA
METAR OIZC 070100Z 00000KT 9999 FEW035 24/21 Q1005=


......................................................................................


Date: 07-Oct-2565

SAIR77 OIII 070100
METAR AZUH 070051Z 00000KT CAVOK 14/08 Q1021=
METAR KHME 070100 NIL=
METAR OIAA 070050Z 29002KT CAVOK 24/06 Q1006=
METAR OIAG 070100 NIL=
METAR OIAH 070100Z 00000KT CAVOK 20/02 Q1009=
METAR OIAI 070100 NIL=
METAR OIAM 070100Z 33006KT CAVOK 25/06 Q1005=
METAR OIAW 070052Z 26002KT 8000 NSC 24/07 Q1005=
METAR OIBA 070100 NIL=
METAR OIBB 070051Z 00000KT CAVOK 25/20 Q1005 A2969=
METAR OIBK 070100Z 17004KT 3000 BR NSC 26/25 Q1005=
METAR OIBL 070100 NIL=
METAR OIBS 070100 NIL=
METAR OICC 070051Z 00000KT CAVOK 13/M13 Q1020 A3013=
METAR OICI 070100 NIL=
METAR OICJ 070100 NIL=
METAR OICK 070051Z 00000KT CAVOK 17/M06 Q1017=
METAR OICS 070100Z 00000KT CAVOK 10/M03 Q1022 A3018=
METAR OIFK 070100Z 00000KT CAVOK 16/M06 Q1019 A3010=
METAR OIFM 070100Z 01004KT CAVOK 10/M07 Q1024 A3024=
METAR OIFS 070055Z 31004KT CAVOK 05/M10 Q1026=
METAR OIGG 070100Z 00000KT 9999 BKN025 SCT070 21/21 Q1022=
METAR OIGK 070100 NIL=
METAR OIHM 070100Z 08004KT CAVOK 12/M07 Q1023=
METAR OIIE 070100Z 31008KT CAVOK 18/10 Q1021 NOSIG=
METAR OIII 070100Z 00000KT CAVOK 19/00 Q1021 A3017 NOSIG=
METAR OIIK 070051Z 07002KT CAVOK 13/07 Q1022=
METAR OIIP 070100Z 33006KT CAVOK 12/09 Q1021 A3017=
METAR OIIS 070100Z 36002KT CAVOK 19/M04 Q1021=
METAR OIKB 070100Z VRB02KT 4000 BR NSC 26/23 Q1006 A2971=
METAR OIKK 070050Z 12006KT CAVOK 08/M10 Q1022 A3020=
METAR OIKO 070100Z AUTO 00000KT //// // ////// 25/22 Q1006=
METAR OIKQ 070100Z 00000KT 1500 BR NSC 25/25 Q1005=
METAR OIMB 070100Z 11010KT CAVOK 03/M35 Q1020 A3013=
METAR OIMC 070100 NIL=
METAR OIMD 070100 NIL=
METAR OIMM 070100Z 26004KT CAVOK 08/M05 Q1023 A3023=
METAR OIMN 070100 NIL=
METAR OINB 070100Z 00000KT CAVOK 23/20 Q1020=
METAR OING 070100Z 22004KT 9999 FEW030 22/19 Q1022=
METAR OINK 070100Z AUTO VRB02KT //// // ////// 22/19 Q1019=
METAR OINN 070100Z 27004KT 9999 FEW023CB BKN027 22/20 Q1020=
METAR OINR 070100Z 23002KT 9999 FEW020CB SCT025 OVC080 21/20 Q1020=
METAR OISA 070100 NIL=
METAR OISF 070100Z 33010KT CAVOK 18/M01 Q1018=
METAR OISL 070100Z 00000KT CAVOK 19/02 Q1011 A2986=
METAR OISS 070100Z 00000KT CAVOK 13/M02 Q1020 A3013=
METAR OISY 070100Z 00000KT CAVOK 12/M04 Q1023=
METAR OITL 070051Z 07010KT 4000 -DZ PRFG OVC003 13/13 Q1025=
METAR OITR 070054Z 27004KT CAVOK 11/02 Q1021=
METAR OITT 070100Z 07008KT CAVOK 18/05 Q1022 A3020=
METAR OITU 070051Z 00000KT CAVOK 15/02 Q1022=
METAR OIYY 070050Z 27004KT CAVOK 18/M06 Q1021=
METAR OIZB 070100 NIL=
METAR OIZC 070100Z 00000KT 9999 FEW035 24/21 Q1005=
METAR OIZH 070100Z 18004KT CAVOK 06/M19 Q1019 A3009=
METAR OIZI 070100 NIL=
METAR OIZJ 070100 NIL=
METAR SESG 070100 NIL=
METAR YAYT 070100 NIL=


......................................................................................


Date: 07-Oct-2565

SAJP31 RJTD 070100
METAR RJAA 070100Z 33010KT 5000 -SHRA BR FEW005 SCT007 BKN009 13/13
Q1017 TEMPO 4000 -SHRA BR=
METAR RJBB 070100Z 06011KT 5000 SHRA BR FEW003 BKN008 BKN010 18/17
Q1014 TEMPO 2000 SHRA BR=
METAR RJTT 070100Z 33011KT 7000 -RA FEW006 BKN020 13/12 Q1018 TEMPO
4000 -RA BR FEW005 BKN008=
METAR RJOO 070100Z 08004KT 020V120 6000 -SHRA BR FEW005 SCT008
BKN020 17/16 Q1014=
METAR ROAH 070100Z 02014KT 9999 -SHRA FEW017 27/23 Q1015=
METAR RJGG 070100Z 35011KT 8000 -RA FEW006 SCT010 BKN025 16/15 Q1014
NOSIG=
METAR RJCH 070100Z 05005KT 010V100 9999 FEW030 SCT140 BKN/// 12/04
Q1021=
METAR RJSS 070100Z 34007KT 9999 -RA FEW010 SCT060 BKN080 12/08
Q1020=


......................................................................................


Date: 07-Oct-2565

SAJP32 RJTD 070100
METAR RJFF 070100Z 33005KT 290V020 9000 -SHRA FEW005 SCT020 BKN025
17/15 Q1017 TEMPO TL0200 4000 -SHRA BR FEW003 SCT005
BKN008=
METAR RJCC 070100Z 19003KT 150V230 9999 FEW020 BKN/// 10/05 Q1022=
METAR RJFK 070100Z 32014KT 9999 VCSH BCFG FEW005 BKN013 BKN045 20/17
Q1016=
METAR RJSN 070100Z 10006KT 9999 -RA FEW040 SCT060 OVC090 14/10
Q1017=
METAR RJFT 070100Z 31007KT 270V350 5000 -SHRA BR PRFG FEW001 BKN005
BKN030 16/16 Q1017=
METAR RJFU 070100Z 33012KT 9999 -SHRA FEW005 BKN015 BKN050 18/15
Q1017=
METAR RJNK 070100Z 19003KT 160V230 5000 -RA FEW003 BKN004 OVC030
13/13 Q1014=
METAR RJOA 070100Z 31004KT 270V050 3000 -SHRA BCFG BR FEW000 SCT015
BKN020 15/14 Q1015=
METAR RJOB 070100Z 35005KT 300V020 6000 -SHRA BCFG FEW000 SCT004
BKN007 14/14 Q1014=
METAR RJOT 070100Z VRB02KT 5000 SHRA BR FEW000 SCT015 BKN030 17/17
Q1014=


......................................................................................


Date: 07-Oct-2565

SAJP32 RJTD 070100 RRA
METAR RJFO 070100Z 34006KT 9999 -SHRA FEW010 SCT020 BKN040 18/17
Q1015=
METAR RJNT 070100Z 00000KT 9999 -RA FEW002 SCT070 OVC090 14/13
Q1014=


......................................................................................


Date: 07-Oct-2565

SAJP38 RJTD 070100
METAR RJNS 070100Z VRB05KT 9999 -RA FEW008 SCT050 BKN060 14/14
Q1014=
METAR RJSA 070100Z 02004KT 330V040 9999 FEW040 BKN100 11/05 Q1020=
METAR RJSF 070100Z 36003KT 310V040 5000 -RA BR FEW001 BKN003 BKN005
08/08 Q1020=
METAR RJOM 070100Z 34008KT 9999 VCSH FEW008 SCT020 BKN030 19/18
Q1014=
METAR RJOK 070100Z 35004KT 9999 -SHRA FEW003 SCT030 BKN060 19/18
Q1013=
METAR RJFM 070100Z 25008KT 9999 FEW020 SCT140 BKN/// 24/17 Q1014=
METAR RJEC 070100Z 15007KT 110V180 9999 FEW010 SCT/// 11/03 Q1021=
METAR RJFR 070100Z 30013KT 8000 -SHRA FEW005 BKN015 BKN025 17/15
Q1016=
METAR RJSK 070100Z 14004KT 9999 FEW040 SCT080 BKN100 09/07 Q1020=
METAR RJAH 070100Z 35008KT 330V030 5000 -SHRA BR SCT015 BKN040
BKN080 13/13 Q1018=


......................................................................................


Date: 07-Oct-2565

SAJP38 RJTD 070100 RRA
METAR RJCK 070100Z 35004KT 320V030 9999 FEW040 BKN/// 10/02 Q1022=
METAR RJCM 070100Z 22003KT 150V320 9999 FEW050 SCT/// 11/03 Q1022=
METAR RJCB 070100Z 34003KT 300V030 9999 FEW020 BKN/// 08/03 Q1022=
METAR RJOC 070100Z 21007KT 9999 -SHRA FEW005 SCT030 BKN050 17/16
Q1014=
METAR RJOH 070100Z 23008KT 9999 -SHRA FEW005 BKN015 BKN030 17/16
Q1014=
METAR ROIG 070100Z 06012KT 9999 VCSH FEW015 29/25 Q1015=
METAR RJFS 070100Z 29004KT 260V320 9999 -SHRA FEW010 SCT045 BKN070
17/16 Q1017=
METAR RJSI 070100Z VRB02KT 9999 FEW010 BKN120 10/07 Q1021=


......................................................................................


Date: 07-Oct-2565

SAJP51 RJTD 070100
METAR RJAA 070100Z 33010KT 5000 -SHRA BR FEW005 SCT007 BKN009 13/13
Q1017 TEMPO 4000 -SHRA BR=
METAR RJAF 070100Z 34003KT 300V360 3500 -RA BR FEW002 BKN005 BKN010
10/09 Q1017=
METAR RJAH 070100Z 35008KT 330V030 5000 -SHRA BR SCT015 BKN040
BKN080 13/13 Q1018=
METAR RJBB 070100Z 06011KT 5000 SHRA BR FEW003 BKN008 BKN010 18/17
Q1014 TEMPO 2000 SHRA BR=
METAR RJBD 070100Z 34007KT 310V010 8000 -SHRA FEW008 SCT015 BKN020
FEW025CB 20/18 Q1013=
METAR RJBE 070100Z 07010KT 5000 SHRA BR FEW003 BKN006 BKN040 18/17
Q1014=
METAR RJBT 070100Z 21004KT 2500 -RA BCFG FEW000 SCT005 BKN045 14/14
Q1014=
METAR RJCB 070100Z 34003KT 300V030 9999 FEW020 BKN/// 08/03 Q1022=
METAR RJCC 070100Z 19003KT 150V230 9999 FEW020 BKN/// 10/05 Q1022=
METAR RJCH 070100Z 05005KT 010V100 9999 FEW030 SCT140 BKN/// 12/04
Q1021=
METAR RJCK 070100Z 35004KT 320V030 9999 FEW040 BKN/// 10/02 Q1022=
METAR RJCM 070100Z 22003KT 150V320 9999 FEW050 SCT/// 11/03 Q1022=
METAR RJCN 070100Z 18003KT 130V240 9999 FEW025 BKN/// 11/01 Q1022=
METAR RJCO 070100Z 11005KT 9999 FEW020 SCT230 13/02 Q1023=
METAR RJCW 070100Z 27010KT 230V310 9999 FEW050 11/M02 Q1021=
METAR RJDB 070100Z AUTO VRB02KT 9999 FEW047 SCT050 BKN130 18/15
Q1016=
METAR RJDC 070100Z 33004KT 270V020 9999 -SHRA FEW008 SCT020 BKN045
16/15 Q1016=
METAR RJDT 070100Z 30009KT 260V340 9999 FEW025 BKN150 19/12 Q1016=
METAR RJEB 070100Z 28004KT 200V340 9999 FEW020 BKN090 12/M01 Q1022=
METAR RJEC 070100Z 15007KT 110V180 9999 FEW010 SCT/// 11/03 Q1021=


......................................................................................


Date: 07-Oct-2565

SAJP51 RJTD 070100 RRA
METAR RJFE 070100Z 35006KT 9999 -RA FEW025 SCT040 BKN100 17/14
Q1018=
METAR RJFF 070100Z 33005KT 290V020 9000 -SHRA FEW005 SCT020 BKN025
17/15 Q1017 TEMPO TL0200 4000 -SHRA BR FEW003 SCT005
BKN008=
METAR RJFG 070100Z 31012KT 9999 SCT013 BKN015 21/19 Q1015=
METAR RJFK 070100Z 32014KT 9999 VCSH BCFG FEW005 BKN013 BKN045 20/17
Q1016=
METAR RJFM 070100Z 25008KT 9999 FEW020 SCT140 BKN/// 24/17 Q1014=
METAR RJFO 070100Z 34006KT 9999 -SHRA FEW010 SCT020 BKN040 18/17
Q1015=
METAR RJFR 070100Z 30013KT 8000 -SHRA FEW005 BKN015 BKN025 17/15
Q1016=
METAR RJFS 070100Z 29004KT 260V320 9999 -SHRA FEW010 SCT045 BKN070
17/16 Q1017=
METAR RJFT 070100Z 31007KT 270V350 5000 -SHRA BR PRFG FEW001 BKN005
BKN030 16/16 Q1017=
METAR RJFU 070100Z 33012KT 9999 -SHRA FEW005 BKN015 BKN050 18/15
Q1017=
METAR RJGG 070100Z 35011KT 8000 -RA FEW006 SCT010 BKN025 16/15 Q1014
NOSIG=
METAR RJKA 070100Z 31007KT 9999 VCSH FEW015 BKN025 BKN040 26/21
Q1015=
METAR RJKI 070100Z AUTO 31005KT 9999 FEW025 SCT029 BKN033 26/22
Q1015=
METAR RJNK 070100Z 19003KT 160V230 5000 -RA FEW003 BKN004 OVC030
13/13 Q1014=
METAR RJNS 070100Z VRB05KT 9999 -RA FEW008 SCT050 BKN060 14/14
Q1014=
METAR RJNT 070100Z 00000KT 9999 -RA FEW002 SCT070 OVC090 14/13
Q1014=
METAR RJNW 070100Z 07008KT 9999 -RA FEW000 SCT015 OVC090 13/12
Q1014=
METAR RJOA 070100Z 31004KT 270V050 3000 -SHRA BCFG BR FEW000 SCT015
BKN020 15/14 Q1015=
METAR RJOB 070100Z 35005KT 300V020 6000 -SHRA BCFG FEW000 SCT004
BKN007 14/14 Q1014=
METAR RJOC 070100Z 21007KT 9999 -SHRA FEW005 SCT030 BKN050 17/16
Q1014=


......................................................................................


Date: 07-Oct-2565

SAJP51 RJTD 070100 RRB
METAR RJOH 070100Z 23008KT 9999 -SHRA FEW005 BKN015 BKN030 17/16
Q1014=
METAR RJOK 070100Z 35004KT 9999 -SHRA FEW003 SCT030 BKN060 19/18
Q1013=
METAR RJOM 070100Z 34008KT 9999 VCSH FEW008 SCT020 BKN030 19/18
Q1014=
METAR RJOO 070100Z 08004KT 020V120 6000 -SHRA BR FEW005 SCT008
BKN020 17/16 Q1014=
METAR RJOR 070100Z 15003KT 9999 -RA FEW003 SCT040 BKN070 16/14
Q1013=
METAR RJOS 070100Z 29003KT 6000 -SHRA FEW004 BKN025 OVC080 17/17
Q1013=
METAR RJOT 070100Z VRB02KT 5000 SHRA BR FEW000 SCT015 BKN030 17/17
Q1014=
METAR RJOW 070100Z 23004KT 8000 -SHRA FEW003 SCT015 BKN025 16/15
Q1016=
METAR RJOY 070100Z VRB02KT 4000 SHRA BR FEW002 SCT008 BKN030 17/16
Q1014=
METAR RJSA 070100Z 02004KT 330V040 9999 FEW040 BKN100 11/05 Q1020=
METAR RJSC 070100Z VRB01KT 9999 -RA FEW005 SCT070 BKN080 10/09
Q1020=
METAR RJSF 070100Z 36003KT 310V040 5000 -RA BR FEW001 BKN003 BKN005
08/08 Q1020=
METAR RJSI 070100Z VRB02KT 9999 FEW010 BKN120 10/07 Q1021=
METAR RJSK 070100Z 14004KT 9999 FEW040 SCT080 BKN100 09/07 Q1020=
METAR RJSM 070100Z 28004KT 240V320 9999 FEW030 BKN150 13/02 Q1021=
METAR RJSN 070100Z 10006KT 9999 -RA FEW040 SCT060 OVC090 14/10
Q1017=
METAR RJSR 070100Z 04003KT 340V080 9999 FEW050 BKN120 11/07 Q1020=
METAR RJSS 070100Z 34007KT 9999 -RA FEW010 SCT060 BKN080 12/08
Q1020=
METAR RJSY 070100Z 10012KT 9999 -RA FEW040 SCT060 BKN070 13/07
Q1018=
METAR RJTF 070100Z 35006KT 6000 -RA FEW008 SCT020 BKN030 12/11
Q1018=


......................................................................................


Date: 07-Oct-2565

SAJP51 RJTD 070100 RRC
METAR RJTI 070100Z 30010KT 270V340 5000 -RA BR FEW007 BKN025 12/11
Q1018=
METAR RJTO 070100Z 02018KT 3000 -SHRA BR FEW003 SCT004 BKN005 14/14
Q1016=
METAR RJTT 070100Z 33011KT 7000 -RA FEW006 BKN020 13/12 Q1018 TEMPO
4000 -RA BR FEW005 BKN008=
METAR ROAH 070100Z 02014KT 9999 -SHRA FEW017 27/23 Q1015=
METAR ROIG 070100Z 06012KT 9999 VCSH FEW015 29/25 Q1015=
METAR ROMD 070100Z AUTO 01010KT 350V050 9999 NCD 29/23 Q1015=
METAR ROMY 070100Z 06012KT 9999 SCT017 SCT025 29/25 Q1015=
METAR RORK 070100Z AUTO 01009KT 9999 FEW023 29/23 Q1015=
METAR RORS 070100Z 07011KT 9999 SCT018 30/24 Q1015=
METAR RORY 070100Z AUTO 35013KT 9999 FEW019 SCT022 BKN070 //////TCU
27/23 Q1016=
METAR ROYN 070100Z AUTO 05018KT 9999 SCT016 BKN022 BKN048 //////TCU
28/26 Q1015=


......................................................................................


Date: 07-Oct-2565

SAPA31 KWBC 070100
METAR
AGGG NIL=
AGGH 070100Z 02014KT 9999 FEW020 32/24 Q1009=
ANAU NIL=
AYPY NIL=
PGNT NIL=
PGRO 070050Z VRB06KT 7SM -RA SCT015 BKN100 26/25 A2979=
PGSN 070054Z VRB03KT 10SM FEW018 SCT029 31/27 A2980 RMK AO2 SLP113
T03060272 $=
PGUA 070056Z AUTO 13005KT 10SM FEW160 29/24 A2983 RMK AO2 SLP092
T02910235 $=
PGUM 070054Z 08004KT 9SM -RA FEW020 BKN048 OVC060 28/25 A2983 RMK
AO2 RAB28 SLP094 P0010 T02830250=
PGUM 070052Z 07005KT 7SM -RA FEW020 BKN048 OVC060 28/26 A2984 RMK
AO2 RAB28 P0010=
PGWT 070053Z 05004KT 7SM SCT015 SCT050 BKN100 30/26=
PHJH NIL=
PHJR 070053Z 21006KT 10SM BKN030 BKN036 OVC055 29/21 A2991 RMK AO2
SLP135 T02890211=
PHMK 070054Z 02012G19KT 10SM FEW039 28/21 A2993 RMK AO2 SLP136
T02780206 $=
PJON NIL=
PKMJ NIL=
PKMR 070052Z 13015KT 7SM SHRA SCT014TCU BKN045 OVC110 25/24 A2981
RMK SHRAB19 TCU ALQDS SLP098 T02540237=
PKWA 070100Z AUTO 12007KT 10SM SCT016 SCT023 BKN055 29/25 A2979
RMK AO2 T02940247=
PLCH 070100Z 10012G23KT 9999 SCT019 29/22 Q1007=
PMDY 070056Z AUTO 08021KT 10SM FEW034 BKN048 BKN060 29/20 A3014
RMK AO2 SLP208 T02890200 TSNO=
PTKK 070051Z VRB03KT 15SM FEW014 SCT120 BKN280 31/25 A2977 RMK
SLP083 T03110245=
PTKR NIL=
PTPN NIL=
PTRO 070050Z 05009KT 14SM SCT016 BKN300 30/24 A2984=
PTSA NIL=
PTTP 070052Z 28003KT 15SM SCT018TCU BKN130 OVC300 30/26 A2982 RMK
TCU E-SE SLP098 T03000257=
PTYA NIL=
PWAK 070058Z AUTO 08012G15KT 9999 SCT021 SCT045 31/24 A2986 RMK
AO2 SLP118 T03110244=


......................................................................................


Date: 07-Oct-2565

SATR31 UTAA 070100 RRA
METAR UTAM 070100Z 22004KT 6000 NSC 10/01 Q1022 R88/CLRD70 NOSIG=


......................................................................................


Date: 07-Oct-2565

SATR31 UTAA 070100
METAR UTAA 070100Z VRB02KT 9999 NSC 11/M03 Q1020 R88/CLRD70
NOSIG=
METAR UTAK 070100Z 32006KT CAVOK 13/09 Q1020 R16R/CLRD70 NOSIG=
METAR UTAV 070100Z 19004KT CAVOK 04/M05 Q1020 R31/CLRD70
NOSIG=
METAR UTAM NIL=
METAR UTAT 070100Z 13004KT CAVOK 06/02 Q1021 R08/CLRD70
NOSIG=


......................................................................................


Date: 07-Oct-2565

SAAE32 VTBB 070100 RRA
METAR VLVT 070100Z 36004KT 9999 SCT100 27/25 Q1014 NOSIG=


......................................................................................


Date: 07-Oct-2565

SAIR31 OIII 070100
METAR OIAA 070050Z 29002KT CAVOK 24/06 Q1006=
METAR OIAG 070100Z NIL=
METAR OIAH 070100Z 00000KT CAVOK 20/02 Q1009=
METAR OIAI 070100Z NIL=
METAR OIAM 070100Z 33006KT CAVOK 25/06 Q1005=
METAR OIAW 070052Z 26002KT 8000 NSC 24/07 Q1005=
METAR OIBA 070100Z NIL=
METAR OIBB 070051Z 00000KT CAVOK 25/20 Q1005 A2969=
METAR OIBK 070100Z 17004KT 3000 BR NSC 26/25 Q1005=
METAR OIBL 070100Z NIL=
METAR OIBS 070100Z NIL=
METAR OICC 070051Z 00000KT CAVOK 13/M13 Q1020 A3013=
METAR OICI 070100Z NIL=
METAR OICJ 070100Z NIL=
METAR OICK 070051Z 00000KT CAVOK 17/M06 Q1017=
METAR OICS 070100Z 00000KT CAVOK 10/M03 Q1022 A3018=
METAR OIFK 070100Z 00000KT CAVOK 16/M06 Q1019 A3010=
METAR OIFM 070100Z 01004KT CAVOK 10/M07 Q1024 A3024=
METAR OIFS 070055Z 31004KT CAVOK 05/M10 Q1026=
METAR OIGG 070100Z 00000KT 9999 BKN025 SCT070 21/21 Q1022=
METAR OIGK 070100Z NIL=
METAR OIHH 070100Z 29002KT CAVOK 07/M08 Q1023 A3021=
METAR OIHM 070100Z 08004KT CAVOK 12/M07 Q1023=
METAR OIIE 070100Z 31008KT CAVOK 18/10 Q1021 NOSIG=
METAR OIII 070100Z 00000KT CAVOK 19/00 Q1021 A3017 NOSIG=
METAR OIIK 070051Z 07002KT CAVOK 13/07 Q1022=
METAR OIIP 070100Z 33006KT CAVOK 12/09 Q1021 A3017=
METAR OIIS 070100Z 36002KT CAVOK 19/M04 Q1021=
METAR OIKB 070100Z VRB02KT 4000 BR NSC 26/23 Q1006 A2971=
METAR OIKK 070050Z 12006KT CAVOK 08/M10 Q1022 A3020=
METAR OIKO 070100Z AUTO 00000KT //// // ////// 25/22 Q1006=
METAR OIKQ 070100Z 00000KT 1500 BR NSC 25/25 Q1005=
METAR OIMB 070100Z 11010KT CAVOK 03/M35 Q1020 A3013=
METAR OIMC 070100Z NIL=
METAR OIMD 070100Z NIL=
METAR OIMM 070100Z 26004KT CAVOK 08/M05 Q1023 A3023=
METAR OINB 070100Z 00000KT CAVOK 23/20 Q1020=
METAR OING 070100Z 22004KT 9999 FEW030 22/19 Q1022=


......................................................................................


Date: 07-Oct-2565

SAJP35 RJTD 070100
METAR RJAA 070100Z 33010KT 5000 -SHRA BR FEW005 SCT007 BKN009 13/13
Q1017 TEMPO 4000 -SHRA BR=
METAR RJBB 070100Z 06011KT 5000 SHRA BR FEW003 BKN008 BKN010 18/17
Q1014 TEMPO 2000 SHRA BR=
METAR RJTT 070100Z 33011KT 7000 -RA FEW006 BKN020 13/12 Q1018 TEMPO
4000 -RA BR FEW005 BKN008=
METAR RJOO 070100Z 08004KT 020V120 6000 -SHRA BR FEW005 SCT008
BKN020 17/16 Q1014=
METAR RJGG 070100Z 35011KT 8000 -RA FEW006 SCT010 BKN025 16/15 Q1014
NOSIG=
METAR RJSN 070100Z 10006KT 9999 -RA FEW040 SCT060 OVC090 14/10
Q1017=
METAR RJCH 070100Z 05005KT 010V100 9999 FEW030 SCT140 BKN/// 12/04
Q1021=
METAR RJSA 070100Z 02004KT 330V040 9999 FEW040 BKN100 11/05 Q1020=
METAR RJSF 070100Z 36003KT 310V040 5000 -RA BR FEW001 BKN003 BKN005
08/08 Q1020=
METAR RJSI 070100Z VRB02KT 9999 FEW010 BKN120 10/07 Q1021=


......................................................................................


Date: 07-Oct-2565

SAJP37 RJTD 070100
METAR RJAA 070100Z 33010KT 5000 -SHRA BR FEW005 SCT007 BKN009 13/13
Q1017 TEMPO 4000 -SHRA BR=
METAR RJBB 070100Z 06011KT 5000 SHRA BR FEW003 BKN008 BKN010 18/17
Q1014 TEMPO 2000 SHRA BR=
METAR RJTT 070100Z 33011KT 7000 -RA FEW006 BKN020 13/12 Q1018 TEMPO
4000 -RA BR FEW005 BKN008=
METAR RJOO 070100Z 08004KT 020V120 6000 -SHRA BR FEW005 SCT008
BKN020 17/16 Q1014=
METAR RJFF 070100Z 33005KT 290V020 9000 -SHRA FEW005 SCT020 BKN025
17/15 Q1017 TEMPO TL0200 4000 -SHRA BR FEW003 SCT005
BKN008=
METAR RJGG 070100Z 35011KT 8000 -RA FEW006 SCT010 BKN025 16/15 Q1014
NOSIG=
METAR RJFK 070100Z 32014KT 9999 VCSH BCFG FEW005 BKN013 BKN045 20/17
Q1016=
METAR RJFU 070100Z 33012KT 9999 -SHRA FEW005 BKN015 BKN050 18/15
Q1017=
METAR RJCH 070100Z 05005KT 010V100 9999 FEW030 SCT140 BKN/// 12/04
Q1021=
METAR RJNS 070100Z VRB05KT 9999 -RA FEW008 SCT050 BKN060 14/14
Q1014=


......................................................................................


Date: 07-Oct-2565

SAJP37 RJTD 070100 RRA
METAR RJFR 070100Z 30013KT 8000 -SHRA FEW005 BKN015 BKN025 17/15
Q1016=


......................................................................................


Date: 07-Oct-2565

SAMS31 WMKK 070100
METAR WBGG 070100Z VRB02KT 8000 -RA SCT020 25/24 Q1012 NOSIG=
METAR WBKK 070100Z VRB03KT 9999 FEW014 28/24 Q1010 NOSIG=
METAR WBSB 070100Z 22005KT 9999 FEW005 FEW015CB BKN140 27/26 Q1011 NOSIG=
METAR WMKK 070100Z VRB04KT 9999 FEW017CB 27/24 Q1010 NOSIG=
METAR WMKP 070100Z VRB03KT 9000 FEW017CB 28/24 Q1010 NOSIG=
METAR WSSL 070100Z VRB01KT 9999 FEW018 BKN150 27/25 Q1011=
METAR WSSS 070100Z 16005KT 9999 FEW018 BKN150 28/25 Q1011 NOSIG=


......................................................................................


Date: 07-Oct-2565

SAOM81 OOMS 070000 RRC
METAR OOJB 062350Z AUTO 22006KT //// ////// 24/20 Q1006=


......................................................................................


Date: 07-Oct-2565

SAAE33 VTBB 070100 RRA
METAR VLLB 070100Z 36004KT 9999 FEW006 FEW060 24/23 Q1014 NOSIG=
METAR VLLN 070100Z 32002KT 1000 -RA BKN010 OVC090 23/22 Q1016 NOSIG=
METAR VLSK 070100Z NIL=
METAR VLPS 070100Z 09002KT 9999 FEW017 SCT200 26/24 Q1013 NOSIG=


......................................................................................


Date: 07-Oct-2565

SAIR77 OIII 070100
METAR AZUH 070051Z 00000KT CAVOK 14/08 Q1021=
METAR KHME 070100 NIL=
METAR OIAA 070050Z 29002KT CAVOK 24/06 Q1006=
METAR OIAG 070100 NIL=
METAR OIAH 070100Z 00000KT CAVOK 20/02 Q1009=
METAR OIAI 070100 NIL=
METAR OIAM 070100Z 33006KT CAVOK 25/06 Q1005=
METAR OIAW 070052Z 26002KT 8000 NSC 24/07 Q1005=
METAR OIBA 070100 NIL=
METAR OIBB 070051Z 00000KT CAVOK 25/20 Q1005 A2969=
METAR OIBK 070100Z 17004KT 3000 BR NSC 26/25 Q1005=
METAR OIBL 070100 NIL=
METAR OIBS 070100 NIL=
METAR OICC 070051Z 00000KT CAVOK 13/M13 Q1020 A3013=
METAR OICI 070100 NIL=
METAR OICJ 070100 NIL=
METAR OICK 070051Z 00000KT CAVOK 17/M06 Q1017=
METAR OICS 070100Z 00000KT CAVOK 10/M03 Q1022 A3018=
METAR OIFK 070100Z 00000KT CAVOK 16/M06 Q1019 A3010=
METAR OIFM 070100Z 01004KT CAVOK 10/M07 Q1024 A3024=
METAR OIFS 070055Z 31004KT CAVOK 05/M10 Q1026=
METAR OIGG 070100Z 00000KT 9999 BKN025 SCT070 21/21 Q1022=
METAR OIGK 070100 NIL=
METAR OIHM 070100Z 08004KT CAVOK 12/M07 Q1023=
METAR OIIE 070100Z 31008KT CAVOK 18/10 Q1021 NOSIG=
METAR OIII 070100Z 00000KT CAVOK 19/00 Q1021 A3017 NOSIG=
METAR OIIK 070051Z 07002KT CAVOK 13/07 Q1022=
METAR OIIP 070100Z 33006KT CAVOK 12/09 Q1021 A3017=
METAR OIIS 070100Z 36002KT CAVOK 19/M04 Q1021=
METAR OIKB 070100Z VRB02KT 4000 BR NSC 26/23 Q1006 A2971=
METAR OIKK 070050Z 12006KT CAVOK 08/M10 Q1022 A3020=
METAR OIKO 070100Z AUTO 00000KT //// // ////// 25/22 Q1006=
METAR OIKQ 070100Z 00000KT 1500 BR NSC 25/25 Q1005=
METAR OIMB 070100Z 11010KT CAVOK 03/M35 Q1020 A3013=
METAR OIMC 070100 NIL=
METAR OIMD 070100 NIL=
METAR OIMM 070100Z 26004KT CAVOK 08/M05 Q1023 A3023=
METAR OIMN 070100 NIL=
METAR OINB 070100Z 00000KT CAVOK 23/20 Q1020=


......................................................................................


Date: 07-Oct-2565

SAMS31 WMKK 070100
METAR WBGG 070100Z NIL=
METAR WBKK 070100Z NIL=
METAR WBSB 070100Z NIL=
METAR WMKK 070100Z NIL=
METAR WMKP 070100Z NIL=
METAR WSSL 070100Z VRB01KT 9999 FEW018 BKN150
27/25 Q1011=
METAR WSSS 070100Z 16005KT 9999 FEW018 BKN150 28/25 Q1011 NOSIG=


......................................................................................


Date: 07-Oct-2565

SAMS32 WMKK 070100
NIL


......................................................................................


Date: 07-Oct-2565

SAMS34 WMKK 070100
NIL


......................................................................................


Date: 07-Oct-2565

SAMS38 WMKK 070100
NIL


......................................................................................


Date: 07-Oct-2565

SAPA31 KWBC 070100 RRA
METAR
AYPY 070100Z 21005G10KT 9999 HZ SCT030 BKN045 31/25 Q1009=
PTYA 070055Z VRB05KT 12SM FEW016 SCT300 31/26 A2982 RMK SLP100
T03080257=


......................................................................................


Date: 07-Oct-2565

SASD20 OEJD 070100
METAR OEAB 070100Z 00000KT CAVOK 17/02 Q1023 NOSIG=
METAR OEAH 070100Z 30011KT CAVOK 27/01 Q1007 NOSIG=
METAR OEAO 070100Z 10006KT CAVOK 27/00 Q1014 NOSIG=
METAR OEBA 070100Z 00000KT 9999 FEW030 21/06 Q1019 NOSIG=
METAR OEBH 070100Z 00000KT CAVOK 22/05 Q1015 NOSIG=
METAR OEDF 070100Z 30006KT CAVOK 25/07 Q1006 NOSIG=
METAR OEDM 070100Z NIL=
METAR OEDR 070100Z 29009KT CAVOK 26/10 Q1004=
METAR OEGN 070100Z 09004KT CAVOK 29/21 Q1007 NOSIG=
METAR OEGS 070100Z 27004KT CAVOK 23/03 Q1012=
METAR OEGT 070100Z 30004KT CAVOK 21/10 Q1013 NOSIG=
METAR OEHL 070100Z 18004KT CAVOK 19/M05 Q1017=
METAR OEJB 070100Z AUTO 30006KT CAVOK 25/03 Q1006 NOSIG=
METAR OEJN 070100Z 35003KT CAVOK 28/23 Q1006 NOSIG=
METAR OEKJ 070100Z 28005KT CAVOK 25/M05 Q1014=
METAR OEKK 070100Z NIL=


......................................................................................


Date: 07-Oct-2565

SASD21 OEJD 070100
METAR OEKM 070100Z 00000KT CAVOK 19/00 Q1023 NOSIG=
METAR OEMA 070100Z 36003KT CAVOK 26/M08 Q1015 NOSIG=
METAR OEMN 070100Z 09006KT CAVOK 35/05 Q1009=
METAR OEMK 070100Z NIL=
METAR OENG 070100Z 00000KT 9999 FEW030 BKN090 25/06 Q1016 NOSIG=
METAR OEPA 070100Z 28005KT CAVOK 24/00 Q1010 NOSIG=
METAR OERF 070100Z 22006KT CAVOK 25/M07 Q1011 NOSIG=
METAR OERK 070100Z 27005KT CAVOK 24/00 Q1013 NOSIG=
METAR OERY 070100Z NIL=
METAR OERR 070100Z 30010KT CAVOK 25/01 Q1012 NOSIG=
METAR OESH 070100Z 00000KT 9999 SCT040 25/06 Q1011 NOSIG=
METAR OESK 070100Z 00000KT CAVOK 25/02 Q1016 NOSIG=
METAR OETB 070100Z 23003KT CAVOK 24/01 Q1014 NOSIG=
METAR OETF 070100Z 00000KT CAVOK 20/M04 Q1020 NOSIG=
METAR OETR 070100Z 06006KT CAVOK 21/09 Q1015 NOSIG=
METAR OEWD 070100Z 13006KT CAVOK 26/09 Q1011=
METAR OEWJ 070100Z 31005KT CAVOK 28/24 Q1007 NOSIG=
METAR OEYN 070100Z 00000KT CAVOK 27/09 Q1005 NOSIG=


......................................................................................


Date: 07-Oct-2565

SAIR31 OIII 070100 RRA
METAR OIKB 070100Z VRB02KT 4000 BR NSC 26/23 Q1006 A2971=


......................................................................................


Date: 07-Oct-2565

SAMS33 WMKK 070100
METAR WMAU 070100Z VRB03KT 7000 SCT025 25/24 Q1011=
METAR WMBA 070100Z VRB02KT 9999 FEW017CB 27/23 Q1010=
METAR WMKA 070100Z VRB02KT 9999 FEW020 27/24 Q1010=
METAR WMKB 070100Z VRB02KT 9999 FEW020 26/24 Q1010 NOSIG=
METAR WMKC 070100Z 21004KT 160V250 9999 FEW017CB 26/24 Q1010=
METAR WMKD 070100Z 00000KT 9999 FEW010 27/24 Q1011 NOSIG=
METAR WMKE 070100Z 00000KT 9999 FEW014CB 27/26 Q1010=
METAR WMKI 070100Z 04006KT 360V070 9999 FEW017CB 25/22 Q1011=
METAR WMKL 070100Z VRB02KT 9999 FEW019TCU 28/25 Q1011=
METAR WMKM 070100Z 08003KT 050V120 9999 FEW018 27/24 Q1011=
METAR WMKN 070100Z VRB02KT 9999 -RA FEW017CB SCT022 25/25 Q1011=


......................................................................................


Date: 07-Oct-2565

SAHK31 VHHH 070100
METAR VHHH 070100Z 09010KT 9999 FEW022 30/22 Q1016 NOSIG=
METAR RCTP 070100Z 05017KT 9999 FEW015 BKN030 27/24 Q1016 NOSIG
RMK A3001=
METAR RCKH 070100Z VRB03KT 9999 FEW014 SCT023 31/24 Q1014 NOSIG
RMK A2995=
METAR RCSS 070100Z 08009KT 2500 SHRA SCT006 BKN012 BKN030 25/24
Q1016 TEMPO 3000 RMK A3001 RA AMT 1.4MM=
METAR RCMQ 070100Z 02004KT 8000 FEW010 SCT025 29/23 Q1015 NOSIG
RMK A3000=
METAR RCNN 070100Z 00000KT 9000 FEW014 SCT025 BKN060 30/23 Q1014
NOSIG RMK A2996=
METAR RCFN 070100Z 06004KT 360V110 9999 FEW020 SCT045 29/25 Q1016
NOSIG RMK A3001=
METAR VMMC 070100Z 09008KT 070V140 9999 FEW020 SCT040 28/25 Q1016
NOSIG=
METAR RPLL 070100Z NIL=
METAR RPVM 070100Z NIL=
METAR RPMD 070100Z NIL=
METAR RPLB 070100Z NIL=
METAR RPLI 070100Z NIL=
METAR RPMZ 070100Z NIL=


......................................................................................


Date: 07-Oct-2565

SAIR36 OIII 070100 RRA
METAR OIMN 070100Z 26004KT 7000 FEW005 16/13 Q1023=


......................................................................................


Date: 07-Oct-2565

SAIR77 OIII 070100 RRA
METAR OIMN 070100Z 26004KT 7000 FEW005 16/13 Q1023=


......................................................................................


Date: 07-Oct-2565

SAMS33 WMKK 070100
NIL


......................................................................................


Date: 07-Oct-2565

SAOM81 OOMS 070000 RRD
METAR OOBH 062350Z AUTO 02003KT //// ////// 26/10 Q1009=


......................................................................................


Date: 07-Oct-2565

SAMS31 WMKK 070100 RRA
METAR WMKK 070100Z VRB04KT 9999 FEW017CB 27/24 Q1010 NOSIG=


......................................................................................


Date: 07-Oct-2565

SAAR20 OEJD 070100
METAR OBBI 070100Z 29007KT CAVOK 30/25 Q1005 NOSIG=
METAR OKBK 070100Z 01003KT CAVOK 30/M03 Q1007 NOSIG=
METAR OMAA 070100Z 32004KT 7000 NSC 28/26 Q1005 NOSIG=
METAR OMAD 070100Z VRB02KT 9000 NSC 29/27 Q1005 NOSIG=
METAR OMAL 070100Z 05006KT CAVOK 27/15 Q1007 NOSIG=
METAR OMDB 070100Z 09005KT 050V130 6000 NSC 30/23 Q1005 BECMG 4000 HZ=
METAR OMFJ 070050Z 29005KT 6000 NSC 29/20 Q1006 RMK A2973=
METAR OMRK 070100Z 25003KT 2500 BR NSC 24/24 Q1006 A2972=
METAR OMSJ 070100Z VRB02KT 4000 HZ NSC 26/22 Q1006 BECMG 3000=
METAR OOMS 070050Z 09005KT 8000 NSC 29/29 Q1006 NOSIG=
METAR OOSA 070050Z VRB01KT 9999 BKN025 26/23 Q1009 NOSIG=
METAR OOSH 070050Z AUTO 25006KT //// ////// 28/19 Q1006 RMK 1002=
METAR OODQ 070050Z AUTO 22015KT CAVOK ////// 23/23 Q1007 NOSIG RMK
RH98? 0=
METAR OTBD 070100Z VRB02KT 8000 NSC 29/26 Q1006 NOSIG=
METAR OTBH 070055Z 27003KT 0400 FG CLR 25/25 A2970=
METAR OTHH 070100Z VRB02KT 9000 NSC 28/25 Q1005 NOSIG=
METAR OYAA 070100Z NIL=
METAR OYSN 070100Z NIL=


......................................................................................


Date: 07-Oct-2565

SAHK31 VHHH 070100 RRA
METAR RPLL 070100Z 09004KT 050V130 9999 FEW025 BKN300 30/23 Q1011
NOSIG RMK A2985=


......................................................................................


Date: 07-Oct-2565

SAHK31 VHHH 070100 RRB
METAR RPVM 070100Z 04007KT 9999 FEW020 SCT300 31/25 Q1011 RMK A2985=


......................................................................................


Date: 07-Oct-2565

SAHK31 VHHH 070100 RRC
METAR RPLB 070100Z 06007KT 020V100 9999 FEW018 BKN300 30/34 Q1012
NOSIG RMK A2988=


......................................................................................


Date: 07-Oct-2565

SAHK31 VHHH 070100 RRD
METAR RPMD 070100Z 04006KT 350V090 9999 FEW016 29/24 Q1011 RMK A2985
=


......................................................................................


Date: 07-Oct-2565

SAHK31 VHHH 070100 RRE
METAR RPLI 070100Z 32004KT 209004KT 060V130 9999 FEW018 0V350 9999
FEW018 31/23 NOSIG RMK A2985=


......................................................................................


Date: 07-Oct-2565

SAKO51 RJTD 070100
METAR RKPC 070100Z 33010KT 300V010 9999 BKN035 BKN150 18/11 Q1020
NOSIG=
METAR RKPK 070100Z 32005KT CAVOK 18/10 Q1017=
METAR RKSI 070100Z 33013KT CAVOK 15/07 Q1021 NOSIG=
METAR RKSM 070100Z 01006KT 9999 BKN035 16/09 A3014=
METAR RKSS 070100Z 35010KT 320V020 9999 FEW025 15/08 Q1021 NOSIG=
METAR RKTN 070100Z 31012KT 9999 FEW050 SCT070 19/09 Q1017=
METAR RKTU 070100Z 29005KT 9999 SCT020 BKN030 16/12 Q1019=


......................................................................................


Date: 07-Oct-2565

SAMS32 WMKK 070100 RRA
METAR WMKK 070100Z VRB04KT 9999 FEW017CB 27/24 Q1010 NOSIG=


......................................................................................


Date: 07-Oct-2565

SAMS33 WMKK 070100 RRA
METAR WMAU 070100Z VRB03KT 7000 SCT025 25/24 Q1011=
METAR WMBA 070100Z VRB02KT 9999 FEW017CB 27/23 Q1010=
METAR WMKA 070100Z VRB02KT 9999 FEW020 27/24 Q1010=
METAR WMKB 070100Z VRB02KT 9999 FEW020 26/24 Q1010 NOSIG=
METAR WMKC 070100Z 21004KT 160V250 9999 FEW017CB 26/24 Q1010=
METAR WMKD 070100Z 00000KT 9999 FEW010 27/24 Q1011 NOSIG=
METAR WMKI 070100Z 04006KT 360V070 9999 FEW017CB 25/22 Q1011=
METAR WMKL 070100Z VRB02KT 9999 FEW019TCU 28/25 Q1011=
METAR WMKM 070100Z 08003KT 050V120 9999 FEW018 27/24 Q1011=
METAR WMKN 070100Z VRB02KT 9999 -RA FEW017CB SCT022 25/25 Q1011=


......................................................................................


Date: 07-Oct-2565

SAMS34 WMKK 070100 RRA
METAR WBGB 070100Z 21003KT 120V250 9999 FEW006 SCT016 26/25 Q1011=
METAR WBGR 070100Z 07003KT 9999 SCT016 28/25 Q1010=
METAR WBGS 070100Z 02005KT 350V060 9999 SCT016 25/24 Q1012=
METAR WBGY 070100Z VRB02KT 9999 -RA FEW008 SCT022 24/24 Q1012=
METAR WBKL 070100Z 00000KT 9999 FEW014 29/25 Q1010=
METAR WBKS 070100Z 24003KT 190V320 9999 SCT015 29/25 Q1010=
METAR WBKT 070100Z 12006KT 050V190 9999 FEW015 29/26 Q1010=
METAR WBKW 070100Z 00000KT 9999 FEW018 29/25 Q1011=


......................................................................................


Date: 07-Oct-2565

SAMS38 WMKK 070100 RRA
METAR WBGB 070100Z 21003KT 120V250 9999 FEW006 SCT016 26/25 Q1011=
METAR WBGR 070100Z 07003KT 9999 SCT016 28/25 Q1010=
METAR WBGS 070100Z 02005KT 350V060 9999 SCT016 25/24 Q1012=
METAR WBKL 070100Z 00000KT 9999 FEW014 29/25 Q1010=
METAR WBKS 070100Z 24003KT 190V320 9999 SCT015 29/25 Q1010=
METAR WBKW 070100Z 00000KT 9999 FEW018 29/25 Q1011=
METAR WMKD 070100Z 00000KT 9999 FEW010 27/24 Q1011 NOSIG=
METAR WMKL 070100Z VRB02KT 9999 FEW019TCU 28/25 Q1011=
METAR WMKM 070100Z 08003KT 050V120 9999 FEW018 27/24 Q1011=


......................................................................................


Date: 07-Oct-2565

SAUZ31 UTTW 070100 RRB
METAR UTNN 070100Z 00000KT CAVOK 05/M09 Q1021 R15/CLRD60 NOSIG=


......................................................................................


Date: 07-Oct-2565

SAMS31 WMKK 070100 RRB
METAR WMKP 070100Z VRB03KT 9000 FEW017CB 28/24 Q1010 NOSIG=


......................................................................................


Date: 07-Oct-2565

SACI51 RJTD 070100
METAR ZBAA 070100Z VRB01MPS CAVOK 12/06 Q1024 NOSIG=
METAR ZBTJ 070100Z 22003MPS 180V270 5000 HZ NSC 13/08 Q1025 NOSIG=
METAR COR ZBYN 070100Z 19002MPS 160V220 1400 R31/2000N BR FEW026
07/05 Q1026 BECMG TL0230 1600=
METAR ZGGG 070100Z 01005MPS 9999 BKN040 27/21 Q1017 NOSIG=
METAR ZGKL 070100Z 05003MPS 020V080 9999 SCT033 OVC053 17/11 Q1023
NOSIG=
METAR ZGNN 070100Z 08004MPS 9999 SCT015 BKN036 26/23 Q1017 NOSIG=
METAR ZGOW 070100Z 05003MPS 360V110 9999 SCT040 29/22 Q1017 NOSIG=
METAR ZGSZ 070100Z 06003MPS 030V090 9999 SCT030 29/23 Q1016 NOSIG=
METAR ZLXY 070100Z 08002MPS 050V110 1800 -RA BR FEW003 SCT007 OVC050
09/09 Q1027 BECMG TL0250 3000=
METAR ZPPP 070100Z 03004MPS 8000 FEW005 SCT020 OVC033 11/11 Q1027
NOSIG=
METAR ZSAM 070100Z 01003MPS 340V050 9999 FEW033 28/21 Q1017 NOSIG=
METAR ZSHC 070100Z 01004MPS 4000 -RA BR BKN006 BKN020 15/14 Q1025
NOSIG=
METAR ZSNJ 070100Z 05003MPS 360V080 9999 SCT011 14/11 Q1026 NOSIG=
METAR ZSQD 070100Z 34003MPS CAVOK 14/07 Q1026 NOSIG=
METAR ZSSS 070100Z 36003MPS 9999 BKN011 16/15 Q1024 BECMG TL0230
BKN015=
METAR ZWWW 070100Z VRB01MPS CAVOK 11/M01 Q1026 NOSIG=
METAR ZYTL 070100Z 28005MPS 250V310 CAVOK 17/07 Q1024 NOSIG=
METAR ZYTX 070100Z 12004MPS 070V160 CAVOK 12/M03 Q1024 NOSIG=


......................................................................................


Date: 07-Oct-2565

SAIR31 OIII 070100 RRB
METAR OICI 070100Z 11004KT CAVOK 19/M06 Q1020 A3012=


......................................................................................


Date: 07-Oct-2565

SAIR77 OIII 070100 RRB
METAR OICI 070100Z 11004KT CAVOK 19/M06 Q1020 A3012=


......................................................................................


Date: 07-Oct-2565

SAMS32 WMKK 070100 RRB
METAR WMKJ 070100Z 00000KT 9999 FEW019 26/24 Q1011=
METAR WMKP 070100Z VRB03KT 9000 FEW017CB 28/24 Q1010 NOSIG=
METAR WMSA 070100Z VRB02KT 9999 FEW017CB 27/24 Q1011=


......................................................................................


Date: 07-Oct-2565

SASB31 VCCC 070110
METAR VCBI 070110Z 25006KT 230V300 9999 SCT016 27/24 Q1009 NOSIG=
METAR VRMM 070100Z 31013KT 9999 FEW018TCU 28/24 Q1009 NOSIG=
METAR VCRI 070110Z 23004KT 9999 FEW018 24/24 Q1008 NOSIG=


......................................................................................


Date: 07-Oct-2565

SAPA31 KWBC 070100 RRB
METAR
PKWA 070120Z AUTO 09010KT 10SM SCT048 SCT055 BKN070 29/25 A2978
RMK AO2 T02920246=


......................................................................................


Date: 07-Oct-2565

SAAE31 VDPP 070130
METAR VDPP 070130Z VRB02KT 9999 SCT015 29/24 Q1010=


......................................................................................


Date: 07-Oct-2565

SANP31 VNKT 070130
METAR VNKT 070130Z VRB02KT 5000 BR FEW008 SCT030 BKN100 18/18 Q1020
NOSIG=


......................................................................................


Date: 07-Oct-2565

SAOM81 OOMS 070100
METAR OOAD 070100Z NIL=
METAR OOBH 070050Z AUTO VRB01KT //// ////// 24/10 Q1010=
METAR OOBR 070050Z AUTO 09005KT //// ////// 28/00 Q1008=
METAR OODB 070050Z AUTO 33000KT //// ////// 27/26 Q1007=
METAR OODQ 070050Z AUTO 22015KT CAVOK ////// 23/23 Q1007 NOSIG=
METAR OOFD 070050Z AUTO 13007KT //// ////// 26/13 Q1007=
METAR OOIB 070100Z NIL=
METAR OOIR 070050Z AUTO 29002KT //// ////// 25/16 Q1009=
METAR OOJB 070050Z AUTO 22002KT //// ////// 24/19 Q1006=
METAR OOJS 070100Z NIL=
METAR OOKB 070050Z AUTO 18004KT 140V200 9999 // NSC 30/23 Q1006 NOSIG=
METAR OOMA 070050Z AUTO 20006KT //// ////// 25/24 Q1007=
METAR OOMJ 070050Z AUTO 00000KT //// ////// 29/24 Q1006=
METAR OOML 070100Z NIL=
METAR OOMQ 070050Z AUTO 35007KT //// ////// 29/26 Q1005=
METAR OOMS 070050Z 09005KT 8000 NSC 29/29 Q1006 NOSIG=
METAR OONZ 070050Z AUTO 14000KT //// ////// 23/12 Q1009=
METAR OOQA 070100Z NIL=
METAR OOQH 070050Z AUTO VRB01KT 4800 ////// 19/19 Q1013=
METAR OOQL 070050Z AUTO VRB02KT //// ////// 28/22 Q1006=
METAR OOQQ 070050Z AUTO 01006KT //// 18/M05 Q1021=
METAR OORA 070050Z AUTO VRB00KT //// ////// 25/23 Q1008=
METAR OORH 070050Z AUTO 20007KT //// ////// 25/24 Q1006=
METAR OORQ 070050Z AUTO VRB03KT //// ////// 26/24 Q1008=
METAR OOSA 070050Z VRB01KT 9999 BKN025 26/23 Q1009 NOSIG=
METAR OOSM 070100Z NIL=
METAR OOSQ 070100Z NIL=
METAR OOSR 070050Z AUTO 23009KT //// ////// 27/19 Q1005=
METAR OOTH 070100Z NIL=
METAR OOYA 070050Z AUTO 15010KT //// ////// 22/22 Q1007=


......................................................................................


Date: 07-Oct-2565

SAPK31 OPKC 070130
METAR OPKC 070125Z 33004KT 5000 FU FEW030 24/22 Q1007 NOSIG=


......................................................................................


Date: 07-Oct-2565

SATH31 VTBU 070130
METAR VTBU 070130Z VRB02KT 9000 FEW020 28/25 Q1012 NOSIG=


......................................................................................


Date: 07-Oct-2565

SATH31 VTBD 070130
METAR VTBD 070130Z 04004KT 360V070 9999 FEW020 28/27 Q1012 NOSIG=


......................................................................................


Date: 07-Oct-2565

SATH31 VTBS 070130
METAR VTBS 070130Z VRB04KT 9999 SCT010 28/24 Q1012 NOSIG=


......................................................................................


Date: 07-Oct-2565

SATH31 VTCC 070130
METAR VTCC 070130Z 03005KT 350V050 9999 FEW015 SCT035 26/23 Q1014
NOSIG=


......................................................................................


Date: 07-Oct-2565

SATH31 VTSP 070130
METAR VTSP 070130Z VRB01KT 9000 -RA FEW010 SCT020 BKN100 25/24 Q1011
NOSIG=


......................................................................................


Date: 07-Oct-2565

SATH31 VTSS 070130
METAR VTSS 070130Z VRB02KT 9999 FEW004 SCT020 BKN100 27/25 Q1011
NOSIG=


......................................................................................


Date: 07-Oct-2565

SAPK31 OPKC 070130
METAR OPIS 070130Z 23006KT 6000 SCT040 SCT100 18/13 Q1013 NOSIG=
METAR OPKC 070125Z 33004KT 5000 FU FEW030 24/22 Q1007 NOSIG=
METAR OPLA 070125Z 00000KT 3500 BR NSC 24/21 Q1010 BECMG 3000
RMK QFE984 A29.83=
METAR OPMT 070130Z 00000KT 4000 FU NSC 24/18 Q1008 NOSIG=
METAR OPPS 070130Z NIL=
METAR OPSK 070130Z NIL=
METAR OPFA 070130Z NIL=
METAR OPST 070130Z NIL=
METAR OPNH 070130Z NIL=


......................................................................................


Date: 07-Oct-2565

SPTH31 VTST 070129
SPECI VTST 070129Z VRB01KT 4000 BR FEW008 SCT040 25/25 Q1011 BECMG TL0230 6000 NSW=


......................................................................................


Date: 07-Oct-2565

SAHK31 VHHH 070130
METAR VHHH 070130Z 09010KT 9999 FEW022 30/22 Q1016 NOSIG=


......................................................................................


Date: 07-Oct-2565

SAIR20 OIII 070130
METAR OIAA 070130 NIL=
METAR OIAW 070130 NIL=
METAR OIFM 070130Z 26004KT CAVOK 07/M07 Q1024 A3024=
METAR OIGG 070130 NIL=
METAR OIIE 070130Z 32014KT CAVOK 18/10 Q1021=
METAR OIII 070130Z 33004KT CAVOK 19/01 Q1021 A3017=
METAR OIKB 070130 NIL=
METAR OIMM 070130Z 23004KT CAVOK 09/M06 Q1023 A3023=
METAR OISS 070130Z 00000KT CAVOK 13/M02 Q1020 A3013=
METAR OITT 070130Z 07008KT CAVOK 18/05 Q1023 A3021=
METAR OIYY 070130 NIL=
METAR OIZH 070130 NIL=


......................................................................................


Date: 07-Oct-2565

SAPK31 OPKC 070130 RRA
METAR OPFA 070130Z NIL=
METAR OPNH 070130Z NIL=
METAR OPPS 070130Z NIL=
METAR OPSK 070130Z NIL=
METAR OPST 070130Z NIL=


......................................................................................


Date: 07-Oct-2565

SAUZ31 UTTW 070030 RRB
METAR UTSB 070030Z 12004KT 080V140 CAVOK 07/M01 Q1020 R01/CLRD70
NOSIG=


......................................................................................


Date: 07-Oct-2565

SAIR31 OIII 070130
METAR OIAW 070130Z NIL=
METAR OIFM 070130Z 26004KT CAVOK 07/M07 Q1024 A3024=
METAR OIII 070130Z 33004KT CAVOK 19/01 Q1021 A3017=
METAR OIKB 070130Z NIL=
METAR OIKK 070130Z NIL=
METAR OIMM 070130Z 23004KT CAVOK 09/M06 Q1023 A3023=
METAR OISS 070130Z 00000KT CAVOK 13/M02 Q1020 A3013=
METAR OITT 070130Z 07008KT CAVOK 18/05 Q1023 A3021=
METAR OIZH 070130Z NIL=


......................................................................................


Date: 07-Oct-2565

SAPK31 OPKC 070130 RRB
METAR OPPS 070130Z 18006KT 5000 HZ FEW040 FEW100 19/15 Q1013=


......................................................................................


Date: 07-Oct-2565

SASR31 WSSS 070130
METAR WSSS 070130Z 16006KT 140V250 9999 FEW018 BKN150 28/25 Q1011
NOSIG=


......................................................................................


Date: 07-Oct-2565

SAAE31 VTBB 070130
METAR VTCT 070130Z NIL=
METAR VTSG 070130Z NIL=
METAR VTBD 070130Z 04004KT 360V070 9999 FEW020 28/27 Q1012 NOSIG=
METAR VTBS 070130Z VRB04KT 9999 SCT010 28/24 Q1012 NOSIG=
METAR VTCC 070130Z 03005KT 350V050 9999 FEW015 SCT035 26/23 Q1014
NOSIG=
METAR VTSP 070130Z VRB01KT 9000 -RA FEW010 SCT020 BKN100 25/24 Q1011
NOSIG=
METAR VTSS 070130Z VRB02KT 9999 FEW004 SCT020 BKN100 27/25 Q1011
NOSIG=
METAR VTBU 070130Z VRB02KT 9000 FEW020 28/25 Q1012 NOSIG=


......................................................................................


Date: 07-Oct-2565

SAAE32 VTBB 070130
METAR VDPP 070130Z VRB02KT 9999 SCT015 29/24 Q1010=
METAR VDSR 070130Z 04005KT 010V080 9999 SCT015 BKN040 27/24 Q1010=
METAR VLVT 070130Z 36006KT 9999 SCT100 28/26 Q1014 NOSIG=
METAR VYMD 070130Z 18002KT 7000 SCT025 27/26 Q1011 NOSIG=
METAR VYNT 070130Z NIL=
METAR VYYY 070130Z 03002KT 7000 BKN015 FEW020CB BKN090 27/24 Q1011
NOSIG=
METAR VDSV 070130Z 11007KT 080V160 9999 FEW015 29/24 Q1010=


......................................................................................


Date: 07-Oct-2565

SAAE34 VTBB 070130
METAR VVCI 070130Z NIL=
METAR VVCR 070130Z 02006KT 9999 FEW015 30/24 Q1013 NOSIG=
METAR VVCT 070130Z VRB03KT 8000 FEW015 28/25 Q1011 NOSIG=
METAR VVDN 070130Z 36005KT 9999 FEW015 29/24 Q1014 NOSIG=
METAR VVNB 070130Z NIL=
METAR VVPB 070130Z 31003KT 9999 FEW015 BKN050 28/25 Q1015 NOSIG=
METAR VVPQ 070130Z 07010KT 9999 FEW015 28/24 Q1011 NOSIG=
METAR VVTS 070130Z 01004KT 320V100 9999 FEW020 29/25 Q1011 NOSIG =


......................................................................................


Date: 07-Oct-2565

SAUZ31 UTTW 070100 RRC
METAR UTSB 070100Z 13002KT CAVOK 06/M01 Q1020 R01/CLRD70 NOSIG=


......................................................................................


Date: 07-Oct-2565

SAUZ31 UTTW 070130
METAR UTFN 070130Z 34006KT 9999 NSC 10/04 Q1021 R28/CLRD70 NOSIG=
METAR UTNN 070130Z 00000KT CAVOK 05/M05 Q1021 R15/CLRD60 NOSIG=
METAR UTNU 070130Z 31002KT CAVOK 04/00 Q1021 R31/CLRD70 NOSIG=
METAR UTSA 070130Z 10008KT 7000 NSC 09/M00 Q1021 R07/CLRD70 NOSIG=
METAR UTSB 070130Z 09002KT CAVOK 06/M01 Q1021 R01/CLRD70 NOSIG=
METAR UTSK 070130Z 07004KT CAVOK 09/M03 Q1021 R16/CLRD70=
METAR UTSS 070130Z 15006KT 9999 NSC 09/M00 Q1021 R09/CLRD70 NOSIG=
METAR UTST 070130Z 04004KT CAVOK 07/00 Q1022 R25/CLRD70 NOSIG=
METAR UTFA 070130Z 00000KT 9999 NSC 09/05 Q1022=
METAR UTFF 070130Z 12004KT 9999 NSC 13/02 Q1022 R18/CLRD70=
METAR UTTT 070130Z 09006KT CAVOK 10/00 Q1022 R08L/CLRD70 NOSIG=


......................................................................................


Date: 07-Oct-2565

SAHK31 VHHH 070130
METAR VHHH 070130Z 09010KT 9999 FEW022 30/22 Q1016 NOSIG=
METAR RCTP 070130Z 05015KT 9999 SCT012 BKN030 BKN050 27/24 Q1016
NOSIG RMK A3001=
METAR RCKH 070130Z 26007KT 230V310 9999 FEW015 SCT025 BKN060 30/24
Q1013 NOSIG RMK A2994=
METAR RCSS 070130Z 09009KT 4500 SHRA FEW006 BKN012 BKN030 25/24
Q1016 TEMPO 5000 RMK A3001=
METAR RCMQ 070130Z 34003KT 8000 FEW010 SCT025 29/23 Q1015 NOSIG
RMK A2999=
METAR RCNN 070130Z 22002KT 9999 FEW014 SCT025 BKN080 31/23 Q1014
NOSIG RMK A2995=
METAR RCFN 070130Z 04004KT 340V100 9999 -SHRA FEW016 FEW020TCU
SCT026 28/24 Q1016 NOSIG RMK TCU NE A3001=
METAR VMMC 070130Z 08009KT 050V110 9999 FEW020 29/25 Q1016 NOSIG=


......................................................................................


Date: 07-Oct-2565

SPTH31 VTCH 070137
SPECI VTCH 070137Z 00000KT 8000 FEW015 BKN025 26/24 Q1014 NOSIG=


......................................................................................


Date: 07-Oct-2565

SAJP51 RJTD 070130
METAR RJAA 070130Z 32008KT 3500 -SHRA BR FEW003 BKN004 BKN006 13/13
Q1017 NOSIG=
METAR RJBB 070130Z 08011KT 6000 SHRA BR FEW003 SCT008 BKN010 18/17
Q1013 TEMPO 3000 SHRA BR FEW005 BKN008 BKN015=
METAR RJCC 070130Z VRB02KT 9999 FEW020 BKN/// 11/05 Q1022=
METAR RJFF 070130Z 33003KT 250V050 9999 -SHRA FEW005 SCT020 BKN035
17/15 Q1016 NOSIG=
METAR RJGG 070130Z 36011KT 4000 -RA BR FEW004 SCT006 BKN010 16/15
Q1014 TEMPO 3000 RA BR FEW004 BKN008=
METAR RJTT 070130Z 33014KT 8000 -RA FEW007 SCT010 BKN020 13/12 Q1018
TEMPO 4000 -RA BR FEW005 BKN008=
METAR ROAH 070130Z 02014KT 9999 VCSH FEW020 29/24 Q1015=


......................................................................................


Date: 07-Oct-2565

SAMS31 WMKK 070130
METAR WBGG 070130Z VRB01KT 8000 -RA SCT020 26/24 Q1012 NOSIG=
METAR WBKK 070130Z VRB02KT 9999 FEW014 29/25 Q1010 NOSIG=
METAR WBSB 070130Z 21005KT 9999 FEW007 FEW015CB BKN140 27/26 Q1011 NOSIG=
METAR WMKK 070130Z VRB03KT 9999 VCSH FEW017CB 28/24 Q1011 NOSIG=
METAR WMKP 070130Z 00000KT 9000 FEW017CB 29/25 Q1011 NOSIG=
METAR WSSL 070130Z NIL=
METAR WSSS 070130Z 16006KT 140V250 9999 FEW018 BKN150 28/25 Q1011 NOSIG=


......................................................................................


Date: 07-Oct-2565

SAAE34 VTBB 070130 RRA
METAR VVNB 070130Z VRB02KT 8000 FEW013 SCT032 BKN045 27/24 Q1016
NOSIG=


......................................................................................


Date: 07-Oct-2565

SAAE34 VTBB 070130 RRB
METAR VVCI 070130Z 21006KT 9999 FEW008 BKN021 FEW027CB 26/26 Q1016
TEMPO 4000 SHRA=


......................................................................................


Date: 07-Oct-2565

SAMS31 WMKK 070130
METAR WBGG 070130Z NIL=
METAR WBKK 070130Z NIL=
METAR WBSB 070130Z NIL=
METAR WMKK 070130Z NIL=
METAR WMKP 070130Z NIL=
METAR WSSL 070130Z NIL=
METAR WSSS 070130Z 16006KT 140V250 9999 FEW018 BKN150 28/25 Q1011
NOSIG=


......................................................................................


Date: 07-Oct-2565

SAPA31 KWBC 070100 RRC
METAR
PGSN 070134Z 04003KT 8SM -RA BKN018CB 28/26 A2979 RMK AO2 RAB17 CB
OHD MOV W P0001 T02830261 $=


......................................................................................


Date: 07-Oct-2565

SAPA31 KWBC 070100 RRD
METAR
PGSN 070134Z 04003KT 8SM -RA BKN018CB 28/26 A2979=
PKWA 070140Z AUTO 00000KT 10SM -RA SCT042 BKN065 OVC120 29/25
A2978 RMK AO2 T02870245=


......................................................................................


Date: 07-Oct-2565

SAMS31 WMKK 070130 RRA
METAR WMKK 070130Z VRB03KT 9999 VCSH FEW017CB 28/24 Q1011 NOSIG=
METAR WMKP 070130Z 00000KT 9000 FEW017CB 29/25 Q1011 NOSIG=


......................................................................................


Date: 07-Oct-2565

SAOM81 OOMS 070100 RRA
METAR OOTH 070050Z AUTO 17011KT 9999 ////// 23/10 Q1010=


......................................................................................


Date: 07-Oct-2565

SAPK31 OPKC 070200
METAR OPKC 070155Z 31004KT 3000 FU FEW030 24/22 Q1007 NOSIG=


......................................................................................


Date: 07-Oct-2565

SATH31 VTCL 070200
METAR VTCL 070200Z VRB02KT 6000 FEW010 BKN020 25/23 Q1015 NOSIG=


......................................................................................


Date: 07-Oct-2565

SATH31 VTUI 070200
METAR VTUI 070200Z 07003KT 340V120 9999 FEW030 28/23 Q1014 NOSIG=


......................................................................................


Date: 07-Oct-2565

SATH31 VTBU 070200
METAR VTBU 070200Z 36004KT 9999 FEW020 29/24 Q1012 NOSIG=


......................................................................................


Date: 07-Oct-2565

SATH31 VTPM 070200
METAR VTPM 070200Z VRB02KT 8000 FEW007 26/26 Q1013 NOSIG=


......................................................................................


Date: 07-Oct-2565

SATH31 VTSC 070200
METAR VTSC 070200Z 17004KT 130V210 9999 FEW020 26/24 Q1012 NOSIG=


......................................................................................


Date: 07-Oct-2565

SATH31 VTSF 070200
METAR VTSF 070200Z 32003KT 270V020 9999 FEW018 SCT100 28/27 Q1011 NOSIG=


......................................................................................


Date: 07-Oct-2565

SATH31 VTUL 070200
METAR VTUL 070200Z 35004KT 310V030 5000 BR BKN020 25/24 Q1015 NOSIG=


......................................................................................


Date: 07-Oct-2565

SATH31 VTUO 070200
METAR VTUO 070200Z 07005KT 030V110 9999 SCT016 27/26 Q1013 NOSIG=


......................................................................................


Date: 07-Oct-2565

SAAE31 VDPP 070200
METAR VDPP 070200Z VRB03KT 9999 SCT015 29/25 Q1010=


......................................................................................


Date: 07-Oct-2565

SATH31 VTPO 070200
METAR VTPO 070200Z 29003KT 9999 FEW020 27/26 Q1013 NOSIG=


......................................................................................


Date: 07-Oct-2565

SATH31 VTSM 070200
METAR VTSM 070200Z 16005KT 9999 FEW020 27/25 Q1012 NOSIG=


......................................................................................


Date: 07-Oct-2565

SATH31 VTUD 070200
METAR VTUD 070200Z 07004KT 340V110 9999 SCT025 29/24 Q1014 NOSIG=


......................................................................................


Date: 07-Oct-2565

SATH31 VTPP 070200
METAR VTPP 070200Z VRB02KT CAVOK 29/26 Q1012 NOSIG=


......................................................................................


Date: 07-Oct-2565

SATH31 VTST 070200
METAR VTST 070200Z VRB02KT 9000 4000W FEW015 SCT070 25/25 Q1011 NOSIG=


......................................................................................


Date: 07-Oct-2565

SATH31 VTUW 070200
METAR VTUW 070200Z 09003KT 020V170 CAVOK 29/23 Q1014 NOSIG=


......................................................................................


Date: 07-Oct-2565

SANP31 VNKT 070200
METAR VNKT 070200Z 00000KT 5000 BR FEW008 SCT030 BKN100 18/18 Q1020
NOSIG=


......................................................................................


Date: 07-Oct-2565

SAOM32 OOMS 070200
METAR OOMS 070150Z 08003KT 7000 NSC 27/27 Q1006 NOSIG=
METAR OOSA 070150Z VRB02KT 9999 BKN025 26/22 Q1009 NOSIG=
METAR OOSH 070150Z AUTO 25004KT //// ////// 28/21 Q1006=
METAR OODQ 070150Z AUTO 22014KT CAVOK ////// 23/23 Q1007 NOSIG=
METAR OOKB 070150Z AUTO 19005KT 9999 // NSC 30/21 Q1006 NOSIG=
METAR OOAD 070200Z NIL=


......................................................................................


Date: 07-Oct-2565

SASD31 OEJD 070200
METAR OEDF 070200Z 29005KT CAVOK 25/06 Q1006 NOSIG=
METAR OEDR 070200Z 28008KT CAVOK 26/05 Q1005=
METAR OEJN 070200Z 00000KT CAVOK 27/23 Q1006 NOSIG=
METAR OEMA 070200Z 07003KT CAVOK 26/M08 Q1015 NOSIG=
METAR OERK 070200Z 29003KT CAVOK 23/03 Q1013 NOSIG=
METAR OERY 070200Z NIL=
METAR OEAB 070200Z 00000KT CAVOK 17/02 Q1023 NOSIG=
METAR OYAA 070200Z NIL=
METAR OYSN 070200Z NIL=


......................................................................................


Date: 07-Oct-2565

SATH31 VTBD 070200
METAR VTBD 070200Z 04005KT 010V070 9999 FEW020 28/26 Q1012 NOSIG=


......................................................................................


Date: 07-Oct-2565

SATH31 VTBS 070200
METAR VTBS 070200Z 03006KT 360V080 9999 FEW010 SCT020 28/25 Q1012
NOSIG=


......................................................................................


Date: 07-Oct-2565

SATH31 VTCC 070200
METAR VTCC 070200Z 04005KT 010V070 9999 SCT035 27/23 Q1015 NOSIG=


......................................................................................


Date: 07-Oct-2565

SATH31 VTCH 070200
METAR VTCH 070200Z 00000KT 9000 FEW015 BKN025 26/24 Q1014 NOSIG=


......................................................................................


Date: 07-Oct-2565

SATH31 VTCN 070200
METAR VTCN 070200Z VRB02KT 9999 SCT007 25/24 Q1014 NOSIG=


......................................................................................


Date: 07-Oct-2565

SATH31 VTCP 070200
METAR VTCP 070200Z 02004KT 360V070 9999 SCT009 BKN012 26/24 Q1014
NOSIG=


......................................................................................


Date: 07-Oct-2565

SATH31 VTCT 070200
METAR VTCT 070200Z 03003KT 320V070 9999 BKN010 26/26 Q1016 NOSIG=


......................................................................................


Date: 07-Oct-2565

SATH31 VTPB 070200
METAR VTPB 070200Z 01006KT 340V050 9999 FEW030 30/25 Q1013 NOSIG=


......................................................................................


Date: 07-Oct-2565

SATH31 VTPH 070200
METAR VTPH 070200Z 34004KT 280V030 9999 SCT028 BKN060 27/25 Q1011
NOSIG=


......................................................................................


Date: 07-Oct-2565

SATH31 VTPT 070200
METAR VTPT 070200Z /////KT 7000 SCT024 28/25 Q1013 NOSIG=


......................................................................................


Date: 07-Oct-2565

SATH31 VTSG 070200
METAR VTSG 070200Z VRB02KT 9999 FEW008 SCT012 BKN018 27/24 Q1012
NOSIG=


......................................................................................


Date: 07-Oct-2565

SATH31 VTSP 070200
METAR VTSP 070200Z 33004KT 300V020 9000 -RA FEW010 SCT020 BKN100
25/24 Q1011 NOSIG=


......................................................................................


Date: 07-Oct-2565

SATH31 VTSS 070200
METAR VTSS 070200Z VRB02KT 9999 SCT020 BKN100 28/25 Q1011 NOSIG=


......................................................................................


Date: 07-Oct-2565

SATH31 VTSY 070200
METAR VTSY 070200Z VRB02KT 9999 BKN010 27/23 Q1013 NOSIG=


......................................................................................


Date: 07-Oct-2565

SATH31 VTUK 070200
METAR VTUK 070200Z 05007KT 020V080 9999 FEW030 28/23 Q1014 NOSIG=


......................................................................................


Date: 07-Oct-2565

SATH31 VTUU 070200
METAR VTUU 070200Z 11004KT 050V160 9999 BKN015 29/25 Q1013 NOSIG=


......................................................................................


Date: 07-Oct-2565

SATH31 VTUV 070200
METAR VTUV 070200Z 07009KT 040V100 9999 SCT025 28/23 Q1013 NOSIG=


......................................................................................


Date: 07-Oct-2565

SAPK31 OPKC 070200
METAR OPFA 070155Z 00000KT 1500 BR NSC 24/22 Q1010 BECMG 2000=
METAR OPIS 070200Z 23010KT 6000 SCT040 SCT100 19/13 Q1014 NOSIG=
METAR OPKC 070155Z 31004KT 3000 FU FEW030 24/22 Q1007 NOSIG=
METAR OPLA 070155Z 00000KT 3000 BR FEW100 25/22 Q1010 BECMG 2000
RMK QFE985 A29.83=
METAR OPMT 070200Z 00000KT 4000 FU NSC 22/18 Q1009 NOSIG=
METAR OPPS 070200Z 18006KT 6000 HZ FEW040 FEW100 19/15 Q1014=
METAR OPSK 070200Z 00000KT 4000 HZ NSC 24/21 Q1005 NOSIG=
METAR OPST 070200Z 00000KT 2500 BR NSC 24/21 Q1011 BECMG 3000 87?=
METAR OPNH 070200Z NIL=


......................................................................................


Date: 07-Oct-2565

SATH31 VTSB 070200
METAR VTSB 070200Z 20001KT 7000 -RA FEW010 BKN100 24/24 Q1012 NOSIG=


......................................................................................


Date: 07-Oct-2565

SATH31 VTSE 070200
METAR VTSE 070200Z 00000KT 9000 -RA FEW018 BKN040 25/25 Q1011 NOSIG=


......................................................................................


Date: 07-Oct-2565

SAPK31 OPKC 070200 RRA
METAR OPNH 070200Z NIL=


......................................................................................


Date: 07-Oct-2565

SATH31 VTSR 070200
METAR VTSR 070200Z 22005KT 9999 FEW020 29/23 Q1011 NOSIG=


......................................................................................


Date: 07-Oct-2565

SAHK31 VHHH 070200
METAR VHHH 070200Z 08008KT 9999 FEW022 31/22 Q1016 NOSIG=


......................................................................................


Date: 07-Oct-2565

SAIR31 OIII 070200
METAR OIAW 070200Z 17002KT 7000 NSC 24/08 Q1005=
METAR OIFM 070200Z 28006KT 8000 NSC 08/M05 Q1024 A3024=
METAR OIII 070200Z 31004KT CAVOK 19/M01 Q1022 A3018 NOSIG=
METAR OIKB 070200Z NIL=
METAR OIKK 070200Z 13004KT CAVOK 07/M10 Q1023 A3021=
METAR OIMM 070200Z 23004KT CAVOK 08/M05 Q1023 A3023=
METAR OISS 070200Z 00000KT CAVOK 11/M03 Q1020 A3014=
METAR OITT 070200Z 07008KT CAVOK 18/05 Q1023 A3022=
METAR OIZH 070200Z 21004KT CAVOK 06/M20 Q1019 A3010=


......................................................................................


Date: 07-Oct-2565

SAIR31 OIII 070200 RRA
METAR OIKB 070200Z 36004KT 0800 MIFG NSC 25/23 Q1006 A2971=


......................................................................................


Date: 07-Oct-2565

SAIR32 OIII 070200
METAR OIAA 070200Z 22002KT CAVOK 23/06 Q1007=
METAR OIBK 070200Z NIL=
METAR OICC 070200Z 00000KT CAVOK 10/M13 Q1020 A3014=
METAR OIGG 070200Z NIL=
METAR OIIE 070200Z 33012KT CAVOK 17/10 Q1021=
METAR OINZ 070200Z NIL=
METAR OITR 070200Z 29004KT CAVOK 11/M01 Q1021=
METAR OIYY 070200Z 34002KT CAVOK 17/M07 Q1022=


......................................................................................


Date: 07-Oct-2565

SAIR33 OIII 070200
METAR OIBB 070200Z 00000KT CAVOK 23/18 Q1005 A2970=
METAR OIBP 070200Z NIL=
METAR OICK 070200Z NIL=
METAR OICS 070200Z NIL=
METAR OIHH 070200Z NIL=
METAR OITL 070200Z NIL=
METAR OIZC 070200Z NIL=


......................................................................................


Date: 07-Oct-2565

SAIR34 OIII 070200
METAR OIAG 070200Z 19002KT CAVOK 21/04 Q1007=
METAR OIAM 070200Z 00000KT CAVOK 25/07 Q1005=
METAR OICI 070200Z 11004KT CAVOK 19/M06 Q1019 A3012=
METAR OIKQ 070200Z 00000KT 1500 BR NSC 25/25 Q1005=
METAR OINN 070200Z 27008KT 7000 -RA FEW023CB BKN027 21/20 Q1021=
METAR OINR 070200Z 20002KT 9999 FEW020CB SCT025 OVC080 21/20 Q1021=
METAR OISL 070200Z 00000KT CAVOK 16/01 Q1011 A2987=
METAR OISY 070200Z 00000KT CAVOK 11/M03 Q1023=
METAR OITZ 070200Z NIL=


......................................................................................


Date: 07-Oct-2565

SAIR35 OIII 070200
METAR OIAD 070200Z NIL=
METAR OIBJ 070200Z AUTO 00000KT //// // ////// 21/01 Q1012=
METAR OIBS 070200Z NIL=
METAR OIHR 070200Z NIL=
METAR OIKM 070200Z NIL=
METAR OIKR 070200Z NIL=
METAR OING 070200Z 22008KT 9999 FEW030 SCT100 22/19 Q1022=
METAR OIZB 070200Z 34025G35KT 8000 NSC 18/M14 Q1014=
METAR OIZI 070200Z 00000KT CAVOK 22/M11 Q1012=


......................................................................................


Date: 07-Oct-2565

SAIR36 OIII 070200
METAR OIBA 070200Z NIL=
METAR OIBV 070200Z NIL=
METAR OIFS 070200Z 34006KT CAVOK 05/M10 Q1026=
METAR OIIP 070200Z 30008KT CAVOK 13/10 Q1021 A3018=
METAR OIMB 070200Z 10006KT CAVOK 02/M36 Q1020 A3013=
METAR OIMN 070200Z VRB02KT 5000 BR SCT005 FEW030CB 11/10 Q1024=
METAR OIMS 070200Z 06010KT CAVOK 10/M13 Q1023=
METAR OIMT 070200Z NIL=
METAR OIZJ 070200Z 10008KT 5000 BR NSC 28/25 Q1006=


......................................................................................


Date: 07-Oct-2565

SAIR37 OIII 070200
METAR OIBL 070200Z 06006KT 3500 BR NSC 28/26 Q1005=
METAR OIBQ 070200Z 00000KT 6000 NSC 28/26 Q1006=
METAR OIIK 070200Z 06002KT CAVOK 12/08 Q1023=
METAR OIMD 070200Z 26004KT CAVOK 09/M19 Q1018=
METAR OIMQ 070200Z 00000KT CAVOK 12/M19 Q1020=
METAR OINE 070200Z 21006KT 9999 SCT025 OVC080 22/19 Q1021=
METAR OITK 070200Z 21002KT 9999 FEW040 14/06 Q1021=
METAR OITM 070200Z 09014KT CAVOK 18/04 Q1021=


......................................................................................


Date: 07-Oct-2565

SAIR38 OIII 070200
METAR OIAH 070200Z 00000KT CAVOK 18/03 Q1010=
METAR OIBH 070200Z NIL=
METAR OICM 070200Z NIL=
METAR OIIS 070200Z NIL=
METAR OIMJ 070200Z AUTO 03022KT //// // ////// 15/06 Q1022=
METAR OISF 070200Z 30010KT CAVOK 19/M01 Q1018=
METAR OISR 070200Z NIL=
METAR OITP 070200Z NIL=
METAR OITU 070200Z NIL=


......................................................................................


Date: 07-Oct-2565

SAPK31 OPKC 070200
METAR OPFA 070155Z 00000KT 1500 BR NSC 24/22 Q1010 BECMG 2000=
METAR OPIS 070200Z 23010KT 6000 SCT040 SCT100 19/13 Q1014 NOSIG=
METAR OPKC 070155Z 31004KT 3000 FU FEW030 24/22 Q1007 NOSIG=
METAR OPLA 070155Z 00000KT 3000 BR FEW100 25/22 Q1010 BECMG 2000

RMK QFE985 A29.83=
METAR OPMT 070200Z 00000KT 4000 FU NSC 22/18 Q1009 NOSIG=
METAR OPPS 070200Z 18006KT 6000 HZ FEW040 FEW100 19/15 Q1014=
METAR OPSK 070200Z 00000KT 4000 HZ NSC 24/21 Q1005 NOSIG=
METAR OPST 070200Z 00000KT 2500 BR NSC 24/21 Q1011 BECMG 3000 87=
METAR OPNH 070200Z NIL=


......................................................................................


Date: 07-Oct-2565

SASR31 WSSS 070200
METAR WSSS 070200Z 13006KT 9999 FEW018 BKN150 28/24 Q1012 NOSIG=


......................................................................................


Date: 07-Oct-2565

SATH31 VTUQ 070200
METAR VTUQ 070200Z 04004KT 360V070 9999 BKN020 29/26 Q1013 NOSIG=


......................................................................................


Date: 07-Oct-2565

SATH40 VTBB 070200
METAR VTBD 070200Z 04005KT 010V070 9999 FEW020 28/26 Q1012 NOSIG=
METAR VTBS 070200Z 03006KT 360V080 9999 FEW010 SCT020 28/25 Q1012
NOSIG=
METAR VTBU 070200Z 36004KT 9999 FEW020 29/24 Q1012 NOSIG=
METAR VTCC 070200Z 04005KT 010V070 9999 SCT035 27/23 Q1015 NOSIG=
METAR VTCT 070200Z 03003KT 320V070 9999 BKN010 26/26 Q1016 NOSIG=
METAR VTSB 070200Z 20001KT 7000 -RA FEW010 BKN100 24/24 Q1012 NOSIG=
METAR VTSG 070200Z VRB02KT 9999 FEW008 SCT012 BKN018 27/24 Q1012
NOSIG=
METAR VTSP 070200Z 33004KT 300V020 9000 -RA FEW010 SCT020 BKN100
25/24 Q1011 NOSIG=
METAR VTSS 070200Z VRB02KT 9999 SCT020 BKN100 28/25 Q1011 NOSIG=
METAR VTUD 070200Z 07004KT 340V110 9999 SCT025 29/24 Q1014 NOSIG=
METAR VTUU 070200Z 11004KT 050V160 9999 BKN015 29/25 Q1013 NOSIG=


......................................................................................


Date: 07-Oct-2565

SAUZ31 UTTW 070100 CCA
METAR UTST 070200Z 05004KT CAVOK 07/00 Q1022 R25/CLRD70 NOSIG=


......................................................................................


Date: 07-Oct-2565

SAOM81 OOMS 070100 RRB
METAR OOSM 070050Z AUTO 21003KT //// ////// 26/05 Q1009=


......................................................................................


Date: 07-Oct-2565

SAAE31 VTBB 070200
METAR VTCT 070200Z 03003KT 320V070 9999 BKN010 26/26 Q1016 NOSIG=
METAR VTSG 070200Z VRB02KT 9999 FEW008 SCT012 BKN018 27/24 Q1012
NOSIG=
METAR VTBD 070200Z 04005KT 010V070 9999 FEW020 28/26 Q1012 NOSIG=
METAR VTBS 070200Z 03006KT 360V080 9999 FEW010 SCT020 28/25 Q1012
NOSIG=
METAR VTCC 070200Z 04005KT 010V070 9999 SCT035 27/23 Q1015 NOSIG=
METAR VTSP 070200Z 33004KT 300V020 9000 -RA FEW010 SCT020 BKN100
25/24 Q1011 NOSIG=
METAR VTSS 070200Z VRB02KT 9999 SCT020 BKN100 28/25 Q1011 NOSIG=
METAR VTBU 070200Z 36004KT 9999 FEW020 29/24 Q1012 NOSIG=


......................................................................................


Date: 07-Oct-2565

SAAE32 VTBB 070200
METAR VDPP 070200Z VRB03KT 9999 SCT015 29/25 Q1010=
METAR VDSR 070200Z 04005KT 010V080 9999 SCT015 BKN040 27/24 Q1010=
METAR VLVT 070200Z 36004KT 9999 SCT100 28/26 Q1014 NOSIG=
METAR VYMD 070200Z NIL=
METAR VYNT 070200Z NIL=
METAR VYYY 070200Z 04003KT 7000 BKN015 FEW020CB BKN090 27/24 Q1011
NOSIG=
METAR VDSV 070200Z 13007KT 100V160 9999 SCT015 29/24 Q1010=


......................................................................................


Date: 07-Oct-2565

SAAE33 VTBB 070200
METAR VLLB 070200Z 36002KT 9999 SCT010 SCT060 26/23 Q1015 NOSIG=
METAR VLLN 070200Z 18002KT 3000 BR BKN010 OVC090 23/23 Q1017 NOSIG=
METAR VLPS 070200Z 36002KT 8000 SCT050 27/24 Q1013 NOSIG=
METAR VLSK 070200Z 18004KT 6000 FEW100 27/24 Q1014 NOSIG=


......................................................................................


Date: 07-Oct-2565

SAAE34 VTBB 070200 RRA
METAR VVTS 070200Z VRB03KT 9999 FEW020 30/26 Q1011 NOSIG =


......................................................................................


Date: 07-Oct-2565

SAAE34 VTBB 070200
METAR VVCI 070200Z VRB02KT 4000 RA SCT009 BKN011 24/24 Q1016 BECMG
6000 -RA=
METAR VVCR 070200Z 03008KT 9999 FEW015 30/24 Q1013 NOSIG=
METAR VVCT 070200Z 04005KT 9999 SCT015 28/25 Q1011 NOSIG=
METAR VVDN 070200Z 01009KT 9999 FEW015 FEW017TCU 30/24 Q1014 NOSIG=
METAR VVNB 070200Z 09004KT 040V130 6000 SCT010 BKN016 28/24 Q1016
NOSIG=
METAR VVPB 070200Z 31002KT 9999 FEW013 BKN050 28/25 Q1015 NOSIG=
METAR VVPQ 070200Z 07009KT 9999 FEW015 29/24 Q1011 NOSIG=
METAR VVTS 070200Z NIL=


......................................................................................


Date: 07-Oct-2565

SAIR32 OIII 070200 RRA
METAR OIBK 070200Z 17004KT 3000 BR NSC 26/25 Q1005=


......................................................................................


Date: 07-Oct-2565

SAPK31 OPKC 070200
METAR OPFA 070155Z 00000KT 1500 BR NSC 24/22 Q1010 BECMG 2000=
METAR OPIS 070200Z 23010KT 6000 SCT040 SCT100 19/13 Q1014 NOSIG=
METAR OPKC 070155Z 31004KT 3000 FU FEW030 24/22 Q1007 NOSIG=
METAR OPLA 070155Z 00000KT 3000 BR FEW100 25/22 Q1010 BECMG 2000
RMK QFE985 A29.83=
METAR OPMT 070200Z 00000KT 4000 FU NSC 22/18 Q1009 NOSIG=
METAR OPPS 070200Z 18006KT 6000 HZ FEW040 FEW100 19/15 Q1014=
METAR OPSK 070200Z 00000KT 4000 HZ NSC 24/21 Q1005 NOSIG=
METAR OPST 070200Z 00000KT 2500 BR NSC 24/21 Q1011 BECMG 3000 87%=
METAR OPNH 070200Z NIL=


......................................................................................


Date: 07-Oct-2565

SAUZ31 UTTW 070200
METAR UTFN 070200Z NIL=
METAR UTNN 070200Z 00000KT CAVOK 05/M05 Q1021 R15/CLRD60 NOSIG=
METAR UTNU 070200Z 00000KT CAVOK 04/M01 Q1021 R31/CLRD70 NOSIG=
METAR UTSA 070200Z 09008KT 6000 NSC 09/M00 Q1021 R07/CLRD70 NOSIG=
METAR UTSB 070200Z 08002KT CAVOK 06/M01 Q1021 R01/CLRD70 NOSIG=
METAR UTSK 070200Z VRB02KT CAVOK 09/M04 Q1022 R16/CLRD70=
METAR UTSS 070200Z 15006KT 9999 NSC 09/M01 Q1021 R09/CLRD70 NOSIG=
METAR UTST 070200Z NIL=
METAR UTFA 070200Z NIL=
METAR UTFF 070200Z 11004KT 9999 NSC 13/03 Q1022 R18/CLRD70=
METAR UTTT 070200Z 08006KT CAVOK 10/00 Q1022 R08L/CLRD70 NOSIG=


......................................................................................


Date: 07-Oct-2565

SAIR31 OIII 070200
METAR OIMD 070150Z 26004KT CAVOK 09/M19 Q1018=
METAR OIMM 070200Z 23004KT CAVOK 08/M05 Q1023 A3023=
METAR OINB 070200Z 00000KT CAVOK 21/19 Q1020=
METAR OING 070200Z 22008KT 9999 FEW030 SCT100 22/19 Q1022=
METAR OINK 070200Z 20004KT 9999 FEW030 22/19 Q1019 A3009=
METAR OINN 070200Z 27008KT 7000 -RA FEW023CB BKN027 21/20 Q1021=
METAR OINR 070200Z 20002KT 9999 FEW020CB SCT025 OVC080 21/20 Q1021=
METAR OISA 070200Z 34006KT CAVOK 08/M08 Q1026 A3031=
METAR OISF 070200Z 30010KT CAVOK 19/M01 Q1018=
METAR OISL 070200Z 00000KT CAVOK 16/01 Q1011 A2987=
METAR OISS 070200Z 00000KT CAVOK 11/M03 Q1020 A3014=
METAR OISY 070200Z 00000KT CAVOK 11/M03 Q1023=
METAR OITL 070152Z 08014KT 8000 VCFG OVC003 13/13 Q1025=
METAR OITR 070151Z 29004KT CAVOK 11/M01 Q1021=
METAR OITT 070200Z 07008KT CAVOK 18/05 Q1023 A3022=
METAR OITU 070150Z 00000KT CAVOK 14/04 Q1023=
METAR OIYY 070150Z 34002KT CAVOK 17/M07 Q1022=
METAR OIZB 070200Z 34025G35KT 8000 NSC 18/M14 Q1014=
METAR OIZC 070200 NIL=
METAR OIZH 070200Z 21004KT CAVOK 06/M20 Q1019 A3010=
METAR OIZI 070200Z 00000KT CAVOK 22/M11 Q1012=
METAR OIZJ 070200Z 10008KT 5000 BR NSC 28/25 Q1006=
//END PART 02/02//


......................................................................................


Date: 07-Oct-2565

SAIR77 OIII 070200
METAR AZUH 070155Z 00000KT CAVOK 14/08 Q1021=
METAR KHME 070200Z 07010KT CAVOK 13/M19 Q1021=
METAR OIAA 070150Z 22002KT CAVOK 23/06 Q1007=
METAR OIAG 070200Z 19002KT CAVOK 21/04 Q1007=
METAR OIAH 070200Z 00000KT CAVOK 18/03 Q1010=
METAR OIAI 070200Z 30002KT CAVOK 25/02 Q1008=
METAR OIAM 070200Z 00000KT CAVOK 25/07 Q1005=
METAR OIAW 070147Z 17002KT 7000 NSC 24/08 Q1005=
METAR OIBA 070200 NIL=
METAR OIBB 070150Z 00000KT CAVOK 23/18 Q1005 A2970=
METAR OIBK 070200Z 17004KT 3000 BR NSC 26/25 Q1005=
METAR OIBL 070200Z 06006KT 3500 BR NSC 28/26 Q1005=
METAR OIBS 070200 NIL=
METAR OICC 070151Z 00000KT CAVOK 10/M13 Q1016 A3003=
METAR OICI 070200Z 11004KT CAVOK 19/M06 Q1019 A3012=
METAR OICJ 070200Z 00000KT CAVOK 15/M06 Q1023=
METAR OICK 070152Z 11008KT CAVOK 18/M06 Q1017=
METAR OICS 070200Z 00000KT CAVOK 09/M03 Q1022 A3019=
METAR OIFK 070200Z 00000KT CAVOK 17/M05 Q1020 A3012=
METAR OIFM 070200Z 28006KT 8000 NSC 08/M05 Q1024 A3024=
METAR OIFS 070152Z 34006KT CAVOK 05/M10 Q1026=
METAR OIGG 070200Z 27002KT 9999 BKN025 SCT070 21/20 Q1022=
METAR OIGK 070150Z 04004KT CAVOK 12/08 Q1029=
METAR OIHM 070200Z 08002KT CAVOK 11/M06 Q1024=
METAR OIIE 070200Z 33012KT CAVOK 17/10 Q1021 NOSIG=
METAR OIII 070200Z 31004KT CAVOK 19/M01 Q1022 A3018 NOSIG=
METAR OIIK 070151Z 06002KT CAVOK 12/08 Q1023=
METAR OIIP 070200Z 30008KT CAVOK 13/10 Q1021 A3018=
METAR OIIS 070200Z 36008KT CAVOK 21/M02 Q1021=
METAR OIKB 070200Z 36004KT 0800 MIFG NSC 25/23 Q1006 A2971=
METAR OIKK 070150Z 13004KT CAVOK 07/M10 Q1023 A3021=
METAR OIKO 070200Z 00000KT 3000 BR NSC 24/22 Q1006=
METAR OIKQ 070200Z 00000KT 1500 BR NSC 25/25 Q1005=
METAR OIMB 070200Z 10006KT CAVOK 02/M36 Q1020 A3013=
METAR OIMC 070150Z 00000KT CAVOK 09/M05 Q1021=
METAR OIMD 070150Z 26004KT CAVOK 09/M19 Q1018=
METAR OIMM 070200Z 23004KT CAVOK 08/M05 Q1023 A3023=
METAR OIMN 070200Z VRB02KT 5000 BR SCT005 FEW030CB 11/10 Q1024=
METAR OINB 070200Z 00000KT CAVOK 21/19 Q1020=
METAR OING 070200Z 22008KT 9999 FEW030 SCT100 22/19 Q1022=
METAR OINK 070200Z 20004KT 9999 FEW030 22/19 Q1019 A3009=
METAR OINN 070200Z 27008KT 7000 -RA FEW023CB BKN027 21/20 Q1021=
METAR OINR 070200Z 20002KT 9999 FEW020CB SCT025 OVC080 21/20 Q1021=
METAR OISA 070200Z 34006KT CAVOK 08/M08 Q1026 A3031=
METAR OISF 070200Z 30010KT CAVOK 19/M01 Q1018=
METAR OISL 070200Z 00000KT CAVOK 16/01 Q1011 A2987=
METAR OISS 070200Z 00000KT CAVOK 11/M03 Q1020 A3014=
METAR OISY 070200Z 00000KT CAVOK 11/M03 Q1023=
METAR OITL 070152Z 08014KT 8000 VCFG OVC003 13/13 Q1025=
METAR OITR 070151Z 29004KT CAVOK 11/M01 Q1021=
METAR OITT 070200Z 07008KT CAVOK 18/05 Q1023 A3022=
METAR OITU 070150Z 00000KT CAVOK 14/04 Q1023=
METAR OIYY 070150Z 34002KT CAVOK 17/M07 Q1022=
METAR OIZB 070200Z 34025G35KT 8000 NSC 18/M14 Q1014=
METAR OIZC 070200 NIL=
METAR OIZH 070200Z 21004KT CAVOK 06/M20 Q1019 A3010=
METAR OIZI 070200Z 00000KT CAVOK 22/M11 Q1012=
METAR OIZJ 070200Z 10008KT 5000 BR NSC 28/25 Q1006=
METAR SESG 070200Z 00000KT CAVOK 20/03 Q1010=
METAR YAYT 070153Z 00000KT CAVOK 16/M32 Q1017=


......................................................................................


Date: 07-Oct-2565

SATR31 UTAA 070200
METAR UTAA 070200Z VRB02KT 9999 NSC 12/M03 Q1020 R88/CLRD70
NOSIG=
METAR UTAK 070200Z 32006KT CAVOK 13/10 Q1021 R16R/CLRD70 NOSIG=
METAR UTAV 070200Z 18004KT CAVOK 05/M05 Q1020 R31/CLRD70
NOSIG=
METAR UTAM NIL=
METAR UTAT 070200Z VRB02KT 9000 NSC 06/00 Q1021 R08/CLRD70
NOSIG=


......................................................................................


Date: 07-Oct-2565

SAHK31 VHHH 070200
METAR VHHH 070200Z 08008KT 9999 FEW022 31/22 Q1016 NOSIG=
METAR RCTP 070200Z 04019KT 9999 SCT012 BKN030 BKN050 27/24 Q1016
NOSIG RMK A3001=
METAR RCKH 070200Z 31005KT 270V010 9999 FEW015 SCT028 31/24 Q1013
NOSIG RMK A2994=
METAR RCSS 070200Z 09009KT 060V120 3000 SHRA SCT005 BKN012 BKN030
26/24 Q1016 TEMPO 5000 RMK A3001 RA AMT 2.0MM=
METAR RCMQ 070200Z 35005KT 8000 FEW010 SCT025 29/23 Q1015 NOSIG
RMK A2999=
METAR RCNN 070200Z 24005KT 9999 FEW014 SCT025 31/23 Q1014 NOSIG
RMK A2995=
METAR RCFN 070200Z 06009KT 010V090 9999 -SHRA FEW016 FEW020TCU
BKN024 BKN040 29/25 Q1016 NOSIG RMK TCU NW-N A3001=
METAR VMMC 070200Z 09013KT 070V150 9999 FEW020 SCT040 29/25 Q1016
NOSIG=
METAR RPLL 070200Z 12006KT 080V200 9999 FEW025 BKN300 32/23 Q1010
NOSIG RMK A2983=
METAR RPVM 070200Z 04007KT 9999 FEW018CB 31/25 Q1011 RMK A2985 CB
W-NW=
METAR RPMD 070200Z 06004KT 9999 FEW016 31/25 Q1011 RMK A2985=
METAR RPLB 070200Z 06009KT 030V100 9999 SCT020 BKN300 31/24 Q1012
NOSIG RMK A2988=
METAR RPLI 070200Z 33004KT 290V350 9999 FEW018 31/24 Q1011 NOSIG RMK
A2985=
METAR RPMZ 070200Z 17005KT 120V210 9999 FEW017 BKN300 31/25 Q1011 RMK
A2985=


......................................................................................


Date: 07-Oct-2565

SAJP31 RJTD 070200
METAR RJAA 070200Z 33011KT 4000 -SHRA BR FEW003 BKN004 13/13 Q1017
TEMPO 3000 -SHRA BR=
METAR RJBB 070200Z 08012KT 9999 -SHRA FEW003 SCT010 BKN050 17/16
Q1013 TEMPO 3000 SHRA BR FEW005 BKN008 BKN015=
METAR RJTT 070200Z 34013KT 4000 RA BR FEW006 SCT009 BKN020 13/12
Q1017 TEMPO FEW005 BKN008=
METAR RJOO 070200Z 08007KT 040V110 6000 -SHRA BR FEW003 SCT008
BKN025 17/16 Q1013=
METAR ROAH 070200Z 02015KT 9999 VCFC VCSH SCT020 29/24 Q1015=
METAR RJGG 070200Z 35013KT 3000 -RA BR FEW004 SCT006 BKN010 16/15
Q1014 TEMPO RA BR FEW004 BKN008=
METAR RJCH 070200Z 07004KT 350V100 9999 FEW030 SCT130 BKN/// 13/02
Q1021=
METAR RJSS 070200Z 33006KT 9999 -RA FEW010 SCT060 BKN080 12/09
Q1020=


......................................................................................


Date: 07-Oct-2565

SAJP32 RJTD 070200
METAR RJFF 070200Z 13004KT 090V150 9999 -SHRA FEW005 SCT030 BKN100
17/15 Q1016 BECMG 31011KT=
METAR RJCC 070200Z 18004KT 130V220 9999 FEW020 BKN/// 11/04 Q1021=
METAR RJFK 070200Z 33014KT 9999 FEW010 BKN015 BKN050 19/16 Q1016=
METAR RJSN 070200Z 11005KT 9999 -RA FEW030 SCT060 OVC090 13/10
Q1016=
METAR RJFT 070200Z 34004KT 320V040 4000 R07/P2000N -SHRA BR PRFG
FEW001 SCT002 BKN005 16/15 Q1017=
METAR RJFU 070200Z 34012KT 9999 -SHRA FEW005 SCT015 BKN020 18/15
Q1017=
METAR RJNK 070200Z 19004KT 5000 -RA FEW003 SCT004 BKN008 14/13
Q1013=
METAR RJOA 070200Z VRB03KT 4000 -SHRA BCFG BR FEW000 SCT015 BKN040
15/15 Q1014=
METAR RJOB 070200Z VRB01KT 4500 -SHRA BR BCFG FEW000 SCT008 BKN040
15/14 Q1014=
METAR RJOT 070200Z VRB01KT 4500 -SHRA BR FEW000 SCT004 BKN008 17/17
Q1013=


......................................................................................


Date: 07-Oct-2565

SAJP32 RJTD 070200 RRA
METAR RJFO 070200Z 33007KT 290V360 9999 -SHRA FEW010 SCT020 BKN035
18/16 Q1015=
METAR RJNT 070200Z VRB01KT 8000 -RA FEW002 SCT060 OVC080 14/13
Q1013=


......................................................................................


Date: 07-Oct-2565

SAJP38 RJTD 070200
METAR RJNS 070200Z 03006KT 330V110 9999 -RA FEW008 BKN020 BKN040
14/14 Q1013=
METAR RJSA 070200Z 03003KT 350V080 9999 FEW040 BKN100 12/05 Q1020=
METAR RJSF 070200Z 35007KT 3000 -RA BR FEW001 BKN003 BKN005 09/09
Q1019=
METAR RJOM 070200Z 30011KT 7000 -SHRA FEW006 SCT015 BKN025 19/17
Q1014=
METAR RJOK 070200Z 01003KT 340V050 9999 FEW003 BKN060 BKN120 20/19
Q1012=
METAR RJFM 070200Z 28011KT 9999 FEW025 SCT050 BKN/// 25/17 Q1013=
METAR RJEC 070200Z VRB02KT 9999 FEW020 SCT050 11/M02 Q1020=
METAR RJFR 070200Z 26009KT 9999 -RA FEW005 BKN060 BKN080 17/15
Q1015=
METAR RJSK 070200Z 11006KT 9999 FEW040 SCT080 BKN100 11/07 Q1018=
METAR RJAH 070200Z 35009KT 4000 -SHRA BR FEW010 BKN015 BKN030 13/13
Q1017=


......................................................................................


Date: 07-Oct-2565

SAJP38 RJTD 070200 RRA
METAR RJCK 070200Z VRB02KT 9999 FEW040 BKN/// 11/00 Q1022=
METAR RJCM 070200Z VRB04KT 9999 FEW050 SCT/// 13/M01 Q1021=
METAR RJCB 070200Z 35003KT 260V070 9999 FEW025 BKN/// 10/02 Q1021=
METAR RJOC 070200Z 23007KT 9999 -SHRA FEW005 SCT020 BKN030 17/16
Q1014=
METAR RJOH 070200Z 25011KT 9999 -SHRA FEW006 BKN015 BKN030 17/16
Q1014=
METAR ROIG 070200Z 06012KT 9999 VCSH FEW015 30/25 Q1015=
METAR RJFS 070200Z 28008KT 9999 -SHRA FEW010 SCT030 BKN090 18/16
Q1016=
METAR RJSI 070200Z 01003KT 320V100 9999 FEW030 SCT100 BKN130 11/07
Q1020=


......................................................................................


Date: 07-Oct-2565

SAJP51 RJTD 070200
METAR RJAA 070200Z 33011KT 4000 -SHRA BR FEW003 BKN004 13/13 Q1017
TEMPO 3000 -SHRA BR=
METAR RJAF 070200Z VRB02KT 3500 -RA BR FEW003 BKN005 BKN010 10/09
Q1016=
METAR RJAH 070200Z 35009KT 4000 -SHRA BR FEW010 BKN015 BKN030 13/13
Q1017=
METAR RJBB 070200Z 08012KT 9999 -SHRA FEW003 SCT010 BKN050 17/16
Q1013 TEMPO 3000 SHRA BR FEW005 BKN008 BKN015=
METAR RJBD 070200Z 36007KT 330V030 9999 -SHRA FEW003 SCT006 FEW025CB
BKN030 19/18 Q1011=
METAR RJBE 070200Z 08008KT 8000 -SHRA FEW003 BKN007 BKN012 18/17
Q1013=
METAR RJBT 070200Z VRB02KT 2500 -RA BCFG FEW000 SCT005 BKN035 14/14
Q1013=
METAR RJCB 070200Z 35003KT 260V070 9999 FEW025 BKN/// 10/02 Q1021=
METAR RJCC 070200Z 18004KT 130V220 9999 FEW020 BKN/// 11/04 Q1021=
METAR RJCH 070200Z 07004KT 350V100 9999 FEW030 SCT130 BKN/// 13/02
Q1021=
METAR RJCK 070200Z VRB02KT 9999 FEW040 BKN/// 11/00 Q1022=
METAR RJCM 070200Z VRB04KT 9999 FEW050 SCT/// 13/M01 Q1021=
METAR RJCN 070200Z VRB03KT 9999 FEW030 BKN/// 12/01 Q1021=
METAR RJCO 070200Z 11006KT 9999 FEW020 SCT180 BKN230 14/04 Q1022=
METAR RJCW 070200Z 25011KT 9999 FEW050 SCT060 12/M02 Q1021=
METAR RJDB 070200Z AUTO 27004KT 210V320 9999 FEW034 SCT120 BKN130
21/16 Q1016=
METAR RJDC 070200Z 32004KT 250V360 9999 -SHRA FEW006 SCT010 BKN025
17/15 Q1015=
METAR RJDT 070200Z 31008KT 270V340 9999 FEW030 BKN150 19/12 Q1016=
METAR RJEB 070200Z 36008KT 9999 FEW020 BKN090 12/01 Q1021=
METAR RJEC 070200Z VRB02KT 9999 FEW020 SCT050 11/M02 Q1020=


......................................................................................


Date: 07-Oct-2565

SAJP51 RJTD 070200 RRA
METAR RJFE 070200Z 33005KT 280V010 9999 FEW025 BKN100 17/14 Q1017=
METAR RJFF 070200Z 13004KT 090V150 9999 -SHRA FEW005 SCT030 BKN100
17/15 Q1016 BECMG 31011KT=
METAR RJFG 070200Z 31014KT 3000 -SHRA BR FEW006 SCT010 BKN015 20/19
Q1015=
METAR RJFK 070200Z 33014KT 9999 FEW010 BKN015 BKN050 19/16 Q1016=
METAR RJFM 070200Z 28011KT 9999 FEW025 SCT050 BKN/// 25/17 Q1013=
METAR RJFO 070200Z 33007KT 290V360 9999 -SHRA FEW010 SCT020 BKN035
18/16 Q1015=
METAR RJFR 070200Z 26009KT 9999 -RA FEW005 BKN060 BKN080 17/15
Q1015=
METAR RJFS 070200Z 28008KT 9999 -SHRA FEW010 SCT030 BKN090 18/16
Q1016=
METAR RJFT 070200Z 34004KT 320V040 4000 R07/P2000N -SHRA BR PRFG
FEW001 SCT002 BKN005 16/15 Q1017=
METAR RJFU 070200Z 34012KT 9999 -SHRA FEW005 SCT015 BKN020 18/15
Q1017=
METAR RJGG 070200Z 35013KT 3000 -RA BR FEW004 SCT006 BKN010 16/15
Q1014 TEMPO RA BR FEW004 BKN008=
METAR RJKA 070200Z 31010KT 280V340 9999 FEW015 SCT050 BKN070 27/22
Q1015=
METAR RJKI 070200Z AUTO 32013KT 9999 FEW016 SCT060 28/22 Q1015=
METAR RJNK 070200Z 19004KT 5000 -RA FEW003 SCT004 BKN008 14/13
Q1013=
METAR RJNS 070200Z 03006KT 330V110 9999 -RA FEW008 BKN020 BKN040
14/14 Q1013=
METAR RJNT 070200Z VRB01KT 8000 -RA FEW002 SCT060 OVC080 14/13
Q1013=
METAR RJNW 070200Z 09006KT 7000 -RA FEW000 SCT005 BKN015 13/13
Q1013=
METAR RJOA 070200Z VRB03KT 4000 -SHRA BCFG BR FEW000 SCT015 BKN040
15/15 Q1014=
METAR RJOB 070200Z VRB01KT 4500 -SHRA BR BCFG FEW000 SCT008 BKN040
15/14 Q1014=
METAR RJOC 070200Z 23007KT 9999 -SHRA FEW005 SCT020 BKN030 17/16
Q1014=


......................................................................................


Date: 07-Oct-2565

SAJP51 RJTD 070200 RRB
METAR RJOH 070200Z 25011KT 9999 -SHRA FEW006 BKN015 BKN030 17/16
Q1014=
METAR RJOK 070200Z 01003KT 340V050 9999 FEW003 BKN060 BKN120 20/19
Q1012=
METAR RJOM 070200Z 30011KT 7000 -SHRA FEW006 SCT015 BKN025 19/17
Q1014=
METAR RJOO 070200Z 08007KT 040V110 6000 -SHRA BR FEW003 SCT008
BKN025 17/16 Q1013=
METAR RJOR 070200Z 19003KT 140V230 9999 -RA FEW003 SCT040 OVC080
17/15 Q1013=
METAR RJOS 070200Z 27006KT 3500 SHRA BR SCT004 BKN025 OVC080 17/17
Q1013=
METAR RJOT 070200Z VRB01KT 4500 -SHRA BR FEW000 SCT004 BKN008 17/17
Q1013=
METAR RJOW 070200Z 15004KT 9999 -SHRA FEW003 SCT025 BKN060 17/16
Q1015=
METAR RJOY 070200Z VRB02KT 4000 SHRA BR FEW002 SCT006 BKN030 17/16
Q1014=
METAR RJSA 070200Z 03003KT 350V080 9999 FEW040 BKN100 12/05 Q1020=
METAR RJSC 070200Z VRB02KT 8000 -RA FEW005 SCT060 BKN070 10/09
Q1019=
METAR RJSF 070200Z 35007KT 3000 -RA BR FEW001 BKN003 BKN005 09/09
Q1019=
METAR RJSI 070200Z 01003KT 320V100 9999 FEW030 SCT100 BKN130 11/07
Q1020=
METAR RJSK 070200Z 11006KT 9999 FEW040 SCT080 BKN100 11/07 Q1018=
METAR RJSM 070200Z VRB02KT 9999 FEW030 BKN150 14/04 Q1021=
METAR RJSN 070200Z 11005KT 9999 -RA FEW030 SCT060 OVC090 13/10
Q1016=
METAR RJSR 070200Z 04004KT 360V080 9999 FEW050 BKN120 12/06 Q1020=
METAR RJSS 070200Z 33006KT 9999 -RA FEW010 SCT060 BKN080 12/09
Q1020=
METAR RJSY 070200Z 11011KT 9999 -RA FEW030 SCT060 BKN070 12/08
Q1017=
METAR RJTF 070200Z 35007KT 5000 -RA BR FEW008 SCT010 BKN025 12/11
Q1017=


......................................................................................


Date: 07-Oct-2565

SAJP51 RJTD 070200 RRC
METAR RJTI 070200Z 33007KT 250V030 5000 -RA BR FEW005 SCT008 BKN018
12/11 Q1017=
METAR RJTO 070200Z 02019KT 2500 -SHRA BR FEW004 SCT005 BKN006 14/14
Q1015=
METAR RJTT 070200Z 34013KT 4000 RA BR FEW006 SCT009 BKN020 13/12
Q1017 TEMPO FEW005 BKN008=
METAR ROAH 070200Z 02015KT 9999 VCFC VCSH SCT020 29/24 Q1015=
METAR ROIG 070200Z 06012KT 9999 VCSH FEW015 30/25 Q1015=
METAR ROMD 070200Z AUTO 01009KT 9999 NCD 29/24 Q1015=
METAR ROMY 070200Z 10011KT 9999 -SHRA FEW010 SCT015 FEW020TCU BKN080
28/25 Q1015=
METAR RORK 070200Z AUTO 01010KT 9999 FEW023 29/23 Q1014=
METAR RORS 070200Z 07012KT 9999 VCSH SCT019 FEW025TCU 30/25 Q1015=
METAR RORY 070200Z AUTO 35014KT 9999 SCT021 BKN026 BKN030 //////TCU
28/23 Q1015=
METAR ROYN 070200Z AUTO 05016KT 9999 FEW011 //////TCU 29/26 Q1015=


......................................................................................


Date: 07-Oct-2565

SAPA31 KWBC 070200
METAR
AGGG NIL=
AGGH 070200Z 05010KT 9999 FEW020 FEW021CB 32/24 Q1008 RMKS CB TO
SW=
ANAU NIL=
AYPY NIL=
PGNT NIL=
PGRO 070150Z 19008KT 7SM VCSH BKN015 BKN100 29/25 A2976 RMK VCSH
W=
PGSN 070154Z 35003KT 8SM -RA BKN018CB 28/26 A2978 RMK AO2 RAB17
SLP107 CB OHD MOV W P0002 T02830261 $=
PGUA 070156Z AUTO 21006KT 10SM SCT047 BKN180 30/23 A2982 RMK AO2
SLP088 T03000232 $=
PGUM 070154Z 21008KT 10SM FEW012 SCT021 BKN028 28/26 A2981 RMK AO2
RAE04 SLP086 P0000 T02780256=
PGWT 070155Z 05010KT 7SM -RA FEW010 SCT016 SCT035 BKN070 BKN120
31/26=
PHJH NIL=
PHJR 070153Z 23008KT 10SM SCT039 BKN050 BKN060 29/21 A2992 RMK AO2
SLP136 T02890206=
PHMK 070154Z 03009G19KT 10SM SCT044 27/21 A2993 RMK AO2 SLP135
T02720211 $=
PJON NIL=
PKMJ NIL=
PKMR 070154Z 13016KT 10SM -SHRA SCT014TCU BKN045 OVC110 25/23
A2978 RMK TCU ALQDS SLP086 T02470227=
PKWA 070200Z AUTO 09004KT 10SM SCT050 BKN065 OVC085 29/24 A2976
RMK AO2 T02850243=
PLCH 070200Z 09010G20KT 9999 SCT019 28/22 Q1007=
PMDY 070156Z AUTO 09018KT 10SM SCT040 OVC060 28/19 A3013 RMK AO2
SLP205 T02830194 TSNO=
PTKK 070152Z VRB03KT 15SM FEW014 SCT120 BKN280 31/25 A2973 RMK
SLP071 T03110246=
PTKR NIL=
PTPN NIL=
PTRO 070150Z 15006KT 15SM SCT017 BKN300 31/24 A2982=
PTSA NIL=
PTTP 070152Z 10004KT 10SM -SHRA BKN017TCU BKN130 OVC300 27/26
A2981 RMK VIS E-SE 3 SHRAB16 TCU ALQDS SLP093 T02650255=
PTYA 070152Z VRB05KT 12SM FEW016TCU SCT300 31/25 A2981 RMK TCU N
SLP095 T03110251=
PWAK 070158Z AUTO 09007KT 9999 SCT021 SCT030 30/24 A2983 RMK AO2
SLP107 T02970241=


......................................................................................


Date: 07-Oct-2565

SAMS31 WMKK 070200
METAR WBGG 070200Z VRB02KT 8000 -RA SCT020 26/24 Q1012 NOSIG=
METAR WBKK 070200Z VRB02KT 9999 FEW014 29/25 Q1010 NOSIG=
METAR WBSB 070200Z 22004KT 9999 FEW014 FEW015CB BKN140 28/27 Q1011 NOSIG=
METAR WMKK 070200Z 18004KT 100V260 9999 VCSH FEW017CB 28/24 Q1011 TEMPO 4000 RA=
METAR WMKP 070200Z VRB03KT 9000 FEW017CB 30/24 Q1011 TEMPO 5000 TSRA=
METAR WSSL 070200Z 13005KT 090V150 9999 FEW018
BKN150 28/24 Q1012=
METAR WSSS 070200Z 13006KT 9999 FEW018 BKN150 28/24 Q1012 NOSIG=


......................................................................................


Date: 07-Oct-2565

SAIR31 OIII 070200
METAR OIAA 070150Z 22002KT CAVOK 23/06 Q1007=
METAR OIAG 070200Z 19002KT CAVOK 21/04 Q1007=
METAR OIAH 070200Z 00000KT CAVOK 18/03 Q1010=
METAR OIAI 070200Z 30002KT CAVOK 25/02 Q1008=
METAR OIAM 070200Z 00000KT CAVOK 25/07 Q1005=
METAR OIAW 070147Z 17002KT 7000 NSC 24/08 Q1005=
METAR OIBA 070200 NIL=
METAR OIBB 070150Z 00000KT CAVOK 23/18 Q1005 A2970=
METAR OIBK 070200Z 17004KT 3000 BR NSC 26/25 Q1005=
METAR OIBL 070200Z 06006KT 3500 BR NSC 28/26 Q1005=
METAR OIBS 070200 NIL=
METAR OICC 070151Z 00000KT CAVOK 10/M13 Q1016 A3003=
METAR OICI 070200Z 11004KT CAVOK 19/M06 Q1019 A3012=
METAR OICJ 070200Z 00000KT CAVOK 15/M06 Q1023=
METAR OICK 070152Z 11008KT CAVOK 18/M06 Q1017=
METAR OICS 070200Z 00000KT CAVOK 09/M03 Q1022 A3019=
METAR OIFK 070200Z 00000KT CAVOK 17/M05 Q1020 A3012=
METAR OIFM 070200Z 28006KT 8000 NSC 08/M05 Q1024 A3024=
METAR OIFS 070152Z 34006KT CAVOK 05/M10 Q1026=
METAR OIGG 070200Z 27002KT 9999 BKN025 SCT070 21/20 Q1022=
METAR OIGK 070150Z 04004KT CAVOK 12/08 Q1029=
METAR OIHH 070200Z 17004KT CAVOK 07/M07 Q1023 A3022=
METAR OIHM 070200Z 08002KT CAVOK 11/M06 Q1024=
METAR OIIE 070200Z 33012KT CAVOK 17/10 Q1021 NOSIG=
METAR OIII 070200Z 31004KT CAVOK 19/M01 Q1022 A3018 NOSIG=
METAR OIIK 070151Z 06002KT CAVOK 12/08 Q1023=
METAR OIIP 070200Z 30008KT CAVOK 13/10 Q1021 A3018=
METAR OIIS 070200Z 36008KT CAVOK 21/M02 Q1021=
METAR OIKB 070200Z 36004KT 0800 MIFG NSC 25/23 Q1006 A2971=
METAR OIKK 070150Z 13004KT CAVOK 07/M10 Q1023 A3021=
METAR OIKO 070200Z 00000KT 3000 BR NSC 24/22 Q1006=
METAR OIKQ 070200Z 00000KT 1500 BR NSC 25/25 Q1005=
METAR OIMB 070200Z 10006KT CAVOK 02/M36 Q1020 A3013=
METAR OIMC 070150Z 00000KT CAVOK 09/M05 Q1021=


......................................................................................


Date: 07-Oct-2565

SAIR77 OIII 070200
METAR AZUH 070155Z 00000KT CAVOK 14/08 Q1021=
METAR KHME 070200Z 07010KT CAVOK 13/M19 Q1021=
METAR OIAA 070150Z 22002KT CAVOK 23/06 Q1007=
METAR OIAG 070200Z 19002KT CAVOK 21/04 Q1007=
METAR OIAH 070200Z 00000KT CAVOK 18/03 Q1010=
METAR OIAI 070200Z 30002KT CAVOK 25/02 Q1008=
METAR OIAM 070200Z 00000KT CAVOK 25/07 Q1005=
METAR OIAW 070147Z 17002KT 7000 NSC 24/08 Q1005=
METAR OIBA 070200 NIL=
METAR OIBB 070150Z 00000KT CAVOK 23/18 Q1005 A2970=
METAR OIBK 070200Z 17004KT 3000 BR NSC 26/25 Q1005=
METAR OIBL 070200Z 06006KT 3500 BR NSC 28/26 Q1005=
METAR OIBS 070200 NIL=
METAR OICC 070151Z 00000KT CAVOK 10/M13 Q1016 A3003=
METAR OICI 070200Z 11004KT CAVOK 19/M06 Q1019 A3012=
METAR OICJ 070200Z 00000KT CAVOK 15/M06 Q1023=
METAR OICK 070152Z 11008KT CAVOK 18/M06 Q1017=
METAR OICS 070200Z 00000KT CAVOK 09/M03 Q1022 A3019=
METAR OIFK 070200Z 00000KT CAVOK 17/M05 Q1020 A3012=
METAR OIFM 070200Z 28006KT 8000 NSC 08/M05 Q1024 A3024=
METAR OIFS 070152Z 34006KT CAVOK 05/M10 Q1026=
METAR OIGG 070200Z 27002KT 9999 BKN025 SCT070 21/20 Q1022=
METAR OIGK 070150Z 04004KT CAVOK 12/08 Q1029=
METAR OIHM 070200Z 08002KT CAVOK 11/M06 Q1024=
METAR OIIE 070200Z 33012KT CAVOK 17/10 Q1021 NOSIG=
METAR OIII 070200Z 31004KT CAVOK 19/M01 Q1022 A3018 NOSIG=
METAR OIIK 070151Z 06002KT CAVOK 12/08 Q1023=
METAR OIIP 070200Z 30008KT CAVOK 13/10 Q1021 A3018=
METAR OIIS 070200Z 36008KT CAVOK 21/M02 Q1021=
METAR OIKB 070200Z 36004KT 0800 MIFG NSC 25/23 Q1006 A2971=
METAR OIKK 070150Z 13004KT CAVOK 07/M10 Q1023 A3021=
METAR OIKO 070200Z 00000KT 3000 BR NSC 24/22 Q1006=
METAR OIKQ 070200Z 00000KT 1500 BR NSC 25/25 Q1005=
METAR OIMB 070200Z 10006KT CAVOK 02/M36 Q1020 A3013=


......................................................................................


Date: 07-Oct-2565

SAJP35 RJTD 070200
METAR RJAA 070200Z 33011KT 4000 -SHRA BR FEW003 BKN004 13/13 Q1017
TEMPO 3000 -SHRA BR=
METAR RJBB 070200Z 08012KT 9999 -SHRA FEW003 SCT010 BKN050 17/16
Q1013 TEMPO 3000 SHRA BR FEW005 BKN008 BKN015=
METAR RJTT 070200Z 34013KT 4000 RA BR FEW006 SCT009 BKN020 13/12
Q1017 TEMPO FEW005 BKN008=
METAR RJOO 070200Z 08007KT 040V110 6000 -SHRA BR FEW003 SCT008
BKN025 17/16 Q1013=
METAR RJGG 070200Z 35013KT 3000 -RA BR FEW004 SCT006 BKN010 16/15
Q1014 TEMPO RA BR FEW004 BKN008=
METAR RJSN 070200Z 11005KT 9999 -RA FEW030 SCT060 OVC090 13/10
Q1016=
METAR RJCH 070200Z 07004KT 350V100 9999 FEW030 SCT130 BKN/// 13/02
Q1021=
METAR RJSA 070200Z 03003KT 350V080 9999 FEW040 BKN100 12/05 Q1020=
METAR RJSF 070200Z 35007KT 3000 -RA BR FEW001 BKN003 BKN005 09/09
Q1019=
METAR RJSI 070200Z 01003KT 320V100 9999 FEW030 SCT100 BKN130 11/07
Q1020=


......................................................................................


Date: 07-Oct-2565

SAJP37 RJTD 070200
METAR RJAA 070200Z 33011KT 4000 -SHRA BR FEW003 BKN004 13/13 Q1017
TEMPO 3000 -SHRA BR=
METAR RJBB 070200Z 08012KT 9999 -SHRA FEW003 SCT010 BKN050 17/16
Q1013 TEMPO 3000 SHRA BR FEW005 BKN008 BKN015=
METAR RJTT 070200Z 34013KT 4000 RA BR FEW006 SCT009 BKN020 13/12
Q1017 TEMPO FEW005 BKN008=
METAR RJOO 070200Z 08007KT 040V110 6000 -SHRA BR FEW003 SCT008
BKN025 17/16 Q1013=
METAR RJFF 070200Z 13004KT 090V150 9999 -SHRA FEW005 SCT030 BKN100
17/15 Q1016 BECMG 31011KT=
METAR RJGG 070200Z 35013KT 3000 -RA BR FEW004 SCT006 BKN010 16/15
Q1014 TEMPO RA BR FEW004 BKN008=
METAR RJFK 070200Z 33014KT 9999 FEW010 BKN015 BKN050 19/16 Q1016=
METAR RJFU 070200Z 34012KT 9999 -SHRA FEW005 SCT015 BKN020 18/15
Q1017=
METAR RJCH 070200Z 07004KT 350V100 9999 FEW030 SCT130 BKN/// 13/02
Q1021=
METAR RJNS 070200Z 03006KT 330V110 9999 -RA FEW008 BKN020 BKN040
14/14 Q1013=


......................................................................................


Date: 07-Oct-2565

SAJP37 RJTD 070200 RRA
METAR RJFR 070200Z 26009KT 9999 -RA FEW005 BKN060 BKN080 17/15
Q1015=


......................................................................................


Date: 07-Oct-2565

SASD20 OEJD 070200
METAR OEAB 070200Z 00000KT CAVOK 17/02 Q1023 NOSIG=
METAR OEAH 070200Z 29008KT CAVOK 27/M02 Q1007 NOSIG=
METAR OEAO 070200Z 00000KT CAVOK 26/00 Q1014 NOSIG=
METAR OEBA 070200Z 22003KT 9999 FEW030 21/06 Q1019 NOSIG=
METAR OEBH 070200Z 00000KT CAVOK 20/04 Q1015 NOSIG=
METAR OEDF 070200Z 29005KT CAVOK 25/06 Q1006 NOSIG=
METAR OEDM 070200Z NIL=
METAR OEDR 070200Z 28008KT CAVOK 26/05 Q1005=
METAR OEGN 070200Z 00000KT CAVOK 29/21 Q1008 NOSIG=
METAR OEGS 070200Z 00000KT CAVOK 21/03 Q1013=
METAR OEGT 070200Z 33010KT CAVOK 19/10 Q1013 NOSIG=
METAR OEHL 070200Z 18004KT CAVOK 19/M05 Q1017=
METAR OEJB 070200Z AUTO 30006KT CAVOK 24/03 Q1007 NOSIG=
METAR OEJN 070200Z 00000KT CAVOK 27/23 Q1006 NOSIG=
METAR OEKJ 070200Z 26006KT CAVOK 24/M05 Q1014=
METAR OEKK 070200Z NIL=


......................................................................................


Date: 07-Oct-2565

SASD21 OEJD 070200
METAR OEKM 070200Z 00000KT CAVOK 18/M01 Q1023 NOSIG=
METAR OEMA 070200Z 07003KT CAVOK 26/M08 Q1015 NOSIG=
METAR OEMN 070200Z 08008KT CAVOK 36/04 Q1009=
METAR OEMK 070200Z NIL=
METAR OENG 070200Z 00000KT 9999 FEW030 SCT090 24/05 Q1016 NOSIG=
METAR OEPA 070200Z 30004KT CAVOK 23/00 Q1010 NOSIG=
METAR OERF 070200Z 23004KT CAVOK 24/M06 Q1011 NOSIG=
METAR OERK 070200Z 29003KT CAVOK 23/03 Q1013 NOSIG=
METAR OERY 070200Z NIL=
METAR OERR 070200Z 31010KT CAVOK 24/03 Q1012 NOSIG=
METAR OESH 070200Z 00000KT 9999 SCT040 26/06 Q1012 NOSIG=
METAR OESK 070200Z 00000KT CAVOK 24/01 Q1016 NOSIG=
METAR OETB 070200Z 27004KT CAVOK 24/02 Q1014 NOSIG=
METAR OETF 070200Z 00000KT CAVOK 20/M04 Q1020 NOSIG=
METAR OETR 070200Z 08006KT CAVOK 20/10 Q1015 NOSIG=
METAR OEWD 070200Z 13002KT CAVOK 24/09 Q1011=
METAR OEWJ 070200Z 02003KT CAVOK 25/20 Q1007 NOSIG=
METAR OEYN 070200Z 00000KT CAVOK 27/09 Q1005 NOSIG=


......................................................................................


Date: 07-Oct-2565

SAMS31 WMKK 070200
METAR WBGG 070200Z NIL=
METAR WBKK 070200Z NIL=
METAR WBSB 070200Z NIL=
METAR WMKK 070200Z NIL=
METAR WMKP 070200Z NIL=
METAR WSSL 070200Z 13005KT 090V150 9999 FEW018
BKN150 28/24 Q1012=
METAR WSSS 070200Z 13006KT 9999 FEW018 BKN150 28/24 Q1012 NOSIG=


......................................................................................


Date: 07-Oct-2565

SAMS32 WMKK 070200
NIL


......................................................................................


Date: 07-Oct-2565

SAMS34 WMKK 070200
NIL


......................................................................................


Date: 07-Oct-2565

SAMS38 WMKK 070200
NIL


......................................................................................


Date: 07-Oct-2565

SAPA31 KWBC 070200 RRA
METAR
AYPY 070200Z 18010G15KT 9999 HZ SCT020 BKN030 31/25 Q1008=


......................................................................................


Date: 07-Oct-2565

SAIR31 OIII 070200
METAR OIAA 070150Z 22002KT CAVOK 23/06 Q1007=
METAR OIAG 070200Z 19002KT CAVOK 21/04 Q1007=
METAR OIAH 070200Z 00000KT CAVOK 18/03 Q1010=
METAR OIAI 070200Z 30002KT CAVOK 25/02 Q1008=
METAR OIAM 070200Z 00000KT CAVOK 25/07 Q1005=
METAR OIAW 070147Z 17002KT 7000 NSC 24/08 Q1005=
METAR OIBA 070200Z NIL=
METAR OIBB 070150Z 00000KT CAVOK 23/18 Q1005 A2970=
METAR OIBK 070200Z 17004KT 3000 BR NSC 26/25 Q1005=
METAR OIBL 070200Z 06006KT 3500 BR NSC 28/26 Q1005=
METAR OIBS 070200Z NIL=
METAR OICC 070151Z 00000KT CAVOK 10/M13 Q1016 A3003=
METAR OICI 070200Z 11004KT CAVOK 19/M06 Q1019 A3012=
METAR OICJ 070200Z 00000KT CAVOK 15/M06 Q1023=
METAR OICK 070152Z 11008KT CAVOK 18/M06 Q1017=
METAR OICS 070200Z 00000KT CAVOK 09/M03 Q1022 A3019=
METAR OIFK 070200Z 00000KT CAVOK 17/M05 Q1020 A3012=
METAR OIFM 070200Z 28006KT 8000 NSC 08/M05 Q1024 A3024=
METAR OIFS 070152Z 34006KT CAVOK 05/M10 Q1026=
METAR OIGG 070200Z 27002KT 9999 BKN025 SCT070 21/20 Q1022=
METAR OIGK 070150Z 04004KT CAVOK 12/08 Q1029=
METAR OIHH 070200Z 17004KT CAVOK 07/M07 Q1023 A3022=
METAR OIHM 070200Z 08002KT CAVOK 11/M06 Q1024=
METAR OIIE 070200Z 33012KT CAVOK 17/10 Q1021 NOSIG=
METAR OIII 070200Z 31004KT CAVOK 19/M01 Q1022 A3018 NOSIG=
METAR OIIK 070151Z 06002KT CAVOK 12/08 Q1023=
METAR OIIP 070200Z 30008KT CAVOK 13/10 Q1021 A3018=
METAR OIIS 070200Z 36008KT CAVOK 21/M02 Q1021=
METAR OIKB 070200Z 36004KT 0800 MIFG NSC 25/23 Q1006 A2971=
METAR OIKK 070150Z 13004KT CAVOK 07/M10 Q1023 A3021=
METAR OIKO 070200Z 00000KT 3000 BR NSC 24/22 Q1006=
METAR OIKQ 070200Z 00000KT 1500 BR NSC 25/25 Q1005=
METAR OIMB 070200Z 10006KT CAVOK 02/M36 Q1020 A3013=
METAR OIMC 070150Z 00000KT CAVOK 09/M05 Q1021=


......................................................................................


Date: 07-Oct-2565

SAIR36 OIII 070200 RRA
METAR OIMT 070200Z AUTO 07004KT //// // ////// 14/M24 Q1016=


......................................................................................


Date: 07-Oct-2565

SAUZ31 UTTW 070200 RRA
METAR UTFN 070200Z 33006KT 9999 NSC 11/03 Q1022 R28/CLRD70 NOSIG=


......................................................................................


Date: 07-Oct-2565

SAUZ31 UTTW 070200 RRB
METAR UTFA 070200Z 00000KT 6000 NSC 09/05 Q1022=


......................................................................................


Date: 07-Oct-2565

SAAR20 OEJD 070200
METAR OBBI 070200Z 29003KT 230V340 CAVOK 30/20 Q1006 NOSIG=
METAR OKBK 070200Z 00000KT CAVOK 26/M04 Q1007 NOSIG=
METAR OMAA 070200Z VRB02KT 6000 NSC 27/25 Q1006 TEMPO 4000 HZ=
METAR OMAD 070200Z 13001KT 9000 NSC 29/27 Q1005 NOSIG=
METAR OMAL 070200Z 04008KT CAVOK 27/11 Q1008 NOSIG=
METAR OMDB 070200Z 08003KT 010V120 5000 HZ NSC 30/24 Q1006 BECMG
4000=
METAR OMFJ 070150Z 29006KT 7000 NSC 28/20 Q1007 RMK A2973=
METAR OMRK 070200Z 20002KT 2500 BR NSC 24/24 Q1006 A2973=
METAR OMSJ 070200Z 10004KT 4000 HZ NSC 25/22 Q1006 BECMG 3000=
METAR OOMS 070150Z 08003KT 7000 NSC 27/27 Q1006 NOSIG=
METAR OOSA 070150Z VRB02KT 9999 BKN025 26/22 Q1009 NOSIG=
METAR OOSH 070150Z AUTO 25004KT //// ////// 28/21 Q1006 RMK 1003=
METAR OODQ 070150Z AUTO 22014KT CAVOK ////// 23/23 Q1007 NOSIG RMK
RH100? 0=
METAR OTBD 070200Z 27004KT 220V310 7000 NSC 29/26 Q1006 NOSIG=
METAR OTBH 070155Z 24005KT 0400 FG SCT000 25/24 A2971=
METAR OTHH 070200Z 31004KT 9000 NSC 28/25 Q1006 NOSIG=
METAR OYAA 070200Z NIL=
METAR OYSN 070200Z NIL=


......................................................................................


Date: 07-Oct-2565

SAKO51 RJTD 070200
METAR RKPC 070200Z 34011KT 300V040 9999 BKN035 BKN150 18/10 Q1020
NOSIG=
METAR RKPK 070200Z 34007KT 9999 FEW030 SCT170 20/09 Q1017=
METAR RKSI 070200Z 34013KT CAVOK 16/05 Q1021 NOSIG=
METAR RKSM 070200Z 34006KT 9999 SCT035 17/09 A3013=
METAR RKSS 070200Z 36009KT 330V030 9999 SCT030 16/09 Q1021 NOSIG=
METAR RKTN 070200Z 32009KT 9999 BKN040 20/10 Q1017=
METAR RKTU 070200Z 28005KT 9999 FEW020 BKN040 17/12 Q1019=


......................................................................................


Date: 07-Oct-2565

SAMS31 WMKK 070200 RRA
METAR WMKK 070200Z 18004KT 100V260 9999 VCSH FEW017CB 28/24 Q1011
TEMPO
4000 RA=
METAR WMKP 070200Z VRB03KT 9000 FEW017CB 30/24 Q1011 TEMPO 5000 TSRA=


......................................................................................


Date: 07-Oct-2565

SAUZ31 UTTW 070200 RRC
METAR UTST 070200Z 05004KT CAVOK 07/00 Q1022 R25/CLRD70 NOSIG=


......................................................................................


Date: 07-Oct-2565

SAMS32 WMKK 070200 RRA
METAR WMKK 070200Z 18004KT 100V260 9999 VCSH FEW017CB 28/24 Q1011
TEMPO
4000 RA=
METAR WMKP 070200Z VRB03KT 9000 FEW017CB 30/24 Q1011 TEMPO 5000 TSRA=
METAR WMSA 070200Z 33005KT 280V030 9999 FEW017CB 27/24 Q1012=


......................................................................................


Date: 07-Oct-2565

SAMS34 WMKK 070200 RRA
METAR WBGB 070200Z 25003KT 210V300 9999 SCT012 27/25 Q1011=
METAR WBGR 070200Z 00000KT 9999 SCT016 29/25 Q1010=
METAR WBGS 070200Z 35005KT 300V020 9999 SCT016 26/24 Q1012=
METAR WBGY 070200Z VRB01KT 9999 -RA FEW008 SCT022 24/24 Q1012=
METAR WBKL 070200Z VRB02KT 9999 FEW014 29/26 Q1010=
METAR WBKS 070200Z VRB03KT 9999 SCT015 30/25 Q1011=
METAR WBKT 070200Z 12005KT 050V190 9999 FEW015 28/25 Q1010=
METAR WBKW 070200Z 15003KT 110V210 9999 FEW018 30/25 Q1011=


......................................................................................


Date: 07-Oct-2565

SAMS38 WMKK 070200 RRA
METAR WBGB 070200Z 25003KT 210V300 9999 SCT012 27/25 Q1011=
METAR WBGR 070200Z 00000KT 9999 SCT016 29/25 Q1010=
METAR WBGS 070200Z 35005KT 300V020 9999 SCT016 26/24 Q1012=
METAR WBKL 070200Z VRB02KT 9999 FEW014 29/26 Q1010=
METAR WBKS 070200Z VRB03KT 9999 SCT015 30/25 Q1011=
METAR WBKW 070200Z 15003KT 110V210 9999 FEW018 30/25 Q1011=
METAR WMKD 070200Z 00000KT 9999 FEW019 29/25 Q1011 NOSIG=
METAR WMKL 070200Z VRB01KT 9999 FEW017CB SCT020 29/25 Q1011=
METAR WMKM 070200Z 12004KT 040V200 9999 FEW018 SCT027 28/25 Q1012=


......................................................................................


Date: 07-Oct-2565

SATR31 UTAA 070200 RRA
METAR UTAM 070200Z 00000KT 6000 NSC 09/00 Q1022 R88/CLRD70 NOSIG=


......................................................................................


Date: 07-Oct-2565

SACI51 RJTD 070200
METAR ZBAA 070200Z VRB01MPS CAVOK 13/05 Q1024 NOSIG=
METAR ZBTJ 070200Z 24003MPS 190V280 6000 NSC 14/08 Q1024 NOSIG=
METAR ZBYN 070200Z VRB02MPS 1800 BR NSC 08/06 Q1026 BECMG TL0330
3000=
METAR ZGGG 070200Z 01005MPS 9999 BKN040 27/22 Q1017 NOSIG=
METAR ZGKL 070200Z 04003MPS 010V070 9999 FEW026 OVC053 18/11 Q1023
NOSIG=
METAR ZGNN 070200Z 07005MPS 9999 SCT020 BKN043 27/21 Q1017 NOSIG=
METAR ZGOW 070200Z 07003MPS 020V140 9999 FEW040 30/21 Q1016 NOSIG=
METAR ZGSZ 070200Z 07004MPS 9999 SCT030 30/23 Q1016 NOSIG=
METAR ZLXY 070200Z 06003MPS 2800 BR SCT007 OVC050 10/09 Q1026 BECMG
TL0240 3000=
METAR ZPPP 070200Z 04004MPS 9999 FEW005 SCT020 OVC033 12/12 Q1028
NOSIG=
METAR ZSAM 070200Z 02004MPS 350V050 9999 FEW023 30/21 Q1016 NOSIG=
METAR ZSHC 070200Z 36003MPS 330V040 5000 -RA BR BKN006 BKN020 15/14
Q1024 NOSIG=
METAR ZSNJ 070200Z 05003MPS 010V080 9999 FEW015 14/10 Q1025 NOSIG=
METAR ZSQD 070200Z 35003MPS 310V040 CAVOK 15/06 Q1026 NOSIG=
METAR ZSSS 070200Z 36004MPS 330V030 9999 SCT013 17/14 Q1024 NOSIG=
METAR ZWWW 070200Z 14003MPS CAVOK 14/M01 Q1026 NOSIG=
METAR ZYTL 070200Z 28004MPS 260V330 CAVOK 18/07 Q1024 NOSIG=
METAR ZYTX 070200Z 13004MPS 100V170 CAVOK 14/M06 Q1024 NOSIG=


......................................................................................


Date: 07-Oct-2565

SAMS32 WMKK 070200 RRA
METAR WMKJ 070200Z 13003KT 070V190 9999 FEW018 28/24 Q1012=


......................................................................................


Date: 07-Oct-2565

SAAE32 VTBB 070200 RRA
METAR VYNT 070200Z 19005KT 7000 SCT018 FEW022CB BKN110 27/24 Q1012
NOSIG=


......................................................................................


Date: 07-Oct-2565

SAPA31 KWBC 070200 RRB
METAR
PKWA 070220Z AUTO 10006KT 10SM SCT065 SCT075 SCT085 28/24 A2976
RMK AO2 T02830242=


......................................................................................


Date: 07-Oct-2565

SASB31 VCCC 070210
METAR VCBI 070210Z 24008KT 220V300 9999 SCT016 28/24 Q1009 NOSIG=
METAR VRMM 070200Z 30014KT 9999 FEW018TCU 29/24 Q1010 NOSIG=
METAR VCRI 070210Z 26007KT 9999 FEW018 27/25 Q1009 NOSIG=


......................................................................................


Date: 07-Oct-2565

SAAE31 VDPP 070230
METAR VDPP 070230Z 33006KT 300V020 9999 SCT015 29/25 Q1010=


......................................................................................


Date: 07-Oct-2565

SAOM81 OOMS 070200
METAR OOAD 070200Z NIL=
METAR OOBH 070150Z AUTO 29001KT //// ////// 24/11 Q1010=
METAR OOBR 070150Z AUTO 08004KT //// 29/M01 Q1008=
METAR OODB 070150Z AUTO 19003KT //// ////// 27/26 Q1007=
METAR OODQ 070150Z AUTO 22014KT CAVOK ////// 23/23 Q1007 NOSIG=
METAR OOFD 070150Z AUTO 11007KT //// ////// 25/14 Q1007=
METAR OOIB 070200Z NIL=
METAR OOIR 070150Z AUTO 08002KT //// ////// 24/16 Q1010=
METAR OOJB 070150Z AUTO 03002KT //// ////// 23/20 Q1007=
METAR OOJS 070200Z NIL=
METAR OOKB 070150Z AUTO 19005KT 9999 // NSC 30/21 Q1006 NOSIG=
METAR OOMA 070150Z AUTO 17006KT //// ////// 25/23 Q1007=
METAR OOMJ 070150Z AUTO 00000KT //// ////// 28/24 Q1006=
METAR OOML 070200Z NIL=
METAR OOMQ 070150Z AUTO 35005KT //// ////// 29/25 Q1005=
METAR OOMS 070150Z 08003KT 7000 NSC 27/27 Q1006 NOSIG=
METAR OONZ 070150Z AUTO VRB01KT //// ////// 23/13 Q1010=
METAR OOQA 070200Z NIL=
METAR OOQH 070150Z AUTO VRB01KT 2800 ////// 18/18 Q1013=
METAR OOQL 070150Z AUTO VRB04KT //// ////// 28/20 Q1006=
METAR OOQQ 070150Z AUTO 04006KT //// 18/M05 Q1021=
METAR OORA 070150Z AUTO 26002KT //// ////// 25/23 Q1008=
METAR OORH 070150Z AUTO 21006KT //// ////// 25/24 Q1007=
METAR OORQ 070150Z AUTO VRB03KT //// ////// 25/24 Q1008=
METAR OOSA 070150Z VRB02KT 9999 BKN025 26/22 Q1009 NOSIG=
METAR OOSM 070150Z AUTO VRB02KT //// ////// 26/07 Q1009=
METAR OOSQ 070200Z NIL=
METAR OOSR 070150Z AUTO 24009KT //// ////// 27/18 Q1006=
METAR OOTH 070200Z NIL=
METAR OOYA 070150Z AUTO 17009KT //// ////// 22/22 Q1007=


......................................................................................


Date: 07-Oct-2565

SAPK31 OPKC 070230
METAR OPKC 070225Z 32003KT 3000 BR FEW030 25/23 Q1007 NOSIG=


......................................................................................


Date: 07-Oct-2565

SAMS32 WMKK 070200 RRB
METAR WMKJ 070200Z 13003KT 070V190 9999 FEW018 28/24 Q1012=


......................................................................................


Date: 07-Oct-2565

SATH31 VTBD 070230
METAR VTBD 070230Z 02006KT 340V060 9999 FEW020 SCT030 29/25 Q1012
NOSIG=


......................................................................................


Date: 07-Oct-2565

SATH31 VTBS 070230
METAR VTBS 070230Z 05006KT 010V070 9999 FEW010 SCT020 29/25 Q1012
NOSIG=


......................................................................................


Date: 07-Oct-2565

SATH31 VTCC 070230
METAR VTCC 070230Z 03005KT 9999 SCT035 27/23 Q1015 NOSIG=


......................................................................................


Date: 07-Oct-2565

SATH31 VTSP 070230
METAR VTSP 070230Z VRB02KT 9000 FEW010 SCT020 BKN100 26/24 Q1011
NOSIG=


......................................................................................


Date: 07-Oct-2565

SATH31 VTSS 070230
METAR VTSS 070230Z VRB02KT 9999 FEW020 BKN100 29/25 Q1011 NOSIG=


......................................................................................


Date: 07-Oct-2565

SAIR20 OIII 070230
METAR OIAA 070230 NIL=
METAR OIAW 070230 NIL=
METAR OIFM 070230Z 28006KT 5000 HZ NSC 08/M05 Q1024 A3025=
METAR OIGG 070230 NIL=
METAR OIIE 070230Z 29008KT 8000 NSC 17/10 Q1021=
METAR OIII 070230Z 36004KT CAVOK 20/M03 Q1022 A3018=
METAR OIKB 070230Z 36004KT 1200 BR NSC 25/23 Q1006 A2971=
METAR OIMM 070230 NIL=
METAR OISS 070230Z 00000KT CAVOK 12/M02 Q1020 A3014=
METAR OITT 070230Z 10004KT CAVOK 17/06 Q1023 A3022=
METAR OIYY 070230 NIL=
METAR OIZH 070230 NIL=


......................................................................................


Date: 07-Oct-2565

SAPA31 KWBC 070200 RRC
METAR
PGUM 070226Z 21005KT 9SM -RA FEW019 BKN044 OVC055 27/25 A2980 RMK
AO2 RAB13 P0003 T02670250=


......................................................................................


Date: 07-Oct-2565

SATH31 VTBU 070230
METAR VTBU 070230Z 06003KT 9999 FEW020 30/24 Q1012 NOSIG=


......................................................................................


Date: 07-Oct-2565

SAHK31 VHHH 070230
METAR VHHH 070230Z 08008KT 050V110 9999 FEW028 SCT045 31/22
Q1016 NOSIG=


......................................................................................


Date: 07-Oct-2565

SAMS33 WMKK 070200
NIL


......................................................................................


Date: 07-Oct-2565

SAPK31 OPKC 070230
METAR OPIS 070230Z 23005KT 6000 FEW040 SCT100 20/13 Q1014 NOSIG=
METAR OPKC 070225Z 32003KT 3000 BR FEW030 25/23 Q1007 NOSIG=
METAR OPLA 070225Z 00000KT 3000 BR NSC 25/21 Q1010 BECMG 2000
RMK QFE985 A29.84=
METAR OPMT 070230Z 00000KT 4000 FU NSC 22/18 Q1009 NOSIG=
METAR OPPS 070230Z 18006KT 6000 HZ FEW040 FEW100 19/15 Q1014=
METAR OPSK 070230Z NIL=
METAR OPFA 070230Z NIL=
METAR OPST 070230Z NIL=
METAR OPNH 070230Z NIL=


......................................................................................


Date: 07-Oct-2565

SAPK31 OPKC 070230 RRA
METAR OPFA 070230Z NIL=
METAR OPNH 070230Z NIL=
METAR OPSK 070230Z NIL=
METAR OPST 070230Z NIL=


......................................................................................


Date: 07-Oct-2565

SAIR31 OIII 070230
METAR OIAW 070230Z NIL=
METAR OIFM 070230Z 28006KT 5000 HZ NSC 08/M05 Q1024 A3025=
METAR OIII 070230Z 36004KT CAVOK 20/M03 Q1022 A3018=
METAR OIKB 070230Z NIL=
METAR OIKK 070230Z NIL=
METAR OIMM 070230Z NIL=
METAR OISS 070230Z 00000KT CAVOK 12/M02 Q1020 A3014=
METAR OITT 070230Z 10004KT CAVOK 17/06 Q1023 A3022=
METAR OIZH 070230Z NIL=


......................................................................................


Date: 07-Oct-2565

SAIR31 OIII 070230 RRA
METAR OIKB 070230Z 36004KT 1200 BR NSC 25/23 Q1006 A2971=


......................................................................................


Date: 07-Oct-2565

SAIR32 OIII 070230
METAR OIAA 070230Z NIL=
METAR OIBK 070230Z NIL=
METAR OICC 070230Z 00000KT CAVOK 12/M13 Q1020 A3014=
METAR OIGG 070230Z NIL=
METAR OIIE 070230Z 29008KT 8000 NSC 17/10 Q1021=
METAR OINZ 070230Z NIL=
METAR OITR 070230Z NIL=
METAR OIYY 070230Z NIL=


......................................................................................


Date: 07-Oct-2565

SAMS33 WMKK 070200 RRA
METAR WMKD 070200Z 00000KT 9999 FEW019 29/25 Q1011 NOSIG=
METAR WMKL 070200Z VRB01KT 9999 FEW017CB SCT020 29/25 Q1011=
METAR WMKM 070200Z 12004KT 040V200 9999 FEW018 SCT027 28/25 Q1012=


......................................................................................


Date: 07-Oct-2565

SAMV31 VRMM 070200
METAR VRMH 070200Z 29011KT 9999 FEW018 28/24 Q1009=
METAR VRMM 070200Z 30014KT 9999 FEW018TCU 29/24 Q1010 NOSIG=


......................................................................................


Date: 07-Oct-2565

SASR31 WSSS 070230
METAR WSSS 070230Z 14006KT 9999 FEW018 BKN150 28/24 Q1012 NOSIG=


......................................................................................


Date: 07-Oct-2565

SAIR20 OIII 070230 RRA
METAR OIGG 070230Z 28002KT 9999 BKN025 BKN070 21/20 Q1022=


......................................................................................


Date: 07-Oct-2565

SAIR32 OIII 070230 RRA
METAR OIGG 070230Z 28002KT 9999 BKN025 BKN070 21/20 Q1022=


......................................................................................


Date: 07-Oct-2565

SAAE31 VTBB 070230
METAR VTCT 070230Z NIL=
METAR VTSG 070230Z NIL=
METAR VTBD 070230Z 02006KT 340V060 9999 FEW020 SCT030 29/25 Q1012
NOSIG=
METAR VTBS 070230Z 05006KT 010V070 9999 FEW010 SCT020 29/25 Q1012
NOSIG=
METAR VTCC 070230Z 03005KT 9999 SCT035 27/23 Q1015 NOSIG=
METAR VTSP 070230Z VRB02KT 9000 FEW010 SCT020 BKN100 26/24 Q1011
NOSIG=
METAR VTSS 070230Z VRB02KT 9999 FEW020 BKN100 29/25 Q1011 NOSIG=
METAR VTBU 070230Z 06003KT 9999 FEW020 30/24 Q1012 NOSIG=


......................................................................................


Date: 07-Oct-2565

SAAE32 VTBB 070230
METAR VDPP 070230Z 33006KT 300V020 9999 SCT015 29/25 Q1010=
METAR VDSR 070230Z 05005KT 010V100 9999 SCT015 SCT040 29/23 Q1011=
METAR VLVT 070230Z 06004KT 9999 FEW016 SCT050 30/26 Q1014 NOSIG=
METAR VYMD 070230Z 27003KT 7000 SCT025 29/26 Q1012 NOSIG=
METAR VYNT 070230Z NIL=
METAR VYYY 070230Z 06004KT 7000 BKN015 FEW020CB BKN100 28/25 Q1012
NOSIG=
METAR VDSV 070230Z 14008KT 100V160 9999 SCT015 30/24 Q1011=


......................................................................................


Date: 07-Oct-2565

SAAE34 VTBB 070230
METAR VVCI 070230Z 08007KT 050V110 6000 -RA FEW011 BKN038 24/24 Q1016
NOSIG=
METAR VVCR 070230Z 03009KT 9999 FEW015 30/24 Q1012 NOSIG=
METAR VVCT 070230Z 07005KT 9999 SCT015 29/25 Q1011 NOSIG=
METAR VVDN 070230Z 01010KT 9999 FEW015 FEW017TCU 30/24 Q1014 NOSIG=
METAR VVNB 070230Z 10005KT 050V140 6000 FEW011 SCT014 BKN016 28/24
Q1016 NOSIG=
METAR VVPB 070230Z 06003KT 9999 FEW015 BKN050 29/25 Q1015 NOSIG=
METAR VVPQ 070230Z 07009KT 9999 FEW015 29/24 Q1011 NOSIG=
METAR VVTS 070230Z VRB02KT 9999 FEW020 31/25 Q1011 NOSIG =


......................................................................................


Date: 07-Oct-2565

SAUZ31 UTTW 070230
METAR UTFN 070230Z NIL=
METAR UTNN 070230Z 00000KT CAVOK 05/M08 Q1021 R33/CLRD60 NOSIG=
METAR UTNU 070230Z 33002KT CAVOK 06/M01 Q1021 R31/CLRD70 NOSIG=
METAR UTSA 070230Z 09008KT 5000 FU NSC 10/00 Q1021 R07/CLRD70 NOSIG=
METAR UTSB 070230Z 08002KT CAVOK 07/M01 Q1021 R01/CLRD70 NOSIG=
METAR UTSK 070230Z 07004KT CAVOK 09/M04 Q1022 R16/CLRD70=
METAR UTSS 070230Z 16004KT 110V200 9999 NSC 10/M01 Q1021 R09/CLRD70
NOSIG=
METAR UTST 070230Z 04004KT CAVOK 08/01 Q1022 R25/CLRD70 NOSIG=
METAR UTFA 070230Z NIL=
METAR UTFF 070230Z 12004KT 9999 NSC 14/03 Q1022 R18/CLRD70=
METAR UTTT 070230Z 08006KT CAVOK 11/01 Q1022 R08L/CLRD70 NOSIG=


......................................................................................


Date: 07-Oct-2565

SAUZ31 UTTW 070230 RRA
METAR UTFN 070230Z 34004KT 9999 NSC 13/04 Q1022 R28/CLRD70 NOSIG=


......................................................................................


Date: 07-Oct-2565

SAUZ31 UTTW 070230 RRB
METAR UTFA 070230Z 15002KT 5000 BR NSC 10/06 Q1023=


......................................................................................


Date: 07-Oct-2565

SAHK31 VHHH 070230
METAR VHHH 070230Z 08008KT 050V110 9999 FEW028 SCT045 31/22
Q1016 NOSIG=
METAR RCTP 070230Z 05020KT 9999 FEW012 BKN030 BKN060 28/23 Q1015
NOSIG RMK A3000=
METAR RCKH 070230Z 24007KT 210V290 9999 FEW015 SCT028 31/23 Q1013
NOSIG RMK A2994=
METAR RCSS 070230Z 09010KT 4500 -SHRA FEW008 SCT012 BKN030 26/24
Q1016 RESHRA TEMPO 5000 RMK A3001=
METAR RCMQ 070230Z 33005KT 8000 FEW010 SCT025 28/23 Q1015 NOSIG
RMK A2999=
METAR RCNN 070230Z 24005KT 9999 FEW014 SCT025 BKN060 32/24 Q1014
NOSIG RMK A2995=
METAR RCFN 070230Z 35004KT 290V060 9999 -SHRA FEW016 FEW020TCU
BKN022 BKN040 28/26 Q1016 NOSIG RMK TCU SW AND NW A3001=
METAR VMMC 070230Z 08011KT 060V120 9999 FEW015 29/25 Q1016 NOSIG=


......................................................................................


Date: 07-Oct-2565

SAMS31 WMKK 070230
METAR WBGG 070230Z VRB02KT 9999 SCT020 27/24 Q1012 NOSIG=
METAR WBKK 070230Z VRB02KT 9999 FEW014 29/25 Q1010 NOSIG=
METAR WBSB 070230Z 25002KT 9999 FEW014 FEW016CB BKN280 30/26 Q1010 NOSIG=
METAR WMKK 070230Z VRB02KT 9999 -RA FEW010 FEW017CB SCT030 25/24 Q1012 TEMPO 4000 RA=
METAR WMKP 070230Z 20005KT 160V240 9000 FEW017CB 30/24 Q1012 NOSIG=
METAR WSSL 070230Z NIL=
METAR WSSS 070230Z 14006KT 9999 FEW018 BKN150 28/24 Q1012 NOSIG=


......................................................................................


Date: 07-Oct-2565

SAJP51 RJTD 070230
METAR RJAA 070230Z 34010KT 3500 R34L/P2000N R34R/2000N -SHRA BR
FEW002 BKN003 BKN004 14/14 Q1015 TEMPO 3000 -SHRA BR=
METAR RJBB 070230Z 07010KT 5000 SHRA BR FEW003 SCT010 BKN020 17/17
Q1013 TEMPO 3000 SHRA BR FEW005 BKN008 BKN015=
METAR RJCC 070230Z 20006KT 9999 FEW020 BKN150 BKN/// 11/03 Q1021=
METAR RJFF 070230Z 15004KT 100V190 9999 FEW005 SCT050 BKN150 18/15
Q1016 BECMG 31011KT=
METAR RJGG 070230Z 35013KT 3000 -RA BR FEW004 SCT006 BKN010 16/15
Q1014 TEMPO RA BR FEW004 BKN008=
METAR RJTT 070230Z 34013KT 4000 -RA BR FEW006 BKN016 13/12 Q1016
TEMPO RA BR FEW005 BKN008=
METAR ROAH 070230Z 01017KT 9999 VCSH SCT020 FEW025TCU BKN030 28/23
Q1015=


......................................................................................


Date: 07-Oct-2565

SAMS31 WMKK 070230
METAR WBGG 070230Z NIL=
METAR WBKK 070230Z NIL=
METAR WBSB 070230Z NIL=
METAR WMKK 070230Z NIL=
METAR WMKP 070230Z NIL=
METAR WSSL 070230Z NIL=
METAR WSSS 070230Z 14006KT 9999 FEW018 BKN150 28/24 Q1012 NOSIG=


......................................................................................


Date: 07-Oct-2565

SAIR36 OIII 070230 RRA
METAR OIMN 070230Z 00000KT 5000 BR FEW005 FEW030CB 12/10 Q1024=


......................................................................................


Date: 07-Oct-2565

SAMS33 WMKK 070200 RRB
METAR WMAU 070200Z VRB02KT 8000 SCT025 27/25 Q1012=
METAR WMBA 070200Z 12003KT 040V170 9999 FEW017CB 28/24 Q1011=
METAR WMKA 070200Z VRB02KT 9999 FEW020 28/25 Q1011=
METAR WMKB 070200Z VRB02KT 9999 FEW020 27/25 Q1011 NOSIG=
METAR WMKC 070200Z VRB02KT 9999 FEW017CB 26/24 Q1011=
METAR WMKI 070200Z 03006KT 350V060 9999 FEW019 27/22 Q1012=
METAR WMKN 070200Z 20004KT 150V250 9999 FEW017CB SCT020 27/25 Q1011=


......................................................................................


Date: 07-Oct-2565

SAIR32 OIII 070200 RRB
METAR OINZ 070200Z 19004KT 9999 BKN040 21/19 Q1021=


......................................................................................


Date: 07-Oct-2565

SAPA31 KWBC 070200 RRD
METAR
PKWA 070240Z AUTO 09007KT 10SM CLR 28/24 A2975 RMK AO2
T02830241=


......................................................................................


Date: 07-Oct-2565

SAMS31 WMKK 070230 RRA
METAR WMKK 070230Z VRB02KT 9999 -RA FEW010 FEW017CB SCT030 25/24
Q1012
TEMPO 4000 RA=
METAR WMKP 070230Z 20005KT 160V240 9000 FEW017CB 30/24 Q1012 NOSIG=


......................................................................................


Date: 07-Oct-2565

SAOM81 OOMS 070200 RRA
METAR OOTH 070150Z AUTO 17010KT 9999 ////// 22/12 Q1010=


......................................................................................


Date: 07-Oct-2565

SATH31 VTUI 070300
METAR VTUI 070300Z 07005KT 360V110 9999 FEW030 29/23 Q1014 NOSIG=


......................................................................................


Date: 07-Oct-2565

SATH31 VTUO 070300
METAR VTUO 070300Z 07006KT 030V110 9999 BKN020 29/26 Q1013 NOSIG=


......................................................................................


Date: 07-Oct-2565

SATH31 VTUW 070300
METAR VTUW 070300Z 08004KT 030V140 CAVOK 30/23 Q1014 NOSIG=


......................................................................................


Date: 07-Oct-2565

SATH31 VTCL 070300
METAR VTCL 070300Z 00000KT 9999 FEW010 BKN025 29/24 Q1015 NOSIG=


......................................................................................


Date: 07-Oct-2565

SATH31 VTPM 070300
METAR VTPM 070300Z VRB03KT 9999 FEW018 28/27 Q1013 NOSIG=


......................................................................................


Date: 07-Oct-2565

SATH31 VTPO 070300
METAR VTPO 070300Z 22004KT 9999 FEW020 29/26 Q1013 NOSIG=


......................................................................................


Date: 07-Oct-2565

SATH31 VTSC 070300
METAR VTSC 070300Z 19005KT 9999 FEW020 27/24 Q1012 NOSIG=


......................................................................................


Date: 07-Oct-2565

SATH31 VTSF 070300
METAR VTSF 070300Z 34003KT 280V020 9999 FEW018 SCT022 29/27 Q1011 NOSIG=


......................................................................................


Date: 07-Oct-2565

SATH31 VTST 070300
METAR VTST 070300Z VRB01KT 9999 FEW020 SCT080 26/25 Q1011 NOSIG=


......................................................................................


Date: 07-Oct-2565

SATH31 VTUD 070300
METAR VTUD 070300Z 07008KT 020V090 9999 SCT025 30/23 Q1014 NOSIG=


......................................................................................


Date: 07-Oct-2565

SATH31 VTUL 070300
METAR VTUL 070300Z 34005KT 290V020 7000 BKN020 26/25 Q1015 NOSIG=


......................................................................................


Date: 07-Oct-2565

SANP31 VNKT 070300
METAR VNKT 070300Z VRB02KT 6000 FEW008 SCT030 BKN100 20/18 Q1021
NOSIG=


......................................................................................


Date: 07-Oct-2565

SATH31 VTBO 070300
METAR VTBO 070300Z 30002KT 9999 FEW020 31/25 Q1012=


......................................................................................


Date: 07-Oct-2565

SATH31 VTBU 070300
METAR VTBU 070300Z 12004KT 9999 FEW020 30/24 Q1012 NOSIG=


......................................................................................


Date: 07-Oct-2565

SATH31 VTSM 070300
METAR VTSM 070300Z 16007KT 9999 FEW020 29/24 Q1012 NOSIG=


......................................................................................


Date: 07-Oct-2565

SAOM32 OOMS 070300
METAR OOMS 070250Z 19005KT 8000 NSC 28/28 Q1006 NOSIG=
METAR OOSA 070250Z 17003KT 9999 BKN025 26/23 Q1010 NOSIG=
METAR OOSH 070300Z NIL=
METAR OODQ 070250Z AUTO 22016KT 9999 SCT007 24/23 Q1008 NOSIG=
METAR OOKB 070250Z AUTO 19006KT 9999 // NSC 30/20 Q1007 NOSIG=
METAR OOAD 070300Z NIL=


......................................................................................


Date: 07-Oct-2565

SAPK31 OPKC 070300
METAR OPKC 070255Z 33004KT 3000 BR FEW030 26/23 Q1008 NOSIG=


......................................................................................


Date: 07-Oct-2565

SASD31 OEJD 070300
METAR OEDF 070300Z 28009KT CAVOK 24/03 Q1007 NOSIG=
METAR OEDR 070300Z 08010KT CAVOK 27/02 Q1005=
METAR OEJN 070300Z 00000KT CAVOK 28/23 Q1006 NOSIG=
METAR OEMA 070300Z 01004KT CAVOK 25/M09 Q1015 NOSIG=
METAR OERK 070300Z 32004KT CAVOK 22/00 Q1014 NOSIG=
METAR OERY 070300Z NIL=
METAR OEAB 070300Z 00000KT CAVOK 16/01 Q1024 NOSIG=
METAR OYAA 070300Z NIL=
METAR OYSN 070300Z NIL=


......................................................................................


Date: 07-Oct-2565

SATH31 VTBD 070300
METAR VTBD 070300Z 02005KT 340V100 9999 FEW020 SCT030 30/27 Q1012
NOSIG=


......................................................................................


Date: 07-Oct-2565

SATH31 VTBS 070300
METAR VTBS 070300Z 05006KT 010V090 9999 FEW010 SCT020 29/25 Q1012
NOSIG=


......................................................................................


Date: 07-Oct-2565

SATH31 VTCC 070300
METAR VTCC 070300Z 03005KT 340V060 9999 SCT035 29/23 Q1014 NOSIG=


......................................................................................


Date: 07-Oct-2565

SATH31 VTCH 070300
METAR VTCH 070300Z VRB02KT 9000 FEW018 SCT025 27/23 Q1014 NOSIG=


......................................................................................


Date: 07-Oct-2565

SATH31 VTCN 070300
METAR VTCN 070300Z VRB02KT 9999 FEW010 27/23 Q1014 NOSIG=


......................................................................................


Date: 07-Oct-2565

SATH31 VTCP 070300
METAR VTCP 070300Z 02003KT 290V090 9999 FEW010 28/24 Q1013 NOSIG=


......................................................................................


Date: 07-Oct-2565

SATH31 VTCT 070300
METAR VTCT 070300Z 05006KT 9999 BKN015 27/24 Q1016 NOSIG=


......................................................................................


Date: 07-Oct-2565

SATH31 VTPB 070300
METAR VTPB 070300Z 01005KT 340V050 9999 FEW030 31/25 Q1013 NOSIG=


......................................................................................


Date: 07-Oct-2565

SATH31 VTPH 070300
METAR VTPH 070300Z 35004KT 290V090 6000 -TSRA FEW015CB SCT020 OVC080
26/25 Q1012 TEMPO TL0315 3000 TSRA=


......................................................................................


Date: 07-Oct-2565

SATH31 VTPP 070300
METAR VTPP 070300Z 36003KT 290V040 9999 FEW025 30/25 Q1012 NOSIG=


......................................................................................


Date: 07-Oct-2565

SATH31 VTPT 070300
METAR VTPT 070300Z /////KT 8000 SCT024 29/25 Q1013 NOSIG=


......................................................................................


Date: 07-Oct-2565

SATH31 VTSG 070300
METAR VTSG 070300Z VRB02KT 9999 FEW015 BKN018 28/24 Q1012 NOSIG=


......................................................................................


Date: 07-Oct-2565

SATH31 VTSP 070300
METAR VTSP 070300Z VRB02KT 9999 -RA FEW010 SCT020 BKN100 27/24 Q1011
NOSIG=


......................................................................................


Date: 07-Oct-2565

SATH31 VTSS 070300
METAR VTSS 070300Z VRB03KT 9999 SCT020 BKN100 30/25 Q1011 NOSIG=


......................................................................................


Date: 07-Oct-2565

SATH31 VTSY 070300
METAR VTSY 070300Z VRB02KT 9999 FEW015 BKN100 27/23 Q1013 NOSIG=


......................................................................................


Date: 07-Oct-2565

SATH31 VTUK 070300
METAR VTUK 070300Z 04009KT 020V080 9999 SCT030 29/22 Q1014 NOSIG=


......................................................................................


Date: 07-Oct-2565

SATH31 VTUU 070300
METAR VTUU 070300Z 13004KT 060V190 9999 BKN020 30/25 Q1013 NOSIG=


......................................................................................


Date: 07-Oct-2565

SATH31 VTUV 070300
METAR VTUV 070300Z 08008KT 050V120 9999 SCT025 30/24 Q1013 NOSIG=


......................................................................................


Date: 07-Oct-2565

SAAE31 VDPP 070300
METAR VDPP 070300Z 32004KT 280V350 9999 SCT015 30/25 Q1010=


......................................................................................


Date: 07-Oct-2565

SAPK31 OPKC 070300
METAR OPFA 070255Z 31002KT 2000 BR NSC 25/23 Q1011 BECMG 2500=
METAR OPIS 070300Z 23007KT 7000 FEW040 SCT100 22/15 Q1014 NOSIG=
METAR OPKC 070255Z 33004KT 3000 BR FEW030 26/23 Q1008 NOSIG=
METAR OPLA 070255Z 00000KT 2500 BR FEW100 25/22 Q1011 BECMG 2000
RMK QFE985 A29.86=
METAR OPMT 070300Z 00000KT 4000 FU NSC 23/18 Q1010 NOSIG=
METAR OPPS 070300Z 18004KT 6000 HZ FEW040 FEW100 21/18 Q1014=
METAR OPSK 070300Z 36004KT 4000 HZ NSC 26/21 Q1006 NOSIG=
METAR OPST 070300Z 00000KT 3000 BR NSC 24/22 Q1011 BECMG 3500 FU 87?=
METAR OPNH 070300Z NIL=


......................................................................................


Date: 07-Oct-2565

SAPK31 OPKC 070300 RRA
METAR OPNH 070300Z NIL=


......................................................................................


Date: 07-Oct-2565

SATH31 VTPN 070300
METAR VTPN 070300Z 06003KT 9000 SCT022 SCT025 27/26 Q1012=


......................................................................................


Date: 07-Oct-2565

SATH31 VTSB 070300
METAR VTSB 070300Z 00000KT 7000 -RA FEW018 BKN100 25/25 Q1012 NOSIG=


......................................................................................


Date: 07-Oct-2565

SATH31 VTSE 070300
METAR VTSE 070300Z 00000KT 9000 -RA FEW018TCU SCT050 26/26 Q1012 TEMPO FM0330 TL0345 4000 RA=


......................................................................................


Date: 07-Oct-2565

SAHK31 VHHH 070300
METAR VHHH 070300Z 10007KT 060V130 9999 FEW028 SCT045 31/22
Q1016 NOSIG=


......................................................................................


Date: 07-Oct-2565

SASR31 WSSS 070300
METAR WSSS 070300Z 14006KT 9999 SCT018 BKN150 28/24 Q1012 NOSIG=


......................................................................................


Date: 07-Oct-2565

SATH31 VTSR 070300
METAR VTSR 070300Z 23007KT 9999 -RA SCT020 28/23 Q1012 NOSIG=


......................................................................................


Date: 07-Oct-2565

SAIR31 OIII 070300
METAR OIAW 070300Z 07004KT 5000 HZ NSC 25/06 Q1006=
METAR OIFM 070300Z 27006KT 8000 NSC 07/M07 Q1024 A3026=
METAR OIII 070300Z 33004KT CAVOK 20/M03 Q1022 A3018 NOSIG=
METAR OIKB 070300Z 36004KT 1200 BR NSC 25/23 Q1006 A2972 NOSIG=
METAR OIKK 070300Z 13006KT CAVOK 06/M11 Q1023 A3022=
METAR OIMM 070300Z 18004KT CAVOK 09/M05 Q1024 A3024=
METAR OISS 070300Z 00000KT CAVOK 11/M03 Q1020 A3014=
METAR OITT 070300Z 10004KT CAVOK 18/05 Q1023 A3024=
METAR OIZH 070300Z 19004KT CAVOK 11/M17 Q1019 A3011 NOSIG=


......................................................................................


Date: 07-Oct-2565

SAIR32 OIII 070300
METAR OIAA 070300Z 13004KT 4000 HZ NSC 22/08 Q1007=
METAR OIBK 070300Z 10004KT 3000 BR NSC 26/25 Q1006 NOSIG=
METAR OICC 070300Z 00000KT CAVOK 12/M12 Q1020 A3014=
METAR OIGG 070300Z 34004KT 9999 FEW020TCU BKN030 BKN070
21/20 Q1022=
METAR OIIE 070300Z 30008KT 8000 NSC 17/10 Q1022=
METAR OINZ 070300Z 19004KT 7000 BKN040 21/19 Q1021=
METAR OITR 070300Z 27006KT 9999 SCT040 10/M01 Q1021=
METAR OIYY 070300Z 24004KT CAVOK 17/M07 Q1022 =


......................................................................................


Date: 07-Oct-2565

SAIR33 OIII 070300
METAR OIBB 070300Z 36002KT 8000 NSC 25/21 Q1006 A2971=
METAR OIBP 070300Z 14006KT 0500 FG NSC 22/21 Q1005 A2968=
METAR OICK 070300Z NIL=
METAR OICS 070300Z NIL=
METAR OIHH 070300Z NIL=
METAR OITL 070300Z NIL=
METAR OIZC 070300Z NIL=


......................................................................................


Date: 07-Oct-2565

SAIR33 OIII 070300 RRA
METAR OIZC 070300Z 00000KT 9999 FEW035 26/23 Q1006=


......................................................................................


Date: 07-Oct-2565

SAIR34 OIII 070300
METAR OIAG 070300Z 17004KT 8000 NSC 21/04 Q1007=
METAR OIAM 070300Z NIL=
METAR OICI 070300Z 09004KT CAVOK 18/M06 Q1020 A3012=
METAR OIKQ 070300Z 00000KT 1200 BR NSC 24/24 Q1006 NOSIG=
METAR OINN 070300Z 24008KT 5000 -RA SCT018 FEW022CB BKN027 20/19
Q1021=
METAR OINR 070300Z 24002KT 9999 FEW022CB SCT026 OVC080 21/19 Q1021=
METAR OISL 070300Z 00000KT CAVOK 16/02 Q1012 A2989=
METAR OISY 070300Z 00000KT CAVOK 11/M02 Q1024=
METAR OITZ 070300Z 08004KT CAVOK 12/01 Q1023 A3022=


......................................................................................


Date: 07-Oct-2565

SAIR35 OIII 070300
METAR OIAD 070300Z NIL=
METAR OIBJ 070300Z AUTO 00000KT //// // ////// 21/03 Q1013=
METAR OIBS 070300Z 09004KT 2700 BR NSC 30/29 Q1006=
METAR OIHR 070300Z NIL=
METAR OIKM 070300Z NIL=
METAR OIKR 070300Z NIL=
METAR OING 070300Z 22006KT 9999 FEW030TCU SCT080 22/19 Q1023=
METAR OIZB 070300Z 35025KT 7000 NSC 19/M13 Q1014=
METAR OIZI 070300Z 02004KT CAVOK 23/M12 Q1013=


......................................................................................


Date: 07-Oct-2565

SAIR36 OIII 070300
METAR OIBA 070300Z 06004KT 3000 BR NSC 28/27 Q1005=
METAR OIBV 070300Z 13002KT 2500 BR NSC 27/26 Q1005=
METAR OIFS 070300Z 35002KT CAVOK 04/M10 Q1027=
METAR OIIP 070300Z 29010KT 6000 NSC 14/10 Q1022 A3019=
METAR OIMB 070300Z 11010KT CAVOK 05/M31 Q1021 A3016=
METAR OIMN 070300Z VRB02KT 5000 BR FEW005 FEW030CB 13/11 Q1024=
METAR OIMS 070300Z 06012KT CAVOK 11/M16 Q1023=
METAR OIMT 070300Z NIL=
METAR OIZJ 070300Z 05012KT 5000 BR FEW015 26/24 Q1006=


......................................................................................


Date: 07-Oct-2565

SAIR37 OIII 070300
METAR OIBL 070300Z 09006KT 3500 BR NSC 29/27 Q1006=
METAR OIBQ 070300Z 16004KT 4000 BR NSC 27/26 Q1006=
METAR OIIK 070300Z 03002KT 8000 NSC 11/09 Q1023=
METAR OIMD 070300Z NIL=
METAR OIMQ 070300Z NIL=
METAR OINE 070300Z 22004KT 5000 BR BKN020 OVC080 22/19 Q1021=
METAR OITK 070300Z 22004KT 9999 SCT040 13/06 Q1021=
METAR OITM 070300Z 10017KT 9999 FEW040 18/04 Q1021=


......................................................................................


Date: 07-Oct-2565

SAIR38 OIII 070300
METAR OIAH 070300Z 00000KT CAVOK 19/05 Q1010=
METAR OIBH 070300Z 00000KT CAVOK 21/10 Q1005 A2970=
METAR OICM 070300Z NIL=
METAR OIIS 070300Z NIL=
METAR OIMJ 070300Z 06021KT CAVOK 15/08 Q1023=
METAR OISF 070300Z 35012KT CAVOK 17/M03 Q1019=
METAR OISR 070300Z 27006KT CAVOK 19/10 Q1010 A2984=
METAR OITP 070300Z 15014KT 9999 BKN040 19/15 Q1022=
METAR OITU 070300Z NIL=


......................................................................................


Date: 07-Oct-2565

SAPK31 OPKC 070300
METAR OPFA 070255Z 31002KT 2000 BR NSC 25/23 Q1011 BECMG 2500=
METAR OPIS 070300Z 23007KT 7000 FEW040 SCT100 22/15 Q1014 NOSIG=
METAR OPKC 070255Z 33004KT 3000 BR FEW030 26/23 Q1008 NOSIG=
METAR OPLA 070255Z 00000KT 2500 BR FEW100 25/22 Q1011 BECMG 2000
RMK QFE985 A29.86=
METAR OPMT 070300Z 00000KT 4000 FU NSC 23/18 Q1010 NOSIG=
METAR OPPS 070300Z 18004KT 6000 HZ FEW040 FEW100 21/18 Q1014=
METAR OPSK 070300Z 36004KT 4000 HZ NSC 26/21 Q1006 NOSIG=
METAR OPST 070300Z 00000KT 3000 BR NSC 24/22 Q1011 BECMG 3500 FU 87%=
METAR OPNH 070300Z NIL=


......................................................................................


Date: 07-Oct-2565

SATH31 VTUQ 070300
METAR VTUQ 070300Z 05005KT 020V080 9999 BKN020 28/25 Q1013 NOSIG=


......................................................................................


Date: 07-Oct-2565

SATH40 VTBB 070300
METAR VTBD 070300Z 02005KT 340V100 9999 FEW020 SCT030 30/27 Q1012
NOSIG=
METAR VTBS 070300Z 05006KT 010V090 9999 FEW010 SCT020 29/25 Q1012
NOSIG=
METAR VTBU 070300Z 12004KT 9999 FEW020 30/24 Q1012 NOSIG=
METAR VTCC 070300Z 03005KT 340V060 9999 SCT035 29/23 Q1014 NOSIG=
METAR VTCT 070300Z 05006KT 9999 BKN015 27/24 Q1016 NOSIG=
METAR VTSB 070300Z 00000KT 7000 -RA FEW018 BKN100 25/25 Q1012 NOSIG=
METAR VTSG 070300Z VRB02KT 9999 FEW015 BKN018 28/24 Q1012 NOSIG=
METAR VTSP 070300Z VRB02KT 9999 -RA FEW010 SCT020 BKN100 27/24 Q1011
NOSIG=
METAR VTSS 070300Z VRB03KT 9999 SCT020 BKN100 30/25 Q1011 NOSIG=
METAR VTUD 070300Z 07008KT 020V090 9999 SCT025 30/23 Q1014 NOSIG=
METAR VTUU 070300Z 13004KT 060V190 9999 BKN020 30/25 Q1013 NOSIG=


......................................................................................


Date: 07-Oct-2565

SAIR34 OIII 070300 RRA
METAR OIAM 070300Z 00000KT CAVOK 25/06 Q1006=


......................................................................................


Date: 07-Oct-2565

SAAE31 VTBB 070300
METAR VTCT 070300Z 05006KT 9999 BKN015 27/24 Q1016 NOSIG=
METAR VTSG 070300Z VRB02KT 9999 FEW015 BKN018 28/24 Q1012 NOSIG=
METAR VTBD 070300Z 02005KT 340V100 9999 FEW020 SCT030 30/27 Q1012
NOSIG=
METAR VTBS 070300Z 05006KT 010V090 9999 FEW010 SCT020 29/25 Q1012
NOSIG=
METAR VTCC 070300Z 03005KT 340V060 9999 SCT035 29/23 Q1014 NOSIG=
METAR VTSP 070300Z VRB02KT 9999 -RA FEW010 SCT020 BKN100 27/24 Q1011
NOSIG=
METAR VTSS 070300Z VRB03KT 9999 SCT020 BKN100 30/25 Q1011 NOSIG=
METAR VTBU 070300Z 12004KT 9999 FEW020 30/24 Q1012 NOSIG=


......................................................................................


Date: 07-Oct-2565

SAAE32 VTBB 070300
METAR VDPP 070300Z 32004KT 280V350 9999 SCT015 30/25 Q1010=
METAR VDSR 070300Z 05005KT 010V100 9999 SCT015 SCT040 29/23 Q1011=
METAR VLVT 070300Z 09004KT 9999 SCT016 FEW200 30/26 Q1014 NOSIG=
METAR VYMD 070300Z NIL=
METAR VYNT 070300Z NIL=
METAR VYYY 070300Z 04006KT 7000 BKN015 FEW020CB BKN100 28/25 Q1012
NOSIG=
METAR VDSV 070300Z 13008KT 100V160 9999 SCT015 30/24 Q1011=


......................................................................................


Date: 07-Oct-2565

SAAE33 VTBB 070300
METAR VLLB 070300Z 04004KT 9999 SCT020 28/23 Q1015 NOSIG=
METAR VLLN 070300Z 32002KT 8000 SCT020 BKN100 25/22 Q1018 NOSIG=
METAR VLPS 070300Z 36002KT 9999 FEW020 SCT050 29/25 Q1012 NOSIG=
METAR VLSK 070300Z 27004KT 7000 FEW018 28/25 Q1014 NOSIG=


......................................................................................


Date: 07-Oct-2565

SAAE34 VTBB 070300
METAR VVCI 070300Z 06003KT 360V100 9999 -RA FEW023 FEW027CB BKN046
25/25 Q1016 TEMPO 4000 RA=
METAR VVCR 070300Z 03010KT 9999 FEW015 31/24 Q1012 NOSIG=
METAR VVCT 070300Z 06005KT 9999 SCT015 29/25 Q1011 NOSIG=
METAR VVDN 070300Z 01008KT 9999 FEW015 FEW017TCU 30/24 Q1014 NOSIG=
METAR VVNB 070300Z 10006KT 070V150 6000 BKN015 29/24 Q1016 NOSIG=
METAR VVPB 070300Z 33003KT 9999 FEW015 BKN050 29/24 Q1014 NOSIG=
METAR VVPQ 070300Z 08009KT 9999 FEW015 29/24 Q1011 NOSIG=
METAR VVTS 070300Z VRB02KT 9999 SCT020 32/26 Q1011 NOSIG =


......................................................................................


Date: 07-Oct-2565

SAMV31 VRMM 070300
METAR VRMH 070300Z 29011KT 9999 FEW018TCU 29/24 Q1010=
METAR VRMM 070300Z 30015KT 9999 FEW018TCU SCT270
29/24 Q1011 NOSIG=


......................................................................................


Date: 07-Oct-2565

SAUZ31 UTTW 070300
METAR UTFN 070300Z VRB02KT 9999 NSC 15/04 Q1022 R28/CLRD70 NOSIG=
METAR UTNN 070300Z 00000KT CAVOK 08/M09 Q1021 R33/CLRD60 NOSIG=
METAR UTNU 070300Z 30002KT CAVOK 07/M02 Q1021 R31/CLRD70 NOSIG=
METAR UTSA 070300Z 09006KT 4500 FU NSC 11/01 Q1022 R07/CLRD70 NOSIG=
METAR UTSB 070300Z 10002KT CAVOK 09/M02 Q1022 R01/CLRD70 NOSIG=
METAR UTSK 070300Z 07002KT CAVOK 11/M03 Q1022 R16/CLRD70=
METAR UTSS 070300Z 12006KT 9999 NSC 11/M00 Q1022 R09/CLRD70 NOSIG=
METAR UTST 070300Z 04004KT CAVOK 10/01 Q1022 R25/CLRD70 NOSIG=
METAR UTFA 070300Z VRB02KT 4400 BR NSC 13/07 Q1023 R88/09//70=
METAR UTFF 070300Z 10004KT 9999 NSC 15/02 Q1022 R18/CLRD70=
METAR UTTT 070300Z 08006KT CAVOK 13/01 Q1022 R08L/CLRD70 NOSIG=


......................................................................................


Date: 07-Oct-2565

SAAE32 VTBB 070300 RRA
METAR VYNT 070300Z 03005KT 7000 SCT018 FEW022CB SCT120 28/25 Q1012
NOSIG=


......................................................................................


Date: 07-Oct-2565

SAIR31 OIII 070300
METAR OIMM 070300Z 18004KT CAVOK 09/M05 Q1024 A3024=
METAR OINB 070300 NIL=
METAR OING 070300Z 22006KT 9999 FEW030TCU SCT080 22/19 Q1023=
METAR OINK 070300 NIL=
METAR OINN 070300Z 24008KT 5000 -RA SCT018 FEW022CB BKN027 20/19
Q1021=
METAR OINR 070300Z 24002KT 9999 FEW022CB SCT026 OVC080 21/19 Q1021=
METAR OISA 070300 NIL=
METAR OISF 070300Z 35012KT CAVOK 17/M03 Q1019=
METAR OISL 070300Z 00000KT CAVOK 16/02 Q1012 A2989=
METAR OISS 070300Z 00000KT CAVOK 11/M03 Q1020 A3014=
METAR OISY 070300Z 00000KT CAVOK 11/M02 Q1024=
METAR OITL 070252Z 08014KT 5000 -DZ PRFG OVC003 13/13 Q1026=
METAR OITR 070253Z 27006KT 9999 SCT040 10/M01 Q1021=
METAR OITT 070300Z 10004KT CAVOK 18/05 Q1023 A3024=
METAR OITU 070300 NIL=
METAR OIYY 070251Z 24004KT CAVOK 17/M07 Q1022 NOSIG=
METAR OIZB 070300Z 35025KT 7000 NSC 19/M13 Q1014=
METAR OIZC 070300Z 00000KT 9999 FEW035 26/23 Q1006=
METAR OIZH 070300Z 19004KT CAVOK 11/M17 Q1019 A3011=
METAR OIZI 070300Z 02004KT CAVOK 23/M12 Q1013=
METAR OIZJ 070300Z 05012KT 5000 BR FEW015 26/24 Q1006=
//END PART 02/02//


......................................................................................


Date: 07-Oct-2565

SAOM32 OOMS 070300 RRA
METAR OOSH 070250Z AUTO 25003KT //// ////// 28/23 Q1007=


......................................................................................


Date: 07-Oct-2565

SATR31 UTAA 070300
METAR UTAA 070300Z 17004KT 9999 NSC 14/M03 Q1020 R88/CLRD70
NOSIG=
METAR UTAK 070300Z 32008KT 9999 FEW005 14/12 Q1021 R16R/CLRD70 NOSIG=
METAR UTAV 070300Z 12006KT CAVOK 08/M05 Q1021 R31/CLRD70
NOSIG=
METAR UTAM 070300Z 00000KT 6000 NSC 09/M00 Q1022 R88/CLRD70 NOSIG=
METAR UTAT 070300Z 27004KT CAVOK 07/00 Q1021 R08/CLRD70
NOSIG=


......................................................................................


Date: 07-Oct-2565

SAHK31 VHHH 070300
METAR VHHH 070300Z 10007KT 060V130 9999 FEW028 SCT045 31/22
Q1016 NOSIG=
METAR RCTP 070300Z 04016KT 9999 SCT012 BKN030 BKN060 27/23 Q1015
NOSIG RMK A3000=
METAR RCKH 070300Z 24007KT 210V270 9999 FEW016 SCT030 31/22 Q1013
NOSIG RMK A2993=
METAR RCSS 070300Z 10010KT 5000 -SHRA FEW008 SCT012 BKN030 26/24
Q1015 TEMPO 3000 SHRA RMK A3000 RA AMT 1.2MM=
METAR RCMQ 070300Z 30006KT 8000 FEW010 SCT025 29/24 Q1015 NOSIG
RMK A2998=
METAR RCNN 070300Z 27006KT 9999 FEW014 SCT025 BKN060 32/24 Q1013
NOSIG RMK A2994=
METAR RCFN 070300Z 32004KT 270V040 9999 -SHRA FEW016 FEW020TCU
BKN022 BKN040 27/26 Q1015 NOSIG RMK TCU SW A3000=
METAR VMMC 070300Z VRB09KT 9999 FEW020 30/25 Q1016 NOSIG=
METAR RPLL 070300Z 14006KT 070V190 9999 FEW025 33/23 Q1010 NOSIG RMK
A2983=
METAR RPVM 070300Z 04007KT 010V080 9999 FEW018CB SCT300 31/25 Q1010
RMK A2983 CB SE W-NW=
METAR RPMD 070300Z 16006KT 9999 SCT016 32/24 Q1010 RMK A2983=
METAR RPLB 070300Z 08010KT 040V100 9999 SCT020 BKN300 31/23 Q1011
NOSIG RMK A2985=
METAR RPLI 070300Z 30006KT 250V330 9999 FEW018 32/24 Q1010 NOSIG RMK
A2983=
METAR RPMZ 070300Z 17004KT 090V220 9999 FEW016CB FEW017 SCT300 31/25
Q1010 RMK A2983 CB NW-NE S-SW=


......................................................................................


Date: 07-Oct-2565

SAIR31 OIII 070300
METAR OIMM 070300Z 18004KT CAVOK 09/M05 Q1024 A3024=
METAR OINB 070300Z NIL=
METAR OING 070300Z 22006KT 9999 FEW030TCU SCT080 22/19 Q1023=
METAR OINK 070300Z NIL=
METAR OINN 070300Z 24008KT 5000 -RA SCT018 FEW022CB BKN027 20/19
Q1021=
METAR OINR 070300Z 24002KT 9999 FEW022CB SCT026 OVC080 21/19 Q1021=
METAR OISA 070300Z NIL=
METAR OISF 070300Z 35012KT CAVOK 17/M03 Q1019=
METAR OISL 070300Z 00000KT CAVOK 16/02 Q1012 A2989=
METAR OISS 070300Z 00000KT CAVOK 11/M03 Q1020 A3014=
METAR OISY 070300Z 00000KT CAVOK 11/M02 Q1024=
METAR OITL 070252Z 08014KT 5000 -DZ PRFG OVC003 13/13 Q1026=
METAR OITR 070253Z 27006KT 9999 SCT040 10/M01 Q1021=
METAR OITT 070300Z 10004KT CAVOK 18/05 Q1023 A3024=
METAR OITU 070300Z NIL=
METAR OIYY 070251Z 24004KT CAVOK 17/M07 Q1022 NOSIG=
METAR OIZB 070300Z 35025KT 7000 NSC 19/M13 Q1014=
METAR OIZC 070300Z 00000KT 9999 FEW035 26/23 Q1006=
METAR OIZH 070300Z 19004KT CAVOK 11/M17 Q1019 A3011=
METAR OIZI 070300Z 02004KT CAVOK 23/M12 Q1013=
METAR OIZJ 070300Z 05012KT 5000 BR FEW015 26/24 Q1006=


......................................................................................


Date: 07-Oct-2565

SAIR77 OIII 070300
METAR AZUH 070300 NIL=
METAR KHME 070300 NIL=
METAR OIAA 070250Z 13004KT 4000 HZ NSC 22/08 Q1007=
METAR OIAG 070300Z 17004KT 8000 NSC 21/04 Q1007=
METAR OIAH 070300Z 00000KT CAVOK 19/05 Q1010=
METAR OIAI 070300 NIL=
METAR OIAM 070300Z 00000KT CAVOK 25/06 Q1006=
METAR OIAW 070250Z 07004KT 5000 HZ NSC 25/06 Q1006=
METAR OIBA 070300Z 06004KT 3000 BR NSC 28/27 Q1005=
METAR OIBB 070253Z 36002KT 8000 NSC 25/21 Q1006 A2971=
METAR OIBK 070300Z 10004KT 3000 BR NSC 26/25 Q1006 NOSIG=
METAR OIBL 070300Z 09006KT 3500 BR NSC 29/27 Q1006=
METAR OIBS 070300Z 09004KT 2700 BR NSC 30/29 Q1006=
METAR OICC 070252Z 00000KT CAVOK 12/M12 Q1020 A3014=
METAR OICI 070300Z 09004KT CAVOK 18/M06 Q1020 A3012=
METAR OICJ 070300 NIL=
METAR OICK 070251Z 00000KT CAVOK 17/M05 Q1018=
METAR OICS 070300Z 00000KT CAVOK 09/M05 Q1022 A3020=
METAR OIFK 070300 NIL=
METAR OIFM 070300Z 27006KT 8000 NSC 07/M07 Q1024 A3026=
METAR OIFS 070253Z 35002KT CAVOK 04/M10 Q1027=
METAR OIGG 070300Z 34004KT 9999 FEW020TCU BKN030 BKN070 21/20
Q1022=
METAR OIGK 070300 NIL=
METAR OIHM 070300Z AUTO 13004KT //// // ////// 11/M07 Q1024=
METAR OIIE 070300Z 30008KT 8000 NSC 17/10 Q1022 NOSIG=
METAR OIII 070300Z 33004KT CAVOK 20/M03 Q1022 A3018 NOSIG=
METAR OIIK 070252Z 03002KT 8000 NSC 11/09 Q1023=
METAR OIIP 070300Z 29010KT 6000 NSC 14/10 Q1022 A3019=
METAR OIIS 070300 NIL=
METAR OIKB 070300Z 36004KT 1200 BR NSC 25/23 Q1006 A2972 NOSIG=
METAR OIKK 070250Z 13006KT CAVOK 06/M11 Q1023 A3022=
METAR OIKO 070300 NIL=
METAR OIKQ 070300Z 00000KT 1200 BR NSC 24/24 Q1006 NOSIG=
METAR OIMB 070300Z 11010KT CAVOK 05/M31 Q1021 A3016=
METAR OIMC 070300 NIL=
METAR OIMD 070300 NIL=
METAR OIMM 070300Z 18004KT CAVOK 09/M05 Q1024 A3024=
METAR OIMN 070300Z VRB02KT 5000 BR FEW005 FEW030CB 13/11 Q1024=
METAR OINB 070300 NIL=
METAR OING 070300Z 22006KT 9999 FEW030TCU SCT080 22/19 Q1023=
METAR OINK 070300 NIL=
METAR OINN 070300Z 24008KT 5000 -RA SCT018 FEW022CB BKN027 20/19
Q1021=
METAR OINR 070300Z 24002KT 9999 FEW022CB SCT026 OVC080 21/19 Q1021=
METAR OISA 070300 NIL=
METAR OISF 070300Z 35012KT CAVOK 17/M03 Q1019=
METAR OISL 070300Z 00000KT CAVOK 16/02 Q1012 A2989=
METAR OISS 070300Z 00000KT CAVOK 11/M03 Q1020 A3014=
METAR OISY 070300Z 00000KT CAVOK 11/M02 Q1024=
METAR OITL 070252Z 08014KT 5000 -DZ PRFG OVC003 13/13 Q1026=
METAR OITR 070253Z 27006KT 9999 SCT040 10/M01 Q1021=
METAR OITT 070300Z 10004KT CAVOK 18/05 Q1023 A3024=
METAR OITU 070300 NIL=
METAR OIYY 070251Z 24004KT CAVOK 17/M07 Q1022 NOSIG=
METAR OIZB 070300Z 35025KT 7000 NSC 19/M13 Q1014=
METAR OIZC 070300Z 00000KT 9999 FEW035 26/23 Q1006=
METAR OIZH 070300Z 19004KT CAVOK 11/M17 Q1019 A3011=
METAR OIZI 070300Z 02004KT CAVOK 23/M12 Q1013=
METAR OIZJ 070300Z 05012KT 5000 BR FEW015 26/24 Q1006=
METAR SESG 070300 NIL=
METAR YAYT 070300 NIL=


......................................................................................


Date: 07-Oct-2565

SAJP31 RJTD 070300
METAR RJAA 070300Z 35009KT 340V040 3000 R34L/P2000N R34R/2000N -SHRA
BR FEW002 BKN003 BKN004 14/14 Q1015 NOSIG=
METAR RJBB 070300Z 08009KT 5000 SHRA BR FEW003 SCT007 BKN020 18/17
Q1013 TEMPO 3000 SHRA BR FEW005 BKN008 BKN015=
METAR RJTT 070300Z 34014KT 4000 RA BR FEW005 SCT009 BKN012 13/12
Q1015 TEMPO FEW005 BKN008=
METAR RJOO 070300Z 07006KT 040V100 5000 SHRA BR FEW003 SCT008 BKN025
17/16 Q1013=
METAR ROAH 070300Z 01019KT 9999 VCSH FEW018 SCT030 29/23 Q1015=
METAR RJGG 070300Z 36013KT 6000 -RA FEW004 SCT006 BKN015 16/15 Q1013
TEMPO 3000 RA BR FEW004 BKN008=
METAR RJCH 070300Z VRB02KT 9999 FEW030 SCT130 BKN/// 14/03 Q1020=
METAR RJSS 070300Z 35005KT 9999 -RA FEW010 SCT050 BKN080 12/10
Q1019=


......................................................................................


Date: 07-Oct-2565

SAJP32 RJTD 070300
METAR RJFF 070300Z 20006KT 170V250 9999 FEW008 SCT140 BKN150 19/16
Q1016 BECMG 31011KT=
METAR RJCC 070300Z 19006KT 150V230 9999 FEW020 BKN150 OVC/// 12/02
Q1021=
METAR RJFK 070300Z 33013KT 9999 FEW010 SCT015 BKN060 19/16 Q1016=
METAR RJSN 070300Z 08006KT 9999 -RA FEW025 SCT060 OVC100 13/10
Q1015=
METAR RJFT 070300Z VRB02KT 8000 -SHRA FEW001 SCT005 BKN015 16/15
Q1016=
METAR RJFU 070300Z 32006KT 290V350 9999 FEW008 SCT020 BKN110 19/15
Q1016=
METAR RJNK 070300Z VRB02KT 8000 -RA FEW004 BKN008 OVC030 14/13
Q1012=
METAR RJOA 070300Z 29004KT 240V050 5000 -SHRA BCFG BR FEW000 SCT015
BKN060 17/15 Q1014=
METAR RJOB 070300Z VRB01KT 4500 -SHRA BR BCFG FEW000 BKN060 15/14
Q1013=
METAR RJOT 070300Z 30005KT 270V330 4000 -SHRA BR FEW000 SCT003
BKN008 17/17 Q1013=


......................................................................................


Date: 07-Oct-2565

SAJP32 RJTD 070300 RRA
METAR RJFO 070300Z 31009KT 270V350 9999 -SHRA FEW015 SCT025 BKN070
18/16 Q1014=
METAR RJNT 070300Z VRB02KT 8000 -RA FEW002 SCT005 OVC080 14/13
Q1012=


......................................................................................


Date: 07-Oct-2565

SAJP35 RJTD 070300
METAR RJAA 070300Z 35009KT 340V040 3000 R34L/P2000N R34R/2000N -SHRA
BR FEW002 BKN003 BKN004 14/14 Q1015 NOSIG=
METAR RJBB 070300Z 08009KT 5000 SHRA BR FEW003 SCT007 BKN020 18/17
Q1013 TEMPO 3000 SHRA BR FEW005 BKN008 BKN015=
METAR RJTT 070300Z 34014KT 4000 RA BR FEW005 SCT009 BKN012 13/12
Q1015 TEMPO FEW005 BKN008=
METAR RJOO 070300Z 07006KT 040V100 5000 SHRA BR FEW003 SCT008 BKN025
17/16 Q1013=
METAR RJGG 070300Z 36013KT 6000 -RA FEW004 SCT006 BKN015 16/15 Q1013
TEMPO 3000 RA BR FEW004 BKN008=
METAR RJSN 070300Z 08006KT 9999 -RA FEW025 SCT060 OVC100 13/10
Q1015=
METAR RJCH 070300Z VRB02KT 9999 FEW030 SCT130 BKN/// 14/03 Q1020=
METAR RJSA 070300Z 02004KT 350V060 9999 FEW040 BKN100 12/05 Q1019=
METAR RJSF 070300Z 34008KT 1500 R01/P2000N -RA BR FEW001 BKN002
09/09 Q1017=
METAR RJSI 070300Z 01005KT 9999 FEW030 SCT100 BKN130 12/07 Q1019=


......................................................................................


Date: 07-Oct-2565

SAJP37 RJTD 070300
METAR RJAA 070300Z 35009KT 340V040 3000 R34L/P2000N R34R/2000N -SHRA
BR FEW002 BKN003 BKN004 14/14 Q1015 NOSIG=
METAR RJBB 070300Z 08009KT 5000 SHRA BR FEW003 SCT007 BKN020 18/17
Q1013 TEMPO 3000 SHRA BR FEW005 BKN008 BKN015=
METAR RJTT 070300Z 34014KT 4000 RA BR FEW005 SCT009 BKN012 13/12
Q1015 TEMPO FEW005 BKN008=
METAR RJOO 070300Z 07006KT 040V100 5000 SHRA BR FEW003 SCT008 BKN025
17/16 Q1013=
METAR RJFF 070300Z 20006KT 170V250 9999 FEW008 SCT140 BKN150 19/16
Q1016 BECMG 31011KT=
METAR RJGG 070300Z 36013KT 6000 -RA FEW004 SCT006 BKN015 16/15 Q1013
TEMPO 3000 RA BR FEW004 BKN008=
METAR RJFK 070300Z 33013KT 9999 FEW010 SCT015 BKN060 19/16 Q1016=
METAR RJFU 070300Z 32006KT 290V350 9999 FEW008 SCT020 BKN110 19/15
Q1016=
METAR RJCH 070300Z VRB02KT 9999 FEW030 SCT130 BKN/// 14/03 Q1020=
METAR RJNS 070300Z VRB05KT 9999 -RA FEW000 SCT020 BKN025 15/15
Q1012=


......................................................................................


Date: 07-Oct-2565

SAJP37 RJTD 070300 RRA
METAR RJFR 070300Z 25009KT 9999 FEW010 SCT045 BKN160 19/15 Q1015=


......................................................................................


Date: 07-Oct-2565

SAJP38 RJTD 070300
METAR RJNS 070300Z VRB05KT 9999 -RA FEW000 SCT020 BKN025 15/15
Q1012=
METAR RJSA 070300Z 02004KT 350V060 9999 FEW040 BKN100 12/05 Q1019=
METAR RJSF 070300Z 34008KT 1500 R01/P2000N -RA BR FEW001 BKN002
09/09 Q1017=
METAR RJOM 070300Z 30010KT 9999 -SHRA FEW008 SCT015 BKN040 19/17
Q1014=
METAR RJOK 070300Z 35004KT 9999 -RA FEW003 SCT060 BKN110 21/19
Q1012=
METAR RJFM 070300Z 26010KT 9999 FEW025 SCT060 BKN/// 24/17 Q1013=
METAR RJEC 070300Z 03005KT 330V050 9999 FEW030 SCT050 BKN/// 11/M01
Q1020=
METAR RJFR 070300Z 25009KT 9999 FEW010 SCT045 BKN160 19/15 Q1015=
METAR RJSK 070300Z 10007KT 9999 -RA FEW040 SCT060 BKN080 12/06
Q1017=
METAR RJAH 070300Z 01011KT 4000 -SHRA BR SCT005 BKN006 BKN012 14/14
Q1015=


......................................................................................


Date: 07-Oct-2565

SAJP38 RJTD 070300 RRA
METAR RJCK 070300Z 20004KT 100V270 9999 FEW040 BKN/// 13/03 Q1021=
METAR RJCM 070300Z VRB02KT 9999 FEW050 14/M02 Q1021=
METAR RJCB 070300Z VRB02KT 9999 FEW030 BKN/// 11/M01 Q1021=
METAR RJOC 070300Z 25013KT 9999 FEW009 SCT020 BKN090 19/16 Q1013=
METAR RJOH 070300Z 22008KT 9999 -SHRA FEW006 SCT015 BKN030 18/17
Q1013=
METAR ROIG 070300Z 05011KT 9999 -SHRA SCT013 29/25 Q1014=
METAR RJFS 070300Z 29007KT 9999 -SHRA FEW010 SCT030 BKN090 19/16
Q1016=
METAR RJSI 070300Z 01005KT 9999 FEW030 SCT100 BKN130 12/07 Q1019=


......................................................................................


Date: 07-Oct-2565

SAJP51 RJTD 070300
METAR RJAA 070300Z 35009KT 340V040 3000 R34L/P2000N R34R/2000N -SHRA
BR FEW002 BKN003 BKN004 14/14 Q1015 NOSIG=
METAR RJAF 070300Z VRB01KT 5000 -RA BR FEW003 BKN010 BKN035 10/09
Q1015=
METAR RJAH 070300Z 01011KT 4000 -SHRA BR SCT005 BKN006 BKN012 14/14
Q1015=
METAR RJBB 070300Z 08009KT 5000 SHRA BR FEW003 SCT007 BKN020 18/17
Q1013 TEMPO 3000 SHRA BR FEW005 BKN008 BKN015=
METAR RJBD 070300Z 32009KT 9999 -SHRA FEW006 SCT015 FEW025CB BKN030
20/19 Q1010=
METAR RJBE 070300Z 06008KT 6000 SHRA FEW003 BKN007 BKN015 18/17
Q1012=
METAR RJBT 070300Z VRB02KT 2500 -SHRA BCFG FEW000 SCT005 BKN025
14/14 Q1013=
METAR RJCB 070300Z VRB02KT 9999 FEW030 BKN/// 11/M01 Q1021=
METAR RJCC 070300Z 19006KT 150V230 9999 FEW020 BKN150 OVC/// 12/02
Q1021=
METAR RJCH 070300Z VRB02KT 9999 FEW030 SCT130 BKN/// 14/03 Q1020=
METAR RJCK 070300Z 20004KT 100V270 9999 FEW040 BKN/// 13/03 Q1021=
METAR RJCM 070300Z VRB02KT 9999 FEW050 14/M02 Q1021=
METAR RJCN 070300Z 17004KT 130V240 9999 FEW030 BKN/// 12/00 Q1021=
METAR RJCO 070300Z 15007KT 9999 FEW020 SCT180 BKN230 14/03 Q1022=
METAR RJCW 070300Z 30011KT 9999 FEW050 12/M02 Q1020=
METAR RJDB 070300Z AUTO 31007KT 270V020 9999 FEW031 SCT046 BKN160
21/14 Q1015=
METAR RJDC 070300Z 27009KT 9999 FEW010 SCT025 BKN070 19/16 Q1015=
METAR RJDT 070300Z 33012KT 9999 FEW030 BKN150 20/12 Q1016=
METAR RJEB 070300Z 03006KT 360V080 9999 FEW020 SCT090 12/01 Q1021=
METAR RJEC 070300Z 03005KT 330V050 9999 FEW030 SCT050 BKN/// 11/M01
Q1020=


......................................................................................


Date: 07-Oct-2565

SAJP51 RJTD 070300 RRA
METAR RJFE 070300Z 33007KT 300V010 9999 FEW020 BKN110 18/14 Q1017=
METAR RJFF 070300Z 20006KT 170V250 9999 FEW008 SCT140 BKN150 19/16
Q1016 BECMG 31011KT=
METAR RJFG 070300Z 32015G25KT 9999 FEW010 SCT015 BKN020 21/18 Q1015=
METAR RJFK 070300Z 33013KT 9999 FEW010 SCT015 BKN060 19/16 Q1016=
METAR RJFM 070300Z 26010KT 9999 FEW025 SCT060 BKN/// 24/17 Q1013=
METAR RJFO 070300Z 31009KT 270V350 9999 -SHRA FEW015 SCT025 BKN070
18/16 Q1014=
METAR RJFR 070300Z 25009KT 9999 FEW010 SCT045 BKN160 19/15 Q1015=
METAR RJFS 070300Z 29007KT 9999 -SHRA FEW010 SCT030 BKN090 19/16
Q1016=
METAR RJFT 070300Z VRB02KT 8000 -SHRA FEW001 SCT005 BKN015 16/15
Q1016=
METAR RJFU 070300Z 32006KT 290V350 9999 FEW008 SCT020 BKN110 19/15
Q1016=
METAR RJGG 070300Z 36013KT 6000 -RA FEW004 SCT006 BKN015 16/15 Q1013
TEMPO 3000 RA BR FEW004 BKN008=
METAR RJKA 070300Z 32010KT 280V360 9999 FEW018 BKN020 27/22 Q1015=
METAR RJKI 070300Z AUTO 32014KT 9999 FEW020 OVC050 27/22 Q1014=
METAR RJNK 070300Z VRB02KT 8000 -RA FEW004 BKN008 OVC030 14/13
Q1012=
METAR RJNS 070300Z VRB05KT 9999 -RA FEW000 SCT020 BKN025 15/15
Q1012=
METAR RJNT 070300Z VRB02KT 8000 -RA FEW002 SCT005 OVC080 14/13
Q1012=
METAR RJNW 070300Z 10006KT 5000 RA BR FEW000 SCT002 BKN005 13/13
Q1012=
METAR RJOA 070300Z 29004KT 240V050 5000 -SHRA BCFG BR FEW000 SCT015
BKN060 17/15 Q1014=
METAR RJOB 070300Z VRB01KT 4500 -SHRA BR BCFG FEW000 BKN060 15/14
Q1013=
METAR RJOC 070300Z 25013KT 9999 FEW009 SCT020 BKN090 19/16 Q1013=


......................................................................................


Date: 07-Oct-2565

SAJP51 RJTD 070300 RRB
METAR RJOH 070300Z 22008KT 9999 -SHRA FEW006 SCT015 BKN030 18/17
Q1013=
METAR RJOK 070300Z 35004KT 9999 -RA FEW003 SCT060 BKN110 21/19
Q1012=
METAR RJOM 070300Z 30010KT 9999 -SHRA FEW008 SCT015 BKN040 19/17
Q1014=
METAR RJOO 070300Z 07006KT 040V100 5000 SHRA BR FEW003 SCT008 BKN025
17/16 Q1013=
METAR RJOR 070300Z 23004KT 200V270 9999 VCSH FEW005 SCT050 BKN080
18/15 Q1013=
METAR RJOS 070300Z 28004KT 4000 -SHRA BR FEW004 BKN025 BKN080 18/17
Q1013=
METAR RJOT 070300Z 30005KT 270V330 4000 -SHRA BR FEW000 SCT003
BKN008 17/17 Q1013=
METAR RJOW 070300Z 15005KT 110V180 9999 FEW008 SCT025 BKN050 18/16
Q1014=
METAR RJOY 070300Z VRB01KT 6000 -SHRA BR FEW005 SCT030 BKN050 17/16
Q1013=
METAR RJSA 070300Z 02004KT 350V060 9999 FEW040 BKN100 12/05 Q1019=
METAR RJSC 070300Z 23002KT 7000 -RA FEW003 SCT020 BKN060 10/09
Q1019=
METAR RJSF 070300Z 34008KT 1500 R01/P2000N -RA BR FEW001 BKN002
09/09 Q1017=
METAR RJSI 070300Z 01005KT 9999 FEW030 SCT100 BKN130 12/07 Q1019=
METAR RJSK 070300Z 10007KT 9999 -RA FEW040 SCT060 BKN080 12/06
Q1017=
METAR RJSM 070300Z 10005KT 9999 SCT030 SCT100 BKN150 14/03 Q1020=
METAR RJSN 070300Z 08006KT 9999 -RA FEW025 SCT060 OVC100 13/10
Q1015=
METAR RJSR 070300Z 06004KT 020V100 9999 FEW050 BKN120 13/07 Q1018=
METAR RJSS 070300Z 35005KT 9999 -RA FEW010 SCT050 BKN080 12/10
Q1019=
METAR RJSY 070300Z 11012KT 9999 -RA FEW030 BKN060 BKN070 11/09
Q1017=
METAR RJTF 070300Z 35009KT 4000 RA BR FEW006 SCT008 BKN020 12/11
Q1016=


......................................................................................


Date: 07-Oct-2565

SAJP51 RJTD 070300 RRC
METAR RJTI 070300Z 33009G21KT 250V050 4000 -RA BR FEW005 BKN008
BKN015 12/11 Q1016=
METAR RJTO 070300Z 03020KT 2000 -SHRA BR SCT004 BKN006 BKN010 14/14
Q1014=
METAR RJTT 070300Z 34014KT 4000 RA BR FEW005 SCT009 BKN012 13/12
Q1015 TEMPO FEW005 BKN008=
METAR ROAH 070300Z 01019KT 9999 VCSH FEW018 SCT030 29/23 Q1015=
METAR ROIG 070300Z 05011KT 9999 -SHRA SCT013 29/25 Q1014=
METAR ROMD 070300Z AUTO 01011KT 9999 FEW023 SCT029 30/23 Q1014=
METAR ROMY 070300Z 10008KT 9999 VCSH FEW010 SCT015 FEW020TCU BKN070
27/25 Q1014=
METAR RORK 070300Z AUTO 01010KT 9999 BKN023 BKN025 29/24 Q1014=
METAR RORS 070300Z 06011KT 9999 -SHRA FEW017 FEW025TCU SCT030 BKN050
27/25 Q1014=
METAR RORY 070300Z AUTO 35013KT 9999 FEW024 SCT060 BKN070 //////TCU
29/23 Q1015=
METAR ROYN 070300Z AUTO 04018KT 9999 FEW013 SCT016 BKN021 //////TCU
28/25 Q1015=


......................................................................................


Date: 07-Oct-2565

SAMS31 WMKK 070300
METAR WBGG 070300Z 36003KT 320V060 8000 -RA SCT020 26/25 Q1012 NOSIG=
METAR WBKK 070300Z VRB03KT 9999 FEW014 30/25 Q1010 NOSIG=
METAR WBSB 070300Z 16002KT 9999 FEW015 FEW016CB BKN300 31/27 Q1010 NOSIG=
METAR WMKK 070300Z 00000KT 9000 -RA FEW010 SCT030 25/24 Q1012 RERA NOSIG=
METAR WMKP 070300Z 23012KT 210V270 9000 FEW012 FEW017CB SCT025 28/24 Q1012 TEMPO 5000 TSRA=
METAR WSSL 070300Z 14004KT 110V180 9999 FEW018
FEW020TCU BKN150 29/24 Q1012=
METAR WSSS 070300Z 14006KT 9999 SCT018 BKN150 28/24 Q1012 NOSIG=


......................................................................................


Date: 07-Oct-2565

SAPA31 KWBC 070300
METAR
AGGG NIL=
AGGH 070300Z 05009KT 9999 FEW021 FEW021CB 32/24 Q1007 RMKS CB ASSW
SH TO SW=
ANAU NIL=
AYPY NIL=
PGNT NIL=
PGRO 070250Z 22008KT 7SM -RA BKN014 BKN100 26/25 A2973=
PGSN 070301Z 17006KT 1/4SM RA FG BKN012 OVC019 26/24 A2977 RMK AO2
P0036 T02610239 $=
PGSN 070254Z 16009KT 2SM RA BKN012 OVC019 29/26 A2977 RMK AO2
RAE10B35 SLP102 P0045 60047 T02890261 58015 $=
PGUA 070256Z AUTO 18006KT 6SM HZ BKN017 BKN035 OVC080 29/25 A2978
RMK AO2 CIG 017V035 BKN017 V FEW SLP075 T02920245 57022 $=
PGUM 070254Z 20004KT 10SM BKN060 BKN070 27/25 A2978 RMK AO2
RAB13E34 SLP078 P0003 60013 T02720250 58017=
PGWT 070255Z 09003KT 7SM -RA FEW012 SCT016 BKN060 BKN100 28/26=
PHJH NIL=
PHJR 070253Z VRB03KT 10SM BKN030 OVC040 28/21 A2992 RMK AO2 SLP138
T02830206 55005=
PHMK 070254Z 03011G19KT 10SM CLR 27/21 A2993 RMK AO2 SLP136
T02670206 55002 $=
PJON NIL=
PKMJ NIL=
PKMR NIL=
PKWA 070300Z AUTO 10007KT 10SM CLR 29/24 A2975 RMK AO2
T02850242=
PLCH 070300Z 10011KT 9999 SCT019 28/21 Q1008=
PMDY 070256Z AUTO 08019KT 10SM FEW039 OVC050 28/19 A3014 RMK AO2
SLP207 T02780194 55007 TSNO=
PTKK 070252Z 00000KT 15SM FEW014 SCT120 BKN280 32/27 A2970 RMK
SLP059 8/171 T03170265 57036=
PTKR NIL=
PTPN NIL=
PTRO 070250Z 11006KT 15SM SCT017 BKN300 31/24 A2978=
PTSA NIL=
PTTP 070253Z 19003KT 14SM -SHRA BKN017TCU OVC300 26/25 A2977 RMK
SHRAE20B39 TCU ALQDS SLP081 60019 8/201 T02590250 57022=
PTYA 070250Z VRB05KT 12SM FEW016TCU SCT300 31/24 A2978 RMK TCU N
SLP084 8/201 T03140244 57022=
PWAK 070258Z AUTO 09006KT 9999 CLR 29/24 A2982 RMK AO2 SLP104
T02900239 57021=


......................................................................................


Date: 07-Oct-2565

SAMS31 WMKK 070300
METAR WBGG 070300Z NIL=
METAR WBKK 070300Z NIL=
METAR WBSB 070300Z NIL=
METAR WMKK 070300Z NIL=
METAR WMKP 070300Z NIL=
METAR WSSL 070300Z 14004KT 110V180 9999 FEW018
FEW020TCU BKN150 29/24 Q1012=
METAR WSSS 070300Z 14006KT 9999 SCT018 BKN150 28/24 Q1012 NOSIG=


......................................................................................


Date: 07-Oct-2565

SAMS32 WMKK 070300
NIL


......................................................................................


Date: 07-Oct-2565

SAMS34 WMKK 070300
NIL


......................................................................................


Date: 07-Oct-2565

SAMS38 WMKK 070300
METAR WBGB 070300Z 24003KT 190V280 9999 SCT014 28/26 Q1011=
METAR WBGR 070300Z 26005KT 240V350 9999 SCT016 29/25 Q1010=
METAR WBGS 070300Z 32003KT 260V360 9999 -SHRA SCT016 26/24 Q1011=
METAR COR WBKL 070300Z VRB03KT 9999 FEW014 30/26 Q1010=
METAR WBKS 070300Z 09003KT 020V160 9999 SCT015 30/25 Q1010=
METAR WBKW 070300Z VRB03KT 9999 SCT018 31/26 Q1010=
METAR WMKD 070300Z VRB02KT 9999 FEW020 30/24 Q1012 NOSIG=
METAR WMKL 070300Z 21005KT 130V290 9999 -SHRA FEW017CB SCT020 26/25
Q1012=
METAR WMKM 070300Z 17005KT 110V260 9999 SCT018 30/25 Q1012=


......................................................................................


Date: 07-Oct-2565

SAPA31 KWBC 070300 RRA
METAR
AYPY 070300Z 20015KT 9999 HZ FEW020 SCT030 32/25 Q1007=


......................................................................................


Date: 07-Oct-2565

SASD20 OEJD 070300
METAR OEAB 070300Z 00000KT CAVOK 16/01 Q1024 NOSIG=
METAR OEAH 070300Z 30008KT CAVOK 26/M03 Q1008 NOSIG=
METAR OEAO 070300Z 03002KT CAVOK 26/M01 Q1014 NOSIG=
METAR OEBA 070300Z 00000KT CAVOK 21/07 Q1019 NOSIG=
METAR OEBH 070300Z 00000KT CAVOK 19/04 Q1016 NOSIG=
METAR OEDF 070300Z 28009KT CAVOK 24/03 Q1007 NOSIG=
METAR OEDM 070300Z NIL=
METAR OEDR 070300Z 08010KT CAVOK 27/02 Q1005=
METAR OEGN 070300Z 36003KT 9999 FEW030 BKN100 29/22 Q1008 NOSIG=
METAR OEGS 070300Z 00000KT CAVOK 20/04 Q1013=
METAR OEGT 070300Z 30010KT CAVOK 20/11 Q1013 NOSIG=
METAR OEHL 070300Z 15004KT CAVOK 18/M05 Q1017=
METAR OEJB 070300Z AUTO 30006KT CAVOK 24/01 Q1007 NOSIG=
METAR OEJN 070300Z 00000KT CAVOK 28/23 Q1006 NOSIG=
METAR OEKJ 070300Z 25008KT CAVOK 24/M05 Q1014=
METAR OEKK 070300Z NIL=


......................................................................................


Date: 07-Oct-2565

SASD21 OEJD 070300
METAR OEKM 070300Z 00000KT CAVOK 17/01 Q1023 NOSIG=
METAR OEMA 070300Z 01004KT CAVOK 25/M09 Q1015 NOSIG=
METAR OEMN 070300Z 04004KT CAVOK 35/03 Q1009=
METAR OEMK 070300Z NIL=
METAR OENG 070300Z 00000KT 9999 FEW030 SCT090 23/05 Q1017 NOSIG=
METAR OEPA 070300Z 00000KT CAVOK 22/00 Q1011 NOSIG=
METAR OERF 070300Z 24006KT CAVOK 24/M06 Q1012 NOSIG=
METAR OERK 070300Z 32004KT CAVOK 22/00 Q1014 NOSIG=
METAR OERY 070300Z NIL=
METAR OERR 070300Z 33012KT CAVOK 24/06 Q1012 NOSIG=
METAR OESH 070300Z 00000KT 9999 SCT040 25/06 Q1012 NOSIG=
METAR OESK 070300Z 04004KT CAVOK 23/02 Q1017 NOSIG=
METAR OETB 070300Z 09004KT CAVOK 21/01 Q1014 NOSIG=
METAR OETF 070300Z 00000KT CAVOK 20/M03 Q1020 NOSIG=
METAR OETR 070300Z 08007KT CAVOK 20/10 Q1015 NOSIG=
METAR OEWD 070300Z 13006KT CAVOK 25/09 Q1012=
METAR OEWJ 070300Z 34005KT CAVOK 27/22 Q1007 NOSIG=
METAR OEYN 070300Z 08004KT CAVOK 26/09 Q1005 NOSIG=


......................................................................................


Date: 07-Oct-2565

SAIR77 OIII 070300
METAR OIMM 070300Z 18004KT CAVOK 09/M05 Q1024 A3024=
METAR OIMN 070300Z VRB02KT 5000 BR FEW005 FEW030CB 13/11 Q1024=
METAR OINB 070300 NIL=
METAR OING 070300Z 22006KT 9999 FEW030TCU SCT080 22/19 Q1023=
METAR OINK 070300 NIL=
METAR OINN 070300Z 24008KT 5000 -RA SCT018 FEW022CB BKN027 20/19
Q1021=
METAR OINR 070300Z 24002KT 9999 FEW022CB SCT026 OVC080 21/19 Q1021=
METAR OISA 070300 NIL=
METAR OISF 070300Z 35012KT CAVOK 17/M03 Q1019=
METAR OISL 070300Z 00000KT CAVOK 16/02 Q1012 A2989=
METAR OISS 070300Z 00000KT CAVOK 11/M03 Q1020 A3014=
METAR OISY 070300Z 00000KT CAVOK 11/M02 Q1024=
METAR OITL 070252Z 08014KT 5000 -DZ PRFG OVC003 13/13 Q1026=
METAR OITR 070253Z 27006KT 9999 SCT040 10/M01 Q1021=
METAR OITT 070300Z 10004KT CAVOK 18/05 Q1023 A3024=
METAR OITU 070300 NIL=
METAR OIYY 070251Z 24004KT CAVOK 17/M07 Q1022 NOSIG=
METAR OIZB 070300Z 35025KT 7000 NSC 19/M13 Q1014=
METAR OIZC 070300Z 00000KT 9999 FEW035 26/23 Q1006=
METAR OIZH 070300Z 19004KT CAVOK 11/M17 Q1019 A3011=
METAR OIZI 070300Z 02004KT CAVOK 23/M12 Q1013=
METAR OIZJ 070300Z 05012KT 5000 BR FEW015 26/24 Q1006=
METAR SESG 070300 NIL=
METAR YAYT 070300 NIL=


......................................................................................


Date: 07-Oct-2565

SAMS33 WMKK 070300
METAR WMAU 070300Z VRB02KT 8000 SCT025 29/25 Q1012=
METAR WMBA 070300Z VRB09KT 7000 -SHRA FEW017CB 25/23 Q1012=
METAR WMKA 070300Z VRB02KT 9999 FEW020 30/24 Q1011=
METAR WMKB 070300Z 06004KT 010V120 9000 FEW017CB 29/25 Q1011 NOSIG=
METAR WMKC 070300Z 00000KT 9999 FEW017CB 27/24 Q1012=
METAR WMKD 070300Z VRB02KT 9999 FEW020 30/24 Q1012 NOSIG=
METAR WMKE 070300Z VRB01KT 9999 FEW014CB SCT017 30/25 Q1011=
METAR WMKI 070300Z VRB03KT 9999 FEW019 29/23 Q1012=
METAR WMKL 070300Z 21005KT 130V290 9999 -SHRA FEW017CB SCT020 26/25
Q1012=
METAR WMKM 070300Z 17005KT 110V260 9999 SCT018 30/25 Q1012=
METAR WMKN 070300Z 18004KT 120V250 9999 -SHRA FEW017CB SCT020 28/26
Q1011=


......................................................................................


Date: 07-Oct-2565

SAOM32 OOMS 070300 CCA
METAR COR OOKB 070250Z 19006KT CAVOK 30/20 Q1007 NOSIG=


......................................................................................


Date: 07-Oct-2565

SAMS33 WMKK 070300
NIL


......................................................................................


Date: 07-Oct-2565

SAMS31 WMKK 070300 RRA
METAR WMKK 070300Z 00000KT 9000 -RA FEW010 SCT030 25/24 Q1012 RERA
NOSIG=
METAR WMKP 070300Z 23012KT 210V270 9000 FEW012 FEW017CB SCT025 28/24
Q1012 TEMPO 5000 TSRA=


......................................................................................


Date: 07-Oct-2565

SAPA31 KWBC 070300
METAR
AGGG NIL=
AGGH 070300Z 05009KT 9999 FEW021 FEW021CB 32/24 Q1007 RMKS CB ASSW
SH TO SW=
ANAU NIL=
AYPY NIL=
PGNT NIL=
PGRO 070250Z 22008KT 7SM -RA BKN014 BKN100 26/25 A2973=
PGSN 070301Z 17006KT 1/4SM RA FG BKN012 OVC019 26/24 A2977 RMK AO2
P0036 T02610239 $=
PGSN 070254Z 16009KT 2SM RA BKN012 OVC019 29/26 A2977 RMK AO2
RAE10B35 SLP102 P0045 60047 T02890261 58015 $=
PGUA 070256Z AUTO 18006KT 6SM HZ BKN017 BKN035 OVC080 29/25 A2978
RMK AO2 CIG 017V035 BKN017 V FEW SLP075 T02920245 57022 $=
PGUM 070254Z 20004KT 10SM BKN060 BKN070 27/25 A2978 RMK AO2
RAB13E34 SLP078 P0003 60013 T02720250 58017=
PGWT 070255Z 09003KT 7SM -RA FEW012 SCT016 BKN060 BKN100 28/26=
PHJH NIL=
PHJR 070253Z VRB03KT 10SM BKN030 OVC040 28/21 A2992 RMK AO2 SLP138
T02830206 55005=
PHMK 070254Z 03011G19KT 10SM CLR 27/21 A2993 RMK AO2 SLP136
T02670206 55002 $=
PJON NIL=
PKMJ NIL=
PKMR NIL=
PKWA 070300Z AUTO 10007KT 10SM CLR 29/24 A2975 RMK AO2
T02850242=
PLCH 070300Z 10011KT 9999 SCT019 28/21 Q1008=
PMDY 070256Z AUTO 08019KT 10SM FEW039 OVC050 28/19 A3014 RMK AO2
SLP207 T02780194 55007 TSNO=
PTKK 070252Z 00000KT 15SM FEW014 SCT120 BKN280 32/27 A2970 RMK
SLP059 8/171 T03170265 57036=
PTKR NIL=
PTPN NIL=
PTRO 070250Z 11006KT 15SM SCT017 BKN300 31/24 A2978=
PTSA NIL=
PTTP 070253Z 19003KT 14SM -SHRA BKN017TCU OVC300 26/25 A2977 RMK
SHRAE20B39 TCU ALQDS SLP081 60019 8/201 T02590250 57022=
PTYA 070250Z VRB05KT 12SM FEW016TCU SCT300 31/24 A2978 RMK TCU N
SLP084 8/201 T03140244 57022=
// END PART 01 //


......................................................................................


Date: 07-Oct-2565

SPTH31 VTPH 070301
SPECI VTPH 070301Z 36004KT 300V040 2000 +SHRA FEW011 OVC040 26/25
Q1012 BECMG TL0345 5000 SHRA=


......................................................................................


Date: 07-Oct-2565

SAMS32 WMKK 070300 RRA
METAR WMKJ 070300Z 18003KT 120V280 9999 FEW018 29/25 Q1012=
METAR WMKK 070300Z 00000KT 9000 -RA FEW010 SCT030 25/24 Q1012 RERA
NOSIG=
METAR WMKP 070300Z 23012KT 210V270 9000 FEW012 FEW017CB SCT025 28/24
Q1012 TEMPO 5000 TSRA=
METAR WMSA 070300Z VRB01KT 9999 FEW017CB 29/24 Q1012=


......................................................................................


Date: 07-Oct-2565

SAMS34 WMKK 070300 RRA
METAR WBGB 070300Z 24003KT 190V280 9999 SCT014 28/26 Q1011=
METAR WBGR 070300Z 26005KT 240V350 9999 SCT016 29/25 Q1010=
METAR WBGS 070300Z 32003KT 260V360 9999 -SHRA SCT016 26/24 Q1011=
METAR WBGY 070300Z 31003KT 250V020 9999 SCT014 26/25 Q1012=
METAR WBKL 070300Z VRB03KT 9999 FEW014 30/26 Q1010=
METAR WBKS 070300Z 09003KT 020V160 9999 SCT015 30/25 Q1010=
METAR WBKT 070300Z VRB04KT 9999 SCT014 30/26 Q1010=
METAR WBKW 070300Z VRB03KT 9999 SCT018 31/26 Q1010=


......................................................................................


Date: 07-Oct-2565

SAMS38 WMKK 070300 RRA
METAR WBGB 070300Z 24003KT 190V280 9999 SCT014 28/26 Q1011=
METAR WBGR 070300Z 26005KT 240V350 9999 SCT016 29/25 Q1010=
METAR WBGS 070300Z 32003KT 260V360 9999 -SHRA SCT016 26/24 Q1011=
METAR WBKL 070300Z VRB03KT 9999 FEW014 30/26 Q1010=
METAR WBKS 070300Z 09003KT 020V160 9999 SCT015 30/25 Q1010=
METAR WBKW 070300Z VRB03KT 9999 SCT018 31/26 Q1010=
METAR WMKD 070300Z VRB02KT 9999 FEW020 30/24 Q1012 NOSIG=
METAR WMKL 070300Z 21005KT 130V290 9999 -SHRA FEW017CB SCT020 26/25
Q1012=
METAR WMKM 070300Z 17005KT 110V260 9999 SCT018 30/25 Q1012=


......................................................................................


Date: 07-Oct-2565

SAPA31 KWBC 070300 RRB
METAR
PGSN 070301Z 17006KT 1/4SM RA FG BKN012 OVC019 26/24 A2977 RMK AO2
P0036 T02610239 /=


......................................................................................


Date: 07-Oct-2565

SAAR20 OEJD 070300
METAR OBBI 070300Z 29005KT CAVOK 29/20 Q1006 NOSIG=
METAR OKBK 070300Z 00000KT 8000 NSC 25/M04 Q1008 NOSIG=
METAR OMAA 070300Z 07004KT 5000 HZ NSC 27/25 Q1006 NOSIG=
METAR OMAD 070300Z 07003KT 7000 NSC 29/27 Q1006 NOSIG=
METAR OMAL 070300Z 17005KT CAVOK 28/09 Q1008 NOSIG=
METAR OMDB 070300Z 11005KT 3300 HZ NSC 29/23 Q1006 BECMG 6000 NSW=
METAR OMFJ 070250Z 29004KT 7000 NSC 29/21 Q1007 RMK A2975=
METAR OMRK 070300Z 19003KT 1800 BR FEW005 24/24 Q1007 A2974=
METAR OMSJ 070300Z 09003KT 3500 HZ NSC 25/22 Q1007 NOSIG=
METAR OOMS 070250Z 19005KT 8000 NSC 28/28 Q1006 NOSIG=
METAR OOSA 070250Z 17003KT 9999 BKN025 26/23 Q1010 NOSIG=
METAR OOSH 070250Z AUTO 25003KT //// ////// 28/23 Q1007 RMK 1003=
METAR OODQ 070250Z AUTO 22016KT 9999 SCT007 24/23 Q1008 NOSIG RMK
RH95? 0=
METAR OTBD 070300Z 29006KT 250V320 7000 NSC 29/25 Q1006 NOSIG=
METAR OTBH 070255Z 24007KT 4000 BR CLR 25/25 A2971=
METAR OTHH 070300Z 30008KT 7000 NSC 29/25 Q1006 NOSIG=
METAR OYAA 070300Z NIL=
METAR OYSN 070300Z NIL=


......................................................................................


Date: 07-Oct-2565

SAMS33 WMKK 070300 RRA
METAR WMAU 070300Z VRB02KT 8000 SCT025 29/25 Q1012=
METAR WMBA 070300Z VRB09KT 7000 -SHRA FEW017CB 25/23 Q1012=
METAR WMKA 070300Z VRB02KT 9999 FEW020 30/24 Q1011=
METAR WMKB 070300Z 06004KT 010V120 9000 FEW017CB 29/25 Q1011 NOSIG=
METAR WMKC 070300Z 00000KT 9999 FEW017CB 27/24 Q1012=
METAR WMKD 070300Z VRB02KT 9999 FEW020 30/24 Q1012 NOSIG=
METAR WMKI 070300Z VRB03KT 9999 FEW019 29/23 Q1012=
METAR WMKL 070300Z 21005KT 130V290 9999 -SHRA FEW017CB SCT020 26/25
Q1012=
METAR WMKM 070300Z 17005KT 110V260 9999 SCT018 30/25 Q1012=
METAR WMKN 070300Z 18004KT 120V250 9999 -SHRA FEW017CB SCT020 28/26
Q1011=


......................................................................................


Date: 07-Oct-2565

SAPA31 KWBC 070300 RRC
METAR
PGSN 070311Z 16004KT 1/2SM RA FG VV015 26/24 A2976 RMK AO2 P0091
T02610239 $=
PKMR 070258Z 13011KT 10SM -SHRA SCT014TCU BKN045 OVC110 25/23
A2973 RMK SLP069 8/87/ T02530228 57029=


......................................................................................


Date: 07-Oct-2565

SAKO51 RJTD 070300
METAR RKPC 070300Z 34011KT 300V030 9999 SCT035 18/11 Q1020 NOSIG=
METAR RKPK 070300Z 34012KT 9999 FEW030 FEW170 22/06 Q1016=
METAR RKSI 070300Z 33015KT CAVOK 17/05 Q1021 NOSIG=
METAR RKSM 070300Z 31005KT 9999 BKN035 18/10 A3012=
METAR RKSS 070300Z 34009KT 320V020 9999 BKN030 17/09 Q1020 NOSIG=
METAR RKTN 070300Z 34007KT 9999 BKN050 20/10 Q1017=
METAR RKTU 070300Z 32004KT 9999 FEW025 BKN040 17/11 Q1019=


......................................................................................


Date: 07-Oct-2565

SACI51 RJTD 070300
METAR ZBAA 070300Z 14002MPS 100V220 CAVOK 15/05 Q1023 NOSIG=
METAR ZBTJ 070300Z 20002MPS 160V240 7000 NSC 16/08 Q1024 NOSIG=
METAR ZBYN 070300Z VRB02MPS 2400 BR NSC 08/05 Q1026 BECMG TL0430
3000=
METAR ZGGG 070300Z 32004MPS 280V350 9999 BKN053 28/22 Q1017 NOSIG=
METAR ZGKL 070300Z 05004MPS 9999 FEW033 OVC053 18/11 Q1023 NOSIG=
METAR ZGNN 070300Z 08004MPS 050V120 9999 FEW023 BKN043 28/22 Q1017
NOSIG=
METAR ZGOW 070300Z 12003MPS 080V150 9999 FEW040 31/21 Q1016 NOSIG=
METAR ZGSZ 070300Z 08005MPS 9999 SCT030 30/22 Q1016 NOSIG=
METAR ZLXY 070300Z 04003MPS 020V080 4000 BR FEW007 OVC050 10/09
Q1026 NOSIG=
METAR ZPPP 070300Z 03002MPS 9999 FEW007 SCT020 OVC036 12/11 Q1028
NOSIG=
METAR ZSAM 070300Z 03004MPS 340V060 9999 BKN023 31/22 Q1016 NOSIG=
METAR ZSHC 070300Z 36003MPS 320V030 8000 -RA BKN007 BKN020 15/14
Q1024 BECMG TL0430 SCT010 BKN020=
METAR ZSNJ 070300Z 04003MPS 340V080 CAVOK 16/09 Q1026 NOSIG=
METAR ZSQD 070300Z 32002MPS 290V360 CAVOK 16/04 Q1025 NOSIG=
METAR ZSSS 070300Z 01005MPS 9999 BKN020 18/14 Q1024 NOSIG=
METAR ZWWW 070300Z VRB01MPS CAVOK 17/M01 Q1026 NOSIG=
METAR ZYTL 070300Z 28005MPS 240V320 9999 FEW020 18/06 Q1024 NOSIG=
METAR ZYTX 070300Z 13004MPS 090V160 CAVOK 16/M07 Q1024 NOSIG=


......................................................................................


Date: 07-Oct-2565

SASB31 VCCC 070310
METAR VCBI 070310Z 24010KT 220V280 9999 SCT016 29/24 Q1010 NOSIG=
METAR VRMM 070300Z 30015KT 9999 FEW018TCU SCT270
29/24 Q1011 NOSIG=
METAR VCRI 070310Z 27008KT 240V310 9999 FEW018 30/24 Q1009 NOSIG=


......................................................................................


Date: 07-Oct-2565

SAPA31 KWBC 070300 RRD
METAR
PKWA 070320Z AUTO 10005KT 10SM CLR 29/24 A2974 RMK AO2
T02900242=


......................................................................................


Date: 07-Oct-2565

SAAE31 VDPP 070330
METAR VDPP 070330Z 33004KT 290V020 9999 SCT015 30/26 Q1010=


......................................................................................


Date: 07-Oct-2565

SAOM81 OOMS 070300
METAR OOAD 070300Z NIL=
METAR OOBH 070250Z AUTO 01004KT //// ////// 25/11 Q1010=
METAR OOBR 070250Z AUTO VRB03KT //// ////// 27/00 Q1009=
METAR OODB 070250Z AUTO 18003KT //// ////// 27/26 Q1008=
METAR OODQ 070250Z AUTO 22016KT 9999 SCT007 24/23 Q1008 NOSIG=
METAR OOFD 070250Z AUTO 11006KT //// ////// 24/14 Q1008=
METAR OOIB 070300Z NIL=
METAR OOIR 070250Z AUTO 31003KT //// ////// 24/16 Q1010=
METAR OOJB 070300Z NIL=
METAR OOJS 070300Z NIL=
METAR COR OOKB 070250Z 19006KT CAVOK 30/20 Q1007 NOSIG=
METAR OOMA 070250Z AUTO 20006KT //// ////// 25/24 Q1008=
METAR OOMJ 070250Z AUTO 00000KT //// ////// 28/23 Q1007=
METAR OOML 070300Z NIL=
METAR OOMQ 070250Z AUTO VRB03KT //// ////// 29/23 Q1006=
METAR OOMS 070250Z 19005KT 8000 NSC 28/28 Q1006 NOSIG=
METAR OONZ 070250Z AUTO VRB01KT //// ////// 23/13 Q1010=
METAR OOQA 070300Z NIL=
METAR OOQH 070250Z AUTO VRB00KT 0200 ////// 18/18 Q1014=
METAR OOQL 070250Z AUTO VRB04KT //// ////// 28/23 Q1007=
METAR OOQQ 070250Z AUTO 04008KT //// 19/M02 Q1021=
METAR OORA 070250Z AUTO VRB01KT //// ////// 25/23 Q1009=
METAR OORH 070250Z AUTO 22006KT //// ////// 25/24 Q1007=
METAR OORQ 070250Z AUTO VRB00KT //// ////// 25/23 Q1009=
METAR OOSA 070250Z 17003KT 9999 BKN025 26/23 Q1010 NOSIG=
METAR OOSM 070250Z AUTO VRB01KT //// ////// 26/08 Q1010=
METAR OOSQ 070300Z NIL=
METAR OOSR 070250Z AUTO 23007KT //// ////// 27/18 Q1007=
METAR OOTH 070300Z NIL=
METAR OOYA 070250Z AUTO 20009KT //// ////// 22/22 Q1008=


......................................................................................


Date: 07-Oct-2565

SATH31 VTBU 070330
METAR VTBU 070330Z 14005KT 9999 FEW020 30/25 Q1012 NOSIG=


......................................................................................


Date: 07-Oct-2565

SANP31 VNKT 070330
METAR VNKT 070330Z 04003KT 7000 FEW008 SCT100 21/18 Q1021 NOSIG=


......................................................................................


Date: 07-Oct-2565

SAPK31 OPKC 070325
METAR OPKC 070330Z 33005KT 3000 BR FEW030 27/22 Q1008 NOSIG=


......................................................................................


Date: 07-Oct-2565

SATH31 VTBD 070330
METAR VTBD 070330Z 08004KT 360V160 9999 FEW020 SCT030 30/25 Q1012
NOSIG=


......................................................................................


Date: 07-Oct-2565

SATH31 VTBS 070330
METAR VTBS 070330Z 09006KT 060V120 9999 SCT020 30/25 Q1012 NOSIG=


......................................................................................


Date: 07-Oct-2565

SATH31 VTCC 070330
METAR VTCC 070330Z VRB03KT 9999 SCT035 30/23 Q1014 NOSIG=


......................................................................................


Date: 07-Oct-2565

SATH31 VTSP 070330
METAR VTSP 070330Z 10003KT 020V160 9999 FEW010 SCT020 BKN100 27/24
Q1011 NOSIG=


......................................................................................


Date: 07-Oct-2565

SATH31 VTSS 070330
METAR VTSS 070330Z 13005KT 090V260 9999 SCT020 SCT100 30/25 Q1010
NOSIG=


......................................................................................


Date: 07-Oct-2565

SAIR20 OIII 070330
METAR OIAA 070330 NIL=
METAR OIAW 070323Z 19002KT 5000 HZ NSC 23/06 Q1006=
METAR OIFM 070330 NIL=
METAR OIGG 070330 NIL=
METAR OIIE 070330Z 31008KT 8000 NSC 17/10 Q1022=
METAR OIII 070330Z 33004KT CAVOK 21/M03 Q1022 A3019=
METAR OIKB 070330Z 36004KT 1800 BR NSC 27/25 Q1006 A2973=
METAR OIMM 070330Z 16004KT CAVOK 12/M04 Q1024 A3024=
METAR OISS 070330Z 00000KT CAVOK 14/01 Q1021 A3016=
METAR OITT 070330Z 08008KT CAVOK 18/05 Q1024 A3024=
METAR OIYY 070330 NIL=
METAR OIZH 070330Z 00000KT CAVOK 15/M18 Q1019 A3011 NOSIG=


......................................................................................


Date: 07-Oct-2565

SAPA31 KWBC 070300 RRE
METAR
PGSN 070327Z 20003KT 1 1/4SM RA BR BKN025 OVC055 26/24 A2976 RMK
AO2 P0116 T02610239 $=


......................................................................................


Date: 07-Oct-2565

SAPK31 OPKC 070330
METAR COR OPIS 070330Z 27009KT 7000 FEW040 FEW100 23/14 Q1014 NOSIG=
METAR OPKC 070330Z 33005KT 3000 BR FEW030 27/22 Q1008 NOSIG=
METAR OPLA 070325Z 12006KT 3000 FU FEW040 SCT100 26/21 Q1012
BECMG 3500 RMK QFE986 A29.88=
METAR OPMT 070330Z 05004KT 4000 FU NSC 24/18 Q1010 NOSIG=
METAR OPPS 070325Z 18004KT 6000 HZ FEW040 FEW100 21/18 Q1014=
METAR OPSK 070330Z NIL=
METAR OPFA 070330Z NIL=
METAR OPST 070330Z NIL=
METAR OPNH 070330Z NIL=


......................................................................................


Date: 07-Oct-2565

SAPK31 OPKC 070330 RRA
METAR OPFA 070330Z NIL=
METAR OPNH 070330Z NIL=
METAR OPSK 070330Z NIL=
METAR OPST 070330Z NIL=


......................................................................................


Date: 07-Oct-2565

SAIR31 OIII 070330
METAR OIAW 070330Z 19002KT 5000 HZ NSC 23/06 Q1006=
METAR OIFM 070330Z NIL=
METAR OIII 070330Z 33004KT CAVOK 21/M03 Q1022 A3019=
METAR OIKB 070330Z NIL=
METAR OIKK 070330Z NIL=
METAR OIMM 070330Z 16004KT CAVOK 12/M04 Q1024 A3024=
METAR OISS 070330Z 00000KT CAVOK 14/01 Q1021 A3016=
METAR OITT 070330Z 08008KT CAVOK 18/05 Q1024 A3024=
METAR OIZH 070330Z 00000KT CAVOK 15/M18 Q1019 A3011 NOSIG=


......................................................................................


Date: 07-Oct-2565

SAIR32 OIII 070330
METAR OIAA 070330Z NIL=
METAR OIBK 070330Z NIL=
METAR OICC 070330Z 00000KT CAVOK 11/M14 Q1021 A3015=
METAR OIGG 070330Z NIL=
METAR OIIE 070330Z NIL=
METAR OINZ 070330Z NIL=
METAR OITR 070330Z 26006KT 9999 SCT040 11/M02 Q1022=
METAR OIYY 070330Z NIL=


......................................................................................


Date: 07-Oct-2565

SAIR36 OIII 070330
METAR OIBA 070330Z NIL=
METAR OIBV 070330Z NIL=
METAR OIFS 070330Z NIL=
METAR OIIP 070330Z NIL=
METAR OIMB 070330Z NIL=
METAR OIMN 070330Z 00000KT 6000 FEW005 SCT030CB 15/12 Q1024=
METAR OIMS 070330Z NIL=
METAR OIMT 070330Z NIL=
METAR OIZJ 070330Z NIL=


......................................................................................


Date: 07-Oct-2565

SASR31 WSSS 070330
METAR WSSS 070330Z VRB03KT 9999 VCSH FEW016TCU SCT018 BKN160 29/25
Q1012 NOSIG=


......................................................................................


Date: 07-Oct-2565

SAIR31 OIII 070330 RRA
METAR OIKB 070330Z 36004KT 1800 BR NSC 27/25 Q1006 A2973=


......................................................................................


Date: 07-Oct-2565

SAAE31 VTBB 070330
METAR VTCT 070330Z NIL=
METAR VTSG 070330Z NIL=
METAR VTBD 070330Z 08004KT 360V160 9999 FEW020 SCT030 30/25 Q1012
NOSIG=
METAR VTBS 070330Z 09006KT 060V120 9999 SCT020 30/25 Q1012 NOSIG=
METAR VTCC 070330Z VRB03KT 9999 SCT035 30/23 Q1014 NOSIG=
METAR VTSP 070330Z 10003KT 020V160 9999 FEW010 SCT020 BKN100 27/24
Q1011 NOSIG=
METAR VTSS 070330Z 13005KT 090V260 9999 SCT020 SCT100 30/25 Q1010
NOSIG=
METAR VTBU 070330Z 14005KT 9999 FEW020 30/25 Q1012 NOSIG=


......................................................................................


Date: 07-Oct-2565

SAAE32 VTBB 070330
METAR VDPP 070330Z 33004KT 290V020 9999 SCT015 30/26 Q1010=
METAR VDSR 070330Z 07006KT 360V110 9999 SCT015 SCT040 30/24 Q1011=
METAR VLVT 070330Z 06006KT 9999 SCT016 FEW200 31/26 Q1014 NOSIG=
METAR VYMD 070330Z 27003KT 7000 SCT025 31/27 Q1012 NOSIG=
METAR VYNT 070330Z NIL=
METAR VYYY 070330Z NIL=
METAR VDSV 070330Z 14008KT 110V170 9999 SCT015 30/24 Q1011=


......................................................................................


Date: 07-Oct-2565

SAAE34 VTBB 070330
METAR VVCI 070330Z 06005KT 030V090 9999 -RA FEW040 SCT046 26/26 Q1016
NOSIG=
METAR VVCR 070330Z 04010KT 9999 FEW015 31/24 Q1012 NOSIG=
METAR VVCT 070330Z 07007KT 9999 BKN015 30/24 Q1011 NOSIG=
METAR VVDN 070330Z 36012KT 9999 FEW015 FEW017TCU 30/25 Q1013 NOSIG=
METAR VVNB 070330Z 09004KT 030V140 9999 FEW025 29/24 Q1016 NOSIG=
METAR VVPB 070330Z 08002KT 9999 FEW015 BKN050 29/25 Q1014 NOSIG=
METAR VVPQ 070330Z 08009KT 9999 FEW015 30/24 Q1011 NOSIG=
METAR VVTS 070330Z VRB02KT 9999 SCT020 32/25 Q1011 NOSIG =


......................................................................................


Date: 07-Oct-2565

SAUZ31 UTTW 070330 RRA
METAR UTFN 070330Z 05004KT 9000 NSC 16/03 Q1022 R28/CLRD70 NOSIG=


......................................................................................


Date: 07-Oct-2565

SAUZ31 UTTW 070330 RRB
METAR UTFA 070330Z 00000KT 5000 BR NSC 17/04 Q1023 R28/09//70=


......................................................................................


Date: 07-Oct-2565

SAUZ31 UTTW 070330
METAR UTFN 070330Z NIL=
METAR UTNN 070330Z 00000KT CAVOK 10/M07 Q1022 R33/CLRD60 NOSIG=
METAR UTNU 070330Z 33002KT CAVOK 10/M02 Q1022 R31/CLRD70 NOSIG=
METAR UTSA 070330Z 09008KT 5000 FU NSC 13/02 Q1022 R07/CLRD70 NOSIG=
METAR UTSB 070330Z 10002KT CAVOK 11/01 Q1022 R01/CLRD70 NOSIG=
METAR UTSK 070330Z 08004KT 8000 NSC 12/M03 Q1022 R16/CLRD70=
METAR UTSS 070330Z VRB02KT 9999 NSC 13/02 Q1022 R09/CLRD70 NOSIG=
METAR UTST 070330Z 04004KT CAVOK 12/00 Q1023 R25/CLRD70 NOSIG=
METAR UTFA 070330Z NIL=
METAR UTFF 070330Z 08006KT 9999 NSC 17/M00 Q1022 R18/CLRD70=
METAR UTTT 070330Z 11004KT 090V150 CAVOK 16/01 Q1022 R08L/CLRD70
NOSIG=


......................................................................................


Date: 07-Oct-2565

SAHK31 VHHH 070330
METAR VHHH 070330Z 09007KT 060V120 9999 FEW028 SCT045 31/22
Q1015 NOSIG=
METAR RCTP 070330Z 05020KT 9999 FEW012 BKN040 BKN100 30/23 Q1015
NOSIG RMK A2998=
METAR RCKH 070330Z 24009KT 210V270 9999 FEW016 SCT040 31/23 Q1013
NOSIG RMK A2992=
METAR RCSS 070330Z 10010KT 3000 SHRA FEW006 BKN012 BKN030 25/24
Q1015 TEMPO 5000 RMK A2999=
METAR RCMQ 070330Z 35007KT 8000 FEW010 SCT025 31/23 Q1014 NOSIG
RMK A2997=
METAR RCNN 070330Z 26006KT 9999 FEW014 SCT100 32/24 Q1013 NOSIG
RMK A2993=
METAR RCFN 070330Z VRB02KT 9999 -SHRA FEW016 BKN020 FEW020TCU
BKN040 27/25 Q1015 NOSIG RMK TCU SW A2999=
METAR VMMC 070330Z 09007KT 050V140 9999 FEW020 30/25 Q1015 NOSIG=


......................................................................................


Date: 07-Oct-2565

SPTH31 VTPH 070336
SPECI VTPH 070336Z VRB03KT 3000 SHRA FEW008 OVC043 25/25 Q1012 RETS
BECMG TL0350 6000 -SHRA=


......................................................................................


Date: 07-Oct-2565

SAMS31 WMKK 070330
METAR WBGG 070330Z VRB03KT 8000 -RA SCT020 27/25 Q1012 NOSIG=
METAR WBKK 070330Z 29003KT 230V350 9999 FEW014 30/25 Q1009 NOSIG=
METAR WBSB 070330Z 16002KT 9999 FEW015 FEW016CB BKN300 31/27 Q1010
NOSIG=
METAR WMKK 070330Z NIL=
METAR WMKP 070330Z 26007KT 220V310 7000 -RA FEW010 SCT025 26/24 Q1012 NOSIG=
METAR WSSL 070330Z NIL=
METAR WSSS 070330Z VRB03KT 9999 VCSH FEW016TCU SCT018 BKN160 29/25 Q1012 NOSIG=


......................................................................................


Date: 07-Oct-2565

SAHK31 VHHH 070300 CCA
METAR COR RPVM 070300Z 04007KT 010V080 9999 FEW018CB SCT300 31/25
Q1010 RMK A2983 CB SE W-NW=


......................................................................................


Date: 07-Oct-2565

SAJP51 RJTD 070330
METAR RJAA 070330Z 34010KT 2500 -SHRA BR FEW002 BKN003 BKN004 14/14
Q1014 NOSIG=
METAR RJBB 070330Z 09010KT 9999 -SHRA FEW003 BKN030 18/17 Q1012
NOSIG=
METAR RJCC 070330Z 21004KT 170V250 9999 FEW020 BKN150 OVC/// 12/01
Q1021=
METAR RJFF 070330Z 19005KT 140V240 9999 FEW015 SCT150 BKN160 20/16
Q1015 BECMG 31011KT=
METAR RJGG 070330Z 36011KT 9999 -RA FEW006 SCT010 BKN020 16/15 Q1012
TEMPO 3000 RA BR FEW004 BKN008=
METAR RJTT 070330Z 34017KT 7000 -RA FEW005 BKN008 BKN015 13/12 Q1015
TEMPO 3000 RA BR=
METAR ROAH 070330Z 01019KT 9999 VCSH FEW018 FEW025TCU SCT030 29/24
Q1014=


......................................................................................


Date: 07-Oct-2565

SAMS31 WMKK 070330
METAR WBGG 070330Z NIL=
METAR WBKK 070330Z NIL=
METAR WBSB 070330Z NIL=
METAR WMKK 070330Z NIL=
METAR WMKP 070330Z NIL=
METAR WSSL 070330Z NIL=
METAR WSSS 070330Z VRB03KT 9999 VCSH FEW016TCU SCT018 BKN160 29/25
Q1012 NOSIG=


......................................................................................


Date: 07-Oct-2565

SAPA31 KWBC 070300 RRF
METAR
PGSN 070334Z 19003KT 6SM -RA BKN020 OVC049 26/24 A2975 RMK AO2
P0119 T02610239 $=
PGSN 070327Z 20003KT 1 1/4SM RA BR BKN025 OVC055 26/24 A2976 RMK
AO2 P0116 T02610239 /=


......................................................................................


Date: 07-Oct-2565

SAMS31 WMKK 070330 RRA
METAR WMKK 070330Z VRB02KT 8000 -RA FEW010 SCT030 25/24 Q1012 NOSIG=


......................................................................................


Date: 07-Oct-2565

SAPA31 KWBC 070300 RRG
METAR
PGSN 070334Z 19003KT 6SM -RA BKN020 OVC049 26/24 A2975=
PKWA 070340Z AUTO 10006KT 10SM CLR 29/24 A2974 RMK AO2
T02930243=


......................................................................................


Date: 07-Oct-2565

SAHK31 VHHH 070200 CCA
METAR COR RPVM 070200Z 04007KT 010V080 9999 FEW018CB SCT300 31/25
Q1011 RMK A2985 CB W-NW=


......................................................................................


Date: 07-Oct-2565

SAMS31 WMKK 070330 RRA
METAR WMKK 070330Z VRB02KT 8000 -RA FEW010 SCT030 25/24 Q1012 NOSIG=
METAR WMKP 070330Z 26007KT 220V310 7000 -RA FEW010 SCT025 26/24
Q1012
NOSIG=


......................................................................................


Date: 07-Oct-2565

SAPA31 KWBC 070300 RRH
METAR
PGSN 070334Z 19003KT 6SM -RA BKN020 OVC049 26/24 A2975 RMK AO2
P0119 T02610239 /=


......................................................................................


Date: 07-Oct-2565

SAIR31 OIII 070330 RRB
METAR OIFM 070330Z 28004KT 8000 NSC 09/M06 Q1025 A3028=


......................................................................................


Date: 07-Oct-2565

SATH31 VTUI 070400
METAR VTUI 070400Z 04004KT 340V090 9999 SCT030 31/23 Q1013 NOSIG=


......................................................................................


Date: 07-Oct-2565

SAOM81 OOMS 070300 RRA
METAR OOTH 070250Z AUTO 18007KT 9999 ////// 23/12 Q1011=


......................................................................................


Date: 07-Oct-2565

SAAE31 VDPP 070400
METAR VDPP 070400Z 34004KT 310V020 9999 SCT015 30/26 Q1010=


......................................................................................


Date: 07-Oct-2565

SATH31 VTCL 070400
METAR VTCL 070400Z VRB02KT 9999 BKN025 32/24 Q1014 NOSIG=


......................................................................................


Date: 07-Oct-2565

SATH31 VTPO 070400
METAR VTPO 070400Z 30004KT 9999 FEW020 30/26 Q1013 NOSIG=


......................................................................................


Date: 07-Oct-2565

SATH31 VTUW 070400
METAR VTUW 070400Z 04005KT 360V080 9999 FEW030 31/23 Q1013 NOSIG=


......................................................................................


Date: 07-Oct-2565

SAPK31 OPKC 070355
METAR OPKC 070400Z 33004KT 3000 FU FEW030 28/21 Q1008 NOSIG=


......................................................................................


Date: 07-Oct-2565

SATH31 VTST 070400
METAR VTST 070400Z 15003KT 100V170 9999 SCT030 27/25 Q1010 NOSIG=


......................................................................................


Date: 07-Oct-2565

SATH31 VTBO 070400
METAR VTBO 070400Z 30003KT 9999 FEW020 31/25 Q1012=


......................................................................................


Date: 07-Oct-2565

SATH31 VTPM 070400
METAR VTPM 070400Z 06004KT 360V110 9999 FEW034 31/28 Q1012 NOSIG=


......................................................................................


Date: 07-Oct-2565

SATH31 VTSC 070400
METAR VTSC 070400Z 17004KT 140V220 9999 FEW020 SCT100 28/25 Q1011
NOSIG=


......................................................................................


Date: 07-Oct-2565

SATH31 VTUD 070400
METAR VTUD 070400Z 02007KT 340V060 9999 SCT030 30/23 Q1013 NOSIG=


......................................................................................


Date: 07-Oct-2565

SATH31 VTUO 070400
METAR VTUO 070400Z 08005KT 040V120 9999 FEW025TCU BKN030 29/26 Q1013 NOSIG=


......................................................................................


Date: 07-Oct-2565

SANP31 VNKT 070400
METAR VNKT 070400Z VRB02KT 8000 FEW008 SCT100 22/18 Q1021 NOSIG=


......................................................................................


Date: 07-Oct-2565

SATH31 VTBU 070400
METAR VTBU 070400Z 15006KT 9999 FEW020 31/24 Q1012 NOSIG=


......................................................................................


Date: 07-Oct-2565

SATH31 VTSM 070400
METAR VTSM 070400Z 16007KT 9999 FEW020 31/24 Q1012 NOSIG=


......................................................................................


Date: 07-Oct-2565

SATH31 VTUL 070400
METAR VTUL 070400Z VRB02KT 9999 SCT025 29/25 Q1014 NOSIG=


......................................................................................


Date: 07-Oct-2565

SAIR33 OIII 070330 RRA
METAR OICK 070330Z 08004KT CAVOK 18/M06 Q1018=


......................................................................................


Date: 07-Oct-2565

SAIR33 OIII 070300 RRB
METAR OICK 070300Z 00000KT CAVOK 17/M05 Q1018=


......................................................................................


Date: 07-Oct-2565

SAOM32 OOMS 070400
METAR OOMS 070350Z 24005KT 8000 NSC 30/30 Q1007 NOSIG=
METAR OOSA 070350Z VRB02KT 9999 FEW014 BKN025 26/21 Q1010 NOSIG=
METAR OOSH 070350Z AUTO 24004KT //// ////// 29/26 Q1007=
METAR OODQ 070350Z AUTO 21018KT CAVOK ////// 25/22 Q1008 NOSIG=
METAR OOKB 070350Z 19004KT CAVOK 31/19 Q1007 NOSIG=
METAR OOAD 070400Z NIL=


......................................................................................


Date: 07-Oct-2565

SASD31 OEJD 070400
METAR OEDF 070400Z 28009KT CAVOK 26/02 Q1007 NOSIG=
METAR OEDR 070400Z 30012KT CAVOK 29/00 Q1005=
METAR OEJN 070400Z NIL=
METAR OEMA 070400Z 00000KT CAVOK 25/M08 Q1016 NOSIG=
METAR OERK 070400Z 29005KT CAVOK 24/00 Q1014 NOSIG=
METAR OERY 070400Z NIL=
METAR OEAB 070400Z 00000KT CAVOK 19/01 Q1024 NOSIG=
METAR OYAA 070400Z NIL=
METAR OYSN 070400Z NIL=


......................................................................................


Date: 07-Oct-2565

SATH31 VTBD 070400
METAR VTBD 070400Z VRB03KT 9999 FEW020 SCT030 31/25 Q1012 NOSIG=


......................................................................................


Date: 07-Oct-2565

SATH31 VTBS 070400
METAR VTBS 070400Z 08006KT 030V120 9999 SCT020 30/25 Q1012 NOSIG=


......................................................................................


Date: 07-Oct-2565

SATH31 VTCC 070400
METAR VTCC 070400Z 10004KT 040V140 9999 SCT035 31/23 Q1014 NOSIG=


......................................................................................


Date: 07-Oct-2565

SATH31 VTCH 070400
METAR VTCH 070400Z VRB02KT 9999 FEW018 BKN025 28/24 Q1013 NOSIG=


......................................................................................


Date: 07-Oct-2565

SATH31 VTCN 070400
METAR VTCN 070400Z VRB03KT 9999 FEW015 29/24 Q1013 NOSIG=


......................................................................................


Date: 07-Oct-2565

SATH31 VTCP 070400
METAR VTCP 070400Z 04005KT 350V090 9999 FEW020 30/25 Q1013 NOSIG=


......................................................................................


Date: 07-Oct-2565

SATH31 VTCT 070400
METAR VTCT 070400Z 06006KT 020V120 9999 SCT018 28/25 Q1015 NOSIG=


......................................................................................


Date: 07-Oct-2565

SATH31 VTPB 070400
METAR VTPB 070400Z 02004KT 350V070 9999 FEW030 32/26 Q1012 NOSIG=


......................................................................................


Date: 07-Oct-2565

SATH31 VTPH 070400
METAR VTPH 070400Z 00000KT 3000 RA SCT030 OVC050 25/25 Q1012 BECMG
TL0420 6000 -RA=


......................................................................................


Date: 07-Oct-2565

SATH31 VTPP 070400
METAR VTPP 070400Z VRB01KT 9999 FEW030 31/25 Q1012 NOSIG=


......................................................................................


Date: 07-Oct-2565

SATH31 VTPT 070400
METAR VTPT 070400Z /////KT 9999 FEW015 SCT024 29/25 Q1013 NOSIG=


......................................................................................


Date: 07-Oct-2565

SATH31 VTSE 070400
METAR VTSE 070400Z 00000KT 9000 -RA SCT018 BKN100 26/26 Q1011 NOSIG=


......................................................................................


Date: 07-Oct-2565

SATH31 VTSF 070400
METAR VTSF 070400Z 02003KT 340V060 9999 FEW016TCU SCT018 28/27 Q1011 NOSIG=


......................................................................................


Date: 07-Oct-2565

SATH31 VTSG 070400
METAR VTSG 070400Z VRB02KT 9999 SCT019 28/24 Q1011 NOSIG=


......................................................................................


Date: 07-Oct-2565

SATH31 VTSP 070400
METAR VTSP 070400Z 08003KT 010V150 9999 FEW012 SCT020 28/24 Q1010
NOSIG=


......................................................................................


Date: 07-Oct-2565

SATH31 VTSS 070400
METAR VTSS 070400Z 21004KT 090V260 9999 SCT020 SCT100 31/25 Q1010
NOSIG=


......................................................................................


Date: 07-Oct-2565

SATH31 VTSY 070400
METAR VTSY 070400Z 24004KT 170V340 9999 FEW020 SCT100 29/23 Q1012
NOSIG=


......................................................................................


Date: 07-Oct-2565

SATH31 VTUK 070400
METAR VTUK 070400Z 08007KT 040V140 9999 SCT030 30/23 Q1013 NOSIG=


......................................................................................


Date: 07-Oct-2565

SATH31 VTUU 070400
METAR VTUU 070400Z VRB03KT 9999 BKN025 30/26 Q1012 NOSIG=


......................................................................................


Date: 07-Oct-2565

SATH31 VTUV 070400
METAR VTUV 070400Z 09007KT 060V160 9999 BKN030 30/24 Q1013 NOSIG=


......................................................................................


Date: 07-Oct-2565

SAPK31 OPKC 070400
METAR OPFA 070355Z 00000KT 4000 FU NSC 27/22 Q1011 NOSIG=
METAR OPIS 070400Z 27012KT 7000 NSC 24/15 Q1014 NOSIG=
METAR OPKC 070400Z 33004KT 3000 FU FEW030 28/21 Q1008 NOSIG=
METAR OPLA 070355Z 14005KT 3000 FU FEW040 SCT100 26/21 Q1012
NOSIG RMK QFE986 A29.88=
METAR OPMT 070400Z 05004KT 4000 FU NSC 26/19 Q1010 NOSIG=
METAR OPPS 070400Z 13004KT 6000 HZ FEW040 FEW100 24/15 Q1015=
METAR OPSK 070400Z 36010KT 5000 HZ NSC 29/22 Q1007 NOSIG=
METAR OPST 070400Z 00000KT 3500 FU NSC 26/22 Q1012 BECMG 4000 80?=
METAR OPNH 070400Z NIL=


......................................................................................


Date: 07-Oct-2565

SAPK31 OPKC 070400 RRA
METAR OPNH 070400Z NIL=


......................................................................................


Date: 07-Oct-2565

SATH31 VTSB 070400
METAR VTSB 070400Z 00000KT 9999 -RA SCT020 BKN100 26/26 Q1011 NOSIG=


......................................................................................


Date: 07-Oct-2565

SATH31 VTSR 070400
METAR VTSR 070400Z 20003KT 160V240 8000 -RA BKN020 28/24 Q1011 NOSIG=


......................................................................................


Date: 07-Oct-2565

SAIR31 OIII 070400
METAR OIAW 070400Z 27002KT 5000 HZ NSC 24/07 Q1006=
METAR OIFM 070400Z 25004KT 8000 NSC 12/M06 Q1025 A3028=
METAR OIII 070400Z 12004KT CAVOK 23/M03 Q1022 A3020 NOSIG=
METAR OIKB 070400Z NIL=
METAR OIKK 070400Z 10008KT CAVOK 12/M09 Q1024 A3024=
METAR OIMM 070400Z 00000KT CAVOK 14/M03 Q1024 A3024=
METAR OISS 070400Z 00000KT CAVOK 19/02 Q1021 A3016=
METAR OITT 070400Z 08006KT 9999 BKN070 18/04 Q1024 A3025=
METAR OIZH 070400Z 15004KT CAVOK 16/M20 Q1020 A3012 NOSIG=


......................................................................................


Date: 07-Oct-2565

SAIR31 OIII 070400 RRA
METAR OIKB 070400Z 12004KT 2500 BR NSC 29/26 Q1007 A2974=


......................................................................................


Date: 07-Oct-2565

SAIR32 OIII 070400
METAR OIAA 070400Z 25006KT 6000 NSC 23/09 Q1007=
METAR OIBK 070400Z 10008KT 3000 BR NSC 28/27 Q1007 NOSIG=
METAR OICC 070400Z 00000KT CAVOK 12/M15 Q1021 A3016=
METAR OIGG 070400Z 36004KT 9999 FEW020CB BKN030 BKN070
20/20 Q1023=
METAR OIIE 070400Z 33010KT 8000 NSC 18/10 Q1022=
METAR OINZ 070400Z 21006KT 9999 FEW035 SCT080 23/20 Q1022=
METAR OITR 070400Z 26004KT 9999 SCT040 11/M01 Q1022=
METAR OIYY 070400Z 29004KT CAVOK 21/M06 Q1023=


......................................................................................


Date: 07-Oct-2565

SAIR33 OIII 070400
METAR OIBB 070400Z 02004KT CAVOK 29/20 Q1006 A2972=
METAR OIBP 070400Z 16004KT 1000 BR NSC 26/23 Q1005 A2970=
METAR OICK 070400Z 09004KT CAVOK 20/M05 Q1018=
METAR OICS 070400Z NIL=
METAR OIHH 070400Z 16002KT CAVOK 11/M07 Q1024 A3024=
METAR OITL 070400Z NIL=
METAR OIZC 070400Z 00000KT 9999 FEW035 29/25 Q1007=


......................................................................................


Date: 07-Oct-2565

SAIR34 OIII 070400
METAR OIAG 070400Z 15002KT 8000 NSC 25/05 Q1008=
METAR OIAM 070400Z 00000KT CAVOK 27/10 Q1007=
METAR OICI 070400Z 10006KT CAVOK 22/M05 Q1020 A3013=
METAR OIKQ 070400Z 09006KT 1700 BR NSC 28/28 Q1007 NOSIG=
METAR OINN 070400Z 18004KT 5000 DZ SCT018 FEW023CB BKN027 20/19
Q1022=
METAR OINR 070400Z 23006KT 9999 FEW022CB SCT026 BKN090 21/19 Q1021=
METAR OISL 070400Z 00000KT CAVOK 20/04 Q1013 A2991=
METAR OISY 070400Z 00000KT CAVOK 14/M03 Q1024=
METAR OITZ 070400Z 00000KT 9999 FEW020 13/01 Q1024 A3024=


......................................................................................


Date: 07-Oct-2565

SAIR35 OIII 070400
METAR OIAD 070400Z NIL=
METAR OIBJ 070400Z AUTO 00000KT //// // ////// 28/02 Q1013=
METAR OIBS 070400Z 06004KT 3000 BR NSC 31/29 Q1007=
METAR OIHR 070400Z NIL=
METAR OIKM 070400Z NIL=
METAR OIKR 070400Z NIL=
METAR OING 070400Z 21004KT 9999 FEW030CB SCT080 23/18 Q1023 NOSIG=
METAR OIZB 070400Z 36031G41KT 7000 NSC 21/M13 Q1015=
METAR OIZI 070400Z 04010KT CAVOK 29/M14 Q1013=


......................................................................................


Date: 07-Oct-2565

SAIR36 OIII 070400
METAR OIBA 070400Z 06004KT 5000 BR NSC 30/28 Q1005=
METAR OIBV 070400Z 00000KT 2500 BR NSC 29/26 Q1006=
METAR OIFS 070400Z 28002KT CAVOK 09/M09 Q1027=
METAR OIIP 070400Z 32012KT 6000 NSC 15/11 Q1022 A3020=
METAR OIMB 070400Z 11008KT CAVOK 12/M25 Q1021 A3016=
METAR OIMN 070400Z 00000KT 6000 FEW005 FEW030CB 16/12 Q1025=
METAR OIMS 070400Z 09012KT CAVOK 14/M14 Q1023=
METAR OIMT 070400Z NIL=
METAR OIZJ 070400Z 11008KT 5000 BR FEW015 26/25 Q1007=


......................................................................................


Date: 07-Oct-2565

SAIR37 OIII 070400
METAR OIBL 070400Z 09006KT 3500 HZ NSC 31/26 Q1006=
METAR OIBQ 070400Z 00000KT 4000 BR NSC 29/27 Q1007=
METAR OIIK 070400Z 14002KT 7000 NSC 15/10 Q1024=
METAR OIMD 070400Z 00000KT CAVOK 18/M16 Q1019=
METAR OIMQ 070400Z 00000KT CAVOK 21/M16 Q1021=
METAR OINE 070400Z 23008KT 6000 BKN020 OVC080 23/19 Q1022=
METAR OITK 070400Z 00000KT 9999 SCT040 15/07 Q1022=
METAR OITM 070400Z 11016KT 9999 FEW040 SCT090 18/05 Q1021=


......................................................................................


Date: 07-Oct-2565

SAIR38 OIII 070400
METAR OIAH 070400Z 00000KT CAVOK 22/08 Q1011=
METAR OIBH 070400Z 04006KT CAVOK 25/09 Q1006 A2972=
METAR OICM 070400Z 10002KT CAVOK 27/M01 Q1005=
METAR OIIS 070400Z NIL=
METAR OIMJ 070400Z 04019KT CAVOK 17/06 Q1023=
METAR OISF 070400Z 31008KT CAVOK 22/M03 Q1020=
METAR OISR 070400Z 24004KT CAVOK 24/09 Q1011 A2986=
METAR OITP 070400Z 15012KT 9999 BKN040 19/15 Q1022=
METAR OITU 070400Z NIL=


......................................................................................


Date: 07-Oct-2565

SAPK31 OPKC 070400
METAR OPFA 070355Z 00000KT 4000 FU NSC 27/22 Q1011 NOSIG=
METAR OPIS 070400Z 27012KT 7000 NSC 24/15 Q1014 NOSIG=
METAR OPKC 070400Z 33004KT 3000 FU FEW030 28/21 Q1008 NOSIG=
METAR OPLA 070355Z 14005KT 3000 FU FEW040 SCT100 26/21 Q1012
NOSIG RMK
QFE986 A29.88=
METAR OPMT 070400Z 05004KT 4000 FU NSC 26/19 Q1010 NOSIG=
METAR OPPS 070400Z 13004KT 6000 HZ FEW040 FEW100 24/15 Q1015=
METAR OPSK 070400Z 36010KT 5000 HZ NSC 29/22 Q1007 NOSIG=
METAR OPST 070400Z 00000KT 3500 FU NSC 26/22 Q1012 BECMG 4000 80=
METAR OPNH 070400Z NIL=


......................................................................................


Date: 07-Oct-2565

SATH31 VTUQ 070400
METAR VTUQ 070400Z 05006KT 030V110 9999 BKN020 29/25 Q1013 NOSIG=


......................................................................................


Date: 07-Oct-2565

SATH40 VTBB 070400
METAR VTBD 070400Z VRB03KT 9999 FEW020 SCT030 31/25 Q1012 NOSIG=
METAR VTBS 070400Z 08006KT 030V120 9999 SCT020 30/25 Q1012 NOSIG=
METAR VTBU 070400Z 15006KT 9999 FEW020 31/24 Q1012 NOSIG=
METAR VTCC 070400Z 10004KT 040V140 9999 SCT035 31/23 Q1014 NOSIG=
METAR VTCT 070400Z 06006KT 020V120 9999 SCT018 28/25 Q1015 NOSIG=
METAR VTSB 070400Z 00000KT 9999 -RA SCT020 BKN100 26/26 Q1011 NOSIG=
METAR VTSG 070400Z VRB02KT 9999 SCT019 28/24 Q1011 NOSIG=
METAR VTSP 070400Z 08003KT 010V150 9999 FEW012 SCT020 28/24 Q1010
NOSIG=
METAR VTSS 070400Z 21004KT 090V260 9999 SCT020 SCT100 31/25 Q1010
NOSIG=
METAR VTUD 070400Z 02007KT 340V060 9999 SCT030 30/23 Q1013 NOSIG=
METAR VTUU 070400Z VRB03KT 9999 BKN025 30/26 Q1012 NOSIG=


......................................................................................


Date: 07-Oct-2565

SAAE31 VTBB 070400
METAR VTCT 070400Z 06006KT 020V120 9999 SCT018 28/25 Q1015 NOSIG=
METAR VTSG 070400Z VRB02KT 9999 SCT019 28/24 Q1011 NOSIG=
METAR VTBD 070400Z VRB03KT 9999 FEW020 SCT030 31/25 Q1012 NOSIG=
METAR VTBS 070400Z 08006KT 030V120 9999 SCT020 30/25 Q1012 NOSIG=
METAR VTCC 070400Z 10004KT 040V140 9999 SCT035 31/23 Q1014 NOSIG=
METAR VTSP 070400Z 08003KT 010V150 9999 FEW012 SCT020 28/24 Q1010
NOSIG=
METAR VTSS 070400Z 21004KT 090V260 9999 SCT020 SCT100 31/25 Q1010
NOSIG=
METAR VTBU 070400Z 15006KT 9999 FEW020 31/24 Q1012 NOSIG=


......................................................................................


Date: 07-Oct-2565

SAAE32 VTBB 070400
METAR VDPP 070400Z 34004KT 310V020 9999 SCT015 30/26 Q1010=
METAR VDSR 070400Z 04007KT 360V070 9999 SCT015 SCT040 30/24 Q1010=
METAR VLVT 070400Z 06006KT 9999 SCT016 FEW200 31/26 Q1013 NOSIG=
METAR VYMD 070400Z NIL=
METAR VYNT 070400Z NIL=
METAR VYYY 070400Z 06010KT 7000 SCT017 FEW020CB SCT110 29/24 Q1010=
METAR VDSV 070400Z 15010KT 9999 SCT015 30/24 Q1010=


......................................................................................


Date: 07-Oct-2565

SAAE33 VTBB 070400
METAR VLLB 070400Z 09004KT 9999 SCT020 29/24 Q1014 NOSIG=
METAR VLLN 070400Z 32004KT 9999 SCT020 SCT100 27/22 Q1017 NOSIG=
METAR VLPS 070400Z 36002KT 9999 FEW020 SCT050 30/25 Q1012 NOSIG=
METAR VLSK 070400Z 18004KT 8000 SCT020 SCT100 30/24 Q1015 NOSIG=


......................................................................................


Date: 07-Oct-2565

SAAE34 VTBB 070400
METAR VVCI 070400Z 07006KT 040V100 9999 FEW033 28/25 Q1015 NOSIG=
METAR VVCR 070400Z 05009KT 9999 FEW015 31/24 Q1012 NOSIG=
METAR VVCT 070400Z 09005KT 9999 SCT015 30/24 Q1011 NOSIG=
METAR VVDN 070400Z 36012KT 9999 FEW015 FEW017TCU 31/25 Q1013 NOSIG=
METAR VVNB 070400Z 13005KT 080V170 9999 FEW024 30/24 Q1016 NOSIG=
METAR VVPB 070400Z 07004KT 9999 FEW015 BKN050 30/25 Q1014 NOSIG=
METAR VVPQ 070400Z 08009KT 9999 FEW015 30/24 Q1011 NOSIG=
METAR VVTS 070400Z VRB02KT 9999 SCT020 33/24 Q1010 NOSIG =


......................................................................................


Date: 07-Oct-2565

SAHK31 VHHH 070400
METAR VHHH 070400Z 09007KT 9999 FEW028 SCT045 32/22 Q1015 NOSIG=


......................................................................................


Date: 07-Oct-2565

SAMV31 VRMM 070400
METAR VRMH 070400Z 29010KT 9999 FEW018 30/25 Q1011=
METAR VRMM 070400Z 30014KT 9999 FEW018TCU BKN270 30/24 Q1011 NOSIG=
METAR VRMG 070400Z 34003KT 8000 -RA FEW017 FEW018CB OVC100 25/23
Q1012 CB NE,SW TEMPO 5000 TSRA=


......................................................................................


Date: 07-Oct-2565

SAPK31 OPKC 070400
METAR OPFA 070355Z 00000KT 4000 FU NSC 27/22 Q1011 NOSIG=
METAR OPIS 070400Z 27012KT 7000 NSC 24/15 Q1014 NOSIG=
METAR OPKC 070400Z 33004KT 3000 FU FEW030 28/21 Q1008 NOSIG=
METAR OPLA 070355Z 14005KT 3000 FU FEW040 SCT100 26/21 Q1012
NOSIG RMK QFE986 A29.88=
METAR OPMT 070400Z 05004KT 4000 FU NSC 26/19 Q1010 NOSIG=
METAR OPPS 070400Z 13004KT 6000 HZ FEW040 FEW100 24/15 Q1015=
METAR OPSK 070400Z 36010KT 5000 HZ NSC 29/22 Q1007 NOSIG=
METAR OPST 070400Z 00000KT 3500 FU NSC 26/22 Q1012 BECMG 4000 80%=
METAR OPNH 070400Z NIL=


......................................................................................


Date: 07-Oct-2565

SASD31 OEJD 070400 RRA
METAR OEJN 070400Z 33003KT CAVOK 27/23 Q1006 NOSIG=


......................................................................................


Date: 07-Oct-2565

SAUZ31 UTTW 070400
METAR UTFN 070400Z 13004KT 090V150 7000 NSC 15/05 Q1022 R28/CLRD70
NOSIG=
METAR UTNN 070400Z 00000KT CAVOK 14/M08 Q1022 R33/CLRD60 NOSIG=
METAR UTNU 070400Z 00000KT CAVOK 15/M01 Q1022 R31/CLRD70 NOSIG=
METAR UTSA 070400Z 09008KT 5000 FU NSC 15/01 Q1022 R07/CLRD70 NOSIG=
METAR UTSB 070400Z 14004KT CAVOK 14/00 Q1022 R01/CLRD70 NOSIG=
METAR UTSK 070400Z 10004KT 9000 NSC 16/M02 Q1023 R16/CLRD70=
METAR UTSS 070400Z 10004KT 9999 NSC 15/02 Q1022 R09/CLRD70 NOSIG=
METAR UTST 070400Z VRB02KT CAVOK 14/M01 Q1023 R25/CLRD70 NOSIG=
METAR UTFA 070400Z VRB02KT 8000 NSC 17/04 Q1023 R88/09//70=
METAR UTFF 070400Z 10004KT 9999 NSC 18/M00 Q1022 R18/CLRD70=
METAR UTTT 070400Z 13004KT 080V160 7000 NSC 17/M00 Q1022 R08L/CLRD70
NOSIG=


......................................................................................


Date: 07-Oct-2565

SAIR31 OIII 070400
METAR OIKQ 070400Z 09006KT 1700 BR NSC 28/28 Q1007 NOSIG=
METAR OIMB 070400Z 11008KT CAVOK 12/M25 Q1021 A3016=
METAR OIMC 070350Z 00000KT CAVOK 14/M03 Q1022=
METAR OIMD 070350Z 00000KT CAVOK 18/M16 Q1019=
METAR OIMM 070400Z 00000KT CAVOK 14/M03 Q1024 A3024=
METAR OINB 070400Z 00000KT CAVOK 23/20 Q1021=
METAR OING 070400Z 21004KT 9999 FEW030CB SCT080 23/18 Q1023 NOSIG=
METAR OINK 070400Z 22006KT 9999 BKN030 23/19 Q1020 A3012=
METAR OINN 070400Z 18004KT 5000 DZ SCT018 FEW023CB BKN027 20/19
Q1022=
METAR OINR 070400Z 23006KT 9999 FEW022CB SCT026 BKN090 21/19 Q1021=
METAR OISA 070400Z 33006KT CAVOK 11/M07 Q1027 A3034=
METAR OISF 070400Z 31008KT CAVOK 22/M03 Q1020=
METAR OISL 070400Z 00000KT CAVOK 20/04 Q1013 A2991=
METAR OISS 070400Z 00000KT CAVOK 19/02 Q1021 A3016=
METAR OISY 070400Z 00000KT CAVOK 14/M03 Q1024=
METAR OITL 070352Z 08014KT 5000 -DZ PRFG OVC003 13/13 Q1026 TEMPO
3000 DZ BR=
METAR OITR 070351Z 26004KT 9999 SCT040 11/M01 Q1022 NOSIG=
METAR OITT 070400Z 08006KT 9999 BKN070 18/04 Q1024 A3025 NOSIG=
METAR OITU 070351Z 00000KT CAVOK 14/07 Q1024=
METAR OIYY 070350Z 29004KT CAVOK 21/M06 Q1023 NOSIG=
METAR OIZB 070400Z 36031G41KT 7000 NSC 21/M13 Q1015=
METAR OIZC 070400Z 00000KT 9999 FEW035 29/25 Q1007=
METAR OIZH 070400Z 15004KT CAVOK 16/M20 Q1020 A3012 NOSIG=
METAR OIZI 070400Z 04010KT CAVOK 29/M14 Q1013=
METAR OIZJ 070400Z 11008KT 5000 BR FEW015 26/25 Q1007=
//END PART 02/02//


......................................................................................


Date: 07-Oct-2565

SASR31 WSSS 070400
METAR WSSS 070400Z 18015G25KT 150V210 9000 4500SW -SHRA FEW010
SCT016TCU FEW017CB 25/22 Q1011 TEMPO FM0415 TL0445 3000 TSRA=


......................................................................................


Date: 07-Oct-2565

SATR31 UTAA 070400
METAR UTAA 070400Z VRB02KT 9999 NSC 20/M00 Q1021 R88/CLRD70
NOSIG=
METAR UTAK 070400Z 32008KT CAVOK 16/14 Q1021 R16R/CLRD70 NOSIG=
METAR UTAV 070400Z 14004KT CAVOK 15/M04 Q1021 R31/CLRD70 NOSIG=
METAR UTAM 070400Z 00000KT 6000 NSC 12/01 Q1023 R88/CLRD70 NOSIG=
METAR UTAT 070400Z 28002KT 9000 NSC 13/00 Q1022 R08/CLRD70
NOSIG=


......................................................................................


Date: 07-Oct-2565

SAAE32 VTBB 070400 RRA
METAR VYNT 070400Z 04008KT 7000 SCT020 FEW025CB SCT120 29/25 Q1011
NOSIG=


......................................................................................


Date: 07-Oct-2565

SAHK31 VHHH 070400
METAR VHHH 070400Z 09007KT 9999 FEW028 SCT045 32/22 Q1015 NOSIG=
METAR RCTP 070400Z 04021KT 9999 FEW012 SCT040 BKN090 29/23 Q1014
NOSIG RMK A2997=
METAR RCKH 070400Z 25009KT 220V280 9999 FEW016 SCT200 32/23 Q1012
NOSIG RMK A2990=
METAR RCSS 070400Z 08008KT 9999 -SHRA FEW010 SCT020 BKN045 26/24
Q1014 RESHRA TEMPO 3000 SHRA RMK A2997 RA AMT 3.4MM=
METAR RCMQ 070400Z 36008KT 8000 FEW010 SCT025 30/23 Q1014 NOSIG
RMK A2996 RA AMT 2995MM=
METAR RCNN 070400Z 28006KT 9999 FEW014 SCT100 32/24 Q1013 NOSIG
RMK A2992=
METAR RCFN 070400Z 06009KT 010V090 9999 -SHRA FEW016 FEW020TCU
BKN022 BKN040 29/26 Q1014 NOSIG RMK TCU SW A2997=
METAR VMMC 070400Z 09008KT 040V140 9999 FEW015 30/25 Q1015 NOSIG=
METAR RPLL 070400Z 10008KT 060V140 9999 FEW025 34/23 Q1009 NOSIG RMK
A2980=
METAR RPVM 070400Z 04007KT 9999 FEW018CB SCT300 31/25 Q1010 RMK A2983
CB NE,E,W=
METAR RPMD 070400Z 16008KT 9999 FEW016 32/23 Q1009 RMK A2980=
METAR RPLB 070400Z 08007KT 040V100 9999 SCT020 BKN300 32/24 Q1010
NOSIG RMK A2983=
METAR RPLI 070400Z 28006KT 240V330 9999 FEW018 32/24 Q1009 NOSIG RMK
A2980=
METAR RPMZ 070400Z 17007KT 120V220 9999 FEW016CB FEW017 BKN300 32/24
Q1009 RMK A2980 CB S-W, NW-N=


......................................................................................


Date: 07-Oct-2565

SAJP31 RJTD 070400
METAR RJAA 070400Z 35011KT 2200 R34L/P2000N R34R/2000N SHRA BR
FEW002 BKN003 14/14 Q1013 NOSIG=
METAR RJBB 070400Z 09009KT 8000 -SHRA FEW003 BKN020 BKN030 18/17
Q1012 NOSIG=
METAR RJTT 070400Z 35016KT 4000 R34L/P2000N R22/P2000N R34R/P2000N
R05/2000N RA BR FEW006 BKN008 BKN015 13/12 Q1014 TEMPO
3000 RA BR=
METAR RJOO 070400Z 07005KT 040V100 6000 -SHRA BR FEW003 BKN008
BKN020 17/16 Q1012=
METAR ROAH 070400Z 01018KT 9999 SCT020 FEW025TCU 29/23 Q1014=
METAR RJGG 070400Z 36012KT 9999 -RA FEW006 SCT010 BKN020 16/15 Q1012
TEMPO 3000 RA BR FEW004 BKN008=
METAR RJCH 070400Z 18003KT 120V280 9999 FEW020 SCT030 BKN/// 13/03
Q1020=
METAR RJSS 070400Z 35008KT 9999 -RA FEW010 BKN100 11/09 Q1017=


......................................................................................


Date: 07-Oct-2565

SAJP32 RJTD 070400
METAR RJFF 070400Z 26007KT 210V310 9999 FEW015 SCT050 BKN160 20/14
Q1015 NOSIG=
METAR RJCC 070400Z 21005KT 150V240 9999 FEW020 SCT150 OVC/// 12/00
Q1020=
METAR RJFK 070400Z 33015KT 9999 FEW015 BKN020 BKN070 19/14 Q1015=
METAR RJSN 070400Z 09003KT 9999 -RA SCT050 OVC090 13/10 Q1014=
METAR RJFT 070400Z 25004KT 9999 FEW001 BKN009 BKN015 16/15 Q1016=
METAR RJFU 070400Z 31005KT 270V340 9999 FEW015 SCT035 BKN130 20/14
Q1016=
METAR RJNK 070400Z 16004KT 8000 -RA FEW008 BKN030 OVC040 14/14
Q1012=
METAR RJOA 070400Z 29005KT 240V330 9999 FEW003 SCT015 BKN025 18/14
Q1013=
METAR RJOB 070400Z VRB02KT 3500 BR BCFG FEW000 SCT005 BKN070 16/15
Q1012=
METAR RJOT 070400Z 29005KT 4000 -SHRA BR FEW000 SCT004 BKN008 16/16
Q1013=


......................................................................................


Date: 07-Oct-2565

SAJP32 RJTD 070400 RRA
METAR RJFO 070400Z 27005G16KT 200V330 9999 FEW015 SCT060 BKN070
19/13 Q1014=
METAR RJNT 070400Z 00000KT 7000 -RA FEW002 SCT005 OVC070 14/13
Q1012=


......................................................................................


Date: 07-Oct-2565

SAJP38 RJTD 070400
METAR RJNS 070400Z 01006KT 320V090 4500 RA BR FEW000 BKN020 15/15
Q1011=
METAR RJSA 070400Z 03006KT 9999 FEW040 BKN100 12/05 Q1018=
METAR RJSF 070400Z 35008KT 0800 R01/P2000N RA FG SCT001 BKN002 09/09
Q1017=
METAR RJOM 070400Z 29007KT 260V320 9999 -SHRA FEW008 SCT020 BKN045
20/17 Q1013=
METAR RJOK 070400Z 33003KT 9999 -RA FEW003 SCT070 BKN110 21/19
Q1011=
METAR RJFM 070400Z 28010KT 9999 FEW025 SCT060 BKN/// 24/16 Q1012=
METAR RJEC 070400Z VRB02KT 9999 FEW030 SCT060 BKN/// 11/M02 Q1019=
METAR RJFR 070400Z 27007KT 9999 FEW015 SCT025 BKN045 20/15 Q1014=
METAR RJSK 070400Z 13005KT 100V160 9999 -RA FEW040 SCT060 BKN080
12/07 Q1017=
METAR RJAH 070400Z 01012KT 3000 -SHRA BR SCT005 BKN006 BKN012 13/13
Q1014=


......................................................................................


Date: 07-Oct-2565

SAJP38 RJTD 070400 RRA
METAR RJCK 070400Z VRB04KT 9999 FEW040 BKN/// 12/02 Q1021=
METAR RJCM 070400Z 17005KT 140V220 9999 FEW050 14/M04 Q1020=
METAR RJCB 070400Z 13004KT 070V180 9999 FEW030 BKN/// 12/M03 Q1020=
METAR RJOC 070400Z 23011KT 9999 FEW009 SCT090 BKN100 19/14 Q1012=
METAR RJOH 070400Z 25012KT 9999 FEW008 SCT015 BKN050 19/17 Q1012=
METAR ROIG 070400Z 04014KT 010V070 9999 VCSH SCT010 FEW015TCU BKN020
28/25 Q1014=
METAR RJFS 070400Z 24004KT 210V280 9999 FEW030 SCT050 BKN120 19/16
Q1015=
METAR RJSI 070400Z 03003KT 9999 -RA FEW050 SCT070 BKN090 12/08
Q1018=


......................................................................................


Date: 07-Oct-2565

SAJP51 RJTD 070400
METAR RJAA 070400Z 35011KT 2200 R34L/P2000N R34R/2000N SHRA BR
FEW002 BKN003 14/14 Q1013 NOSIG=
METAR RJAF 070400Z 02004KT 350V060 5000 -RA BR FEW002 BKN010 BKN025
10/09 Q1014=
METAR RJAH 070400Z 01012KT 3000 -SHRA BR SCT005 BKN006 BKN012 13/13
Q1014=
METAR RJBB 070400Z 09009KT 8000 -SHRA FEW003 BKN020 BKN030 18/17
Q1012 NOSIG=
METAR RJBD 070400Z 35013KT 8000 -SHRA FEW006 SCT020 FEW025CB BKN030
19/18 Q1011=
METAR RJBE 070400Z 05006KT 6000 -SHRA FEW003 SCT007 BKN018 18/17
Q1012=
METAR RJBT 070400Z 18005KT 150V230 1200 BCFG FEW000 SCT003 BKN007
15/15 Q1012=
METAR RJCB 070400Z 13004KT 070V180 9999 FEW030 BKN/// 12/M03 Q1020=
METAR RJCC 070400Z 21005KT 150V240 9999 FEW020 SCT150 OVC/// 12/00
Q1020=
METAR RJCH 070400Z 18003KT 120V280 9999 FEW020 SCT030 BKN/// 13/03
Q1020=
METAR RJCK 070400Z VRB04KT 9999 FEW040 BKN/// 12/02 Q1021=
METAR RJCM 070400Z 17005KT 140V220 9999 FEW050 14/M04 Q1020=
METAR RJCN 070400Z 18005KT 140V270 9999 FEW030 BKN/// 13/M00 Q1020=
METAR RJCO 070400Z 11008KT 9999 FEW020 SCT150 BKN180 14/00 Q1022=
METAR RJCW 070400Z 32008KT 9999 FEW050 12/M02 Q1020=
METAR RJDB 070400Z AUTO 32008KT 280V030 9999 FEW034 SCT140 BKN160
21/13 Q1015=
METAR RJDC 070400Z 26008KT 9999 FEW010 SCT020 BKN045 19/15 Q1014=
METAR RJDT 070400Z 32012KT 270V360 9999 FEW035 SCT/// 21/12 Q1015=
METAR RJEB 070400Z 07004KT 040V130 9999 FEW020 SCT040 BKN090 12/03
Q1020=
METAR RJEC 070400Z VRB02KT 9999 FEW030 SCT060 BKN/// 11/M02 Q1019=


......................................................................................


Date: 07-Oct-2565

SAJP51 RJTD 070400 RRA
METAR RJFE 070400Z 34012KT 310V020 9999 FEW025 SCT035 BKN130 19/13
Q1016=
METAR RJFF 070400Z 26007KT 210V310 9999 FEW015 SCT050 BKN160 20/14
Q1015 NOSIG=
METAR RJFG 070400Z 31015KT 9999 FEW010 SCT015 BKN025 22/19 Q1014=
METAR RJFK 070400Z 33015KT 9999 FEW015 BKN020 BKN070 19/14 Q1015=
METAR RJFM 070400Z 28010KT 9999 FEW025 SCT060 BKN/// 24/16 Q1012=
METAR RJFO 070400Z 27005G16KT 200V330 9999 FEW015 SCT060 BKN070
19/13 Q1014=
METAR RJFR 070400Z 27007KT 9999 FEW015 SCT025 BKN045 20/15 Q1014=
METAR RJFS 070400Z 24004KT 210V280 9999 FEW030 SCT050 BKN120 19/16
Q1015=
METAR RJFT 070400Z 25004KT 9999 FEW001 BKN009 BKN015 16/15 Q1016=
METAR RJFU 070400Z 31005KT 270V340 9999 FEW015 SCT035 BKN130 20/14
Q1016=
METAR RJGG 070400Z 36012KT 9999 -RA FEW006 SCT010 BKN020 16/15 Q1012
TEMPO 3000 RA BR FEW004 BKN008=
METAR RJKA 070400Z 34009KT 290V010 9999 -SHRA FEW018 BKN020 BKN030
26/22 Q1014=
METAR RJKI 070400Z AUTO 34013KT 9999 FEW015 BKN050 OVC060 28/23
Q1014=
METAR RJNK 070400Z 16004KT 8000 -RA FEW008 BKN030 OVC040 14/14
Q1012=
METAR RJNS 070400Z 01006KT 320V090 4500 RA BR FEW000 BKN020 15/15
Q1011=
METAR RJNT 070400Z 00000KT 7000 -RA FEW002 SCT005 OVC070 14/13
Q1012=
METAR RJNW 070400Z 10005KT 5000 -RA BR FEW000 BKN004 BKN006 14/14
Q1012=
METAR RJOA 070400Z 29005KT 240V330 9999 FEW003 SCT015 BKN025 18/14
Q1013=
METAR RJOB 070400Z VRB02KT 3500 BR BCFG FEW000 SCT005 BKN070 16/15
Q1012=
METAR RJOC 070400Z 23011KT 9999 FEW009 SCT090 BKN100 19/14 Q1012=


......................................................................................


Date: 07-Oct-2565

SAJP51 RJTD 070400 RRB
METAR RJOH 070400Z 25012KT 9999 FEW008 SCT015 BKN050 19/17 Q1012=
METAR RJOK 070400Z 33003KT 9999 -RA FEW003 SCT070 BKN110 21/19
Q1011=
METAR RJOM 070400Z 29007KT 260V320 9999 -SHRA FEW008 SCT020 BKN045
20/17 Q1013=
METAR RJOO 070400Z 07005KT 040V100 6000 -SHRA BR FEW003 BKN008
BKN020 17/16 Q1012=
METAR RJOR 070400Z 27010KT 240V310 9999 FEW020 BKN130 19/15 Q1012=
METAR RJOS 070400Z 29004KT 6000 -SHRA FEW004 BKN025 BKN080 18/17
Q1012=
METAR RJOT 070400Z 29005KT 4000 -SHRA BR FEW000 SCT004 BKN008 16/16
Q1013=
METAR RJOW 070400Z VRB02KT 4000 -SHRA BR FEW010 BKN025 BKN035 17/16
Q1014=
METAR RJOY 070400Z 14003KT 060V220 9999 -SHRA FEW003 SCT025 BKN060
17/16 Q1012=
METAR RJSA 070400Z 03006KT 9999 FEW040 BKN100 12/05 Q1018=
METAR RJSC 070400Z 32003KT 280V360 7000 -RA FEW005 SCT020 BKN070
10/09 Q1017=
METAR RJSF 070400Z 35008KT 0800 R01/P2000N RA FG SCT001 BKN002 09/09
Q1017=
METAR RJSI 070400Z 03003KT 9999 -RA FEW050 SCT070 BKN090 12/08
Q1018=
METAR RJSK 070400Z 13005KT 100V160 9999 -RA FEW040 SCT060 BKN080
12/07 Q1017=
METAR RJSM 070400Z 06004KT 9999 FEW030 BKN050 BKN150 14/04 Q1020=
METAR RJSN 070400Z 09003KT 9999 -RA SCT050 OVC090 13/10 Q1014=
METAR RJSR 070400Z 05005KT 010V100 9999 FEW050 SCT080 BKN100 13/07
Q1017=
METAR RJSS 070400Z 35008KT 9999 -RA FEW010 BKN100 11/09 Q1017=
METAR RJSY 070400Z 09016KT 9999 -RA FEW010 SCT060 BKN070 11/09
Q1015=
METAR RJTF 070400Z 34010KT 310V010 4000 RA BR FEW005 BKN008 BKN025
11/11 Q1015=


......................................................................................


Date: 07-Oct-2565

SAJP51 RJTD 070400 RRC
METAR RJTI 070400Z 33009G19KT 260V030 3000 RA BR FEW004 BKN007
BKN015 12/11 Q1014=
METAR RJTO 070400Z 03018KT 2500 -SHRA BR SCT004 BKN006 BKN010 15/14
Q1012=
METAR RJTT 070400Z 35016KT 4000 R34L/P2000N R22/P2000N R34R/P2000N
R05/2000N RA BR FEW006 BKN008 BKN015 13/12 Q1014 TEMPO
3000 RA BR=
METAR ROAH 070400Z 01018KT 9999 SCT020 FEW025TCU 29/23 Q1014=
METAR ROIG 070400Z 04014KT 010V070 9999 VCSH SCT010 FEW015TCU BKN020
28/25 Q1014=
METAR ROMD 070400Z AUTO 36011KT 320V020 9999 FEW033 30/23 Q1014=
METAR ROMY 070400Z 05013KT 9999 -SHRA FEW010 SCT017 FEW020TCU BKN040
27/23 Q1014=
METAR RORK 070400Z AUTO 35010KT 9999 FEW024 30/23 Q1014=
METAR RORS 070400Z 09011KT 9999 -SHRA FEW013 FEW025TCU SCT029 BKN080
28/26 Q1013=
METAR RORY 070400Z AUTO 36012KT 9999 SCT024 BKN044 BKN046 29/23
Q1014=
METAR ROYN 070400Z AUTO 05017KT 9999 SCT017 BKN022 BKN035 //////TCU
29/25 Q1014=


......................................................................................


Date: 07-Oct-2565

SAPA31 KWBC 070400 CCA
METAR
PKMR 070356Z COR 14013KT 12SM -SHRA FEW014TCU BKN045 OVC100 26/23
A2970 RMK TCU SE-S SLP058 T02620233=


......................................................................................


Date: 07-Oct-2565

SAPA31 KWBC 070400
METAR
AGGG NIL=
AGGH 070400Z 05009KT 9999 FEW021 FEW021CB 32/24 Q1007 RMKS CB TO
SE=
ANAU NIL=
AYPY NIL=
PGNT NIL=
PGRO 070350Z 21008KT 7SM VCSH BKN014 BKN100 27/25 A2972 RMK VCSH
W=
PGSN 070401Z 29006KT 10SM -RA FEW020 BKN032 OVC049 27/25 A2975 RMK
AO2 P0000 T02670250 $=
PGSN 070354Z 27005KT 6SM -RA BKN020 OVC049 26/24 A2975 RMK AO2
SLP094 P0120 T02610239 $=
PGUA 070356Z AUTO 14004KT 10SM BKN035 BKN042 OVC050 30/25 A2976
RMK AO2 SLP068 T03020245 $=
PGUM 070354Z 00000KT 10SM SCT060 29/26 A2976 RMK AO2 SLP068
T02940256=
PGWT 070354Z 05007KT 7SM -RA SCT015 SCT035 BKN050 BKN100 26/25=
PHJH NIL=
PHJR 070353Z 04005KT 10SM OVC038 28/19 A2993 RMK AO2 SLP142
T02780189=
PHMK 070354Z 02009G17KT 10SM CLR 26/20 A2995 RMK AO2 SLP142
T02560200 $=
PJON NIL=
PKMJ NIL=
PKWA 070400Z AUTO 10004KT 10SM CLR 29/24 A2974 RMK AO2
T02940244=
PLCH 070400Z 10008KT 9999 FEW020 27/21 Q1008=
PMDY 070356Z AUTO 07019KT 10SM FEW060 SCT070 28/19 A3014 RMK AO2
SLP208 T02780194 TSNO=
PTKK 070352Z VRB03KT 15SM FEW014 SCT120 BKN280 32/27 A2969 RMK
SLP055 T03170265=
PTKR NIL=
PTPN NIL=
PTRO 070350Z 10007G14KT 15SM SCT016 BKN300 31/24 A2977=
PTSA NIL=
PTTP 070354Z 16003KT 15SM SCT018TCU OVC130 27/26 A2975 RMK SHRAE50
TCU NW-N SLP073 T02720257=
PTYA 070352Z VRB04KT 12SM FEW016TCU SCT300 31/25 A2975 RMK TCU NE
SLP076 T03140245=
PWAK 070358Z AUTO 09010KT 9999 CLR 31/24 A2981 RMK AO2 SLP101
T03080243=


......................................................................................


Date: 07-Oct-2565

SAIR31 OIII 070400
METAR OIAA 070350Z 25006KT 6000 NSC 23/09 Q1007 NOSIG=
METAR OIAG 070400Z 15002KT 8000 NSC 25/05 Q1008=
METAR OIAH 070400Z 00000KT CAVOK 22/08 Q1011=
METAR OIAI 070400Z 36004KT CAVOK 26/02 Q1009=
METAR OIAM 070400Z 00000KT CAVOK 27/10 Q1007=
METAR OIAW 070350Z 27002KT 5000 HZ NSC 24/07 Q1006 NOSIG=
METAR OIBA 070400Z 06004KT 5000 BR NSC 30/28 Q1005=
METAR OIBB 070350Z 02004KT CAVOK 29/20 Q1006 A2972 NOSIG=
METAR OIBK 070400Z 10008KT 3000 BR NSC 28/27 Q1007 NOSIG=
METAR OIBL 070400Z 09006KT 3500 HZ NSC 31/26 Q1006=
METAR OIBS 070400Z 06004KT 3000 BR NSC 31/29 Q1007=
METAR OICC 070350Z 00000KT CAVOK 12/M15 Q1021 A3016 NOSIG=
METAR OICI 070400Z 10006KT CAVOK 22/M05 Q1020 A3013=
METAR OICJ 070400Z 00000KT CAVOK 15/M04 Q1023=
METAR OICK 070355Z 09004KT CAVOK 20/M05 Q1018=
METAR OICS 070400Z 00000KT CAVOK 09/M05 Q1023 A3022=
METAR OIFK 070400Z 00000KT CAVOK 21/M05 Q1021 A3015=
METAR OIFM 070400Z 25004KT 8000 NSC 12/M06 Q1025 A3028 NOSIG=
METAR OIFS 070352Z 28002KT CAVOK 09/M09 Q1027=
METAR OIGG 070400Z 36004KT 9999 FEW020CB BKN030 BKN070 20/20 Q1023=
METAR OIGK 070350Z 11006KT 9999 FEW020 13/09 Q1030=
METAR OIHH 070400Z 16002KT CAVOK 11/M07 Q1024 A3024=
METAR OIHM 070400Z VRB02KT CAVOK 12/M05 Q1024=
METAR OIIE 070400Z 33010KT 8000 NSC 18/10 Q1022 NOSIG=
METAR OIII 070400Z 12004KT CAVOK 23/M03 Q1022 A3020 NOSIG=
METAR OIIK 070352Z 14002KT 7000 NSC 15/10 Q1024=
METAR OIIP 070400Z 32012KT 6000 NSC 15/11 Q1022 A3020=
METAR OIIS 070400Z 36008KT CAVOK 23/01 Q1022=
METAR OIKB 070400Z 12004KT 2500 BR NSC 29/26 Q1007 A2974 NOSIG=
METAR OIKK 070350Z 10008KT CAVOK 12/M09 Q1024 A3024=
METAR OIKO 070400Z 00000KT 4000 HZ NSC 30/18 Q1007=


......................................................................................


Date: 07-Oct-2565

SAIR33 OIII 070400 RRA
METAR OITL 070400Z 08014KT 5000 -DZ PRFG OVC003 13/13 Q1026=


......................................................................................


Date: 07-Oct-2565

SAJP35 RJTD 070400
METAR RJAA 070400Z 35011KT 2200 R34L/P2000N R34R/2000N SHRA BR
FEW002 BKN003 14/14 Q1013 NOSIG=
METAR RJBB 070400Z 09009KT 8000 -SHRA FEW003 BKN020 BKN030 18/17
Q1012 NOSIG=
METAR RJTT 070400Z 35016KT 4000 R34L/P2000N R22/P2000N R34R/P2000N
R05/2000N RA BR FEW006 BKN008 BKN015 13/12 Q1014 TEMPO
3000 RA BR=
METAR RJOO 070400Z 07005KT 040V100 6000 -SHRA BR FEW003 BKN008
BKN020 17/16 Q1012=
METAR RJGG 070400Z 36012KT 9999 -RA FEW006 SCT010 BKN020 16/15 Q1012
TEMPO 3000 RA BR FEW004 BKN008=
METAR RJSN 070400Z 09003KT 9999 -RA SCT050 OVC090 13/10 Q1014=
METAR RJCH 070400Z 18003KT 120V280 9999 FEW020 SCT030 BKN/// 13/03
Q1020=
METAR RJSA 070400Z 03006KT 9999 FEW040 BKN100 12/05 Q1018=
METAR RJSF 070400Z 35008KT 0800 R01/P2000N RA FG SCT001 BKN002 09/09
Q1017=
METAR RJSI 070400Z 03003KT 9999 -RA FEW050 SCT070 BKN090 12/08
Q1018=


......................................................................................


Date: 07-Oct-2565

SAJP37 RJTD 070400
METAR RJAA 070400Z 35011KT 2200 R34L/P2000N R34R/2000N SHRA BR
FEW002 BKN003 14/14 Q1013 NOSIG=
METAR RJBB 070400Z 09009KT 8000 -SHRA FEW003 BKN020 BKN030 18/17
Q1012 NOSIG=
METAR RJTT 070400Z 35016KT 4000 R34L/P2000N R22/P2000N R34R/P2000N
R05/2000N RA BR FEW006 BKN008 BKN015 13/12 Q1014 TEMPO
3000 RA BR=
METAR RJOO 070400Z 07005KT 040V100 6000 -SHRA BR FEW003 BKN008
BKN020 17/16 Q1012=
METAR RJFF 070400Z 26007KT 210V310 9999 FEW015 SCT050 BKN160 20/14
Q1015 NOSIG=
METAR RJGG 070400Z 36012KT 9999 -RA FEW006 SCT010 BKN020 16/15 Q1012
TEMPO 3000 RA BR FEW004 BKN008=
METAR RJFK 070400Z 33015KT 9999 FEW015 BKN020 BKN070 19/14 Q1015=
METAR RJFU 070400Z 31005KT 270V340 9999 FEW015 SCT035 BKN130 20/14
Q1016=
METAR RJCH 070400Z 18003KT 120V280 9999 FEW020 SCT030 BKN/// 13/03
Q1020=
METAR RJNS 070400Z 01006KT 320V090 4500 RA BR FEW000 BKN020 15/15
Q1011=


......................................................................................


Date: 07-Oct-2565

SAJP37 RJTD 070400 RRA
METAR RJFR 070400Z 27007KT 9999 FEW015 SCT025 BKN045 20/15 Q1014=


......................................................................................


Date: 07-Oct-2565

SAMS31 WMKK 070400
METAR WBGG 070400Z 35004KT 290V080 8000 -RA SCT020 27/25 Q1011 NOSIG=
METAR WBKK 070400Z 28004KT 200V350 9999 FEW014 31/25 Q1009 NOSIG=
METAR WBSB 070400Z 31006KT 9999 FEW015 FEW016CB BKN300 32/27 Q1009 NOSIG=
METAR WMKK 070400Z VRB02KT 9999 -RA FEW010 FEW017CB SCT030 26/24 Q1011 NOSIG=
METAR WMKP 070400Z 25006KT 200V320 9999 FEW020 28/25 Q1011 NOSIG=
METAR WSSL 070400Z 12004KT 090V150 9999 VCSH SCT018 FEW020TCU BKN150 29/24 Q1011=
METAR WSSS 070400Z 18015G25KT 150V210 9000 4500SW -SHRA FEW010 SCT016TCU FEW017CB 25/22 Q1011 TEMPO FM0415 TL0445 3000 TSRA=


......................................................................................


Date: 07-Oct-2565

SASD20 OEJD 070400
METAR OEAB 070400Z 00000KT CAVOK 19/01 Q1024 NOSIG=
METAR OEAH 070400Z 30010KT CAVOK 28/M03 Q1008 NOSIG=
METAR OEAO 070400Z 32002KT CAVOK 24/M02 Q1015 NOSIG=
METAR OEBA 070400Z 03008KT CAVOK 20/07 Q1020 NOSIG=
METAR OEBH 070400Z 00000KT CAVOK 20/05 Q1016 NOSIG=
METAR OEDF 070400Z 28009KT CAVOK 26/02 Q1007 NOSIG=
METAR OEDM 070400Z NIL=
METAR OEDR 070400Z 30012KT CAVOK 29/00 Q1005=
METAR OEGN 070400Z 01005KT 9999 FEW030 BKN100 29/22 Q1009 NOSIG=
METAR OEGS 070400Z 00000KT CAVOK 20/04 Q1014=
METAR OEGT 070400Z 30014KT CAVOK 20/11 Q1014 NOSIG=
METAR OEHL 070400Z 18004KT CAVOK 19/M05 Q1017=
METAR OEJB 070400Z AUTO 30006KT CAVOK 26/M01 Q1008 NOSIG=
METAR OEJN 070400Z 33003KT CAVOK 27/23 Q1006 NOSIG=
METAR OEKJ 070400Z 32004KT CAVOK 25/M05 Q1015=
METAR OEKK 070400Z NIL=


......................................................................................


Date: 07-Oct-2565

SASD21 OEJD 070400
METAR OEKM 070400Z 00000KT CAVOK 18/01 Q1024 NOSIG=
METAR OEMA 070400Z 00000KT CAVOK 25/M08 Q1016 NOSIG=
METAR OEMN 070400Z 06004KT CAVOK 34/06 Q1010=
METAR OEMK 070400Z NIL=
METAR OENG 070400Z 00000KT 9999 FEW030 BKN090 24/06 Q1017 NOSIG=
METAR OEPA 070400Z 31005KT CAVOK 23/00 Q1011 NOSIG=
METAR OERF 070400Z 32005KT CAVOK 23/M06 Q1012 NOSIG=
METAR OERK 070400Z 29005KT CAVOK 24/00 Q1014 NOSIG=
METAR OERY 070400Z NIL=
METAR OERR 070400Z 33012KT CAVOK 24/07 Q1012 NOSIG=
METAR OESH 070400Z 06005KT 9999 SCT040 28/03 Q1013 NOSIG=
METAR OESK 070400Z 20008KT CAVOK 22/01 Q1017 NOSIG=
METAR OETB 070400Z 17004KT CAVOK 20/01 Q1015 NOSIG=
METAR OETF 070400Z 00000KT CAVOK 19/M02 Q1020 NOSIG=
METAR OETR 070400Z 06008KT CAVOK 20/10 Q1015 NOSIG=
METAR OEWD 070400Z 00000KT CAVOK 25/09 Q1012=
METAR OEWJ 070400Z 06004KT CAVOK 26/20 Q1007 NOSIG=
METAR OEYN 070400Z 28003KT CAVOK 27/14 Q1005 NOSIG=


......................................................................................


Date: 07-Oct-2565

SAIR31 OIII 070400
METAR OIAA 070350Z 25006KT 6000 NSC 23/09 Q1007 NOSIG=
METAR OIAG 070400Z 15002KT 8000 NSC 25/05 Q1008=
METAR OIAH 070400Z 00000KT CAVOK 22/08 Q1011=
METAR OIAI 070400Z 36004KT CAVOK 26/02 Q1009=
METAR OIAM 070400Z 00000KT CAVOK 27/10 Q1007=
METAR OIAW 070350Z 27002KT 5000 HZ NSC 24/07 Q1006 NOSIG=
METAR OIBA 070400Z 06004KT 5000 BR NSC 30/28 Q1005=
METAR OIBB 070350Z 02004KT CAVOK 29/20 Q1006 A2972 NOSIG=
METAR OIBK 070400Z 10008KT 3000 BR NSC 28/27 Q1007 NOSIG=
METAR OIBL 070400Z 09006KT 3500 HZ NSC 31/26 Q1006=
METAR OIBS 070400Z 06004KT 3000 BR NSC 31/29 Q1007=
METAR OICC 070350Z 00000KT CAVOK 12/M15 Q1021 A3016 NOSIG=
METAR OICI 070400Z 10006KT CAVOK 22/M05 Q1020 A3013=
METAR OICJ 070400Z 00000KT CAVOK 15/M04 Q1023=
METAR OICK 070355Z 09004KT CAVOK 20/M05 Q1018=
METAR OICS 070400Z 00000KT CAVOK 09/M05 Q1023 A3022=
METAR OIFK 070400Z 00000KT CAVOK 21/M05 Q1021 A3015=
METAR OIFM 070400Z 25004KT 8000 NSC 12/M06 Q1025 A3028 NOSIG=
METAR OIFS 070352Z 28002KT CAVOK 09/M09 Q1027=
METAR OIGG 070400Z 36004KT 9999 FEW020CB BKN030 BKN070 20/20 Q1023=
METAR OIGK 070350Z 11006KT 9999 FEW020 13/09 Q1030=
METAR OIHH 070400Z 16002KT CAVOK 11/M07 Q1024 A3024=
METAR OIHM 070400Z VRB02KT CAVOK 12/M05 Q1024=
METAR OIIE 070400Z 33010KT 8000 NSC 18/10 Q1022 NOSIG=
METAR OIII 070400Z 12004KT CAVOK 23/M03 Q1022 A3020 NOSIG=
METAR OIIK 070352Z 14002KT 7000 NSC 15/10 Q1024=
METAR OIIP 070400Z 32012KT 6000 NSC 15/11 Q1022 A3020=
METAR OIIS 070400Z 36008KT CAVOK 23/01 Q1022=
METAR OIKB 070400Z 12004KT 2500 BR NSC 29/26 Q1007 A2974 NOSIG=
METAR OIKK 070350Z 10008KT CAVOK 12/M09 Q1024 A3024=
METAR OIKO 070400Z 00000KT 4000 HZ NSC 30/18 Q1007=
METAR OIKQ 070400Z 09006KT 1700 BR NSC 28/28 Q1007 NOSIG=
METAR OIMB 070400Z 11008KT CAVOK 12/M25 Q1021 A3016=
METAR OIMC 070350Z 00000KT CAVOK 14/M03 Q1022=
METAR OIMD 070350Z 00000KT CAVOK 18/M16 Q1019=
METAR OIMM 070400Z 00000KT CAVOK 14/M03 Q1024 A3024=
METAR OINB 070400Z 00000KT CAVOK 23/20 Q1021=
METAR OING 070400Z 21004KT 9999 FEW030CB SCT080 23/18 Q1023 NOSIG=
METAR OINK 070400Z 22006KT 9999 BKN030 23/19 Q1020 A3012=
METAR OINN 070400Z 18004KT 5000 DZ SCT018 FEW023CB BKN027 20/19
Q1022=
METAR OINR 070400Z 23006KT 9999 FEW022CB SCT026 BKN090 21/19 Q1021=
METAR OISA 070400Z 33006KT CAVOK 11/M07 Q1027 A3034=
METAR OISF 070400Z 31008KT CAVOK 22/M03 Q1020=
METAR OISL 070400Z 00000KT CAVOK 20/04 Q1013 A2991=
METAR OISS 070400Z 00000KT CAVOK 19/02 Q1021 A3016=
METAR OISY 070400Z 00000KT CAVOK 14/M03 Q1024=
METAR OITL 070352Z 08014KT 5000 -DZ PRFG OVC003 13/13 Q1026 TEMPO
3000 DZ BR=
METAR OITR 070351Z 26004KT 9999 SCT040 11/M01 Q1022 NOSIG=
METAR OITT 070400Z 08006KT 9999 BKN070 18/04 Q1024 A3025 NOSIG=
METAR OITU 070351Z 00000KT CAVOK 14/07 Q1024=
METAR OIYY 070350Z 29004KT CAVOK 21/M06 Q1023 NOSIG=
METAR OIZB 070400Z 36031G41KT 7000 NSC 21/M13 Q1015=
METAR OIZC 070400Z 00000KT 9999 FEW035 29/25 Q1007=
METAR OIZH 070400Z 15004KT CAVOK 16/M20 Q1020 A3012 NOSIG=
METAR OIZI 070400Z 04010KT CAVOK 29/M14 Q1013=
METAR OIZJ 070400Z 11008KT 5000 BR FEW015 26/25 Q1007=


......................................................................................


Date: 07-Oct-2565

SAIR77 OIII 070400
METAR AZUH 070400Z 00000KT 9999 SCT035 13/10 Q1022=
METAR KHME 070350Z 08006KT CAVOK 15/M16 Q1022=
METAR OIAA 070350Z 25006KT 6000 NSC 23/09 Q1007 NOSIG=
METAR OIAG 070400Z 15002KT 8000 NSC 25/05 Q1008=
METAR OIAH 070400Z 00000KT CAVOK 22/08 Q1011=
METAR OIAI 070400Z 36004KT CAVOK 26/02 Q1009=
METAR OIAM 070400Z 00000KT CAVOK 27/10 Q1007=
METAR OIAW 070350Z 27002KT 5000 HZ NSC 24/07 Q1006 NOSIG=
METAR OIBA 070400Z 06004KT 5000 BR NSC 30/28 Q1005=
METAR OIBB 070350Z 02004KT CAVOK 29/20 Q1006 A2972 NOSIG=
METAR OIBK 070400Z 10008KT 3000 BR NSC 28/27 Q1007 NOSIG=
METAR OIBL 070400Z 09006KT 3500 HZ NSC 31/26 Q1006=
METAR OIBS 070400Z 06004KT 3000 BR NSC 31/29 Q1007=
METAR OICC 070350Z 00000KT CAVOK 12/M15 Q1021 A3016 NOSIG=
METAR OICI 070400Z 10006KT CAVOK 22/M05 Q1020 A3013=
METAR OICJ 070400Z 00000KT CAVOK 15/M04 Q1023=
METAR OICK 070355Z 09004KT CAVOK 20/M05 Q1018=
METAR OICS 070400Z 00000KT CAVOK 09/M05 Q1023 A3022=
METAR OIFK 070400Z 00000KT CAVOK 21/M05 Q1021 A3015=
METAR OIFM 070400Z 25004KT 8000 NSC 12/M06 Q1025 A3028 NOSIG=
METAR OIFS 070352Z 28002KT CAVOK 09/M09 Q1027=
METAR OIGG 070400Z 36004KT 9999 FEW020CB BKN030 BKN070 20/20 Q1023=
METAR OIGK 070350Z 11006KT 9999 FEW020 13/09 Q1030=
METAR OIHM 070400Z VRB02KT CAVOK 12/M05 Q1024=
METAR OIIE 070400Z 33010KT 8000 NSC 18/10 Q1022 NOSIG=
METAR OIII 070400Z 12004KT CAVOK 23/M03 Q1022 A3020 NOSIG=
METAR OIIK 070352Z 14002KT 7000 NSC 15/10 Q1024=
METAR OIIP 070400Z 32012KT 6000 NSC 15/11 Q1022 A3020=
METAR OIIS 070400Z 36008KT CAVOK 23/01 Q1022=
METAR OIKB 070400Z 12004KT 2500 BR NSC 29/26 Q1007 A2974 NOSIG=
METAR OIKK 070350Z 10008KT CAVOK 12/M09 Q1024 A3024=
METAR OIKO 070400Z 00000KT 4000 HZ NSC 30/18 Q1007=
METAR OIKQ 070400Z 09006KT 1700 BR NSC 28/28 Q1007 NOSIG=
METAR OIMB 070400Z 11008KT CAVOK 12/M25 Q1021 A3016=
METAR OIMC 070350Z 00000KT CAVOK 14/M03 Q1022=
METAR OIMD 070350Z 00000KT CAVOK 18/M16 Q1019=
METAR OIMM 070400Z 00000KT CAVOK 14/M03 Q1024 A3024=
METAR OIMN 070400Z 00000KT 6000 FEW005 FEW030CB 16/12 Q1025=
METAR OINB 070400Z 00000KT CAVOK 23/20 Q1021=
METAR OING 070400Z 21004KT 9999 FEW030CB SCT080 23/18 Q1023 NOSIG=
METAR OINK 070400Z 22006KT 9999 BKN030 23/19 Q1020 A3012=
METAR OINN 070400Z 18004KT 5000 DZ SCT018 FEW023CB BKN027 20/19
Q1022=
METAR OINR 070400Z 23006KT 9999 FEW022CB SCT026 BKN090 21/19 Q1021=
METAR OISA 070400Z 33006KT CAVOK 11/M07 Q1027 A3034=
METAR OISF 070400Z 31008KT CAVOK 22/M03 Q1020=
METAR OISL 070400Z 00000KT CAVOK 20/04 Q1013 A2991=
METAR OISS 070400Z 00000KT CAVOK 19/02 Q1021 A3016=
METAR OISY 070400Z 00000KT CAVOK 14/M03 Q1024=
METAR OITL 070352Z 08014KT 5000 -DZ PRFG OVC003 13/13 Q1026 TEMPO
3000 DZ BR=
METAR OITR 070351Z 26004KT 9999 SCT040 11/M01 Q1022 NOSIG=
METAR OITT 070400Z 08006KT 9999 BKN070 18/04 Q1024 A3025 NOSIG=
METAR OITU 070351Z 00000KT CAVOK 14/07 Q1024=
METAR OIYY 070350Z 29004KT CAVOK 21/M06 Q1023 NOSIG=
METAR OIZB 070400Z 36031G41KT 7000 NSC 21/M13 Q1015=
METAR OIZC 070400Z 00000KT 9999 FEW035 29/25 Q1007=
METAR OIZH 070400Z 15004KT CAVOK 16/M20 Q1020 A3012 NOSIG=
METAR OIZI 070400Z 04010KT CAVOK 29/M14 Q1013=
METAR OIZJ 070400Z 11008KT 5000 BR FEW015 26/25 Q1007=
METAR SESG 070400Z 18006KT CAVOK 24/01 Q1022=
METAR YAYT 070351Z 00000KT CAVOK 21/M27 Q1018=


......................................................................................


Date: 07-Oct-2565

SAMS31 WMKK 070400
METAR WBGG 070400Z NIL=
METAR WBKK 070400Z NIL=
METAR WBSB 070400Z NIL=
METAR WMKK 070400Z NIL=
METAR WMKP 070400Z NIL=
METAR WSSL 070400Z 12004KT 090V150 9999 VCSH
SCT018 FEW020TCU BKN150 29/24 Q1011=
METAR WSSS 070400Z 18015G25KT 150V210 9000 4500SW -SHRA FEW010
SCT016TCU FEW017CB 25/22 Q1011 TEMPO FM0415 TL0445 3000 TSRA=


......................................................................................


Date: 07-Oct-2565

SAMS32 WMKK 070400
NIL


......................................................................................


Date: 07-Oct-2565

SAMS34 WMKK 070400
NIL


......................................................................................


Date: 07-Oct-2565

SAMS38 WMKK 070400
NIL


......................................................................................


Date: 07-Oct-2565

SAPA31 KWBC 070400 RRA
METAR
AYPY 070400Z 20015KT 9999 HZ FEW025 SCT035 32/24 Q1006=
PKMJ 070359Z 14020KT 14SM -RA SCT014 BKN045 BKN110 OVC130 26/24
A2971=


......................................................................................


Date: 07-Oct-2565

SAMS33 WMKK 070400
NIL


......................................................................................


Date: 07-Oct-2565

SAPA31 KWBC 070400 RRB
METAR
PGSN 070401Z 29006KT 10SM -RA FEW020 BKN032 OVC049 27/25 A2975=


......................................................................................


Date: 07-Oct-2565

SAMS31 WMKK 070400 RRA
METAR WMKK 070400Z VRB02KT 9999 -RA FEW010 FEW017CB SCT030 26/24
Q1011
NOSIG=
METAR WMKP 070400Z 25006KT 200V320 9999 FEW020 28/25 Q1011 NOSIG=


......................................................................................


Date: 07-Oct-2565

SAAR20 OEJD 070400
METAR OBBI 070400Z 31010KT CAVOK 30/21 Q1007 NOSIG=
METAR OKBK 070400Z 00000KT CAVOK 26/M03 Q1009 NOSIG=
METAR OMAA 070400Z 06006KT 6000 NSC 29/25 Q1007 NOSIG=
METAR OMAD 070400Z 08006KT 040V110 8000 NSC 30/26 Q1007 NOSIG=
METAR OMAL 070400Z 15004KT CAVOK 30/10 Q1009 NOSIG=
METAR OMDB 070400Z 07004KT 030V110 4000 HZ NSC 30/26 Q1007 BECMG 6000
NSW=
METAR OMFJ 070350Z 29002KT 6000 NSC 30/24 Q1008 RMK A2978=
METAR OMRK 070400Z 28002KT 0300 R34/0050V0750U FG SCT008 28/28 Q1007
A2976=
METAR OMSJ 070400Z 10003KT 3500 HZ NSC 29/23 Q1007 BECMG 5000=
METAR OOMS 070350Z 24005KT 8000 NSC 30/30 Q1007 NOSIG=
METAR OOSA 070350Z VRB02KT 9999 FEW014 BKN025 26/21 Q1010 NOSIG=
METAR OOSH 070350Z AUTO 24004KT //// ////// 29/26 Q1007 RMK 1004=
METAR OODQ 070350Z AUTO 21018KT CAVOK ////// 25/22 Q1008 NOSIG RMK
RH85? 0=
METAR OTBD 070400Z 30008KT 270V340 9000 NSC 30/24 Q1007 NOSIG=
METAR OTBH 070355Z 25005KT 8000 BR CLR 26/25 A2973=
METAR OTHH 070400Z 30007KT 9000 NSC 29/25 Q1006 NOSIG=
METAR OYAA 070400Z NIL=
METAR OYSN 070400Z NIL=


......................................................................................


Date: 07-Oct-2565

SAKO51 RJTD 070400
METAR RKPC 070400Z 33011KT 300V010 9999 SCT035 19/09 Q1020 NOSIG=
METAR RKPK 070400Z 35011KT 9999 SCT050 23/07 Q1016=
METAR RKSI 070400Z 33015KT CAVOK 17/03 Q1020 NOSIG=
METAR RKSM 070400Z 01005KT 9999 BKN040 18/09 A3011=
METAR RKSS 070400Z 32011KT 290V350 9999 BKN030 17/09 Q1020 NOSIG=
METAR RKTN 070400Z 33009KT 9999 BKN040 19/10 Q1017=
METAR RKTU 070400Z 34004KT 9999 FEW030 BKN040 19/11 Q1018=


......................................................................................


Date: 07-Oct-2565

SAMS32 WMKK 070400 RRA
METAR WMKJ 070400Z VRB03KT 9999 FEW017CB SCT018 29/25 Q1011=
METAR WMKK 070400Z VRB02KT 9999 -RA FEW010 FEW017CB SCT030 26/24
Q1011
NOSIG=
METAR WMKP 070400Z 25006KT 200V320 9999 FEW020 28/25 Q1011 NOSIG=
METAR WMSA 070400Z 13008KT 100V160 8000 -TSRA FEW017CB 25/23 Q1012=


......................................................................................


Date: 07-Oct-2565

SAMS33 WMKK 070400 RRA
METAR WMKD 070400Z VRB02KT 9999 FEW020 31/25 Q1011 NOSIG=
METAR WMKL 070400Z 20005KT 150V290 9999 FEW012 FEW017CB 26/25 Q1011=
METAR WMKM 070400Z 17006KT 110V240 9999 SCT020 30/24 Q1012=


......................................................................................


Date: 07-Oct-2565

SAMS34 WMKK 070400 RRA
METAR WBGB 070400Z 25004KT 200V310 9999 SCT014 29/26 Q1010=
METAR WBGR 070400Z 29006KT 180V350 9999 SCT016 30/25 Q1009=
METAR WBGS 070400Z 25004KT 140V300 9999 -RA SCT017 28/24 Q1010=
METAR WBGY 070400Z VRB03KT 9999 SCT016 28/25 Q1011=
METAR WBKL 070400Z VRB03KT 9999 SCT013 29/25 Q1009=
METAR WBKS 070400Z 05004KT 010V080 9999 SCT015 31/24 Q1009=
METAR WBKT 070400Z 09004KT 030V170 9999 FEW015 30/25 Q1009=
METAR WBKW 070400Z 17005KT 120V220 9999 FEW018 31/26 Q1009=


......................................................................................


Date: 07-Oct-2565

SAMS38 WMKK 070400 RRA
METAR WBGB 070400Z 25004KT 200V310 9999 SCT014 29/26 Q1010=
METAR WBGR 070400Z 29006KT 180V350 9999 SCT016 30/25 Q1009=
METAR WBGS 070400Z 25004KT 140V300 9999 -RA SCT017 28/24 Q1010=
METAR WBKL 070400Z VRB03KT 9999 SCT013 29/25 Q1009=
METAR WBKS 070400Z 05004KT 010V080 9999 SCT015 31/24 Q1009=
METAR WBKW 070400Z 17005KT 120V220 9999 FEW018 31/26 Q1009=
METAR WMKD 070400Z VRB02KT 9999 FEW020 31/25 Q1011 NOSIG=
METAR WMKL 070400Z 20005KT 150V290 9999 FEW012 FEW017CB 26/25 Q1011=
METAR WMKM 070400Z 17006KT 110V240 9999 SCT020 30/24 Q1012=


......................................................................................


Date: 07-Oct-2565

SAOM81 OOMS 070300 RRB
METAR OOJB 070250Z AUTO 00005KT //// ////// 24/21 Q1008=


......................................................................................


Date: 07-Oct-2565

SACI51 RJTD 070400
METAR ZBAA 070400Z 19002MPS 120V270 CAVOK 17/05 Q1022 NOSIG=
METAR ZBTJ 070400Z 23002MPS 180V290 CAVOK 17/07 Q1023 NOSIG=
METAR ZBYN 070400Z VRB02MPS 3000 HZ NSC 10/05 Q1025 NOSIG=
METAR ZGGG 070400Z 36003MPS 320V040 9999 SCT033 30/23 Q1016 NOSIG=
METAR ZGKL 070400Z 06003MPS 020V100 9999 FEW033 OVC053 19/11 Q1022
NOSIG=
METAR ZGNN 070400Z 07005MPS 030V090 9999 FEW026 29/21 Q1017 NOSIG=
METAR ZGOW 070400Z 08004MPS 020V110 9999 FEW040 31/21 Q1015 NOSIG=
METAR ZGSZ 070400Z 05004MPS 340V100 9999 BKN033 32/22 Q1015 NOSIG=
METAR ZLXY 070400Z 05003MPS 5000 BR FEW009 OVC050 11/09 Q1026 NOSIG=
METAR ZPPP 070400Z 01005MPS 9999 FEW007 SCT020 OVC036 14/12 Q1027
NOSIG=
METAR ZSAM 070400Z 07004MPS 020V130 9999 BKN023 31/22 Q1015 NOSIG=
METAR ZSHC 070400Z 04003MPS 340V060 6000 -RA BKN007 BKN020 15/14
Q1023 BECMG TL0450 SCT010 BKN020=
METAR ZSNJ 070400Z 05002MPS 350V080 9999 BKN040 16/08 Q1025 NOSIG=
METAR ZSQD 070400Z VRB01MPS CAVOK 18/03 Q1025 NOSIG=
METAR ZSSS 070400Z 02005MPS 360V060 9999 SCT020 18/14 Q1023 NOSIG=
METAR ZWWW 070400Z VRB01MPS CAVOK 17/M01 Q1026 NOSIG=
METAR ZYTL 070400Z 27005MPS 240V300 9999 FEW020 18/07 Q1023 NOSIG=
METAR ZYTX 070400Z 10003G10MPS 350V140 CAVOK 16/M08 Q1023 NOSIG=


......................................................................................


Date: 07-Oct-2565

SASB31 VCCC 070410
METAR VCBI 070410Z 24009KT 210V280 9999 BKN016 30/24 Q1010 NOSIG=
METAR VRMM 070400Z 30014KT 9999 FEW018TCU BKN270 30/24 Q1011 NOSIG=
METAR VCRI 070410Z 27011KT 9999 FEW018 31/24 Q1009 NOSIG=


......................................................................................


Date: 07-Oct-2565

SAMS33 WMKK 070400 RRB
METAR WMAU 070400Z VRB03KT 8000 SCT025 30/25 Q1012=
METAR WMBA 070400Z 29004KT 230V340 9000 FEW017CB 25/23 Q1012=
METAR WMKA 070400Z VRB04KT 9999 SCT020 31/25 Q1010=
METAR WMKB 070400Z 22009KT 160V290 9000 FEW017CB 29/25 Q1011 TEMPO
8000
-RA=
METAR WMKC 070400Z VRB01KT 9999 FEW012 FEW017CB SCT020 28/24 Q1011=
METAR WMKI 070400Z VRB03KT 9999 FEW019 29/23 Q1011=
METAR WMKN 070400Z 17003KT 080V230 9999 -RA FEW017CB SCT022 29/26
Q1011=


......................................................................................


Date: 07-Oct-2565

SAPA31 KWBC 070400 RRC
METAR
PKWA 070420Z AUTO 10006KT 10SM SCT035 SCT050 29/25 A2975 RMK AO2
T02940245=


......................................................................................


Date: 07-Oct-2565

SPTH31 VTPH 070401
SPECI VTPH 070401Z 00000KT 6000 -RA BKN040 25/25 Q1012 RERA NOSIG=


......................................................................................


Date: 07-Oct-2565

SAAE31 VDPP 070430
METAR VDPP 070430Z 34006KT 280V020 9999 SCT015 31/25 Q1010=


......................................................................................


Date: 07-Oct-2565

SAOM81 OOMS 070400
METAR OOAD 070400Z NIL=
METAR OOBH 070350Z AUTO 02004KT //// ////// 28/10 Q1011=
METAR OOBR 070350Z AUTO 07002KT //// 31/M01 Q1009=
METAR OODB 070400Z NIL=
METAR OODQ 070350Z AUTO 21018KT CAVOK ////// 25/22 Q1008 NOSIG=
METAR OOFD 070350Z AUTO 11009KT //// ////// 28/15 Q1008=
METAR OOIB 070400Z NIL=
METAR OOIR 070350Z AUTO 30004KT //// ////// 28/15 Q1011=
METAR OOJB 070350Z AUTO VRB01KT //// ////// 26/21 Q1009=
METAR OOJS 070400Z NIL=
METAR OOKB 070350Z 19004KT CAVOK 31/19 Q1007 NOSIG=
METAR OOMA 070350Z AUTO VRB04KT //// ////// 27/23 Q1009=
METAR OOMJ 070350Z AUTO 00000KT //// ////// 30/25 Q1008=
METAR OOML 070400Z NIL=
METAR OOMQ 070350Z AUTO VRB03KT //// ////// 32/20 Q1006=
METAR OOMS 070350Z 24005KT 8000 NSC 30/30 Q1007 NOSIG=
METAR OONZ 070350Z AUTO VRB01KT //// ////// 28/14 Q1011=
METAR OOQA 070400Z NIL=
METAR OOQH 070350Z AUTO VRB01KT 9999 ////// 19/19 Q1014=
METAR OOQL 070350Z AUTO VRB00KT //// ////// 31/20 Q1008=
METAR OOQQ 070350Z AUTO 05007KT //// 21/M01 Q1022=
METAR OORA 070350Z AUTO VRB01KT //// ////// 27/23 Q1009=
METAR OORH 070350Z AUTO 23007KT //// ////// 27/24 Q1008=
METAR OORQ 070350Z AUTO VRB01KT //// ////// 28/21 Q1010=
METAR OOSA 070350Z VRB02KT 9999 FEW014 BKN025 26/21 Q1010 NOSIG=
METAR OOSM 070400Z NIL=
METAR OOSQ 070400Z NIL=
METAR OOSR 070350Z AUTO 24006KT //// ////// 29/19 Q1007=
METAR OOTH 070400Z NIL=
METAR OOYA 070350Z AUTO 19011KT //// ////// 23/22 Q1009=


......................................................................................


Date: 07-Oct-2565

SATH31 VTBU 070430
METAR VTBU 070430Z 15007KT 9999 FEW020 31/24 Q1012 NOSIG=


......................................................................................


Date: 07-Oct-2565

SANP31 VNKT 070430
METAR VNKT 070430Z 00000KT 9999 FEW008 SCT100 23/19 Q1020 NOSIG=


......................................................................................


Date: 07-Oct-2565

SAPK31 OPKC 070425
METAR OPKC 070430Z 33003KT 4000 FU FEW030 29/18 Q1008 NOSIG=


......................................................................................


Date: 07-Oct-2565

SATH31 VTBD 070430
METAR VTBD 070430Z VRB05KT 9999 FEW020 SCT040 31/24 Q1011 NOSIG=


......................................................................................


Date: 07-Oct-2565

SATH31 VTBS 070430
METAR VTBS 070430Z 08005KT 050V110 9999 SCT020 30/25 Q1011 NOSIG=


......................................................................................


Date: 07-Oct-2565

SATH31 VTCC 070430
METAR VTCC 070430Z 04004KT 350V090 9999 SCT035 30/22 Q1013 NOSIG=


......................................................................................


Date: 07-Oct-2565

SATH31 VTSP 070430
METAR VTSP 070430Z 09004KT 030V140 9999 FEW012 SCT020 28/24 Q1010
NOSIG=


......................................................................................


Date: 07-Oct-2565

SATH31 VTSS 070430
METAR VTSS 070430Z VRB05KT 9999 SCT020 SCT100 32/25 Q1009 NOSIG=


......................................................................................


Date: 07-Oct-2565

SAHK31 VHHH 070430
METAR VHHH 070430Z 09005KT 040V140 9999 FEW028 SCT045 31/21
Q1014 NOSIG=


......................................................................................


Date: 07-Oct-2565

SAIR20 OIII 070430
METAR OIAA 070430 NIL=
METAR OIAW 070427Z 06004KT 6000 NSC 28/07 Q1007=
METAR OIFM 070430Z 27004KT CAVOK 15/M04 Q1025 A3029=
METAR OIGG 070430Z 03002KT 9999 -RA FEW020CB BKN030 BKN070 21/20
Q1023=
METAR OIIE 070430Z 30012KT CAVOK 20/10 Q1023=
METAR OIII 070430Z 23004KT CAVOK 22/M03 Q1023 A3021=
METAR OIKB 070430Z 05004KT 3000 HZ NSC 32/25 Q1007 A2975=
METAR OIMM 070430Z 09004KT CAVOK 16/M01 Q1024 A3024=
METAR OISS 070430Z 00000KT CAVOK 23/02 Q1021 A3017=
METAR OITT 070430Z 08008KT 9999 BKN070 19/04 Q1024 A3025=
METAR OIYY 070420Z 31004KT CAVOK 22/M06 Q1023=
METAR OIZH 070430Z 17004KT CAVOK 18/M20 Q1020 A3013 NOSIG=


......................................................................................


Date: 07-Oct-2565

SAPK31 OPKC 070430
METAR OPIS 070430Z 27010KT 7000 NSC 24/12 Q1014 NOSIG=
METAR OPKC 070430Z 33003KT 4000 FU FEW030 29/18 Q1008 NOSIG=
METAR OPLA 070425Z 17003KT 3000 FU FEW040 SCT100 27/21 Q1012
BECMG 3500 RMK QFE986 A29.89=
METAR OPPS 070425Z 13004KT 6000 HZ FEW040 FEW100 24/15 Q1015=
METAR OPSK 070430Z NIL=
METAR OPMT 070430Z NIL=
METAR OPFA 070430Z NIL=
METAR OPST 070430Z NIL=
METAR OPNH 070430Z NIL=


......................................................................................


Date: 07-Oct-2565

SAPK31 OPKC 070430 RRA
METAR OPFA 070430Z NIL=
METAR OPMT 070430Z NIL=
METAR OPNH 070430Z NIL=
METAR OPSK 070430Z NIL=
METAR OPST 070430Z NIL=


......................................................................................


Date: 07-Oct-2565

SAIR31 OIII 070430
METAR OIAW 070430Z 06004KT 6000 NSC 28/07 Q1007=
METAR OIFM 070430Z 27004KT CAVOK 15/M04 Q1025 A3029=
METAR OIII 070430Z 23004KT CAVOK 22/M03 Q1023 A3021=
METAR OIKB 070430Z 05004KT 3000 HZ NSC 32/25 Q1007 A2975=
METAR OIKK 070430Z NIL=
METAR OIMM 070430Z 09004KT CAVOK 16/M01 Q1024 A3024=
METAR OISS 070430Z 00000KT CAVOK 23/02 Q1021 A3017=
METAR OITT 070430Z 08008KT 9999 BKN070 19/04 Q1024 A3025=
METAR OIZH 070430Z 17004KT CAVOK 18/M20 Q1020 A3013 NOSIG=


......................................................................................


Date: 07-Oct-2565

SAIR32 OIII 070430
METAR OIAA 070430Z NIL=
METAR OIBK 070430Z NIL=
METAR OICC 070430Z 00000KT CAVOK 15/M13 Q1021 A3016=
METAR OIGG 070430Z 03002KT 9999 -RA FEW020CB BKN030
BKN070 21/20 Q1023=
METAR OIIE 070430Z 30012KT CAVOK 20/10 Q1023=
METAR OINZ 070430Z NIL=
METAR OITR 070430Z NIL=
METAR OIYY 070430Z 31004KT CAVOK 22/M06 Q1023=


......................................................................................


Date: 07-Oct-2565

SAIR33 OIII 070430
METAR OIBB 070430Z NIL=
METAR OIBP 070430Z NIL=
METAR OICK 070430Z 15002KT CAVOK 21/M05 Q1018=
METAR OICS 070430Z NIL=
METAR OIHH 070430Z NIL=
METAR OITL 070430Z NIL=
METAR OIZC 070430Z NIL=


......................................................................................


Date: 07-Oct-2565

SAPK31 OPKC 070430 RRB
METAR OPMT 070430Z 05004KT 40000 FU NSC 27/18 Q1010 NOSIG=


......................................................................................


Date: 07-Oct-2565

SAAE31 VTBB 070430
METAR VTCT 070430Z NIL=
METAR VTSG 070430Z NIL=
METAR VTBD 070430Z VRB05KT 9999 FEW020 SCT040 31/24 Q1011 NOSIG=
METAR VTBS 070430Z 08005KT 050V110 9999 SCT020 30/25 Q1011 NOSIG=
METAR VTCC 070430Z 04004KT 350V090 9999 SCT035 30/22 Q1013 NOSIG=
METAR VTSP 070430Z 09004KT 030V140 9999 FEW012 SCT020 28/24 Q1010
NOSIG=
METAR VTSS 070430Z VRB05KT 9999 SCT020 SCT100 32/25 Q1009 NOSIG=
METAR VTBU 070430Z 15007KT 9999 FEW020 31/24 Q1012 NOSIG=


......................................................................................


Date: 07-Oct-2565

SAAE32 VTBB 070430
METAR VDPP 070430Z 34006KT 280V020 9999 SCT015 31/25 Q1010=
METAR VDSR 070430Z 08004KT 030V110 9999 SCT015 SCT040 31/24 Q1010=
METAR VLVT 070430Z 06006KT 9999 SCT016 FEW200 32/26 Q1013 NOSIG=
METAR VYMD 070430Z 32003KT 8000 BKN020 FEW025CB 32/27 Q1011=
METAR VYNT 070430Z NIL=
METAR VYYY 070430Z 04010KT 7000 SCT017 FEW020CB SCT110 29/24 Q1010=
METAR VDSV 070430Z 15008KT 100V190 9999 SCT015 31/23 Q1010=


......................................................................................


Date: 07-Oct-2565

SAAE34 VTBB 070430
METAR VVCI 070430Z NIL=
METAR VVCR 070430Z 04007KT 9999 FEW015 31/24 Q1011 NOSIG=
METAR VVCT 070430Z 03006KT 9999 SCT015 31/24 Q1010 NOSIG=
METAR VVDN 070430Z 01013KT 9999 FEW015 FEW017TCU 30/25 Q1012 NOSIG=
METAR VVNB 070430Z NIL=
METAR VVPB 070430Z 07005KT 9999 FEW015 BKN050 29/24 Q1013 NOSIG=
METAR VVPQ 070430Z 08007KT 9999 FEW015 31/24 Q1011 NOSIG=
METAR VVTS 070430Z VRB02KT 9999 SCT020 32/25 Q1009 NOSIG =


......................................................................................


Date: 07-Oct-2565

SASR31 WSSS 070430
METAR WSSS 070430Z 21010KT 180V240 4500 TSRA SCT012 FEW015CB
SCT016TCU 24/23 Q1011 BECMG FM0500 TL0530 6000 -TSRA=


......................................................................................


Date: 07-Oct-2565

SAUZ31 UTTW 070430
METAR UTFN 070430Z 12006KT 080V150 5000 BR NSC 17/05 Q1022 R28/CLRD70
NOSIG=
METAR UTNN 070430Z 00000KT CAVOK 15/M07 Q1022 R33/CLRD60 NOSIG=
METAR UTNU 070430Z VRB02KT CAVOK 16/M03 Q1022 R31/CLRD70 NOSIG=
METAR UTSA 070430Z 08008KT 5000 FU NSC 17/01 Q1022 R07/CLRD70 NOSIG=
METAR UTSB 070430Z 15004KT CAVOK 15/M00 Q1022 R01/CLRD70 NOSIG=
METAR UTSK 070430Z 12004KT 100V160 8000 NSC 16/M03 Q1023 R16/CLRD70=
METAR UTSS 070430Z 00000KT 9999 NSC 18/01 Q1022 R09/CLRD70 NOSIG=
METAR UTST 070430Z 06002KT CAVOK 17/M02 Q1023 R25/CLRD70 NOSIG=
METAR UTFA 070430Z VRB02KT 9999 NSC 18/03 Q1023 R28/09//70=
METAR UTFF 070430Z 08004KT 040V120 9999 NSC 18/00 Q1022 R18/CLRD70=
METAR UTTT 070430Z 13006KT 110V170 7000 NSC 18/M00 Q1022 R08L/CLRD70
NOSIG=


......................................................................................


Date: 07-Oct-2565

SAMS31 WMKK 070430
METAR WBGG 070430Z NIL=
METAR WBKK 070430Z NIL=
METAR WBSB 070430Z NIL=
METAR WMKK 070430Z NIL=
METAR WMKP 070430Z NIL=
METAR WSSL 070430Z NIL=
METAR WSSS 070430Z 21010KT 180V240 4500 TSRA SCT012 FEW015CB
SCT016TCU 24/23 Q1011 BECMG FM0500 TL0530 6000 -TSRA=


......................................................................................


Date: 07-Oct-2565

SAJP51 RJTD 070430
METAR RJAA 070430Z 33010KT 2500 SHRA BR FEW002 BKN003 14/14 Q1012
NOSIG=
METAR RJBB 070430Z 09008KT 8000 -SHRA FEW003 SCT010 BKN020 18/17
Q1012 NOSIG=
METAR RJCC 070430Z 18005KT 140V220 9999 FEW020 SCT150 OVC180 12/02
Q1020=
METAR RJFF 070430Z 26010KT 9999 FEW025 SCT050 BKN160 21/13 Q1015
NOSIG=
METAR RJGG 070430Z 34014KT 8000 -RA FEW006 BKN008 BKN020 16/15 Q1012
TEMPO 3000 RA BR=
METAR RJTT 070430Z 34019KT 5000 RA BR FEW006 SCT007 BKN010 12/11
Q1013 TEMPO 3000 RA BR FEW005 BKN008=
METAR ROAH 070430Z 01019KT 9999 SCT020 29/23 Q1014=


......................................................................................


Date: 07-Oct-2565

SAMS31 WMKK 070430
METAR WBGG 070430Z 35005KT 280V050 8000 -RA SCT020 27/24 Q1011 NOSIG=
METAR WBKK 070430Z 26003KT 190V350 9999 FEW014 31/26 Q1008 NOSIG=
METAR WBSB 070430Z 31006KT 9999 FEW015 FEW016CB BKN300 32/27 Q1009
NOSIG=
METAR WMKK 070430Z VRB02KT 9999 -TSRA FEW010 FEW017CB 27/24 Q1011 NOSIG=
METAR WMKP 070430Z 23008KT 190V280 9999 FEW020 29/25 Q1010 NOSIG=
METAR WSSL 070430Z NIL=
METAR WSSS 070430Z 21010KT 180V240 4500 TSRA SCT012 FEW015CB SCT016TCU 24/23 Q1011 BECMG FM0500 TL0530 6000 -TSRA=


......................................................................................


Date: 07-Oct-2565

SAAE34 VTBB 070430 RRA
METAR VVCI 070430Z 06009KT 9999 FEW031 28/25 Q1015 NOSIG=


......................................................................................


Date: 07-Oct-2565

SAAE34 VTBB 070430 RRB
METAR VVNB 070430Z 14006KT 090V220 8000 SCT022 30/24 Q1015 NOSIG=


......................................................................................


Date: 07-Oct-2565

SAAE34 VTBB 070430 RRC
METAR VVNB 070430Z 14006KT 090V220 8000 SCT022 30/24 Q1015 NOSIG=


......................................................................................


Date: 07-Oct-2565

SAPA31 KWBC 070400 RRD
METAR
PKWA 070440Z AUTO 11006KT 10SM SCT033 SCT043 BKN050 29/24 A2974
RMK AO2 T02930244=


......................................................................................


Date: 07-Oct-2565

SASD20 OEJD 070400 CCA
METAR OEJB 070400Z AUTO 31011KT CAVOK 26/M01 Q1008 NOSIG=


......................................................................................


Date: 07-Oct-2565

SAMS31 WMKK 070430 RRA
METAR WMKK 070430Z VRB02KT 9999 -TSRA FEW010 FEW017CB 27/24 Q1011
NOSIG=
METAR WMKP 070430Z 23008KT 190V280 9999 FEW020 29/25 Q1010 NOSIG=


......................................................................................


Date: 07-Oct-2565

SAAE31 VDPP 070500
METAR VDPP 070500Z 32004KT 260V020 9999 SCT015 FEW017CB 31/25 Q1009
RMK RMK CB:SW=


......................................................................................


Date: 07-Oct-2565

SAOM81 OOMS 070400 RRA
METAR OOTH 070350Z AUTO 18009KT 9999 ////// 26/09 Q1011=


......................................................................................


Date: 07-Oct-2565

SAPK31 OPKC 070500
METAR OPKC 070500Z 33004KT 4000 FU FEW030 31/18 Q1008 NOSIG=


......................................................................................


Date: 07-Oct-2565

SATH31 VTUI 070500
METAR VTUI 070500Z 04004KT 360V090 9999 BKN030 31/23 Q1012 NOSIG=


......................................................................................


Date: 07-Oct-2565

SATH31 VTBU 070500
METAR VTBU 070500Z 16008KT 9999 FEW020 SCT100 31/23 Q1011 NOSIG=


......................................................................................


Date: 07-Oct-2565

SATH31 VTCL 070500
METAR VTCL 070500Z VRB02KT 9999 BKN025 30/24 Q1012 NOSIG=


......................................................................................


Date: 07-Oct-2565

SATH31 VTPO 070500
METAR VTPO 070500Z 30004KT 9999 SCT020 30/26 Q1011 NOSIG=


......................................................................................


Date: 07-Oct-2565

SATH31 VTUW 070500
METAR VTUW 070500Z 08003KT 040V120 9999 FEW035 32/23 Q1012 NOSIG=


......................................................................................


Date: 07-Oct-2565

SATH31 VTSC 070500
METAR VTSC 070500Z 15004KT 100V190 9999 FEW022 29/24 Q1010 NOSIG=


......................................................................................


Date: 07-Oct-2565

SATH31 VTSF 070500
METAR VTSF 070500Z 06003KT 8000 -RA FEW016TCU SCT018 28/27 Q1010 NOSIG=


......................................................................................


Date: 07-Oct-2565

SATH31 VTST 070500
METAR VTST 070500Z 06003KT 030V090 9999 VCSH SCT025 SCT100 27/25 Q1010 NOSIG=


......................................................................................


Date: 07-Oct-2565

SATH31 VTUL 070500
METAR VTUL 070500Z VRB02KT 9999 SCT025 30/24 Q1013 NOSIG=


......................................................................................


Date: 07-Oct-2565

SATH31 VTUO 070500
METAR VTUO 070500Z 08006KT 040V110 9999 BKN030 30/26 Q1012 NOSIG=


......................................................................................


Date: 07-Oct-2565

SATH31 VTUD 070500
METAR VTUD 070500Z 06006KT 350V120 9999 SCT030 32/21 Q1012 NOSIG=


......................................................................................


Date: 07-Oct-2565

SANP31 VNKT 070500
METAR VNKT 070500Z VRB02KT 9999 FEW008 SCT100 24/18 Q1020 NOSIG=


......................................................................................


Date: 07-Oct-2565

SATH31 VTBO 070500
METAR VTBO 070500Z 19009KT 9999 SCT020 31/24 Q1011=


......................................................................................


Date: 07-Oct-2565

SATH31 VTPM 070500
METAR VTPM 070500Z 05008KT 030V110 9999 FEW035 32/27 Q1011 NOSIG=


......................................................................................


Date: 07-Oct-2565

SATH31 VTPP 070500
METAR VTPP 070500Z VRB02KT 9999 BKN030 32/23 Q1010 NOSIG=


......................................................................................


Date: 07-Oct-2565

SATH31 VTSM 070500
METAR VTSM 070500Z 15007KT 9999 FEW020 32/25 Q1011 NOSIG=


......................................................................................


Date: 07-Oct-2565

SAOM32 OOMS 070500
METAR OOMS 070450Z 30005KT CAVOK 33/20 Q1008 NOSIG=
METAR OOSA 070450Z 20004KT 140V290 9999 BKN025 28/22 Q1010 NOSIG=
METAR OOSH 070450Z AUTO VRB04KT //// ////// 31/25 Q1008=
METAR OODQ 070450Z AUTO 21018KT CAVOK ////// 27/22 Q1009 NOSIG=
METAR OOKB 070500Z NIL=
METAR OOAD 070500Z NIL=


......................................................................................


Date: 07-Oct-2565

SASD31 OEJD 070500
METAR OEDF 070500Z 29010KT CAVOK 30/01 Q1007 NOSIG=
METAR OEDR 070500Z 30011KT CAVOK 32/M02 Q1006=
METAR OEJN 070500Z 00000KT CAVOK 30/24 Q1007 NOSIG=
METAR OEMA 070500Z 00000KT CAVOK 28/M08 Q1016 NOSIG=
METAR OERK 070500Z 30005KT CAVOK 28/01 Q1014 NOSIG=
METAR OERY 070500Z NIL=
METAR OEAB 070500Z 09005KT CAVOK 22/03 Q1025 NOSIG=
METAR OYAA 070500Z NIL=
METAR OYSN 070500Z NIL=


......................................................................................


Date: 07-Oct-2565

SATH31 VTBD 070500
METAR VTBD 070500Z 11006KT 070V180 9999 FEW020 SCT040 31/24 Q1011
NOSIG=


......................................................................................


Date: 07-Oct-2565

SATH31 VTBS 070500
METAR VTBS 070500Z 07005KT 020V120 9999 FEW020 31/25 Q1010 NOSIG=


......................................................................................


Date: 07-Oct-2565

SATH31 VTCC 070500
METAR VTCC 070500Z 14006KT 110V170 9999 BKN035 30/22 Q1013 NOSIG=


......................................................................................


Date: 07-Oct-2565

SATH31 VTCH 070500
METAR VTCH 070500Z VRB02KT 9999 BKN025 31/24 Q1012 NOSIG=


......................................................................................


Date: 07-Oct-2565

SATH31 VTCN 070500
METAR VTCN 070500Z VRB04KT 9999 FEW020 31/23 Q1012 NOSIG=


......................................................................................


Date: 07-Oct-2565

SATH31 VTCP 070500
METAR VTCP 070500Z VRB03KT 9999 SCT025 32/25 Q1012 NOSIG=


......................................................................................


Date: 07-Oct-2565

SATH31 VTCT 070500
METAR VTCT 070500Z 09006KT 040V140 9999 SCT020 29/24 Q1014 NOSIG=


......................................................................................


Date: 07-Oct-2565

SATH31 VTPB 070500
METAR VTPB 070500Z 01006KT 330V040 9999 FEW030 33/25 Q1011 NOSIG=


......................................................................................


Date: 07-Oct-2565

SATH31 VTPH 070500
METAR VTPH 070500Z VRB02KT 9999 BKN026 BKN032 26/25 Q1011 NOSIG=


......................................................................................


Date: 07-Oct-2565

SATH31 VTPT 070500
METAR VTPT 070500Z /////KT 8000 -RA FEW015 BKN024 28/25 Q1012 NOSIG=


......................................................................................


Date: 07-Oct-2565

SATH31 VTSE 070500
METAR VTSE 070500Z 05003KT 350V100 7000 -RA SCT018 26/25 Q1011 NOSIG=


......................................................................................


Date: 07-Oct-2565

SATH31 VTSG 070500
METAR VTSG 070500Z 19004KT 130V230 9999 FEW020 SCT025 BKN030 29/24
Q1010 NOSIG=


......................................................................................


Date: 07-Oct-2565

SATH31 VTSP 070500
METAR VTSP 070500Z 08003KT 010V120 9999 -RA FEW018 SCT020 BKN050
28/24 Q1010 NOSIG=


......................................................................................


Date: 07-Oct-2565

SATH31 VTSR 070500
METAR VTSR 070500Z 00000KT 9999 FEW020 28/24 Q1010 NOSIG=


......................................................................................


Date: 07-Oct-2565

SATH31 VTSY 070500
METAR VTSY 070500Z 26007KT 220V300 9999 FEW030 31/23 Q1011 NOSIG=


......................................................................................


Date: 07-Oct-2565

SATH31 VTUK 070500
METAR VTUK 070500Z 07006KT 030V130 9999 BKN035 30/23 Q1013 NOSIG=


......................................................................................


Date: 07-Oct-2565

SATH31 VTUU 070500
METAR VTUU 070500Z 04006KT 330V110 9999 BKN030 32/24 Q1011 NOSIG=


......................................................................................


Date: 07-Oct-2565

SATH31 VTUV 070500
METAR VTUV 070500Z 07006KT 030V110 9999 SCT030 31/24 Q1012 NOSIG=


......................................................................................


Date: 07-Oct-2565

SAPK31 OPKC 070500
METAR OPFA 070455Z 00000KT 4000 FU NSC 30/21 Q1012 NOSIG=
METAR OPIS 070500Z 31014KT 7000 NSC 26/15 Q1014 NOSIG=
METAR OPKC 070500Z 33004KT 4000 FU FEW030 31/18 Q1008 NOSIG=
METAR OPLA 070455Z 00000KT 3000 FU FEW040 SCT100 28/21 Q1012
NOSIG RMK QFE986 A29.88=
METAR OPMT 070500Z 05004KT 4000 FU NSC 29/19 Q1011 NOSIG=
METAR OPPS 070500Z 13004KT 9999 FEW100 27/14 Q1015=
METAR OPSK 070500Z 36010KT 5000 HZ NSC 31/21 Q1007 NOSIG=
METAR OPST 070500Z 00000KT 3500 FU NSC 27/21 Q1012 NOSIG 73?=
METAR OPNH 070500Z NIL=


......................................................................................


Date: 07-Oct-2565

SATH31 VTSB 070500
METAR VTSB 070500Z 05003KT 340V110 9999 SCT020 30/29 Q1010 NOSIG=


......................................................................................


Date: 07-Oct-2565

SATH31 VTSS 070500
METAR VTSS 070500Z 24006KT 100V260 9999 SCT020 BKN100 31/24 Q1009
NOSIG=


......................................................................................


Date: 07-Oct-2565

SAHK31 VHHH 070500
METAR VHHH 070500Z 06006KT 030V100 9999 FEW028 32/21 Q1014 NOSIG=


......................................................................................


Date: 07-Oct-2565

SAIR31 OIII 070500
METAR OIAW 070500Z 24002KT 6000 NSC 31/08 Q1007=
METAR OIFM 070500Z 27004KT CAVOK 17/M03 Q1025 A3029=
METAR OIII 070500Z 25006KT CAVOK 23/M03 Q1023 A3022 NOSIG=
METAR OIKB 070500Z 08004KT 3000 HZ NSC 35/23 Q1007 A2975 NOSIG=
METAR OIKK 070500Z 00000KT CAVOK 18/M06 Q1024 A3025=
METAR OIMM 070500Z 09006KT CAVOK 17/M01 Q1024 A3024=
METAR OISS 070500Z 00000KT CAVOK 23/M01 Q1021 A3018=
METAR OITT 070500Z 10004KT 9999 SCT070 20/04 Q1024 A3026=
METAR OIZH 070500Z 19004KT CAVOK 20/M21 Q1020 A3013 NOSIG=


......................................................................................


Date: 07-Oct-2565

SAIR32 OIII 070500
METAR OIAA 070500Z 28002KT 6000 NSC 28/09 Q1008=
METAR OIBK 070500Z 07010KT 4000 BR NSC 29/28 Q1007 NOSIG=
METAR OICC 070500Z 00000KT CAVOK 20/M14 Q1021 A3016=
METAR OIGG 070500Z 00000KT 9999 FEW020CB BKN030 BKN070
21/19 Q1023=
METAR OIIE 070500Z 30010KT CAVOK 21/10 Q1023=
METAR OINZ 070500Z 18004KT 6000 FEW035 BKN090 25/20 Q1022=
METAR OITR 070500Z 00000KT 9999 SCT040 17/02 Q1022=
METAR OIYY 070500Z 32004KT CAVOK 23/M06 Q1023=


......................................................................................


Date: 07-Oct-2565

SAIR33 OIII 070500
METAR OIBB 070500Z 36004KT CAVOK 32/19 Q1007 A2974=
METAR OIBP 070500Z 13008KT 4000 HZ NSC 31/26 Q1005 A2971=
METAR OICK 070500Z NIL=
METAR OICS 070500Z NIL=
METAR OIHH 070500Z 00000KT CAVOK 17/M06 Q1024 A3025=
METAR OITL 070500Z 07014KT 5000 -DZ PRFG OVC004 13/13 Q1026=
METAR OIZC 070500Z NIL=


......................................................................................


Date: 07-Oct-2565

SAIR33 OIII 070500 RRA
METAR OICK 070500Z 00000KT CAVOK 24/M05 Q1018=


......................................................................................


Date: 07-Oct-2565

SAIR34 OIII 070500
METAR OIAG 070500Z 16002KT CAVOK 32/05 Q1008=
METAR OIAM 070500Z 00000KT CAVOK 31/11 Q1007=
METAR OICI 070500Z 11002KT CAVOK 27/M04 Q1020 A3014=
METAR OIKQ 070500Z 09006KT 2000 BR NSC 31/31 Q1007 NOSIG=
METAR OINN 070500Z 15004KT 8000 SCT018 FEW020CB BKN026 OVC080
20/19 Q1022 REDZ=
METAR OINR 070500Z 25004KT 9999 FEW022CB SCT026 BKN090 22/19 Q1021=
METAR OISL 070500Z 00000KT CAVOK 28/03 Q1013 NOSIG=
METAR OISY 070500Z 00000KT CAVOK 17/M07 Q1025=
METAR OITZ 070500Z 08006KT 9999 FEW020 17/04 Q1024 A3025=


......................................................................................


Date: 07-Oct-2565

SAIR35 OIII 070500
METAR OIAD 070500Z NIL=
METAR OIBJ 070500Z AUTO 00000KT //// // ////// 33/03 Q1014=
METAR OIBS 070500Z 06004KT 3000 BR NSC 31/29 Q1007=
METAR OIHR 070500Z NIL=
METAR OIKM 070500Z NIL=
METAR OIKR 070500Z NIL=
METAR OING 070500Z 25008KT 9999 SCT030 25/20 Q1023 NOSIG=
METAR OIZB 070500Z 36029G39KT 7000 NSC 22/M12 Q1015=
METAR OIZI 070500Z 05006KT CAVOK 31/M12 Q1014=


......................................................................................


Date: 07-Oct-2565

SAIR36 OIII 070500
METAR OIBA 070500Z 07004KT 5000 HZ NSC 32/27 Q1006=
METAR OIBV 070500Z 10004KT 3200 HZ NSC 32/27 Q1006=
METAR OIFS 070500Z 06002KT CAVOK 15/M09 Q1028=
METAR OIIP 070500Z 31012KT 7000 NSC 17/10 Q1023 A3022=
METAR OIMB 070500Z 11006KT CAVOK 20/M31 Q1021 A3016=
METAR OIMN 070500Z VRB02KT 7000 FEW020 FEW030CB 18/12 Q1025=
METAR OIMS 070500Z 09010KT CAVOK 19/M15 Q1024=
METAR OIMT 070500Z NIL=
METAR OIZJ 070500Z 12010KT 5000 BR FEW015 28/26 Q1007=


......................................................................................


Date: 07-Oct-2565

SAIR37 OIII 070500
METAR OIBL 070500Z 08008KT 3500 HZ NSC 33/24 Q1006=
METAR OIBQ 070500Z 08004KT 5000 BR NSC 31/28 Q1007=
METAR OIIK 070500Z 17004KT CAVOK 17/11 Q1024=
METAR OIMD 070500Z 00000KT CAVOK 23/M14 Q1018=
METAR OIMQ 070500Z 00000KT CAVOK 22/M19 Q1021=
METAR OINE 070500Z 23008KT 7000 SCT030 23/19 Q1022=
METAR OITK 070500Z 27002KT 9999 FEW040 17/09 Q1022=
METAR OITM 070500Z 10017KT 9999 FEW040 BKN090 19/06 Q1022=


......................................................................................


Date: 07-Oct-2565

SAIR38 OIII 070500
METAR OIAH 070500Z 00000KT CAVOK 28/08 Q1011=
METAR OIBH 070500Z 00000KT CAVOK 32/07 Q1006 A2973=
METAR OICM 070500Z 07002KT CAVOK 33/M00 Q1006=
METAR OIIS 070500Z NIL=
METAR OIMJ 070500Z 05027KT CAVOK 19/06 Q1023=
METAR OISF 070500Z 03004KT CAVOK 27/M07 Q1019=
METAR OISR 070500Z 26004KT CAVOK 29/10 Q1011 A2988 NOSIG=
METAR OITP 070500Z 14016KT 9999 BKN040 20/15 Q1023=
METAR OITU 070500Z NIL=


......................................................................................


Date: 07-Oct-2565

SAPK31 OPKC 070500
METAR OPFA 070455Z 00000KT 4000 FU NSC 30/21 Q1012 NOSIG=
METAR OPIS 070500Z 31014KT 7000 NSC 26/15 Q1014 NOSIG=
METAR OPKC 070500Z 33004KT 4000 FU FEW030 31/18 Q1008 NOSIG=
METAR OPLA 070455Z 00000KT 3000 FU FEW040 SCT100 28/21 Q1012
NOSIG RMK QFE986 A29.88=
METAR OPMT 070500Z 05004KT 4000 FU NSC 29/19 Q1011 NOSIG=
METAR OPPS 070500Z 13004KT 9999 FEW100 27/14 Q1015=
METAR OPSK 070500Z 36010KT 5000 HZ NSC 31/21 Q1007 NOSIG=
METAR OPST 070500Z 00000KT 3500 FU NSC 27/21 Q1012 NOSIG 73%=
METAR OPNH 070500Z NIL=


......................................................................................


Date: 07-Oct-2565

SAPK31 OPKC 070500 RRA
METAR OPNH 070500Z NIL=


......................................................................................


Date: 07-Oct-2565

SATH40 VTBB 070500
METAR VTBD 070500Z 11006KT 070V180 9999 FEW020 SCT040 31/24 Q1011
NOSIG=
METAR VTBS 070500Z 07005KT 020V120 9999 FEW020 31/25 Q1010 NOSIG=
METAR VTBU 070500Z 16008KT 9999 FEW020 SCT100 31/23 Q1011 NOSIG=
METAR VTCC 070500Z 14006KT 110V170 9999 BKN035 30/22 Q1013 NOSIG=
METAR VTCT 070500Z 09006KT 040V140 9999 SCT020 29/24 Q1014 NOSIG=
METAR VTSB 070500Z 05003KT 340V110 9999 SCT020 30/29 Q1010 NOSIG=
METAR VTSG 070500Z 19004KT 130V230 9999 FEW020 SCT025 BKN030 29/24
Q1010 NOSIG=
METAR VTSP 070500Z 08003KT 010V120 9999 -RA FEW018 SCT020 BKN050
28/24 Q1010 NOSIG=
METAR VTSS 070500Z 24006KT 100V260 9999 SCT020 BKN100 31/24 Q1009
NOSIG=
METAR VTUD 070500Z 06006KT 350V120 9999 SCT030 32/21 Q1012 NOSIG=
METAR VTUU 070500Z 04006KT 330V110 9999 BKN030 32/24 Q1011 NOSIG=


......................................................................................


Date: 07-Oct-2565

SAAE31 VTBB 070500
METAR VTCT 070500Z 09006KT 040V140 9999 SCT020 29/24 Q1014 NOSIG=
METAR VTSG 070500Z 19004KT 130V230 9999 FEW020 SCT025 BKN030 29/24
Q1010 NOSIG=
METAR VTBD 070500Z 11006KT 070V180 9999 FEW020 SCT040 31/24 Q1011
NOSIG=
METAR VTBS 070500Z 07005KT 020V120 9999 FEW020 31/25 Q1010 NOSIG=
METAR VTCC 070500Z 14006KT 110V170 9999 BKN035 30/22 Q1013 NOSIG=
METAR VTSP 070500Z 08003KT 010V120 9999 -RA FEW018 SCT020 BKN050
28/24 Q1010 NOSIG=
METAR VTSS 070500Z 24006KT 100V260 9999 SCT020 BKN100 31/24 Q1009
NOSIG=
METAR VTBU 070500Z 16008KT 9999 FEW020 SCT100 31/23 Q1011 NOSIG=


......................................................................................


Date: 07-Oct-2565

SAAE32 VTBB 070500
METAR VDPP 070500Z 32004KT 260V020 9999 SCT015 FEW017CB 31/25 Q1009
RMK CB:SW=
METAR VDSR 070500Z VRB02KT 9999 SCT015 SCT040 31/24 Q1009=
METAR VLVT 070500Z 06006KT 9999 SCT016 FEW200 32/26 Q1012 NOSIG=
METAR VYMD 070500Z NIL=
METAR VYNT 070500Z 10007KT 7000 SCT020 FEW025TCU SCT120 30/25 Q1010
NOSIG=
METAR VYYY 070500Z 30009KT 7000 SCT017 FEW020CB SCT110 29/24 Q1009=
METAR VDSV 070500Z 14009KT 090V180 9999 SCT015 31/24 Q1010=


......................................................................................


Date: 07-Oct-2565

SAAE33 VTBB 070500
METAR VLLB 070500Z 09006KT 9999 SCT020 30/21 Q1013 NOSIG=
METAR VLLN 070500Z 09004KT 9999 SCT020 FEW100 28/22 Q1016 NOSIG=
METAR VLPS 070500Z 36002KT 9999 FEW020 SCT050 31/24 Q1011 NOSIG=
METAR VLSK 070500Z 09004KT 8000 SCT020 33/25 Q1014 NOSIG=


......................................................................................


Date: 07-Oct-2565

SAAE34 VTBB 070500
METAR VVCI 070500Z 08012KT 9999 FEW017 28/24 Q1014 NOSIG=
METAR VVCR 070500Z 05009KT 9999 FEW015 32/24 Q1011 NOSIG=
METAR VVCT 070500Z 06006KT 9999 SCT015 31/24 Q1010 NOSIG=
METAR VVDN 070500Z 01012KT 9999 FEW015 FEW017TCU 31/25 Q1012 NOSIG=
METAR VVNB 070500Z 14006KT 090V180 9999 BKN024 29/24 Q1014 TEMPO
FM0510 TL0530 4000 SHRA=
METAR VVPB 070500Z 04006KT 9999 FEW015 SCT050 30/24 Q1013 NOSIG=
METAR VVPQ 070500Z 07008KT 9999 FEW015 31/24 Q1010 NOSIG=
METAR VVTS 070500Z VRB03KT 9999 BKN020 33/24 Q1009 NOSIG =


......................................................................................


Date: 07-Oct-2565

SAIR33 OIII 070500 RRB
METAR OIZC 070500Z 10008KT 9999 SCT035 31/25 Q1008=


......................................................................................


Date: 07-Oct-2565

SATH31 VTUQ 070500
METAR VTUQ 070500Z 07005KT 010V130 9999 BKN020 31/26 Q1011 NOSIG=


......................................................................................


Date: 07-Oct-2565

SAIR31 OIII 070500
METAR OIAA 070500Z 28002KT 6000 NSC 28/09 Q1008 NOSIG=
METAR OIAG 070500Z 16002KT CAVOK 32/05 Q1008=
METAR OIAH 070500Z 00000KT CAVOK 28/08 Q1011=
METAR OIAI 070500Z 33002KT CAVOK 29/04 Q1009=
METAR OIAM 070500Z 00000KT CAVOK 31/11 Q1007=
METAR OIAW 070452Z 24002KT 6000 NSC 31/08 Q1007 NOSIG=
METAR OIBA 070500Z 07004KT 5000 HZ NSC 32/27 Q1006=
METAR OIBB 070500Z 36004KT CAVOK 32/19 Q1007 A2974 NOSIG=
METAR OIBK 070500Z 07010KT 4000 BR NSC 29/28 Q1007 NOSIG=
METAR OIBL 070500Z 08008KT 3500 HZ NSC 33/24 Q1006=
METAR OIBS 070500Z 06004KT 3000 BR NSC 31/29 Q1007=
METAR OICC 070450Z 00000KT CAVOK 20/M14 Q1021 A3016 NOSIG=
METAR OICI 070500Z 11002KT CAVOK 27/M04 Q1020 A3014=
METAR OICJ 070500Z 00000KT CAVOK 19/M03 Q1024=
METAR OICK 070453Z 00000KT CAVOK 24/M05 Q1018=
METAR OICS 070500Z 00000KT CAVOK 16/M06 Q1023 A3022=
METAR OIFK 070500Z 00000KT CAVOK 22/M04 Q1021 A3017=
METAR OIFM 070500Z 27004KT CAVOK 17/M03 Q1025 A3029 NOSIG=
METAR OIFS 070451Z 06002KT CAVOK 15/M09 Q1028=
METAR OIGG 070500Z 00000KT 9999 FEW020CB BKN030 BKN070 21/19 Q1023
NOSIG=
METAR OIGK 070450Z 11010KT 9999 FEW020 15/09 Q1030=
METAR OIHH 070500Z 00000KT CAVOK 17/M06 Q1024 A3025=
METAR OIHM 070500Z 10004KT CAVOK 16/M06 Q1025=
METAR OIIE 070500Z 30010KT CAVOK 21/10 Q1023 NOSIG=
METAR OIII 070500Z 25006KT CAVOK 23/M03 Q1023 A3022 NOSIG=
METAR OIIK 070451Z 17004KT CAVOK 17/11 Q1024=
METAR OIIP 070500Z 31012KT 7000 NSC 17/10 Q1023 A3022=
METAR OIIS 070500Z 02008KT CAVOK 25/04 Q1022=
METAR OIKB 070500Z 08004KT 3000 HZ NSC 35/23 Q1007 A2975 NOSIG=
METAR OIKK 070450Z 00000KT CAVOK 18/M06 Q1024 A3025=
METAR OIKO 070500Z 00000KT 3000 HZ NSC 33/20 Q1008=
METAR OIKQ 070500Z 09006KT 2000 BR NSC 31/31 Q1007 NOSIG=
METAR OIMB 070500Z 11006KT CAVOK 20/M31 Q1021 A3016=
METAR OIMC 070450Z 00000KT CAVOK 18/M02 Q1022=
METAR OIMD 070450Z 00000KT CAVOK 23/M14 Q1018=
METAR OIMM 070500Z 09006KT CAVOK 17/M01 Q1024 A3024 NOSIG=
METAR OINB 070500Z 00000KT 9999 FEW030 SCT090 23/20 Q1022=
METAR OING 070500Z 25008KT 9999 SCT030 25/20 Q1023 NOSIG=
METAR OINK 070500Z 21006KT 8000 SCT030 25/18 Q1020 A3013=
METAR OINN 070500Z 15004KT 8000 SCT018 FEW020CB BKN026 OVC080
20/19 Q1022 REDZ=
METAR OINR 070500Z 25004KT 9999 FEW022CB SCT026 BKN090 22/19 Q1021=
METAR OISA 070500Z 32004KT CAVOK 16/M06 Q1027 A3034=
METAR OISF 070500Z 03004KT CAVOK 27/M07 Q1019=
METAR OISL 070500Z 00000KT CAVOK 28/03 Q1013 NOSIG=
METAR OISS 070500Z 00000KT CAVOK 23/M01 Q1021 A3018 NOSIG=
METAR OISY 070500Z 00000KT CAVOK 17/M07 Q1025=
METAR OITL 070455Z 07014KT 5000 -DZ PRFG OVC004 13/13 Q1026 TEMPO
3000 DZ BR=
METAR OITR 070457Z 00000KT 9999 SCT040 17/02 Q1022 NOSIG=
METAR OITT 070500Z 10004KT 9999 SCT070 20/04 Q1024 A3026 NOSIG=
METAR OITU 070451Z 00000KT 8000 NSC 17/09 Q1024=
METAR OIYY 070450Z 32004KT CAVOK 23/M06 Q1023 NOSIG=
METAR OIZB 070500Z 36029G39KT 7000 NSC 22/M12 Q1015=
METAR OIZC 070500Z 10008KT 9999 SCT035 31/25 Q1008=
METAR OIZH 070500Z 19004KT CAVOK 20/M21 Q1020 A3013 NOSIG=
METAR OIZI 070500Z 05006KT CAVOK 31/M12 Q1014=
METAR OIZJ 070500Z 12010KT 5000 BR FEW015 28/26 Q1007=


......................................................................................


Date: 07-Oct-2565

SAMV31 VRMM 070500
METAR VRMH 070500Z 29009KT 9999 FEW018 30/25 Q1011=
METAR VRMM 070500Z 29014KT 9999 SCT018TCU BKN270 30/25 Q1011 NOSIG=
METAR VRMG 070500Z 31004KT 8000 -SHRA SCT016 FEW017CB OVC100 26/24
Q1012 CB NE,W,OVERHEAD TEMPO 5000 TSRA=


......................................................................................


Date: 07-Oct-2565

SAOM81 OOMS 070400 RRB
METAR OODB 070350Z AUTO VRB00KT //// ////// 31/27 Q1009=


......................................................................................


Date: 07-Oct-2565

SAPK31 OPKC 070500
METAR OPFA 070455Z 00000KT 4000 FU NSC 30/21 Q1012 NOSIG=
METAR OPIS 070500Z 31014KT 7000 NSC 26/15 Q1014 NOSIG=
METAR OPKC 070500Z 33004KT 4000 FU FEW030 31/18 Q1008 NOSIG=
METAR OPLA 070455Z 00000KT 3000 FU FEW040 SCT100 28/21 Q1012
NOSIG RMK
QFE986 A29.88=
METAR OPMT 070500Z 05004KT 4000 FU NSC 29/19 Q1011 NOSIG=
METAR OPPS 070500Z 13004KT 9999 FEW100 27/14 Q1015=
METAR OPSK 070500Z 36010KT 5000 HZ NSC 31/21 Q1007 NOSIG=
METAR OPST 070500Z 00000KT 3500 FU NSC 27/21 Q1012 NOSIG 73=
METAR OPNH 070500Z NIL=


......................................................................................


Date: 07-Oct-2565

SASR31 WSSS 070500
METAR WSSS 070500Z 23004KT 200V270 7000 -TSRA FEW012 FEW016CB
SCT017TCU 26/23 Q1011 RESHRA BECMG TL0600 -SHRA=


......................................................................................


Date: 07-Oct-2565

SAUZ31 UTTW 070500
METAR UTFN 070500Z 08006KT 8000 NSC 17/03 Q1022 R28/CLRD70 NOSIG=
METAR UTNN 070500Z 00000KT CAVOK 17/M06 Q1022 R33/CLRD60 NOSIG=
METAR UTNU 070500Z 11002KT CAVOK 18/M00 Q1022 R31/CLRD70 NOSIG=
METAR UTSA 070500Z NIL=
METAR UTSB 070500Z 17004KT 140V200 CAVOK 17/00 Q1022 R01/CLRD70
NOSIG=
METAR UTSK 070500Z 17004KT CAVOK 19/M02 Q1023 R16/CLRD70=
METAR UTSS 070500Z 29006KT 250V340 9999 NSC 18/01 Q1022 R09/CLRD70
NOSIG=
METAR UTST 070500Z VRB02KT CAVOK 19/M04 Q1023 R25/CLRD70 NOSIG=
METAR UTFA 070500Z VRB02KT 9999 NSC 18/02 Q1023 R88/09//70=
METAR UTFF 070500Z 08004KT 9999 NSC 18/00 Q1022 R18/CLRD70=
METAR UTTT 070500Z 16004KT 100V190 7000 NSC 19/M01 Q1022 R08L/CLRD70
NOSIG=


......................................................................................


Date: 07-Oct-2565

SAHK31 VHHH 070500
METAR VHHH 070500Z 06006KT 030V100 9999 FEW028 32/21 Q1014 NOSIG=
METAR RCTP 070500Z 05023KT 9999 FEW012 BKN020 BKN030 28/23 Q1014
NOSIG RMK A2996=
METAR RCKH 070500Z 25010KT 9999 FEW018 SCT200 32/23 Q1011 NOSIG
RMK A2988=
METAR RCSS 070500Z 09008KT 1800 SHRA SCT006 BKN012 BKN030 25/24
Q1014 TEMPO 3000 RMK A2997 RA AMT 4.0MM=
METAR RCMQ 070500Z 36011KT 9999 FEW010 SCT025 31/23 Q1013 NOSIG
RMK A2993=
METAR RCNN 070500Z 28007KT 9999 VCSH FEW012 FEW014TCU SCT100 33/24
Q1012 NOSIG RMK A2989 VCSH NE TCU NE=
METAR RCFN 070500Z 07008KT 020V100 9999 -SHRA FEW018 SCT026 BKN045
29/25 Q1014 NOSIG RMK A2995=
METAR VMMC 070500Z 09007KT 040V170 9999 FEW022 31/25 Q1014 NOSIG=
METAR RPLL 070500Z 09013KT 050V130 9999 FEW025 BKN100 33/24 Q1009
NOSIG RMK A2980 VCSH NE=
METAR RPVM 070500Z 05007KT 9999 FEW018CB SCT300 31/25 Q1009 RMK A2980
CB NE SE=
METAR RPMD 070500Z 18008KT 9999 FEW016 32/23 Q1008 RMK A2977=
METAR RPLB 070500Z 06009KT 020V090 9999 SCT020 BKN300 32/25 Q1010
NOSIG RMK A2983=
METAR RPLI 070500Z 28006KT 240V320 9999 FEW018 32/25 Q1009 NOSIG RMK
A2980=
METAR RPMZ 070500Z 19007KT 150V300 32/24 Q1009 RMK A2980 CB NW N
S-SW=


......................................................................................


Date: 07-Oct-2565

SAJP31 RJTD 070500
METAR RJAA 070500Z 32011KT 3000 SHRA BR FEW002 BKN003 14/14 Q1012
NOSIG=
METAR RJBB 070500Z 07009KT 8000 -SHRA FEW003 BKN010 BKN020 18/17
Q1012 NOSIG=
METAR RJTT 070500Z 34017KT 4500 RA BR FEW006 BKN009 OVC020 12/12
Q1013 TEMPO 3000 RA BR=
METAR RJOO 070500Z 08005KT 040V110 6000 SHRA BR FEW003 BKN008 BKN020
17/16 Q1012=
METAR ROAH 070500Z 02018KT 9999 FEW020 29/22 Q1013=
METAR RJGG 070500Z 36010KT 5000 RA BR FEW004 BKN008 BKN050 16/15
Q1012 TEMPO 3000 RA BR=
METAR RJCH 070500Z 05007KT 9999 FEW020 SCT030 BKN/// 13/05 Q1019=
METAR RJSS 070500Z 34006KT 9999 -RA FEW010 SCT050 BKN090 11/10
Q1017=


......................................................................................


Date: 07-Oct-2565

SAJP32 RJTD 070500
METAR RJFF 070500Z 31011KT 9999 FEW025 SCT040 BKN050 21/13 Q1014
NOSIG=
METAR RJCC 070500Z 20006KT 9999 FEW020 OVC150 12/02 Q1020=
METAR RJFK 070500Z 34013KT 9999 FEW020 BKN025 BKN/// 19/14 Q1014=
METAR RJSN 070500Z VRB02KT 8000 -RA SCT050 OVC090 13/10 Q1013=
METAR RJFT 070500Z 28003KT 240V330 9999 FEW003 SCT060 BKN120 17/15
Q1015=
METAR RJFU 070500Z 02003KT 330V080 9999 FEW025 SCT035 BKN140 21/16
Q1015=
METAR RJNK 070500Z 16003KT 9999 -RA FEW008 BKN030 OVC040 15/15
Q1011=
METAR RJOA 070500Z 30007KT 9999 FEW005 SCT015 BKN025 18/14 Q1013=
METAR RJOB 070500Z 25003KT 180V290 8000 FEW003 SCT007 BKN070 17/16
Q1012=
METAR RJOT 070500Z 24006KT 9999 -SHRA FEW001 SCT015 BKN030 16/16
Q1012=


......................................................................................


Date: 07-Oct-2565

SAJP32 RJTD 070500 RRA
METAR RJFO 070500Z 27006KT 9999 FEW015 SCT070 BKN130 20/15 Q1013=
METAR RJNT 070500Z VRB01KT 7000 -RA FEW004 BKN050 OVC080 14/13
Q1011=


......................................................................................


Date: 07-Oct-2565

SAJP38 RJTD 070500
METAR RJNS 070500Z VRB05KT 7000 R30/1600VP2000U RA FEW000 SCT002
BKN020 16/16 Q1010=
METAR RJSA 070500Z 06005KT 9999 -RA FEW020 SCT050 BKN080 12/06
Q1018=
METAR RJSF 070500Z 35008KT 0500 R01/P2000N RA FG SCT001 BKN002 09/09
Q1016=
METAR RJOM 070500Z 24007KT 200V290 9999 FEW010 SCT025 BKN050 20/16
Q1013=
METAR RJOK 070500Z 26004KT 9999 VCSH FEW003 SCT015 BKN110 21/20
Q1010=
METAR RJFM 070500Z 28010KT 9999 FEW025 SCT180 BKN/// 24/16 Q1012=
METAR RJEC 070500Z 33007KT 9999 FEW030 BKN/// 11/02 Q1019=
METAR RJFR 070500Z 28016KT 9999 FEW020 SCT030 BKN150 21/14 Q1014=
METAR RJSK 070500Z 11005KT 9999 -RA FEW040 SCT050 BKN060 11/08
Q1016=
METAR RJAH 070500Z 36012KT 2500 -SHRA BR FEW004 BKN005 BKN012 13/13
Q1013=


......................................................................................


Date: 07-Oct-2565

SAJP38 RJTD 070500 RRA
METAR RJCK 070500Z 17006KT 090V200 9999 FEW040 BKN/// 12/02 Q1021=
METAR RJCM 070500Z 09006KT 9999 FEW050 BKN/// 14/M01 Q1020=
METAR RJCB 070500Z 16003KT 020V200 9999 FEW030 SCT150 BKN/// 12/01
Q1020=
METAR RJOC 070500Z 24010KT 210V280 9999 VCSH FEW015 SCT030 BKN070
20/14 Q1012=
METAR RJOH 070500Z 25011KT 9999 FEW015 SCT060 BKN100 20/15 Q1012=
METAR ROIG 070500Z 03016KT 9999 VCSH FEW007 FEW015TCU BKN025 28/25
Q1013=
METAR RJFS 070500Z 25005KT 200V330 9999 FEW020 SCT035 BKN150 21/16
Q1015=
METAR RJSI 070500Z 00000KT 9999 -RA FEW015 BKN060 BKN070 11/10
Q1018=


......................................................................................


Date: 07-Oct-2565

SAJP51 RJTD 070500
METAR RJAA 070500Z 32011KT 3000 SHRA BR FEW002 BKN003 14/14 Q1012
NOSIG=
METAR RJAF 070500Z 35005KT 4000 RA BR FEW003 BKN007 BKN010 10/10
Q1014=
METAR RJAH 070500Z 36012KT 2500 -SHRA BR FEW004 BKN005 BKN012 13/13
Q1013=
METAR RJBB 070500Z 07009KT 8000 -SHRA FEW003 BKN010 BKN020 18/17
Q1012 NOSIG=
METAR RJBD 070500Z 35008KT 9999 FEW008 SCT030 BKN040 19/18 Q1010=
METAR RJBE 070500Z 06006KT 8000 -SHRA FEW003 SCT007 BKN016 18/16
Q1012=
METAR RJBT 070500Z VRB02KT 5000 BCFG FEW000 SCT005 BKN025 16/15
Q1012=
METAR RJCB 070500Z 16003KT 020V200 9999 FEW030 SCT150 BKN/// 12/01
Q1020=
METAR RJCC 070500Z 20006KT 9999 FEW020 OVC150 12/02 Q1020=
METAR RJCH 070500Z 05007KT 9999 FEW020 SCT030 BKN/// 13/05 Q1019=
METAR RJCK 070500Z 17006KT 090V200 9999 FEW040 BKN/// 12/02 Q1021=
METAR RJCM 070500Z 09006KT 9999 FEW050 BKN/// 14/M01 Q1020=
METAR RJCN 070500Z 22007KT 160V260 9999 FEW030 BKN/// 13/01 Q1020=
METAR RJCO 070500Z 12005KT 9999 FEW030 BKN150 14/01 Q1021=
METAR RJCW 070500Z 30009KT 9999 FEW050 11/M02 Q1020=
METAR RJDB 070500Z AUTO 31010KT 280V010 9999 FEW042 22/12 Q1015=
METAR RJDC 070500Z 25010KT 9999 FEW015 SCT160 21/15 Q1014=
METAR RJDT 070500Z 34013KT 9999 FEW035 21/12 Q1015=
METAR RJEB 070500Z 09004KT 050V120 9999 FEW030 BKN090 11/04 Q1020=
METAR RJEC 070500Z 33007KT 9999 FEW030 BKN/// 11/02 Q1019=


......................................................................................


Date: 07-Oct-2565

SAJP51 RJTD 070500 RRA
METAR RJFE 070500Z 33012KT 300V010 9999 FEW030 SCT040 BKN140 20/12
Q1016=
METAR RJFF 070500Z 31011KT 9999 FEW025 SCT040 BKN050 21/13 Q1014
NOSIG=
METAR RJFG 070500Z 31017KT 9999 FEW015 SCT020 BKN/// 22/17 Q1014=
METAR RJFK 070500Z 34013KT 9999 FEW020 BKN025 BKN/// 19/14 Q1014=
METAR RJFM 070500Z 28010KT 9999 FEW025 SCT180 BKN/// 24/16 Q1012=
METAR RJFO 070500Z 27006KT 9999 FEW015 SCT070 BKN130 20/15 Q1013=
METAR RJFR 070500Z 28016KT 9999 FEW020 SCT030 BKN150 21/14 Q1014=
METAR RJFS 070500Z 25005KT 200V330 9999 FEW020 SCT035 BKN150 21/16
Q1015=
METAR RJFT 070500Z 28003KT 240V330 9999 FEW003 SCT060 BKN120 17/15
Q1015=
METAR RJFU 070500Z 02003KT 330V080 9999 FEW025 SCT035 BKN140 21/16
Q1015=
METAR RJGG 070500Z 36010KT 5000 RA BR FEW004 BKN008 BKN050 16/15
Q1012 TEMPO 3000 RA BR=
METAR RJKA 070500Z 35012KT 9999 FEW020 SCT025 BKN045 27/22 Q1013=
METAR RJKI 070500Z AUTO 34013KT 9999 SCT016 SCT019 BKN027 27/23
Q1013=
METAR RJNK 070500Z 16003KT 9999 -RA FEW008 BKN030 OVC040 15/15
Q1011=
METAR RJNS 070500Z VRB05KT 7000 R30/1600VP2000U RA FEW000 SCT002
BKN020 16/16 Q1010=
METAR RJNT 070500Z VRB01KT 7000 -RA FEW004 BKN050 OVC080 14/13
Q1011=
METAR RJNW 070500Z 16003KT 090V220 5000 -RA BR FEW000 BKN002 BKN004
14/14 Q1011=
METAR RJOA 070500Z 30007KT 9999 FEW005 SCT015 BKN025 18/14 Q1013=
METAR RJOB 070500Z 25003KT 180V290 8000 FEW003 SCT007 BKN070 17/16
Q1012=
METAR RJOC 070500Z 24010KT 210V280 9999 VCSH FEW015 SCT030 BKN070
20/14 Q1012=


......................................................................................


Date: 07-Oct-2565

SAJP51 RJTD 070500 RRB
METAR RJOH 070500Z 25011KT 9999 FEW015 SCT060 BKN100 20/15 Q1012=
METAR RJOK 070500Z 26004KT 9999 VCSH FEW003 SCT015 BKN110 21/20
Q1010=
METAR RJOM 070500Z 24007KT 200V290 9999 FEW010 SCT025 BKN050 20/16
Q1013=
METAR RJOO 070500Z 08005KT 040V110 6000 SHRA BR FEW003 BKN008 BKN020
17/16 Q1012=
METAR RJOR 070500Z 29012KT 9999 FEW020 SCT050 BKN100 20/15 Q1012=
METAR RJOS 070500Z 32009KT 9999 -SHRA FEW012 BKN025 BKN050 19/17
Q1011=
METAR RJOT 070500Z 24006KT 9999 -SHRA FEW001 SCT015 BKN030 16/16
Q1012=
METAR RJOW 070500Z 16006KT 9999 FEW006 SCT020 BKN030 17/16 Q1013=
METAR RJOY 070500Z 11004KT 080V150 9999 -SHRA FEW003 SCT025 BKN060
18/17 Q1012=
METAR RJSA 070500Z 06005KT 9999 -RA FEW020 SCT050 BKN080 12/06
Q1018=
METAR RJSC 070500Z VRB01KT 4000 R01/1200VP2000D -RA BR FEW004 SCT020
BKN070 10/10 Q1016=
METAR RJSF 070500Z 35008KT 0500 R01/P2000N RA FG SCT001 BKN002 09/09
Q1016=
METAR RJSI 070500Z 00000KT 9999 -RA FEW015 BKN060 BKN070 11/10
Q1018=
METAR RJSK 070500Z 11005KT 9999 -RA FEW040 SCT050 BKN060 11/08
Q1016=
METAR RJSM 070500Z 09006KT 9999 -RA FEW020 BKN050 BKN120 14/05
Q1019=
METAR RJSN 070500Z VRB02KT 8000 -RA SCT050 OVC090 13/10 Q1013=
METAR RJSR 070500Z 04005KT 360V070 9999 -RA FEW040 SCT050 BKN070
12/08 Q1017=
METAR RJSS 070500Z 34006KT 9999 -RA FEW010 SCT050 BKN090 11/10
Q1017=
METAR RJSY 070500Z 10012KT 9999 -RA FEW005 SCT060 BKN070 11/09
Q1014=
METAR RJTF 070500Z 34010KT 290V010 3500 RA BR FEW005 BKN008 BKN025
11/11 Q1014=


......................................................................................


Date: 07-Oct-2565

SAJP51 RJTD 070500 RRC
METAR RJTI 070500Z 32009KT 260V020 3000 RA BR FEW005 BKN008 BKN015
12/11 Q1013=
METAR RJTO 070500Z 04019KT 2000 -SHRA BR FEW004 SCT006 BKN007 14/14
Q1012=
METAR RJTT 070500Z 34017KT 4500 RA BR FEW006 BKN009 OVC020 12/12
Q1013 TEMPO 3000 RA BR=
METAR ROAH 070500Z 02018KT 9999 FEW020 29/22 Q1013=
METAR ROIG 070500Z 03016KT 9999 VCSH FEW007 FEW015TCU BKN025 28/25
Q1013=
METAR ROMD 070500Z AUTO 01011KT 9999 NCD 29/22 Q1013=
METAR ROMY 070500Z 06009KT 9999 VCSH FEW010 SCT020 FEW025TCU BKN060
29/24 Q1013=
METAR RORK 070500Z AUTO 01009KT 9999 NCD 29/22 Q1013=
METAR RORS 070500Z 05012KT 9999 SHRA FEW005 BKN011 FEW025TCU 27/24
Q1013=
METAR RORY 070500Z AUTO 35012KT 9999 SCT021 BKN032 BKN035 27/23
Q1014=
METAR ROYN 070500Z AUTO 05017KT 9999 BKN017 BKN021 //////TCU 28/25
Q1013=


......................................................................................


Date: 07-Oct-2565

SAPA31 KWBC 070500
METAR
AGGG NIL=
AGGH 070500Z 02012KT 9999 FEW021 FEW021CB 31/25 Q1006 RMKS CB ASSW
SH TO SE=
ANAU NIL=
AYPY NIL=
PGNT NIL=
PGRO 070450Z 23010KT 7SM SCT015 BKN100 28/24 A2969=
PGSN 070454Z COR 31005KT 10SM SCT036 BKN120 27/25 A2972 RMK AO2
SLP084 P0000 T02670250 $=
PGSN 070454Z 31005KT 10SM -RA CLR 27/25 A2972 RMK AO2 SLP084 P0000
T02670250 $=
PGUA 070456Z AUTO 18007KT 10SM SCT029 BKN040 BKN050 OVC060 30/24
A2974 RMK AO2 SLP061 T03030239 $=
PGUM 070454Z VRB03KT 10SM CLR 29/25 A2974 RMK AO2 SLP063
T02940250=
PGWT 070455Z 04005KT 7SM SCT015 SCT040 BKN060 BKN100 26/24=
PHJH NIL=
PHJR 070453Z 04005KT 10SM BKN065 26/17 A2995 RMK AO2 SLP149
T02610172=
PHMK 070454Z AUTO 04009KT 10SM FEW048 25/20 A2996 RMK AO2 SLP147
T02500200 TSNO $=
PJON NIL=
PKMJ 070459Z 16015KT 15SM SCT014 BKN045 BKN120 OVC300 27/24
A2970=
PKMR 070455Z 15006KT 14SM FEW014TCU BKN045 OVC100 27/24 A2969 RMK
SHARE02 TCU SE-S SLP054 T02680235=
PKWA 070500Z AUTO 08004KT 10SM SCT049 SCT090 29/24 A2974 RMK AO2
T02940243=
PLCH 070500Z 09010KT 9999 FEW020 27/21 Q1009=
PMDY 070456Z AUTO 08017KT 10SM SCT033 SCT050 BKN065 27/20 A3015
RMK AO2 SLP210 T02670200 TSNO=
PTKK 070452Z VRB03KT 15SM FEW014 SCT120 BKN280 30/26 A2970 RMK
SLP059 T03000262=
PTKR NIL=
PTPN NIL=
PTRO 070450Z 09007KT 15SM SCT016 BKN300 31/24 A2976=
PTSA NIL=
PTTP 070452Z 15003KT 15SM SCT017 OVC130 29/24 A2976 RMK SLP076
T02860242=
PTYA 070453Z VRB05KT 12SM FEW016 FEW300 31/25 A2974 RMK SLP071
T03110247=
PWAK 070458Z AUTO 07009KT 9999 CLR 30/24 A2982 RMK AO2 SLP104
T03010242=


......................................................................................


Date: 07-Oct-2565

SATR31 UTAA 070500
METAR UTAA 070500Z 00000KT 9999 NSC 23/M06 Q1021 R88/CLRD70
NOSIG=
METAR UTAK NIL=
METAR UTAV 070500Z 19004KT CAVOK 20/M04 Q1022 R31/CLRD70 NOSIG=
METAR UTAM 070500Z 23004KT 6000 NSC 16/02 Q1022 R88/CLRD70 NOSIG=
METAR UTAT 070500Z 32002KT CAVOK 17/M01 Q1022 R08/CLRD70
NOSIG=


......................................................................................


Date: 07-Oct-2565

SAIR77 OIII 070500
METAR AZUH 070500Z 00000KT 9999 SCT035 16/11 Q1022=
METAR KHME 070450Z 10014KT CAVOK 19/M13 Q1022=
METAR OIAA 070500Z 28002KT 6000 NSC 28/09 Q1008 NOSIG=
METAR OIAG 070500Z 16002KT CAVOK 32/05 Q1008=
METAR OIAH 070500Z 00000KT CAVOK 28/08 Q1011=
METAR OIAI 070500Z 33002KT CAVOK 29/04 Q1009=
METAR OIAM 070500Z 00000KT CAVOK 31/11 Q1007=
METAR OIAW 070452Z 24002KT 6000 NSC 31/08 Q1007 NOSIG=
METAR OIBA 070500Z 07004KT 5000 HZ NSC 32/27 Q1006=
METAR OIBB 070500Z 36004KT CAVOK 32/19 Q1007 A2974 NOSIG=
METAR OIBK 070500Z 07010KT 4000 BR NSC 29/28 Q1007 NOSIG=
METAR OIBL 070500Z 08008KT 3500 HZ NSC 33/24 Q1006=
METAR OIBS 070500Z 06004KT 3000 BR NSC 31/29 Q1007=
METAR OICC 070450Z 00000KT CAVOK 20/M14 Q1021 A3016 NOSIG=
METAR OICI 070500Z 11002KT CAVOK 27/M04 Q1020 A3014=
METAR OICJ 070500Z 00000KT CAVOK 19/M03 Q1024=
METAR OICK 070453Z 00000KT CAVOK 24/M05 Q1018=
METAR OICS 070500Z 00000KT CAVOK 16/M06 Q1023 A3022=
METAR OIFK 070500Z 00000KT CAVOK 22/M04 Q1021 A3017=
METAR OIFM 070500Z 27004KT CAVOK 17/M03 Q1025 A3029 NOSIG=
METAR OIFS 070451Z 06002KT CAVOK 15/M09 Q1028=
METAR OIGG 070500Z 00000KT 9999 FEW020CB BKN030 BKN070 21/19 Q1023
NOSIG=
METAR OIGK 070450Z 11010KT 9999 FEW020 15/09 Q1030=
METAR OIHM 070500Z 10004KT CAVOK 16/M06 Q1025=
METAR OIIE 070500Z 30010KT CAVOK 21/10 Q1023 NOSIG=
METAR OIII 070500Z 25006KT CAVOK 23/M03 Q1023 A3022 NOSIG=
METAR OIIK 070451Z 17004KT CAVOK 17/11 Q1024=
METAR OIIP 070500Z 31012KT 7000 NSC 17/10 Q1023 A3022=
METAR OIIS 070500Z 02008KT CAVOK 25/04 Q1022=
METAR OIKB 070500Z 08004KT 3000 HZ NSC 35/23 Q1007 A2975 NOSIG=
METAR OIKK 070450Z 00000KT CAVOK 18/M06 Q1024 A3025=
METAR OIKO 070500Z 00000KT 3000 HZ NSC 33/20 Q1008=
METAR OIKQ 070500Z 09006KT 2000 BR NSC 31/31 Q1007 NOSIG=
METAR OIMB 070500Z 11006KT CAVOK 20/M31 Q1021 A3016=
METAR OIMC 070450Z 00000KT CAVOK 18/M02 Q1022=
METAR OIMD 070450Z 00000KT CAVOK 23/M14 Q1018=
METAR OIMM 070500Z 09006KT CAVOK 17/M01 Q1024 A3024 NOSIG=
METAR OIMN 070500Z VRB02KT 7000 FEW020 FEW030CB 18/12 Q1025=
METAR OINB 070500Z 00000KT 9999 FEW030 SCT090 23/20 Q1022=
METAR OING 070500Z 25008KT 9999 SCT030 25/20 Q1023 NOSIG=
METAR OINK 070500Z 21006KT 8000 SCT030 25/18 Q1020 A3013=
METAR OINN 070500Z 15004KT 8000 SCT018 FEW020CB BKN026 OVC080
20/19 Q1022 REDZ=
METAR OINR 070500Z 25004KT 9999 FEW022CB SCT026 BKN090 22/19 Q1021=
METAR OISA 070500Z 32004KT CAVOK 16/M06 Q1027 A3034=
METAR OISF 070500Z 03004KT CAVOK 27/M07 Q1019=
METAR OISL 070500Z 00000KT CAVOK 28/03 Q1013 NOSIG=
METAR OISS 070500Z 00000KT CAVOK 23/M01 Q1021 A3018 NOSIG=
METAR OISY 070500Z 00000KT CAVOK 17/M07 Q1025=
METAR OITL 070455Z 07014KT 5000 -DZ PRFG OVC004 13/13 Q1026 TEMPO
3000 DZ BR=
METAR OITR 070457Z 00000KT 9999 SCT040 17/02 Q1022 NOSIG=
METAR OITT 070500Z 10004KT 9999 SCT070 20/04 Q1024 A3026 NOSIG=
METAR OITU 070451Z 00000KT 8000 NSC 17/09 Q1024=
METAR OIYY 070450Z 32004KT CAVOK 23/M06 Q1023 NOSIG=
METAR OIZB 070500Z 36029G39KT 7000 NSC 22/M12 Q1015=
METAR OIZC 070500Z 10008KT 9999 SCT035 31/25 Q1008=
METAR OIZH 070500Z 19004KT CAVOK 20/M21 Q1020 A3013 NOSIG=
METAR OIZI 070500Z 05006KT CAVOK 31/M12 Q1014=
METAR OIZJ 070500Z 12010KT 5000 BR FEW015 28/26 Q1007=
METAR SESG 070500Z 15004KT CAVOK 25/01 Q1022=
METAR YAYT 070454Z 00000KT CAVOK 23/M23 Q1019=


......................................................................................


Date: 07-Oct-2565

SAMS31 WMKK 070500
METAR WBGG 070500Z VRB05KT 9999 SCT018 26/24 Q1010 NOSIG=
METAR WBKK 070500Z VRB04KT 9999 FEW014 31/26 Q1007 NOSIG=
METAR WBSB 070500Z 32008KT 9999 SCT015 FEW016CB BKN300 30/26 Q1009 NOSIG=
METAR WMKK 070500Z 11006KT 020V190 9999 -TSRA FEW010 FEW017CB 26/24 Q1010 NOSIG=
METAR WMKP 070500Z 22008KT 9999 FEW020 29/24 Q1010 NOSIG=
METAR WSSL 070500Z 18010KT 6000 -TSRA FEW012 FEW015CB SCT016TCU 25/23 Q1010=
METAR WSSS 070500Z 23004KT 200V270 7000 -TSRA FEW012 FEW016CB SCT017TCU 26/23 Q1011 RESHRA BECMG TL0600 -SHRA=


......................................................................................


Date: 07-Oct-2565

SAIR31 OIII 070500
METAR OIAA 070500Z 28002KT 6000 NSC 28/09 Q1008 NOSIG=
METAR OIAG 070500Z 16002KT CAVOK 32/05 Q1008=
METAR OIAH 070500Z 00000KT CAVOK 28/08 Q1011=
METAR OIAI 070500Z 33002KT CAVOK 29/04 Q1009=
METAR OIAM 070500Z 00000KT CAVOK 31/11 Q1007=
METAR OIAW 070452Z 24002KT 6000 NSC 31/08 Q1007 NOSIG=
METAR OIBA 070500Z 07004KT 5000 HZ NSC 32/27 Q1006=
METAR OIBB 070500Z 36004KT CAVOK 32/19 Q1007 A2974 NOSIG=
METAR OIBK 070500Z 07010KT 4000 BR NSC 29/28 Q1007 NOSIG=
METAR OIBL 070500Z 08008KT 3500 HZ NSC 33/24 Q1006=
METAR OIBS 070500Z 06004KT 3000 BR NSC 31/29 Q1007=
METAR OICC 070450Z 00000KT CAVOK 20/M14 Q1021 A3016 NOSIG=
METAR OICI 070500Z 11002KT CAVOK 27/M04 Q1020 A3014=
METAR OICJ 070500Z 00000KT CAVOK 19/M03 Q1024=
METAR OICK 070453Z 00000KT CAVOK 24/M05 Q1018=
METAR OICS 070500Z 00000KT CAVOK 16/M06 Q1023 A3022=
METAR OIFK 070500Z 00000KT CAVOK 22/M04 Q1021 A3017=
METAR OIFM 070500Z 27004KT CAVOK 17/M03 Q1025 A3029 NOSIG=
METAR OIFS 070451Z 06002KT CAVOK 15/M09 Q1028=
METAR OIGG 070500Z 00000KT 9999 FEW020CB BKN030 BKN070 21/19 Q1023
NOSIG=
METAR OIGK 070450Z 11010KT 9999 FEW020 15/09 Q1030=
METAR OIHH 070500Z 00000KT CAVOK 17/M06 Q1024 A3025=
METAR OIHM 070500Z 10004KT CAVOK 16/M06 Q1025=
METAR OIIE 070500Z 30010KT CAVOK 21/10 Q1023 NOSIG=
METAR OIII 070500Z 25006KT CAVOK 23/M03 Q1023 A3022 NOSIG=
METAR OIIK 070451Z 17004KT CAVOK 17/11 Q1024=
METAR OIIP 070500Z 31012KT 7000 NSC 17/10 Q1023 A3022=
METAR OIIS 070500Z 02008KT CAVOK 25/04 Q1022=
METAR OIKB 070500Z 08004KT 3000 HZ NSC 35/23 Q1007 A2975 NOSIG=
METAR OIKK 070450Z 00000KT CAVOK 18/M06 Q1024 A3025=
METAR OIKO 070500Z 00000KT 3000 HZ NSC 33/20 Q1008=


......................................................................................


Date: 07-Oct-2565

SAJP35 RJTD 070500
METAR RJAA 070500Z 32011KT 3000 SHRA BR FEW002 BKN003 14/14 Q1012
NOSIG=
METAR RJBB 070500Z 07009KT 8000 -SHRA FEW003 BKN010 BKN020 18/17
Q1012 NOSIG=
METAR RJTT 070500Z 34017KT 4500 RA BR FEW006 BKN009 OVC020 12/12
Q1013 TEMPO 3000 RA BR=
METAR RJOO 070500Z 08005KT 040V110 6000 SHRA BR FEW003 BKN008 BKN020
17/16 Q1012=
METAR RJGG 070500Z 36010KT 5000 RA BR FEW004 BKN008 BKN050 16/15
Q1012 TEMPO 3000 RA BR=
METAR RJSN 070500Z VRB02KT 8000 -RA SCT050 OVC090 13/10 Q1013=
METAR RJCH 070500Z 05007KT 9999 FEW020 SCT030 BKN/// 13/05 Q1019=
METAR RJSA 070500Z 06005KT 9999 -RA FEW020 SCT050 BKN080 12/06
Q1018=
METAR RJSF 070500Z 35008KT 0500 R01/P2000N RA FG SCT001 BKN002 09/09
Q1016=
METAR RJSI 070500Z 00000KT 9999 -RA FEW015 BKN060 BKN070 11/10
Q1018=


......................................................................................


Date: 07-Oct-2565

SAJP37 RJTD 070500
METAR RJAA 070500Z 32011KT 3000 SHRA BR FEW002 BKN003 14/14 Q1012
NOSIG=
METAR RJBB 070500Z 07009KT 8000 -SHRA FEW003 BKN010 BKN020 18/17
Q1012 NOSIG=
METAR RJTT 070500Z 34017KT 4500 RA BR FEW006 BKN009 OVC020 12/12
Q1013 TEMPO 3000 RA BR=
METAR RJOO 070500Z 08005KT 040V110 6000 SHRA BR FEW003 BKN008 BKN020
17/16 Q1012=
METAR RJFF 070500Z 31011KT 9999 FEW025 SCT040 BKN050 21/13 Q1014
NOSIG=
METAR RJGG 070500Z 36010KT 5000 RA BR FEW004 BKN008 BKN050 16/15
Q1012 TEMPO 3000 RA BR=
METAR RJFK 070500Z 34013KT 9999 FEW020 BKN025 BKN/// 19/14 Q1014=
METAR RJFU 070500Z 02003KT 330V080 9999 FEW025 SCT035 BKN140 21/16
Q1015=
METAR RJCH 070500Z 05007KT 9999 FEW020 SCT030 BKN/// 13/05 Q1019=
METAR RJNS 070500Z VRB05KT 7000 R30/1600VP2000U RA FEW000 SCT002
BKN020 16/16 Q1010=


......................................................................................


Date: 07-Oct-2565

SAJP37 RJTD 070500 RRA
METAR RJFR 070500Z 28016KT 9999 FEW020 SCT030 BKN150 21/14 Q1014=


......................................................................................


Date: 07-Oct-2565

SAMS31 WMKK 070500
METAR WBGG 070500Z NIL=
METAR WBKK 070500Z NIL=
METAR WBSB 070500Z NIL=
METAR WMKK 070500Z NIL=
METAR WMKP 070500Z NIL=
METAR WSSL 070500Z 18010KT 6000 -TSRA FEW012
FEW015CB SCT016TCU 25/23 Q1010=
METAR WSSS 070500Z 23004KT 200V270 7000 -TSRA FEW012 FEW016CB
SCT017TCU 26/23 Q1011 RESHRA BECMG TL0600 -SHRA=


......................................................................................


Date: 07-Oct-2565

SAMS32 WMKK 070500
NIL


......................................................................................


Date: 07-Oct-2565

SAMS34 WMKK 070500
NIL


......................................................................................


Date: 07-Oct-2565

SAMS38 WMKK 070500
NIL


......................................................................................


Date: 07-Oct-2565

SASD20 OEJD 070500
METAR OEAB 070500Z 09005KT CAVOK 22/03 Q1025 NOSIG=
METAR OEAH 070500Z 31008KT CAVOK 32/M03 Q1009 NOSIG=
METAR OEAO 070500Z 00000KT CAVOK 27/M02 Q1015 NOSIG=
METAR OEBA 070500Z 21002KT CAVOK 23/06 Q1021 NOSIG=
METAR OEBH 070500Z 00000KT CAVOK 25/06 Q1017 NOSIG=
METAR OEDF 070500Z 29010KT CAVOK 30/01 Q1007 NOSIG=
METAR OEDM 070500Z 00000KT CAVOK 27/M05 Q1017=
METAR OEDR 070500Z 30011KT CAVOK 32/M02 Q1006=
METAR OEGN 070500Z 09005KT 9999 FEW030 SCT100 32/24 Q1009 NOSIG=
METAR OEGS 070500Z 25003KT CAVOK 23/06 Q1014=
METAR OEGT 070500Z 32010KT CAVOK 20/11 Q1013 NOSIG=
METAR OEHL 070500Z 19004KT CAVOK 21/M04 Q1018=
METAR OEJB 070500Z AUTO 31011KT CAVOK 29/M01 Q1008 NOSIG=
METAR OEJN 070500Z 00000KT CAVOK 30/24 Q1007 NOSIG=
METAR OEKJ 070500Z 25005KT CAVOK 28/M05 Q1015=
METAR OEKK 070500Z NIL=


......................................................................................


Date: 07-Oct-2565

SASD21 OEJD 070500
METAR OEKM 070500Z 13006KT CAVOK 22/02 Q1024 NOSIG=
METAR OEMA 070500Z 00000KT CAVOK 28/M08 Q1016 NOSIG=
METAR OEMN 070500Z 00000KT CAVOK 35/09 Q1010=
METAR OEMK 070500Z NIL=
METAR OENG 070500Z 03004KT 9999 SCT030 SCT090 27/05 Q1018 NOSIG=
METAR OEPA 070500Z 30005KT CAVOK 27/05 Q1012 NOSIG=
METAR OERF 070500Z 29006KT CAVOK 25/M06 Q1013 NOSIG=
METAR OERK 070500Z 30005KT CAVOK 28/01 Q1014 NOSIG=
METAR OERY 070500Z NIL=
METAR OERR 070500Z 30008KT CAVOK 26/07 Q1013 NOSIG=
METAR OESH 070500Z 06006KT 9999 FEW040 30/03 Q1014 NOSIG=
METAR OESK 070500Z 00000KT CAVOK 26/02 Q1017 NOSIG=
METAR OETB 070500Z 00000KT CAVOK 24/02 Q1015 NOSIG=
METAR OETF 070500Z 19005KT CAVOK 24/M02 Q1021 NOSIG=
METAR OETR 070500Z 07006KT CAVOK 24/11 Q1015 NOSIG=
METAR OEWD 070500Z 09002KT CAVOK 28/10 Q1013=
METAR OEWJ 070500Z 32004KT CAVOK 28/21 Q1008 NOSIG=
METAR OEYN 070500Z 28004KT CAVOK 28/17 Q1006 NOSIG=


......................................................................................


Date: 07-Oct-2565

SAIR77 OIII 070500
METAR AZUH 070500Z 00000KT 9999 SCT035 16/11 Q1022=
METAR KHME 070450Z 10014KT CAVOK 19/M13 Q1022=
METAR OIAA 070500Z 28002KT 6000 NSC 28/09 Q1008 NOSIG=
METAR OIAG 070500Z 16002KT CAVOK 32/05 Q1008=
METAR OIAH 070500Z 00000KT CAVOK 28/08 Q1011=
METAR OIAI 070500Z 33002KT CAVOK 29/04 Q1009=
METAR OIAM 070500Z 00000KT CAVOK 31/11 Q1007=
METAR OIAW 070452Z 24002KT 6000 NSC 31/08 Q1007 NOSIG=
METAR OIBA 070500Z 07004KT 5000 HZ NSC 32/27 Q1006=
METAR OIBB 070500Z 36004KT CAVOK 32/19 Q1007 A2974 NOSIG=
METAR OIBK 070500Z 07010KT 4000 BR NSC 29/28 Q1007 NOSIG=
METAR OIBL 070500Z 08008KT 3500 HZ NSC 33/24 Q1006=
METAR OIBS 070500Z 06004KT 3000 BR NSC 31/29 Q1007=
METAR OICC 070450Z 00000KT CAVOK 20/M14 Q1021 A3016 NOSIG=
METAR OICI 070500Z 11002KT CAVOK 27/M04 Q1020 A3014=
METAR OICJ 070500Z 00000KT CAVOK 19/M03 Q1024=
METAR OICK 070453Z 00000KT CAVOK 24/M05 Q1018=
METAR OICS 070500Z 00000KT CAVOK 16/M06 Q1023 A3022=
METAR OIFK 070500Z 00000KT CAVOK 22/M04 Q1021 A3017=
METAR OIFM 070500Z 27004KT CAVOK 17/M03 Q1025 A3029 NOSIG=
METAR OIFS 070451Z 06002KT CAVOK 15/M09 Q1028=
METAR OIGG 070500Z 00000KT 9999 FEW020CB BKN030 BKN070 21/19 Q1023
NOSIG=
METAR OIGK 070450Z 11010KT 9999 FEW020 15/09 Q1030=
METAR OIHM 070500Z 10004KT CAVOK 16/M06 Q1025=
METAR OIIE 070500Z 30010KT CAVOK 21/10 Q1023 NOSIG=
METAR OIII 070500Z 25006KT CAVOK 23/M03 Q1023 A3022 NOSIG=
METAR OIIK 070451Z 17004KT CAVOK 17/11 Q1024=
METAR OIIP 070500Z 31012KT 7000 NSC 17/10 Q1023 A3022=
METAR OIIS 070500Z 02008KT CAVOK 25/04 Q1022=
METAR OIKB 070500Z 08004KT 3000 HZ NSC 35/23 Q1007 A2975 NOSIG=
METAR OIKK 070450Z 00000KT CAVOK 18/M06 Q1024 A3025=
METAR OIKO 070500Z 00000KT 3000 HZ NSC 33/20 Q1008=


......................................................................................


Date: 07-Oct-2565

SAMS33 WMKK 070500
METAR WMAU 070500Z VRB05KT 9000 SCT020 30/25 Q1010=
METAR WMBA 070500Z VRB02KT 8000 -RA FEW017CB SCT030 26/23 Q1010=
METAR WMKA 070500Z VRB07KT 9999 FEW017CB SCT018 30/23 Q1009=
METAR WMKB 070500Z 18007KT 130V250 8000 VCSH FEW017CB 29/24 Q1010
NOSIG=
METAR WMKC 070500Z VRB03KT 9999 FEW012 FEW017CB SCT020 29/25 Q1010=
METAR WMKD 070500Z VRB02KT 9999 FEW017CB SCT020 32/25 Q1009 NOSIG=
METAR WMKE 070500Z 12005KT 060V190 9999 FEW014CB SCT017 30/25 Q1009=
METAR WMKI 070500Z 20006KT 140V250 9999 SCT020 30/24 Q1010=
METAR WMKL 070500Z 00000KT 9999 FEW020 28/25 Q1010=
METAR WMKM 070500Z 15007KT 120V210 9999 FEW017CB SCT020 30/25 Q1010=
METAR WMKN 070500Z 00000KT 9000 -RA FEW008 FEW017CB SCT022 28/26
Q1010 RERA=


......................................................................................


Date: 07-Oct-2565

SAUZ31 UTTW 070500 RRA
METAR UTSA 070500Z 09004KT 6000 NSC 20/M01 Q1022 R25/CLRD70 NOSIG=


......................................................................................


Date: 07-Oct-2565

SAMS33 WMKK 070500
NIL


......................................................................................


Date: 07-Oct-2565

SAOM32 OOMS 070500 RRA
METAR OOKB 070450Z VRB02KT CAVOK 35/16 Q1008 NOSIG=


......................................................................................


Date: 07-Oct-2565

SAPA31 KWBC 070500 RRA
METAR
AYPY 070500Z 18015KT 9999 HZ FEW025 SCT035 32/25 Q1005=


......................................................................................


Date: 07-Oct-2565

SAAR20 OEJD 070500
METAR OBBI 070500Z 32012KT CAVOK 32/20 Q1007 NOSIG=
METAR OKBK 070500Z 28004KT 7000 NSC 31/M01 Q1009 NOSIG=
METAR OMAA 070500Z 05007KT 6000 NSC 31/26 Q1007 NOSIG=
METAR OMAD 070500Z 06004KT 010V110 7000 NSC 32/26 Q1007 NOSIG=
METAR OMAL 070500Z 15003KT CAVOK 33/10 Q1009 NOSIG=
METAR OMDB 070500Z 08007KT 030V120 6000 NSC 33/23 Q1007 NOSIG=
METAR OMFJ 070450Z 21002KT 7000 NSC 33/26 Q1008 RMK A2978=
METAR OMRK 070500Z VRB023KT 3500 HZ NSC 33/27 Q1008 A2977=
METAR OMSJ 070500Z 08005KT 050V120 5000 DU NSC 32/23 Q1008 NOSIG=
METAR OOMS 070450Z 30005KT CAVOK 33/20 Q1008 NOSIG=
METAR OOSA 070450Z 20004KT 140V290 9999 BKN025 28/22 Q1010 NOSIG=
METAR OOSH 070450Z AUTO VRB04KT //// ////// 31/25 Q1008 RMK 1004=
METAR OODQ 070450Z AUTO 21018KT CAVOK ////// 27/22 Q1009 NOSIG RMK
RH75? 0=
METAR OTBD 070500Z 31007KT 280V350 CAVOK 32/22 Q1007 NOSIG=
METAR OTBH 070455Z 26011KT 9999 CLR 30/24 A2974=
METAR OTHH 070500Z 30006KT 260V320 CAVOK 31/24 Q1007 NOSIG=
METAR OYAA 070500Z NIL=
METAR OYSN 070500Z NIL=


......................................................................................


Date: 07-Oct-2565

SAKO51 RJTD 070500
METAR RKPC 070500Z 33009KT 300V360 9999 FEW035 19/09 Q1019 NOSIG=
METAR RKPK 070500Z 35011KT 9999 BKN050 23/07 Q1016=
METAR RKSI 070500Z 33015KT CAVOK 18/03 Q1020 NOSIG=
METAR RKSM 070500Z 35004KT 9999 BKN040 19/10 A3010=
METAR RKSS 070500Z 33011KT 290V010 9999 BKN035 19/10 Q1019 NOSIG=
METAR RKTN 070500Z 36004KT 9999 BKN040 18/11 Q1017=
METAR RKTU 070500Z 34005KT 9999 BKN040 18/11 Q1018=


......................................................................................


Date: 07-Oct-2565

SAMS31 WMKK 070500 RRA
METAR WMKK 070500Z 11006KT 020V190 9999 -TSRA FEW010 FEW017CB 26/24
Q1010 NOSIG=
METAR WMKP 070500Z 22008KT 9999 FEW020 29/24 Q1010 NOSIG=


......................................................................................


Date: 07-Oct-2565

SAOM81 OOMS 070400 RRC
METAR OOSM 070350Z AUTO VRB02KT //// ////// 30/09 Q1010=


......................................................................................


Date: 07-Oct-2565

SAMS32 WMKK 070500 RRA
METAR WMKJ 070500Z 20008KT 140V280 9000 -SHRA FEW017CB SCT018 26/23
Q1010=
METAR WMKK 070500Z 11006KT 020V190 9999 -TSRA FEW010 FEW017CB 26/24
Q1010 NOSIG=
METAR WMKP 070500Z 22008KT 9999 FEW020 29/24 Q1010 NOSIG=
METAR WMSA 070500Z VRB03KT 8000 FEW017CB 25/24 Q1011 RETSRA=


......................................................................................


Date: 07-Oct-2565

SAMS34 WMKK 070500 RRA
METAR WBGB 070500Z 27007KT 220V330 9999 SCT014 29/26 Q1009=
METAR WBGR 070500Z 23007KT 200V340 9999 SCT016 31/25 Q1008=
METAR WBGS 070500Z VRB03KT 9999 FEW015CB SCT017 29/24 Q1009=
METAR WBGY 070500Z 33007KT 260V040 8000 -SHRA FEW015CB SCT016 27/24
Q1010=
METAR WBKL 070500Z VRB03KT 9999 SCT013 FEW017CB 30/26 Q1008 RESHRA=
METAR WBKS 070500Z 04007KT 350V090 9999 SCT016 31/24 Q1008=
METAR WBKT 070500Z 10004KT 030V190 9999 FEW015 31/26 Q1008=
METAR WBKW 070500Z 15007KT 110V210 9999 VCSH FEW016CB 31/25 Q1008=


......................................................................................


Date: 07-Oct-2565

SAMS38 WMKK 070500 RRA
METAR WBGB 070500Z 27007KT 220V330 9999 SCT014 29/26 Q1009=
METAR WBGR 070500Z 23007KT 200V340 9999 SCT016 31/25 Q1008=
METAR WBGS 070500Z VRB03KT 9999 FEW015CB SCT017 29/24 Q1009=
METAR WBKL 070500Z VRB03KT 9999 SCT013 FEW017CB 30/26 Q1008 RESHRA=
METAR WBKS 070500Z 04007KT 350V090 9999 SCT016 31/24 Q1008=
METAR WBKW 070500Z 15007KT 110V210 9999 VCSH FEW016CB 31/25 Q1008=
METAR WMKD 070500Z VRB02KT 9999 FEW017CB SCT020 32/25 Q1009 NOSIG=
METAR WMKL 070500Z 00000KT 9999 FEW020 28/25 Q1010=
METAR WMKM 070500Z 15007KT 120V210 9999 FEW017CB SCT020 30/25 Q1010=


......................................................................................


Date: 07-Oct-2565

SAMS33 WMKK 070500 RRA
METAR WMAU 070500Z VRB05KT 9000 SCT020 30/25 Q1010=
METAR WMBA 070500Z VRB02KT 8000 -RA FEW017CB SCT030 26/23 Q1010=
METAR WMKA 070500Z VRB07KT 9999 FEW017CB SCT018 30/23 Q1009=
METAR WMKB 070500Z 18007KT 130V250 8000 VCSH FEW017CB 29/24 Q1010
NOSIG=
METAR WMKC 070500Z VRB03KT 9999 FEW012 FEW017CB SCT020 29/25 Q1010=
METAR WMKD 070500Z VRB02KT 9999 FEW017CB SCT020 32/25 Q1009 NOSIG=
METAR WMKI 070500Z 20006KT 140V250 9999 SCT020 30/24 Q1010=
METAR WMKL 070500Z 00000KT 9999 FEW020 28/25 Q1010=
METAR WMKM 070500Z 15007KT 120V210 9999 FEW017CB SCT020 30/25 Q1010=
METAR WMKN 070500Z 00000KT 9000 -RA FEW008 FEW017CB SCT022 28/26
Q1010
RERA=


......................................................................................


Date: 07-Oct-2565

SACI51 RJTD 070500
METAR ZBAA 070500Z 20003MPS 150V250 CAVOK 18/06 Q1021 NOSIG=
METAR ZBTJ 070500Z 21003MPS 180V250 CAVOK 18/07 Q1022 NOSIG=
METAR ZBYN 070500Z 21003MPS 160V260 3500 HZ NSC 11/05 Q1024 NOSIG=
METAR ZGGG 070500Z 36004MPS 310V050 9999 BKN033 30/22 Q1015 NOSIG=
METAR ZGKL 070500Z 04003MPS 360V070 9999 FEW033 OVC053 20/11 Q1021
NOSIG=
METAR ZGNN 070500Z 10005MPS 080V140 9999 FEW030 29/21 Q1016 NOSIG=
METAR ZGOW 070500Z 10003MPS 050V200 9999 FEW050 33/21 Q1014 NOSIG=
METAR ZGSZ 070500Z 01003MPS 310V030 9999 SCT033 31/22 Q1014 NOSIG=
METAR ZLXY 070500Z 12002MPS 070V170 5000 BR FEW010 OVC050 11/09
Q1025 NOSIG=
METAR ZPPP 070500Z 03003MPS 350V090 9999 SCT023 BKN043 15/13 Q1025
NOSIG=
METAR ZSAM 070500Z 09004MPS 050V150 9999 BKN023 31/22 Q1014 NOSIG=
METAR ZSHC 070500Z 01004MPS 340V040 6000 -RA SCT006 SCT010 BKN020
15/14 Q1023 BECMG TL0600 SCT006 BKN010 BKN020=
METAR ZSNJ 070500Z 07003MPS 9999 BKN040 16/08 Q1024 NOSIG=
METAR ZSQD 070500Z 33002MPS 240V040 CAVOK 18/03 Q1024 BECMG TL0630
18005MPS=
METAR ZSSS 070500Z 02005MPS 350V050 9999 SCT030 19/13 Q1022 NOSIG=
METAR ZWWW 070500Z 02002MPS 320V060 CAVOK 18/M02 Q1025 NOSIG=
METAR ZYTL 070500Z 29004MPS 250V310 9999 FEW020 18/07 Q1023 NOSIG=
METAR ZYTX 070500Z VRB03MPS CAVOK 17/M10 Q1022 NOSIG=


......................................................................................


Date: 07-Oct-2565

SASB31 VCCC 070510
METAR VCBI 070510Z 25008KT 220V320 9999 SCT016 30/24 Q1010 NOSIG=
METAR VRMM 070500Z 29014KT 9999 SCT018TCU BKN270 30/25 Q1011 NOSIG=
METAR VCRI 070510Z 26009KT 220V290 9999 FEW018 32/23 Q1009 NOSIG=


......................................................................................


Date: 07-Oct-2565

SAPA31 KWBC 070500 RRB
METAR
PKWA 070520Z AUTO 11003KT 10SM CLR 29/24 A2975 RMK AO2
T02930242=


......................................................................................


Date: 07-Oct-2565

SAOM81 OOMS 070500
METAR OOAD 070500Z NIL=
METAR OOBH 070450Z AUTO VRB01KT //// ////// 31/11 Q1011=
METAR OOBR 070450Z AUTO VRB03KT //// 35/M01 Q1010=
METAR OODB 070450Z AUTO VRB01KT //// ////// 33/25 Q1009=
METAR OODQ 070450Z AUTO 21018KT CAVOK ////// 27/22 Q1009 NOSIG=
METAR OOFD 070450Z AUTO 14009KT //// ////// 30/16 Q1008=
METAR OOIB 070500Z NIL=
METAR OOIR 070450Z AUTO VRB01KT //// ////// 31/15 Q1011=
METAR OOJB 070450Z AUTO VRB01KT //// ////// 28/20 Q1009=
METAR OOJS 070500Z NIL=
METAR OOKB 070450Z VRB02KT CAVOK 35/16 Q1008 NOSIG=
METAR OOMA 070450Z AUTO VRB03KT //// ////// 28/23 Q1010=
METAR OOMJ 070450Z AUTO 00000KT //// ////// 32/25 Q1008=
METAR OOML 070500Z NIL=
METAR OOMQ 070450Z AUTO 35004KT //// ////// 31/23 Q1007=
METAR OOMS 070450Z 30005KT CAVOK 33/20 Q1008 NOSIG=
METAR OONZ 070450Z AUTO VRB01KT //// ////// 31/15 Q1011=
METAR OOQA 070500Z NIL=
METAR OOQH 070450Z AUTO VRB01KT 9999 ////// 23/18 Q1014=
METAR OOQL 070450Z AUTO VRB03KT //// ////// 30/24 Q1008=
METAR OOQQ 070450Z AUTO 04007KT //// 22/M01 Q1022=
METAR OORA 070450Z AUTO VRB03KT //// ////// 28/23 Q1009=
METAR OORH 070450Z AUTO VRB01KT //// ////// 29/23 Q1008=
METAR OORQ 070450Z AUTO 13002KT //// ////// 32/16 Q1010=
METAR OOSA 070450Z 20004KT 140V290 9999 BKN025 28/22 Q1010 NOSIG=
METAR OOSM 070450Z AUTO VRB03KT //// ////// 31/10 Q1011=
METAR OOSQ 070500Z NIL=
METAR OOSR 070450Z AUTO 23009KT //// ////// 31/17 Q1007=
METAR OOTH 070500Z NIL=
METAR OOYA 070450Z AUTO 18010KT //// ////// 26/21 Q1009=


......................................................................................


Date: 07-Oct-2565

SANP31 VNKT 070530
METAR VNKT 070530Z VRB02KT 9999 FEW008 SCT100 25/18 Q1020 NOSIG=


......................................................................................


Date: 07-Oct-2565

SAPA31 KWBC 070500 RRC
METAR
PGUM 070525Z 26003KT 10SM BKN022 BKN027 29/26 A2973 RMK AO2
T02890256=


......................................................................................


Date: 07-Oct-2565

SAPK31 OPKC 070525
METAR OPKC 070530Z 27004KT 5000 HZ FEW030 32/16 Q1008 NOSIG=


......................................................................................


Date: 07-Oct-2565

SATH31 VTBD 070530
METAR VTBD 070530Z 12008KT 080V140 9999 FEW020 SCT040 32/24 Q1010
NOSIG=


......................................................................................


Date: 07-Oct-2565

SATH31 VTBS 070530
METAR VTBS 070530Z 09005KT 020V130 9999 FEW020 31/24 Q1010 NOSIG=


......................................................................................


Date: 07-Oct-2565

SATH31 VTBU 070530
METAR VTBU 070530Z 15007KT 9999 FEW020 SCT100 31/24 Q1011 NOSIG=


......................................................................................


Date: 07-Oct-2565

SATH31 VTCC 070530
METAR VTCC 070530Z VRB05KT 9999 BKN035 30/22 Q1012 TEMPO FM0610 4000
TSRA FEW025CB=


......................................................................................


Date: 07-Oct-2565

SATH31 VTSP 070530
METAR VTSP 070530Z 25004KT 220V290 9000 -RA FEW011 SCT018TCU BKN030
26/24 Q1009 NOSIG=


......................................................................................


Date: 07-Oct-2565

SATH31 VTSS 070530
METAR VTSS 070530Z 23006KT 090V260 9999 VCSH FEW018CB SCT020 BKN100
32/24 Q1008 NOSIG=


......................................................................................


Date: 07-Oct-2565

SAAE31 VDPP 070530
METAR VDPP 070530Z 33005KT 270V020 9999 SCT015 FEW017CB 31/25 Q1008
RMK RMK CB:SW=


......................................................................................


Date: 07-Oct-2565

SAIR20 OIII 070530
METAR OIAA 070530 NIL=
METAR OIAW 070525Z 10002KT 7000 NSC 32/06 Q1007=
METAR OIFM 070530Z 27006KT CAVOK 19/M03 Q1025 A3029=
METAR OIGG 070530Z 08004KT 9999 FEW020CB BKN030 BKN070 22/20 Q1023=
METAR OIIE 070530Z 31008KT CAVOK 22/10 Q1023=
METAR OIII 070530Z 24006KT CAVOK 24/M01 Q1023 A3022=
METAR OIKB 070530Z VRB02KT 4000 HZ NSC 36/21 Q1007 A2976=
METAR OIMM 070530 NIL=
METAR OISS 070530Z 00000KT CAVOK 25/M03 Q1022 A3018=
METAR OITT 070530Z 08008KT 9999 SCT070 21/05 Q1024 A3026=
METAR OIYY 070520Z 33006KT CAVOK 24/M07 Q1023=
METAR OIZH 070530Z 06004KT CAVOK 22/M28 Q1020 A3013=


......................................................................................


Date: 07-Oct-2565

SAPK31 OPKC 070530
METAR OPIS 070530Z 31013KT 7000 NSC 27/15 Q1014 NOSIG=
METAR OPKC 070530Z 27004KT 5000 HZ FEW030 32/16 Q1008 NOSIG=
METAR OPLA 070525Z 00000KT 3000 FU FEW040 SCT100 29/21 Q1012
NOSIG RMK QFE986 A29.89=
METAR OPMT 070530Z 36006KT 4000 FU NSC 30/19 Q1011 NOSIG=
METAR OPPS 070525Z 13004KT 9999 FEW100 27/14 Q1015=
METAR OPSK 070530Z NIL=
METAR OPFA 070530Z NIL=
METAR OPST 070530Z NIL=
METAR OPNH 070530Z NIL=


......................................................................................


Date: 07-Oct-2565

SAPK31 OPKC 070530 RRA
METAR OPFA 070530Z NIL=
METAR OPNH 070530Z NIL=
METAR OPSK 070530Z NIL=
METAR OPST 070530Z NIL=


......................................................................................


Date: 07-Oct-2565

SAHK31 VHHH 070530
METAR VHHH 070530Z 07006KT 030V100 9999 FEW028 32/21 Q1013 NOSIG=


......................................................................................


Date: 07-Oct-2565

SAIR31 OIII 070530
METAR OIAW 070530Z 10002KT 7000 NSC 32/06 Q1007=
METAR OIFM 070530Z 27006KT CAVOK 19/M03 Q1025 A3029=
METAR OIII 070530Z 24006KT CAVOK 24/M01 Q1023 A3022=
METAR OIKB 070530Z NIL=
METAR OIKK 070530Z 14004KT CAVOK 20/M06 Q1024 A3024=
METAR OIMM 070530Z NIL=
METAR OISS 070530Z 00000KT CAVOK 25/M03 Q1022 A3018=
METAR OITT 070530Z 08008KT 9999 SCT070 21/05 Q1024 A3026=
METAR OIZH 070530Z 06004KT CAVOK 22/M28 Q1020 A3013=


......................................................................................


Date: 07-Oct-2565

SAIR32 OIII 070530
METAR OIAA 070530Z NIL=
METAR OIBK 070530Z NIL=
METAR OICC 070530Z 00000KT CAVOK 23/M12 Q1021 A3016=
METAR OIGG 070530Z 08004KT 9999 FEW020CB BKN030 BKN070
22/20 Q1023=
METAR OIIE 070530Z NIL=
METAR OINZ 070530Z NIL=
METAR OITR 070530Z 10004KT 9999 SCT040 19/04 Q1022=
METAR OIYY 070530Z 33006KT CAVOK 24/M07 Q1023=


......................................................................................


Date: 07-Oct-2565

SAIR34 OIII 070530
METAR OIAG 070530Z NIL=
METAR OIAM 070530Z NIL=
METAR OICI 070530Z 11004KT CAVOK 27/M03 Q1021 A3015=
METAR OIKQ 070530Z NIL=
METAR OINN 070530Z NIL=
METAR OINR 070530Z NIL=
METAR OISL 070530Z NIL=
METAR OISY 070530Z NIL=
METAR OITZ 070530Z NIL=


......................................................................................


Date: 07-Oct-2565

SAIR36 OIII 070530
METAR OIBA 070530Z NIL=
METAR OIBV 070530Z NIL=
METAR OIFS 070530Z 34002KT CAVOK 17/M08 Q1028=
METAR OIIP 070530Z NIL=
METAR OIMB 070530Z NIL=
METAR OIMN 070530Z NIL=
METAR OIMS 070530Z 09014KT CAVOK 21/M13 Q1024=
METAR OIMT 070530Z NIL=
METAR OIZJ 070530Z NIL=


......................................................................................


Date: 07-Oct-2565

SAIR31 OIII 070530 RRA
METAR OIKB 070530Z VRB02KT 4000 HZ NSC 36/21 Q1007 A2976=


......................................................................................


Date: 07-Oct-2565

SAAE31 VTBB 070530
METAR VTCT 070530Z NIL=
METAR VTSG 070530Z NIL=
METAR VTBD 070530Z 12008KT 080V140 9999 FEW020 SCT040 32/24 Q1010
NOSIG=
METAR VTBS 070530Z 09005KT 020V130 9999 FEW020 31/24 Q1010 NOSIG=
METAR VTCC 070530Z VRB05KT 9999 BKN035 30/22 Q1012 TEMPO FM0610 4000
TSRA FEW025CB=
METAR VTSP 070530Z 25004KT 220V290 9000 -RA FEW011 SCT018TCU BKN030
26/24 Q1009 NOSIG=
METAR VTSS 070530Z 23006KT 090V260 9999 VCSH FEW018CB SCT020 BKN100
32/24 Q1008 NOSIG=
METAR VTBU 070530Z 15007KT 9999 FEW020 SCT100 31/24 Q1011 NOSIG=


......................................................................................


Date: 07-Oct-2565

SAAE32 VTBB 070530
METAR VDPP 070530Z 33005KT 270V020 9999 SCT015 FEW017CB 31/25 Q1008
RMK CB:SW=
METAR VDSR 070530Z VRB02KT 9999 SCT015 SCT040 31/24 Q1009=
METAR VLVT 070530Z 12004KT 9999 SCT016 FEW200 33/25 Q1011 NOSIG=
METAR VYMD 070530Z 36003KT 8000 BKN020 FEW025CB 32/26 Q1009=
METAR VYNT 070530Z NIL=
METAR VYYY 070530Z 05010KT 7000 SCT017 FEW020CB SCT110 31/24 Q1009=
METAR VDSV 070530Z 13008KT 100V170 9999 SCT015 31/24 Q1009=


......................................................................................


Date: 07-Oct-2565

SAAE34 VTBB 070530
METAR VVCI 070530Z 05007KT 9999 FEW017 28/24 Q1013 NOSIG=
METAR VVCR 070530Z 07011KT 9999 FEW015 32/24 Q1010 NOSIG=
METAR VVCT 070530Z 05005KT 9999 SCT015 31/24 Q1009 NOSIG=
METAR VVDN 070530Z 01014KT 9999 FEW015 31/26 Q1011 NOSIG=
METAR VVNB 070530Z NIL=
METAR VVPB 070530Z 04009KT 9999 FEW015 SCT050 30/23 Q1012 NOSIG=
METAR VVPQ 070530Z 08008KT 9999 FEW015 30/24 Q1010 NOSIG=
METAR VVTS 070530Z 13003KT 9999 SCT020 33/25 Q1008 NOSIG =


......................................................................................


Date: 07-Oct-2565

SASR31 WSSS 070530
METAR WSSS 070530Z 18010KT 150V220 8000 -SHRA FEW010 FEW016CB
FEW017TCU SCT060 25/24 Q1010 RETS NOSIG=


......................................................................................


Date: 07-Oct-2565

SAUZ31 UTTW 070530
METAR UTFN 070530Z 09004KT 030V140 9000 NSC 17/02 Q1022 R28/CLRD70
NOSIG=
METAR UTNN 070530Z 00000KT CAVOK 19/M05 Q1022 R33/CLRD60 NOSIG=
METAR UTNU 070530Z 00000KT CAVOK 20/M03 Q1022 R31/CLRD70 NOSIG=
METAR UTSA 070530Z VRB02KT 6000 NSC 22/M02 Q1022 R07/CLRD70 NOSIG=
METAR UTSB 070530Z 13004KT CAVOK 19/M00 Q1022 R01/CLRD70 NOSIG=
METAR UTSK 070530Z 20004KT 150V240 CAVOK 20/M02 Q1023 R16/CLRD70=
METAR UTSS 070530Z 29008KT 240V320 9999 NSC 18/01 Q1022 R27/CLRD70
NOSIG=
METAR UTST 070530Z VRB02KT CAVOK 20/M04 Q1023 R25/CLRD70 NOSIG=
METAR UTFA 070530Z 18004KT 140V230 9999 NSC 18/01 Q1023 R28/09//70=
METAR UTFF 070530Z 08004KT 020V130 9999 NSC 19/M00 Q1022 R18/CLRD70=
METAR UTTT 070530Z 16002KT 7000 NSC 21/00 Q1022 R08L/CLRD70 NOSIG=


......................................................................................


Date: 07-Oct-2565

SAHK31 VHHH 070530
METAR VHHH 070530Z 07006KT 030V100 9999 FEW028 32/21 Q1013 NOSIG=
METAR RCTP 070530Z 04020KT 9999 FEW012 SCT020 BKN030 28/23 Q1013
NOSIG RMK A2994=
METAR RCKH 070530Z 25010KT 210V270 9999 FEW018 SCT050 32/23 Q1011
NOSIG RMK A2987=
METAR RCSS 070530Z 09009KT 3000 -SHRA FEW006 BKN015 BKN035 24/23
Q1014 RESHRA NOSIG RMK A2996=
METAR RCMQ 070530Z 36013KT 9999 FEW010 SCT025 30/23 Q1013 NOSIG
RMK A2992=
METAR RCNN 070530Z 28008KT 9999 FEW014 SCT100 32/23 Q1011 NOSIG
RMK A2988=
METAR RCFN 070530Z 08009KT 040V120 9999 -SHRA FEW018 SCT026 BKN045
29/25 Q1014 NOSIG RMK A2995=
METAR VMMC 070530Z 11009KT 090V150 9999 FEW022 30/25 Q1014 NOSIG=


......................................................................................


Date: 07-Oct-2565

SAMS31 WMKK 070530
METAR WBGG 070530Z 34004KT 270V070 9999 SCT018 27/24 Q1009 NOSIG=
METAR WBKK 070530Z VRB03KT 9999 FEW014 31/26 Q1007 NOSIG=
METAR WBSB 070530Z 31008KT 9999 SCT015 FEW016CB SCT140 BKN300 30/26 Q1008 NOSIG=
METAR WMKK 070530Z VRB04KT 5000 RA FEW006 FEW017CB SCT030 26/24 Q1010 RETSRA NOSIG=
METAR WMKP 070530Z 22008KT 170V260 9999 FEW020 30/24 Q1010 NOSIG=
METAR WSSL 070530Z NIL=
METAR WSSS 070530Z 18010KT 150V220 8000 -SHRA FEW010 FEW016CB FEW017TCU SCT060 25/24 Q1010 RETS NOSIG=


......................................................................................


Date: 07-Oct-2565

SAJP51 RJTD 070530
METAR RJAA 070530Z 33016KT 2200 SHRA BR FEW002 BKN003 BKN006 14/14
Q1012 NOSIG=
METAR RJBB 070530Z 05008KT 9999 -SHRA FEW003 BKN010 BKN020 19/17
Q1012 NOSIG=
METAR RJCC 070530Z 21006KT 9999 FEW020 OVC140 12/01 Q1020=
METAR RJFF 070530Z 34013KT 9999 FEW025 SCT050 22/13 Q1014 NOSIG=
METAR RJGG 070530Z 02007KT 5000 RA BR FEW004 SCT008 BKN050 16/15
Q1012 TEMPO 3000 RA BR FEW004 BKN008=
METAR RJTT 070530Z 33017KT 4000 RA BR FEW005 BKN009 OVC030 12/12
Q1013 TEMPO 3000 RA BR=
METAR ROAH 070530Z 01018KT 9999 FEW023 29/23 Q1013=


......................................................................................


Date: 07-Oct-2565

SAMS31 WMKK 070530
METAR WBGG 070530Z NIL=
METAR WBKK 070530Z NIL=
METAR WBSB 070530Z NIL=
METAR WMKK 070530Z NIL=
METAR WMKP 070530Z NIL=
METAR WSSL 070530Z NIL=
METAR WSSS 070530Z 18010KT 150V220 8000 -SHRA FEW010 FEW016CB
FEW017TCU SCT060 25/24 Q1010 RETS NOSIG=


......................................................................................


Date: 07-Oct-2565

SAPA31 KWBC 070500 RRD
METAR
PKWA 070540Z AUTO 10005KT 10SM CLR 29/24 A2976 RMK AO2
T02920243=


......................................................................................


Date: 07-Oct-2565

SAMS31 WMKK 070530 RRA
METAR WMKK 070530Z VRB04KT 5000 RA FEW006 FEW017CB SCT030 26/24 Q1010
RETSRA NOSIG=
METAR WMKP 070530Z 22008KT 170V260 9999 FEW020 30/24 Q1010 NOSIG=


......................................................................................


Date: 07-Oct-2565

SAOM81 OOMS 070500 RRA
METAR OOTH 070450Z AUTO 17008KT 9999 ////// 30/08 Q1011=


......................................................................................


Date: 07-Oct-2565

SATH31 VTSF 070600
METAR VTSF 070600Z 11003KT 8000 -RA FEW016TCU SCT018 28/27 Q1010 NOSIG=


......................................................................................


Date: 07-Oct-2565

SATH31 VTST 070600
METAR VTST 070600Z 05003KT 010V090 9999 4000W -RA FEW018CB SCT060 27/26 Q1009 TEMPO FM0630 TL0700 3000 TSRA=


......................................................................................


Date: 07-Oct-2565

SATH31 VTCL 070600
METAR VTCL 070600Z 09003KT 360V140 9000 -RA BKN025 30/24 Q1011 NOSIG=


......................................................................................


Date: 07-Oct-2565

SATH31 VTPM 070600
METAR VTPM 070600Z 07009KT 030V090 9999 FEW040 32/26 Q1010 NOSIG=


......................................................................................


Date: 07-Oct-2565

SATH31 VTSC 070600
METAR VTSC 070600Z 07007KT 030V100 9999 FEW022 29/23 Q1009 NOSIG=


......................................................................................


Date: 07-Oct-2565

SATH31 VTUI 070600
METAR VTUI 070600Z VRB02KT 9999 BKN030 32/23 Q1011 NOSIG=


......................................................................................


Date: 07-Oct-2565

SATH31 VTUW 070600
METAR VTUW 070600Z VRB04KT 9999 SCT045 32/23 Q1011 NOSIG=


......................................................................................


Date: 07-Oct-2565

SATH31 VTBU 070600
METAR VTBU 070600Z 18007KT 9999 FEW020 SCT100 31/23 Q1010 NOSIG=


......................................................................................


Date: 07-Oct-2565

SATH31 VTPO 070600
METAR VTPO 070600Z VRB02KT 9999 SCT020 31/26 Q1010 NOSIG=


......................................................................................


Date: 07-Oct-2565

SATH31 VTUD 070600
METAR VTUD 070600Z 08007KT 010V130 9999 BKN030 34/22 Q1011 NOSIG=


......................................................................................


Date: 07-Oct-2565

SATH31 VTSF 070600 CCA
METAR COR VTSF 070600Z 11003KT 5000 RA FEW016TCU SCT018 28/27 Q1010 NOSIG=


......................................................................................


Date: 07-Oct-2565

SATH31 VTBO 070600
METAR VTBO 070600Z 21008KT 9999 -RA FEW016CB SCT020 31/24 Q1009=


......................................................................................


Date: 07-Oct-2565

SATH31 VTPP 070600
METAR VTPP 070600Z VRB02KT 9999 FEW030 33/24 Q1009 NOSIG=


......................................................................................


Date: 07-Oct-2565

SATH31 VTSM 070600
METAR VTSM 070600Z 15006KT 9999 FEW020 31/25 Q1010 NOSIG=


......................................................................................


Date: 07-Oct-2565

SASD31 OEJD 070600
METAR OEDF 070600Z 30010KT CAVOK 34/M01 Q1007 NOSIG=
METAR OEDR 070600Z 30009KT CAVOK 34/M03 Q1006=
METAR OEJN 070600Z 00000KT CAVOK 33/18 Q1007 NOSIG=
METAR OEMA 070600Z 00000KT CAVOK 31/M09 Q1017 NOSIG=
METAR OERK 070600Z 31006KT CAVOK 32/02 Q1015 NOSIG=
METAR OERY 070600Z NIL=
METAR OEAB 070600Z 11008KT CAVOK 24/01 Q1025 NOSIG=
METAR OYAA 070600Z NIL=
METAR OYSN 070600Z NIL=


......................................................................................


Date: 07-Oct-2565

SATH31 VTBD 070600
METAR VTBD 070600Z 11006KT 070V150 9999 FEW020 SCT040 32/24 Q1009
NOSIG=


......................................................................................


Date: 07-Oct-2565

SATH31 VTBS 070600
METAR VTBS 070600Z 14003KT 050V200 9999 FEW020 31/24 Q1009 NOSIG=


......................................................................................


Date: 07-Oct-2565

SATH31 VTCC 070600
METAR VTCC 070600Z VRB04KT 9999 BKN035 31/22 Q1011 TEMPO -TSRA
FEW025CB=


......................................................................................


Date: 07-Oct-2565

SATH31 VTCH 070600
METAR VTCH 070600Z VRB04KT 9999 FEW020TCU SCT025 32/25 Q1010 NOSIG=


......................................................................................


Date: 07-Oct-2565

SATH31 VTCN 070600
METAR VTCN 070600Z 34004KT 290V030 9999 FEW020 SCT040 31/23 Q1011
NOSIG=


......................................................................................


Date: 07-Oct-2565

SATH31 VTCP 070600
METAR VTCP 070600Z VRB04KT 9999 FEW030 33/25 Q1010 NOSIG=


......................................................................................


Date: 07-Oct-2565

SATH31 VTCT 070600
METAR VTCT 070600Z 08004KT 040V120 9999 SCT025 30/24 Q1013 NOSIG=


......................................................................................


Date: 07-Oct-2565

SATH31 VTPB 070600
METAR VTPB 070600Z VRB01KT 9999 SCT030 33/26 Q1010 NOSIG=


......................................................................................


Date: 07-Oct-2565

SATH31 VTPH 070600
METAR VTPH 070600Z 23004KT 150V280 9000 -RA FEW008 BKN026 OVC060
26/25 Q1010 NOSIG=


......................................................................................


Date: 07-Oct-2565

SATH31 VTPT 070600
METAR VTPT 070600Z /////KT 9999 FEW015 SCT024 29/25 Q1010 NOSIG=


......................................................................................


Date: 07-Oct-2565

SATH31 VTSE 070600
METAR VTSE 070600Z VRB01KT 9000 SCT010 26/25 Q1009 NOSIG=


......................................................................................


Date: 07-Oct-2565

SATH31 VTSG 070600
METAR VTSG 070600Z 23005KT 180V260 9999 VCSH SCT020 BKN060 BKN100
28/24 Q1009 NOSIG=


......................................................................................


Date: 07-Oct-2565

SATH31 VTSP 070600
METAR VTSP 070600Z 09006KT 9000 2000E -TSRA FEW013 SCT018CB BKN030
25/24 Q1009 NOSIG=


......................................................................................


Date: 07-Oct-2565

SATH31 VTSR 070600
METAR VTSR 070600Z 34004KT 270V020 9999 FEW020 29/25 Q1009 NOSIG=


......................................................................................


Date: 07-Oct-2565

SATH31 VTSS 070600
METAR VTSS 070600Z 23008KT 100V270 9999 VCSH FEW018CB SCT020 BKN100
30/23 Q1008 NOSIG=


......................................................................................


Date: 07-Oct-2565

SATH31 VTSY 070600
METAR VTSY 070600Z 24008KT 200V260 9999 SCT030 31/23 Q1009 NOSIG=


......................................................................................


Date: 07-Oct-2565

SATH31 VTUK 070600
METAR VTUK 070600Z VRB05KT 9999 BKN035 31/23 Q1011 NOSIG=


......................................................................................


Date: 07-Oct-2565

SATH31 VTUL 070600
METAR VTUL 070600Z VRB02KT 9999 SCT025 32/25 Q1011 NOSIG=


......................................................................................


Date: 07-Oct-2565

SATH31 VTUQ 070600
METAR VTUQ 070600Z 02007KT 9999 BKN030 31/26 Q1010 NOSIG=


......................................................................................


Date: 07-Oct-2565

SATH31 VTUU 070600
METAR VTUU 070600Z VRB02KT 9999 SCT030 32/24 Q1010 NOSIG=


......................................................................................


Date: 07-Oct-2565

SATH31 VTUV 070600
METAR VTUV 070600Z 10007KT 060V130 9999 BKN030 32/24 Q1010 NOSIG=


......................................................................................


Date: 07-Oct-2565

SAAE31 VDPP 070600
METAR VDPP 070600Z 35004KT 300V050 9999 SCT015 FEW017CB 32/24 Q1008
RMK RMK CB:SW=


......................................................................................


Date: 07-Oct-2565

SANP31 VNKT 070600
METAR VNKT 070600Z 19003KT 9999 FEW008 FEW025TCU SCT030 26/18 Q1019
NOSIG=


......................................................................................


Date: 07-Oct-2565

SAPK31 OPKC 070555
METAR OPKC 070600Z 27003KT 5000 HZ FEW030 33/15 Q1008 NOSIG=


......................................................................................


Date: 07-Oct-2565

SATH31 VTUO 070600 CCA
METAR COR VTUO 070600Z 05008KT 020V090 9999 BKN035 30/27 Q1010 NOSIG=


......................................................................................


Date: 07-Oct-2565

SATH31 VTUO 070600 CCB
METAR COR VTUO 070600Z 05008KT 020V090 9999 BKN035 30/27 Q1010 NOSIG=


......................................................................................


Date: 07-Oct-2565

SATH31 VTSB 070600
METAR VTSB 070600Z 00000KT 9999 FEW018CB SCT020 31/25 Q1009 NOSIG=


......................................................................................


Date: 07-Oct-2565

SATR31 UTAA 070500 RRA
METAR UTAK 070500Z 32014KT CAVOK 19/14 Q1022 R16R/CLRD70 NOSIG=


......................................................................................


Date: 07-Oct-2565

SAPK31 OPKC 070600
METAR OPFA 070555Z 00000KT 4000 FU NSC 31/21 Q1012 NOSIG=
METAR OPKC 070600Z 27003KT 5000 HZ FEW030 33/15 Q1008 NOSIG=
METAR OPLA 070555Z 00000KT 3000 FU FEW040 SCT100 29/22 Q1012
BECMG 2500 RMK QFE986 A29.87=
METAR OPPS 070600Z 09004KT 9999 FEW100 28/13 Q1014=
METAR OPSK 070600Z 36010KT 5000 HZ NSC 33/21 Q1007 NOSIG=
METAR OPST 070600Z 23004KT 3500 FU NSC 28/21 Q1011 NOSIG 67?=
METAR OPIS 070600Z NIL=
METAR OPMT 070600Z NIL=
METAR OPNH 070600Z NIL=


......................................................................................


Date: 07-Oct-2565

SAPK31 OPKC 070600 RRA
METAR OPIS 070600Z NIL=
METAR OPMT 070600Z NIL=
METAR OPNH 070600Z NIL=


......................................................................................


Date: 07-Oct-2565

SATH40 VTBB 070600
METAR VTBD 070600Z 11006KT 070V150 9999 FEW020 SCT040 32/24 Q1009
NOSIG=
METAR VTBS 070600Z 14003KT 050V200 9999 FEW020 31/24 Q1009 NOSIG=
METAR VTBU 070600Z 18007KT 9999 FEW020 SCT100 31/23 Q1010 NOSIG=
METAR VTCC 070600Z VRB04KT 9999 BKN035 31/22 Q1011 TEMPO -TSRA
FEW025CB=
METAR VTCT 070600Z 08004KT 040V120 9999 SCT025 30/24 Q1013 NOSIG=
METAR VTSB 070600Z 00000KT 9999 FEW018CB SCT020 31/25 Q1009 NOSIG=
METAR VTSG 070600Z 23005KT 180V260 9999 VCSH SCT020 BKN060 BKN100
28/24 Q1009 NOSIG=
METAR VTSP 070600Z 09006KT 9000 2000E -TSRA FEW013 SCT018CB BKN030
25/24 Q1009 NOSIG=
METAR VTSS 070600Z 23008KT 100V270 9999 VCSH FEW018CB SCT020 BKN100
30/23 Q1008 NOSIG=
METAR VTUD 070600Z 08007KT 010V130 9999 BKN030 34/22 Q1011 NOSIG=
METAR VTUU 070600Z VRB02KT 9999 SCT030 32/24 Q1010 NOSIG=


......................................................................................


Date: 07-Oct-2565

SAHK31 VHHH 070600
METAR VHHH 070600Z 09007KT 030V150 9999 FEW028 32/21 Q1013 NOSIG=


......................................................................................


Date: 07-Oct-2565

SAIR36 OIII 070600
METAR OIBA 070600Z 04008KT 4000 HZ NSC 33/27 Q1006=
METAR OIBV 070600Z 14010KT 4000 HZ FEW025 33/28 Q1007=
METAR OIFS 070600Z 32002KT CAVOK 19/M08 Q1028=
METAR OIIP 070600Z 30012KT 8000 NSC 19/10 Q1023 A3023=
METAR OIMB 070600Z 18004KT CAVOK 24/M28 Q1020 A3014=
METAR OIMN 070600Z 30014KT 9000 FEW020 SCT030TCU 20/12 Q1025=
METAR OIMS 070600Z 09014KT CAVOK 22/M09 Q1024=
METAR OIMT 070600Z NIL=
METAR OIZJ 070600Z 14010KT 5000 BR FEW015 28/27 Q1008=


......................................................................................


Date: 07-Oct-2565

SAIR37 OIII 070600
METAR OIBL 070600Z 09008KT 3500 HZ NSC 34/24 Q1007=
METAR OIBQ 070600Z 07004KT CAVOK 32/25 Q1007=
METAR OIIK 070600Z 16004KT CAVOK 20/11 Q1024=
METAR OIMD 070600Z NIL=
METAR OIMQ 070600Z NIL=
METAR OINE 070600Z 24008KT 9999 SCT030TCU 25/19 Q1022=
METAR OITK 070600Z 35002KT 9999 FEW040 19/10 Q1023=
METAR OITM 070600Z 10017KT 9999 FEW040 BKN090 20/07 Q1022=


......................................................................................


Date: 07-Oct-2565

SAIR38 OIII 070600
METAR OIAH 070600Z 00000KT CAVOK 31/04 Q1011=
METAR OIBH 070600Z 00000KT CAVOK 37/07 Q1007 A2974=
METAR OICM 070600Z NIL=
METAR OIIS 070600Z NIL=
METAR OIMJ 070600Z 01027KT CAVOK 21/05 Q1023=
METAR OISF 070600Z 08008KT CAVOK 28/M05 Q1019=
METAR OISR 070600Z 00000KT CAVOK 34/10 Q1011 A2988 NOSIG=
METAR OITP 070600Z 14017KT 9999 BKN040 22/15 Q1023=
METAR OITU 070600Z NIL=


......................................................................................


Date: 07-Oct-2565

SAPK31 OPKC 070600
METAR OPFA 070555Z 00000KT 4000 FU NSC 31/21 Q1012 NOSIG=
METAR OPKC 070600Z 27003KT 5000 HZ FEW030 33/15 Q1008 NOSIG=
METAR OPLA 070555Z 00000KT 3000 FU FEW040 SCT100 29/22 Q1012
BECMG 2500 RMK QFE986 A29.87=
METAR OPPS 070600Z 09004KT 9999 FEW100 28/13 Q1014=
METAR OPSK 070600Z 36010KT 5000 HZ NSC 33/21 Q1007 NOSIG=
METAR OPST 070600Z 23004KT 3500 FU NSC 28/21 Q1011 NOSIG 67%=
METAR OPIS 070600Z NIL=
METAR OPMT 070600Z NIL=
METAR OPNH 070600Z NIL=


......................................................................................


Date: 07-Oct-2565

SAIR33 OIII 070600 RRA
METAR OICK 070600Z 07002KT CAVOK 29/M05 Q1018=


......................................................................................


Date: 07-Oct-2565

SAIR34 OIII 070600 RRA
METAR OIKQ 070600Z 09008KT 2000 BR NSC 34/30 Q1007 NOSIG=


......................................................................................


Date: 07-Oct-2565

SAMV31 VRMM 070600
METAR VRMH 070600Z 29010KT 9999 FEW018TCU 30/24 Q1010=
METAR VRMM 070600Z 29014KT 9999 SCT018TCU BKN270 31/24 Q1011 NOSIG=
METAR VRMG 070600Z 31006KT 9999 FEW017 FEW018CB OVC100 28/25
Q1012 CB NE,SSW TEMPO 5000 TSRA=


......................................................................................


Date: 07-Oct-2565

SAAE31 VTBB 070600
METAR VTCT 070600Z 08004KT 040V120 9999 SCT025 30/24 Q1013 NOSIG=
METAR VTSG 070600Z 23005KT 180V260 9999 VCSH SCT020 BKN060 BKN100
28/24 Q1009 NOSIG=
METAR VTBD 070600Z 11006KT 070V150 9999 FEW020 SCT040 32/24 Q1009
NOSIG=
METAR VTBS 070600Z 14003KT 050V200 9999 FEW020 31/24 Q1009 NOSIG=
METAR VTCC 070600Z VRB04KT 9999 BKN035 31/22 Q1011 TEMPO -TSRA
FEW025CB=
METAR VTSP 070600Z 09006KT 9000 2000E -TSRA FEW013 SCT018CB BKN030
25/24 Q1009 NOSIG=
METAR VTSS 070600Z 23008KT 100V270 9999 VCSH FEW018CB SCT020 BKN100
30/23 Q1008 NOSIG=
METAR VTBU 070600Z 18007KT 9999 FEW020 SCT100 31/23 Q1010 NOSIG=


......................................................................................


Date: 07-Oct-2565

SAAE32 VTBB 070600
METAR VDPP 070600Z 35004KT 300V050 9999 SCT015 FEW017CB 32/24 Q1008
RMK CB:SW=
METAR VDSR 070600Z VRB03KT 9999 SCT015 BKN040 31/24 Q1009=
METAR VLVT 070600Z 06004KT 9999 SCT016 FEW200 32/25 Q1011 NOSIG=
METAR VYMD 070600Z NIL=
METAR VYNT 070600Z NIL=
METAR VYYY 070600Z 03009KT 7000 SCT017 FEW020CB SCT110 31/24 Q1008=
METAR VDSV 070600Z 17010KT 9999 SCT015 32/23 Q1009=


......................................................................................


Date: 07-Oct-2565

SAAE33 VTBB 070600
METAR VLLB 070600Z 09004KT 9999 SCT020 32/22 Q1012 NOSIG=
METAR VLLN 070600Z 09004KT 9000 SCT020 FEW100 29/23 Q1015 NOSIG=
METAR VLPS 070600Z 27002KT 9999 FEW020 SCT050 31/25 Q1010 NOSIG=
METAR VLSK 070600Z 36004KT 8000 SCT020 SCT100 33/25 Q1013 NOSIG=


......................................................................................


Date: 07-Oct-2565

SAAE34 VTBB 070600
METAR VVCI 070600Z 06007KT 030V100 CAVOK 27/24 Q1013 NOSIG=
METAR VVCR 070600Z 07011KT 9999 FEW015 SCT050 31/25 Q1010 NOSIG=
METAR VVCT 070600Z 04006KT 9999 SCT015 31/24 Q1008 NOSIG=
METAR VVDN 070600Z 01012KT 9999 FEW015 30/25 Q1011 NOSIG=
METAR VVNB 070600Z 12004KT 070V170 9999 FEW027TCU BKN067 28/24 Q1013
TEMPO TL0700 12015G25KT 3000 +TSRA=
METAR VVPB 070600Z 02008KT 9999 FEW015 SCT050 30/24 Q1012 NOSIG=
METAR VVPQ 070600Z 09007KT 9999 FEW015 30/24 Q1010 NOSIG=
METAR VVTS 070600Z VRB05KT 9999 BKN020 34/24 Q1008 NOSIG =


......................................................................................


Date: 07-Oct-2565

SAIR31 OIII 070600
METAR OIAW 070600Z NIL=
METAR OIFM 070600Z 25004KT 7000 NSC 21/M03 Q1025 A3029=
METAR OIII 070600Z 24006KT CAVOK 24/M00 Q1023 A3022 NOSIG=
METAR OIKB 070600Z 10006KT 4000 HZ NSC 37/18 Q1008 A2977 NOSIG=
METAR OIKK 070600Z 07004KT CAVOK 21/M07 Q1024 A3024=
METAR OIMM 070600Z 11004KT CAVOK 20/03 Q1023 A3023=
METAR OISS 070600Z 00000KT CAVOK 25/M02 Q1022 A3018=
METAR OITT 070600Z 07012KT 9999 FEW070 SCT170 21/04 Q1024 A3026=
METAR OIZH 070600Z 03004KT CAVOK 23/M27 Q1020 A3013 NOSIG=


......................................................................................


Date: 07-Oct-2565

SAIR31 OIII 070600 RRA
METAR OIAW 070600Z 09002KT 7000 NSC 34/07 Q1007=


......................................................................................


Date: 07-Oct-2565

SAIR32 OIII 070600
METAR OIAA 070600Z 24004KT 6000 NSC 32/08 Q1008=
METAR OIBK 070600Z NIL=
METAR OICC 070600Z 00000KT CAVOK 24/M13 Q1021 A3016=
METAR OIGG 070600Z 12004KT 9999 FEW025CB BKN030 BKN070
22/20 Q1023=
METAR OIIE 070600Z 32012KT CAVOK 23/09 Q1023=
METAR OINZ 070600Z 22006KT 6000 SCT030 BKN090 25/19 Q1022=
METAR OITR 070600Z 02004KT 9999 FEW040 20/05 Q1023=
METAR OIYY 070600Z 33006KT CAVOK 25/M07 Q1023 NOSIG=


......................................................................................


Date: 07-Oct-2565

SAIR33 OIII 070600
METAR OIBB 070600Z 06004KT CAVOK 34/15 Q1007 A2975=
METAR OIBP 070600Z 15010KT 5000 HZ NSC 34/27 Q1006 A2971=
METAR OICK 070600Z NIL=
METAR OICS 070600Z NIL=
METAR OIHH 070600Z 34002KT CAVOK 20/M05 Q1024 A3025=
METAR OITL 070600Z 06016KT 7000 -DZ VCFG OVC004 14/13 Q1026=
METAR OIZC 070600Z 00000KT 9999 FEW035 31/23 Q1008=


......................................................................................


Date: 07-Oct-2565

SAIR34 OIII 070600
METAR OIAG 070600Z 14002KT CAVOK 36/05 Q1008=
METAR OIAM 070600Z 00000KT CAVOK 35/09 Q1007=
METAR OICI 070600Z 14004KT CAVOK 29/M01 Q1020 A3015=
METAR OIKQ 070600Z NIL=
METAR OINN 070600Z 18002KT 8000 FEW020CB BKN026 OVC080 22/19 Q1022=
METAR OINR 070600Z 10002KT 9999 FEW023CB SCT026 BKN090 24/19 Q1022=
METAR OISL 070600Z 00000KT CAVOK 30/05 Q1014 NOSIG=
METAR OISY 070600Z 00000KT CAVOK 21/M10 Q1025=
METAR OITZ 070600Z 00000KT 9999 FEW020 19/06 Q1024 A3025=


......................................................................................


Date: 07-Oct-2565

SAIR35 OIII 070600
METAR OIAD 070600Z NIL=
METAR OIBJ 070600Z AUTO 07004KT //// // ////// 34/M01 Q1014=
METAR OIBS 070600Z 06006KT 3000 BR NSC 32/29 Q1007=
METAR OIHR 070600Z NIL=
METAR OIKM 070600Z NIL=
METAR OIKR 070600Z NIL=
METAR OING 070600Z 27008KT 9999 SCT030CB 26/19 Q1023 NOSIG=
METAR OIZB 070600Z 36027KT 8000 NSC 24/M12 Q1015=
METAR OIZI 070600Z 04004KT CAVOK 32/M12 Q1013=


......................................................................................


Date: 07-Oct-2565

SASR31 WSSS 070600
METAR WSSS 070600Z 19009KT 6000 -SHRA FEW010 FEW016CB FEW017TCU
SCT060 25/23 Q1010 NOSIG=


......................................................................................


Date: 07-Oct-2565

SAUZ31 UTTW 070600
METAR UTFN 070600Z 11004KT 070V140 8000 NSC 18/02 Q1022 R28/CLRD70
NOSIG=
METAR UTNN 070600Z VRB02KT CAVOK 19/M05 Q1022 R33/CLRD60 NOSIG=
METAR UTNU 070600Z NIL=
METAR UTSA 070600Z 27004KT 230V340 6000 NSC 22/M03 Q1022 R07/CLRD70
NOSIG=
METAR UTSB 070600Z 15004KT CAVOK 21/M01 Q1022 R01/CLRD70 NOSIG=
METAR UTSK 070600Z 20004KT 160V230 CAVOK 21/M01 Q1022 R16/CLRD70=
METAR UTSS 070600Z 30006KT 240V350 9999 NSC 19/00 Q1022 R27/CLRD70
NOSIG=
METAR UTST 070600Z 05002KT CAVOK 21/M08 Q1022 R25/CLRD70 NOSIG=
METAR UTFA 070600Z 21004KT 170V260 9999 NSC 20/02 Q1022 R88/09//70=
METAR UTFF 070600Z 05002KT 9999 NSC 20/00 Q1022 R18/CLRD70=
METAR UTTT 070600Z 19004KT 110V230 7000 NSC 21/00 Q1022 R08L/CLRD70
NOSIG=


......................................................................................


Date: 07-Oct-2565

SAAE32 VTBB 070600 RRA
METAR VYNT 070600Z 01007KT 7000 SCT020 FEW025TCU BKN110 31/25 Q1008
NOSIG=


......................................................................................


Date: 07-Oct-2565

SAPK31 OPKC 070600 RRB
METAR OPIS 070600Z 31015KT 7000 NSC 28/15 Q1014 TEMPO 31015G25KT =


......................................................................................


Date: 07-Oct-2565

SAJP31 RJTD 070600
METAR RJAA 070600Z 33014KT 2200 SHRA BR FEW002 SCT003 BKN006 14/13
Q1012 TEMPO FEW003 BKN004=
METAR RJBB 070600Z 36007KT 310V040 9999 -SHRA FEW003 BKN010 BKN020
19/17 Q1012 BECMG FEW005 SCT010 BKN020=
METAR RJTT 070600Z 34018KT 6000 RA FEW006 BKN008 BKN010 13/12 Q1012
TEMPO 3000 RA BR=
METAR RJOO 070600Z 08003KT 030V120 9000 -SHRA FEW003 BKN008 BKN020
17/16 Q1012=
METAR ROAH 070600Z 01018KT 9999 FEW023 29/22 Q1013=
METAR RJGG 070600Z 04008KT 5000 -RA BR FEW005 SCT008 BKN060 16/15
Q1011 TEMPO 3000 RA BR FEW004 BKN008=
METAR RJCH 070600Z 05005KT 020V080 9999 FEW020 SCT030 BKN/// 12/06
Q1019=
METAR RJSS 070600Z 35008KT 8000 -RA FEW008 BKN030 BKN080 11/10
Q1017=


......................................................................................


Date: 07-Oct-2565

SAJP32 RJTD 070600
METAR RJFF 070600Z 33013KT 9999 FEW025 BKN040 21/13 Q1015 NOSIG=
METAR RJCC 070600Z 21005KT 9999 FEW030 OVC140 12/02 Q1020=
METAR RJFK 070600Z 33014KT 9999 FEW020 BKN025 BKN170 19/13 Q1014=
METAR RJSN 070600Z 06003KT 030V100 9999 -RA FEW030 SCT060 OVC090
13/11 Q1012=
METAR RJFT 070600Z 22003KT 180V280 9999 FEW007 SCT020 BKN130 18/14
Q1015=
METAR RJFU 070600Z 30012KT 9999 FEW025 SCT140 22/13 Q1015=
METAR RJNK 070600Z 20003KT 170V230 9999 FEW010 BKN040 OVC100 17/16
Q1011=
METAR RJOA 070600Z 34005KT 300V010 9999 FEW006 SCT020 BKN025 18/14
Q1013=
METAR RJOB 070600Z 22003KT 160V270 9999 FEW003 SCT005 BKN025 17/16
Q1012=
METAR RJOT 070600Z 25008KT 9999 FEW001 SCT020 BKN040 17/17 Q1013=


......................................................................................


Date: 07-Oct-2565

SAJP32 RJTD 070600 RRA
METAR RJFO 070600Z 31011KT 9999 FEW020 SCT060 BKN150 21/14 Q1013=
METAR RJNT 070600Z VRB01KT 9999 -RA FEW004 SCT050 OVC110 14/14
Q1011=


......................................................................................


Date: 07-Oct-2565

SAJP38 RJTD 070600
METAR RJNS 070600Z VRB02KT 7000 -RA FEW000 SCT003 BKN025 16/16
Q1009=
METAR RJSA 070600Z 05004KT 360V070 9999 -RA FEW010 BKN050 BKN070
10/08 Q1018=
METAR RJSF 070600Z 34010KT 0700 R01/P2000N RA FG FEW001 BKN002 09/09
Q1016=
METAR RJOM 070600Z 25011KT 9999 FEW010 SCT025 BKN070 20/16 Q1013=
METAR RJOK 070600Z 31008KT 270V020 9999 FEW005 SCT020 BKN130 21/19
Q1011=
METAR RJFM 070600Z 28011KT 9999 FEW025 BKN/// 24/15 Q1012=
METAR RJEC 070600Z 34004KT 9999 FEW030 BKN/// 12/01 Q1019=
METAR RJFR 070600Z 31015KT 9999 FEW030 SCT040 22/12 Q1013=
METAR RJSK 070600Z 07005KT 9999 -RA FEW030 BKN050 10/08 Q1016=
METAR RJAH 070600Z 35010KT 2000 SHRA BR FEW004 BKN005 BKN012 13/13
Q1013=


......................................................................................


Date: 07-Oct-2565

SAJP38 RJTD 070600 RRA
METAR RJCK 070600Z 18006KT 140V210 9999 FEW040 BKN/// 11/01 Q1021=
METAR RJCM 070600Z 07007KT 9999 FEW050 BKN/// 12/02 Q1020=
METAR RJCB 070600Z 12005KT 090V150 9999 FEW030 BKN150 12/01 Q1020=
METAR RJOC 070600Z 25014KT 9999 FEW010 SCT025 BKN070 21/16 Q1012=
METAR RJOH 070600Z 27010KT 9999 -SHRA FEW015 BKN030 BKN050 18/15
Q1012=
METAR ROIG 070600Z 05019KT 9999 -SHRA SCT006 FEW015CB BKN030 27/25
Q1012=
METAR RJFS 070600Z VRB02KT 9999 FEW020 SCT030 BKN050 21/16 Q1014=
METAR RJSI 070600Z 36001KT 9999 -RA FEW004 SCT050 BKN060 10/09
Q1018=


......................................................................................


Date: 07-Oct-2565

SAJP51 RJTD 070600
METAR RJAA 070600Z 33014KT 2200 SHRA BR FEW002 SCT003 BKN006 14/13
Q1012 TEMPO FEW003 BKN004=
METAR RJAF 070600Z VRB01KT 4500 -RA BR SCT002 BKN008 BKN015 10/10
Q1014=
METAR RJAH 070600Z 35010KT 2000 SHRA BR FEW004 BKN005 BKN012 13/13
Q1013=
METAR RJBB 070600Z 36007KT 310V040 9999 -SHRA FEW003 BKN010 BKN020
19/17 Q1012 BECMG FEW005 SCT010 BKN020=
METAR RJBD 070600Z 34005KT 9999 -SHRA FEW008 BKN040 BKN060 19/18
Q1010=
METAR RJBE 070600Z 06006KT 9999 -SHRA FEW003 SCT008 BKN015 18/17
Q1011=
METAR RJBT 070600Z 18005KT 9000 FEW000 SCT025 BKN050 16/16 Q1011=
METAR RJCB 070600Z 12005KT 090V150 9999 FEW030 BKN150 12/01 Q1020=
METAR RJCC 070600Z 21005KT 9999 FEW030 OVC140 12/02 Q1020=
METAR RJCH 070600Z 05005KT 020V080 9999 FEW020 SCT030 BKN/// 12/06
Q1019=
METAR RJCK 070600Z 18006KT 140V210 9999 FEW040 BKN/// 11/01 Q1021=
METAR RJCM 070600Z 07007KT 9999 FEW050 BKN/// 12/02 Q1020=
METAR RJCN 070600Z 17004KT 080V240 9999 FEW030 BKN/// 13/01 Q1020=
METAR RJCO 070600Z 11004KT 9999 FEW030 SCT150 BKN200 14/01 Q1021=
METAR RJCW 070600Z 28007KT 9999 FEW050 SCT070 11/M02 Q1020=
METAR RJDB 070600Z AUTO 33008KT 270V020 9999 FEW041 SCT043 21/12
Q1015=
METAR RJDC 070600Z 27014KT 9999 FEW020 BKN045 22/12 Q1013=
METAR RJDT 070600Z 32013KT 9999 FEW035 21/12 Q1015=
METAR RJEB 070600Z 10004KT 060V150 9999 FEW030 SCT060 BKN090 12/04
Q1021=
METAR RJEC 070600Z 34004KT 9999 FEW030 BKN/// 12/01 Q1019=


......................................................................................


Date: 07-Oct-2565

SAJP51 RJTD 070600 RRA
METAR RJFE 070600Z 34012KT 310V010 9999 FEW035 BKN040 20/12 Q1016=
METAR RJFF 070600Z 33013KT 9999 FEW025 BKN040 21/13 Q1015 NOSIG=
METAR RJFG 070600Z 31017KT 9999 FEW015 SCT020 BKN/// 22/17 Q1014=
METAR RJFK 070600Z 33014KT 9999 FEW020 BKN025 BKN170 19/13 Q1014=
METAR RJFM 070600Z 28011KT 9999 FEW025 BKN/// 24/15 Q1012=
METAR RJFO 070600Z 31011KT 9999 FEW020 SCT060 BKN150 21/14 Q1013=
METAR RJFR 070600Z 31015KT 9999 FEW030 SCT040 22/12 Q1013=
METAR RJFS 070600Z VRB02KT 9999 FEW020 SCT030 BKN050 21/16 Q1014=
METAR RJFT 070600Z 22003KT 180V280 9999 FEW007 SCT020 BKN130 18/14
Q1015=
METAR RJFU 070600Z 30012KT 9999 FEW025 SCT140 22/13 Q1015=
METAR RJGG 070600Z 04008KT 5000 -RA BR FEW005 SCT008 BKN060 16/15
Q1011 TEMPO 3000 RA BR FEW004 BKN008=
METAR RJKA 070600Z 36013KT 9999 FEW020 SCT025 BKN030 27/22 Q1013=
METAR RJKI 070600Z AUTO 36014KT 9999 SCT019 SCT028 BKN031 27/22
Q1013=
METAR RJNK 070600Z 20003KT 170V230 9999 FEW010 BKN040 OVC100 17/16
Q1011=
METAR RJNS 070600Z VRB02KT 7000 -RA FEW000 SCT003 BKN025 16/16
Q1009=
METAR RJNT 070600Z VRB01KT 9999 -RA FEW004 SCT050 OVC110 14/14
Q1011=
METAR RJNW 070600Z VRB04KT 5000 BR FEW000 SCT002 BKN003 14/14 Q1011=
METAR RJOA 070600Z 34005KT 300V010 9999 FEW006 SCT020 BKN025 18/14
Q1013=
METAR RJOB 070600Z 22003KT 160V270 9999 FEW003 SCT005 BKN025 17/16
Q1012=
METAR RJOC 070600Z 25014KT 9999 FEW010 SCT025 BKN070 21/16 Q1012=


......................................................................................


Date: 07-Oct-2565

SAJP51 RJTD 070600 RRB
METAR RJOH 070600Z 27010KT 9999 -SHRA FEW015 BKN030 BKN050 18/15
Q1012=
METAR RJOK 070600Z 31008KT 270V020 9999 FEW005 SCT020 BKN130 21/19
Q1011=
METAR RJOM 070600Z 25011KT 9999 FEW010 SCT025 BKN070 20/16 Q1013=
METAR RJOO 070600Z 08003KT 030V120 9000 -SHRA FEW003 BKN008 BKN020
17/16 Q1012=
METAR RJOR 070600Z 28017KT 9999 FEW020 SCT050 BKN100 20/14 Q1012=
METAR RJOS 070600Z 33006KT 9999 FEW012 SCT025 BKN050 19/17 Q1011=
METAR RJOT 070600Z 25008KT 9999 FEW001 SCT020 BKN040 17/17 Q1013=
METAR RJOW 070600Z 18007KT 150V230 9999 FEW008 SCT030 BKN060 19/16
Q1013=
METAR RJOY 070600Z 11004KT 090V150 9999 -SHRA FEW003 SCT025 BKN050
17/16 Q1012=
METAR RJSA 070600Z 05004KT 360V070 9999 -RA FEW010 BKN050 BKN070
10/08 Q1018=
METAR RJSC 070600Z VRB01KT 3500 RA BR FEW004 BKN035 BKN045 10/10
Q1017=
METAR RJSF 070600Z 34010KT 0700 R01/P2000N RA FG FEW001 BKN002 09/09
Q1016=
METAR RJSI 070600Z 36001KT 9999 -RA FEW004 SCT050 BKN060 10/09
Q1018=
METAR RJSK 070600Z 07005KT 9999 -RA FEW030 BKN050 10/08 Q1016=
METAR RJSM 070600Z VRB02KT 9999 -RA FEW030 BKN050 BKN120 13/06
Q1019=
METAR RJSN 070600Z 06003KT 030V100 9999 -RA FEW030 SCT060 OVC090
13/11 Q1012=
METAR RJSR 070600Z 04005KT 350V070 9999 -RA FEW020 SCT040 BKN050
11/09 Q1017=
METAR RJSS 070600Z 35008KT 8000 -RA FEW008 BKN030 BKN080 11/10
Q1017=
METAR RJSY 070600Z 10012KT 9999 -RA FEW005 SCT040 BKN070 10/09
Q1014=
METAR RJTF 070600Z 34009KT 300V010 4000 RA BR FEW006 SCT008 BKN025
11/11 Q1014=


......................................................................................


Date: 07-Oct-2565

SAJP51 RJTD 070600 RRC
METAR RJTI 070600Z 34009G24KT 270V040 3500 RA BR FEW005 BKN008
BKN020 12/11 Q1013=
METAR RJTO 070600Z 02022KT 4000 -SHRA BR FEW006 SCT008 BKN010 14/13
Q1011=
METAR RJTT 070600Z 34018KT 6000 RA FEW006 BKN008 BKN010 13/12 Q1012
TEMPO 3000 RA BR=
METAR ROAH 070600Z 01018KT 9999 FEW023 29/22 Q1013=
METAR ROIG 070600Z 05019KT 9999 -SHRA SCT006 FEW015CB BKN030 27/25
Q1012=
METAR ROMD 070600Z AUTO 02010KT 9999 NCD 29/23 Q1013=
METAR ROMY 070600Z 04012KT 9999 -SHRA FEW008 SCT015 FEW025TCU BKN035
27/25 Q1013=
METAR RORK 070600Z AUTO 02010KT 9999 FEW022 29/23 Q1013=
METAR RORS 070600Z 04015KT 9999 SHRA FEW005 FEW025TCU SCT030 BKN080
26/25 Q1013=
METAR RORY 070600Z AUTO 36010KT 9999 FEW021 28/23 Q1014=
METAR ROYN 070600Z AUTO 05018KT 9999 FEW016 BKN026 BKN029 //////TCU
28/25 Q1013=


......................................................................................


Date: 07-Oct-2565

SAPA31 KWBC 070600
METAR
AGGG NIL=
AGGH 070600Z 05006KT 9999 SCT018 FEW019CB SCT100 30/25 Q1007 RMKS
CB ASSW SH TO E,SE,S,SW=
ANAU NIL=
AYPY NIL=
PGNT NIL=
PGRO 070550Z 27006KT 7SM SCT015 BKN100 28/24 A2968=
PGSN 070554Z 34004KT 10SM SCT020 BKN100 27/25 A2972 RMK AO2
RAE0455 SLP086 P0000 60167 T02670250 10311 20261 55016 $=
PGUA 070556Z AUTO 36005KT 10SM SCT026 SCT035 29/24 A2973 RMK AO2
SLP058 T02860235 10305 20281 57017 $=
PGUM 070554Z 00000KT 10SM BKN022 BKN029 28/26 A2974 RMK AO2 SLP062
60013 T02830256 10306 20261 56016=
PGWT 070555Z 04004KT 7SM SCT015 SCT030 BKN060 BKN100 28/26=
PHJH NIL=
PHJR 070553Z 03006KT 10SM CLR 26/18 A2997 RMK AO2 SLP154 T02560178
10300 20256 53017=
PHMK 070554Z AUTO 03006KT 10SM CLR 25/20 A2998 RMK AO2 SLP154
T02500200 10289 20250 53018 TSNO $=
PJON NIL=
PKMJ 070558Z 15015KT 15SM SCT014 BKN045 BKN120 OVC300 27/24
A2971=
PKMR 070555Z 15004KT 15SM FEW012CB BKN050 BKN110 OVC300 27/23
A2970 RMK CB NE-E AND SE-S MOV NW SLP061 60080 8/371
T02710231 10271 20247 55008=
PKWA 070600Z AUTO 14006KT 7SM -RA SCT017 SCT022 BKN028 29/24 A2977
RMK AO2 T02880242=
PLCH 070600Z 10010KT 9999 FEW020 27/21 Q1010=
PMDY 070556Z AUTO 07021KT 10SM FEW038 BKN080 OVC110 26/19 A3016
RMK AO2 SLP214 T02610189 10294 20261 53007 TSNO=
PTKK 070552Z VRB03KT 15SM FEW014 BKN120 BKN280 30/26 A2971 RMK
SLP064 8/171 T03000262 10317 20300 52005=
PTKR NIL=
PTPN NIL=
PTRO 070550Z 09008KT 15SM FEW016 SCT130 BKN300 31/24 A2975=
PTSA NIL=
PTTP NIL=
PTYA 070553Z 00000KT 12SM FEW016 FEW300 31/25 A2973 RMK SLP069
8/101 T03090245 10314 20303 57015=
PWAK 070558Z AUTO 09004KT 9999 CLR 29/24 A2984 RMK AO2 SLP111
T02870238 10314 20287 403140264 53007=


......................................................................................


Date: 07-Oct-2565

SATH31 VTPN 070600
METAR VTPN 070600Z 00000KT 9999 FEW020 SCT025 32/26 Q1009=


......................................................................................


Date: 07-Oct-2565

SATR31 UTAA 070600
METAR UTAA 070600Z 33004KT 270V020 9999 NSC 25/05 Q1021
R88/CLRD70 NOSIG=
METAR UTAK 070600Z 33016KT CAVOK 21/12 Q1022 R16R/CLRD70 NOSIG=
METAR UTAV 070600Z 20004KT CAVOK 22/M05 Q1021 R31/CLRD70 NOSIG=
METAR UTAM 070600Z 00000KT 6000 NSC 20/02 Q1022 R88/CLRD70 NOSIG=
METAR UTAT 070600Z 29004KT 260V320 CAVOK 20/M02 Q1022
R26/CLRD70 NOSIG=


......................................................................................


Date: 07-Oct-2565

SAIR32 OIII 070600 RRA
METAR OIBK 070600Z 08008KT 5000 BR NSC 31/29 Q1007 NOSIG=


......................................................................................


Date: 07-Oct-2565

SAMS31 WMKK 070600
METAR WBGG 070600Z 33006KT 260V070 9999 SCT020 28/24 Q1008 NOSIG=
METAR WBKK 070600Z VRB04KT 9999 FEW014 FEW015CB 32/26 Q1006 NOSIG=
METAR WBSB 070600Z 33007KT 9999 SCT015 FEW016CB SCT140 BKN300 30/27 Q1007 NOSIG=
METAR WMKK 070600Z 05007KT 010V080 8000 -RA FEW010 FEW017CB 26/24 Q1009 RETSRA RERA NOSIG=
METAR WMKP 070600Z 21007KT 160V320 9999 FEW017CB 30/24 Q1009 NOSIG=
METAR WSSL 070600Z 21007KT 160V240 8000 -TSRA
FEW014 SCT016CB FEW017TCU BKN160 25/23 Q1009=
METAR WSSS 070600Z 19009KT 6000 -SHRA FEW010 FEW016CB FEW017TCU SCT060 25/23 Q1010 NOSIG=


......................................................................................


Date: 07-Oct-2565

SPTH31 VTSF 070607
SPECI VTSF 070607Z 13007KT 3500 TSRA FEW016CB OVC018 27/27 Q1010 NOSIG=


......................................................................................


Date: 07-Oct-2565

SAIR31 OIII 070600
METAR OIMM 070600Z 11004KT CAVOK 20/03 Q1023 A3023 NOSIG=
METAR OINB 070600 NIL=
METAR OING 070600Z 27008KT 9999 SCT030CB 26/19 Q1023 NOSIG=
METAR OINK 070600 NIL=
METAR OINN 070600Z 18002KT 8000 FEW020CB BKN026 OVC080 22/19 Q1022=
METAR OINR 070600Z 10002KT 9999 FEW023CB SCT026 BKN090 24/19 Q1022=
METAR OISA 070600 NIL=
METAR OISF 070600Z 08008KT CAVOK 28/M05 Q1019=
METAR OISL 070600Z 00000KT CAVOK 30/05 Q1014 NOSIG=
METAR OISS 070600Z 00000KT CAVOK 25/M02 Q1022 A3018 NOSIG=
METAR OISY 070600Z 00000KT CAVOK 21/M10 Q1025=
METAR OITL 070555Z 06016KT 7000 -DZ VCFG OVC004 14/13 Q1026 TEMPO
3000 DZ BR=
METAR OITR 070550Z 02004KT 9999 FEW040 20/05 Q1023 NOSIG=
METAR OITT 070600Z 07012KT 9999 FEW070 SCT170 21/04 Q1024 A3026
NOSIG=
METAR OITU 070600 NIL=
METAR OIYY 070550Z 33006KT CAVOK 25/M07 Q1023 NOSIG=
METAR OIZB 070600Z 36027KT 8000 NSC 24/M12 Q1015=
METAR OIZC 070600Z 00000KT 9999 FEW035 31/23 Q1008=
METAR OIZH 070600Z 03004KT CAVOK 23/M27 Q1020 A3013 NOSIG=
METAR OIZI 070600Z 04004KT CAVOK 32/M12 Q1013=
METAR OIZJ 070600Z 14010KT 5000 BR FEW015 28/27 Q1008=
//END PART 02/02//


......................................................................................


Date: 07-Oct-2565

SAIR77 OIII 070600
METAR AZUH 070600 NIL=
METAR KHME 070600 NIL=
METAR OIAA 070600Z 24004KT 6000 NSC 32/08 Q1008 NOSIG=
METAR OIAG 070600Z 14002KT CAVOK 36/05 Q1008=
METAR OIAH 070600Z 00000KT CAVOK 31/04 Q1011=
METAR OIAI 070600 NIL=
METAR OIAM 070600Z 00000KT CAVOK 35/09 Q1007=
METAR OIAW 070553Z 09002KT 7000 NSC 34/07 Q1007 NOSIG=
METAR OIBA 070600Z 04008KT 4000 HZ NSC 33/27 Q1006=
METAR OIBB 070600Z 06004KT CAVOK 34/15 Q1007 A2975 NOSIG=
METAR OIBK 070600Z 07010KT 4000 BR NSC 29/28 Q1007=
METAR OIBL 070600Z 09008KT 3500 HZ NSC 34/24 Q1007=
METAR OIBS 070600Z 06006KT 3000 BR NSC 32/29 Q1007=
METAR OICC 070552Z 00000KT CAVOK 24/M13 Q1021 A3016 NOSIG=
METAR OICI 070600Z 14004KT CAVOK 29/M01 Q1020 A3015=
METAR OICJ 070600 NIL=
METAR OICK 070555Z 07002KT CAVOK 29/M05 Q1018=
METAR OICS 070600Z VRB02KT CAVOK 20/M07 Q1023 A3022=
METAR OIFK 070600 NIL=
METAR OIFM 070600Z 25004KT 7000 NSC 21/M03 Q1025 A3029 NOSIG=
METAR OIFS 070553Z 32002KT CAVOK 19/M08 Q1028=
METAR OIGG 070600Z 12004KT 9999 FEW025CB BKN030 BKN070 22/20 Q1023
NOSIG=
METAR OIGK 070600 NIL=
METAR OIHM 070600Z AUTO VRB01KT //// // ////// 21/M05 Q1025=
METAR OIIE 070600Z 32012KT CAVOK 23/09 Q1023 NOSIG=
METAR OIII 070600Z 24006KT CAVOK 24/M00 Q1023 A3022 NOSIG=
METAR OIIK 070552Z 16004KT CAVOK 20/11 Q1024=
METAR OIIP 070600Z 30012KT 8000 NSC 19/10 Q1023 A3023=
METAR OIIS 070600 NIL=
METAR OIKB 070600Z 10006KT 4000 HZ NSC 37/18 Q1008 A2977 NOSIG=
METAR OIKK 070550Z 07004KT CAVOK 21/M07 Q1024 A3024=
METAR OIKO 070600 NIL=
METAR OIKQ 070600Z 09008KT 2000 BR NSC 34/30 Q1007=
METAR OIMB 070600Z 18004KT CAVOK 24/M28 Q1020 A3014=
METAR OIMC 070600 NIL=
METAR OIMD 070600 NIL=
METAR OIMM 070600Z 11004KT CAVOK 20/03 Q1023 A3023 NOSIG=
METAR OIMN 070600Z 30014KT 9000 FEW020 SCT030TCU 20/12 Q1025=
METAR OINB 070600 NIL=
METAR OING 070600Z 27008KT 9999 SCT030CB 26/19 Q1023 NOSIG=
METAR OINK 070600 NIL=
METAR OINN 070600Z 18002KT 8000 FEW020CB BKN026 OVC080 22/19 Q1022=
METAR OINR 070600Z 10002KT 9999 FEW023CB SCT026 BKN090 24/19 Q1022=
METAR OISA 070600 NIL=
METAR OISF 070600Z 08008KT CAVOK 28/M05 Q1019=
METAR OISL 070600Z 00000KT CAVOK 30/05 Q1014 NOSIG=
METAR OISS 070600Z 00000KT CAVOK 25/M02 Q1022 A3018 NOSIG=
METAR OISY 070600Z 00000KT CAVOK 21/M10 Q1025=
METAR OITL 070555Z 06016KT 7000 -DZ VCFG OVC004 14/13 Q1026 TEMPO
3000 DZ BR=
METAR OITR 070550Z 02004KT 9999 FEW040 20/05 Q1023 NOSIG=
METAR OITT 070600Z 07012KT 9999 FEW070 SCT170 21/04 Q1024 A3026
NOSIG=
METAR OITU 070600 NIL=
METAR OIYY 070550Z 33006KT CAVOK 25/M07 Q1023 NOSIG=
METAR OIZB 070600Z 36027KT 8000 NSC 24/M12 Q1015=
METAR OIZC 070600Z 00000KT 9999 FEW035 31/23 Q1008=
METAR OIZH 070600Z 03004KT CAVOK 23/M27 Q1020 A3013 NOSIG=
METAR OIZI 070600Z 04004KT CAVOK 32/M12 Q1013=
METAR OIZJ 070600Z 14010KT 5000 BR FEW015 28/27 Q1008=
METAR SESG 070600 NIL=
METAR YAYT 070600 NIL=


......................................................................................


Date: 07-Oct-2565

SASD20 OEJD 070600
METAR OEAB 070600Z 11008KT CAVOK 24/01 Q1025 NOSIG=
METAR OEAH 070600Z 32012KT CAVOK 35/M04 Q1009 NOSIG=
METAR OEAO 070600Z 00000KT CAVOK 30/M01 Q1015 NOSIG=
METAR OEBA 070600Z 16002KT CAVOK 25/05 Q1022 NOSIG=
METAR OEBH 070600Z 00000KT CAVOK 27/06 Q1017 NOSIG=
METAR OEDF 070600Z 30010KT CAVOK 34/M01 Q1007 NOSIG=
METAR OEDM 070600Z 00000KT CAVOK 32/M03 Q1017=
METAR OEDR 070600Z 30009KT CAVOK 34/M03 Q1006=
METAR OEGN 070600Z 06002KT 9999 FEW030 34/24 Q1009 NOSIG=
METAR OEGS 070600Z 28002KT CAVOK 27/08 Q1015=
METAR OEGT 070600Z 30014KT CAVOK 23/12 Q1014 NOSIG=
METAR OEHL 070600Z 22004KT CAVOK 28/M02 Q1018=
METAR OEJB 070600Z AUTO 31011KT CAVOK 34/M00 Q1008 NOSIG=
METAR OEJN 070600Z 00000KT CAVOK 33/18 Q1007 NOSIG=
METAR OEKJ 070600Z 27007KT CAVOK 32/M05 Q1015=
METAR OEKK 070600Z NIL=


......................................................................................


Date: 07-Oct-2565

SASD21 OEJD 070600
METAR OEKM 070600Z NIL=
METAR OEMA 070600Z 00000KT CAVOK 31/M09 Q1017 NOSIG=
METAR OEMN 070600Z 04004KT CAVOK 37/05 Q1011=
METAR OEMK 070600Z NIL=
METAR OENG 070600Z 09006KT 9999 SCT030 SCT090 29/05 Q1018 NOSIG=
METAR OEPA 070600Z 27005KT CAVOK 29/04 Q1012 NOSIG=
METAR OERF 070600Z 27004KT 240V300 CAVOK 30/M08 Q1013=
METAR OERK 070600Z 31006KT CAVOK 32/02 Q1015 NOSIG=
METAR OERY 070600Z NIL=
METAR OERR 070600Z 34010KT CAVOK 28/07 Q1014 NOSIG=
METAR OESH 070600Z 08006KT 9999 FEW040 33/04 Q1014 NOSIG=
METAR OESK 070600Z 05004KT CAVOK 29/06 Q1018 NOSIG=
METAR OETB 070600Z 00000KT CAVOK 27/05 Q1015 NOSIG=
METAR OETF 070600Z 16010KT CAVOK 27/M03 Q1021 NOSIG=
METAR OETR 070600Z 08010KT CAVOK 28/12 Q1016 NOSIG=
METAR OEWD 070600Z 01004KT CAVOK 30/11 Q1013 NOSIG=
METAR OEWJ 070600Z 29005KT CAVOK 30/24 Q1008 NOSIG=
METAR OEYN 070600Z 25004KT CAVOK 31/16 Q1006 NOSIG=


......................................................................................


Date: 07-Oct-2565

SAHK31 VHHH 070600
METAR VHHH 070600Z 09007KT 030V150 9999 FEW028 32/21 Q1013 NOSIG=
METAR RCTP 070600Z 05020KT 9999 FEW012 SCT020 BKN030 27/22 Q1013
NOSIG RMK A2994=
METAR RCKH 070600Z 24010KT 9999 FEW018 FEW020CB SCT050 32/23 Q1011
NOSIG RMK 25011KT/R09 CB NE A2986=
METAR RCSS 070600Z 08007KT 050V110 9999 -SHRA FEW008 BKN025 BKN045
25/24 Q1013 NOSIG RMK A2994 RA AMT 7.4MM=
METAR RCMQ 070600Z 36013KT 9999 FEW010 SCT025 30/23 Q1012 NOSIG
RMK A2991=
METAR RCNN 070600Z 28008KT 9999 FEW014 SCT100 31/23 Q1011 NOSIG
RMK A2987=
METAR RCFN 070600Z 07009KT 040V100 9999 -SHRA FEW018 SCT022 BKN045
29/25 Q1013 NOSIG RMK A2993=
METAR VMMC 070600Z 12011KT 9999 FEW025 30/25 Q1013 NOSIG=
METAR RPLL 070600Z NIL=
METAR RPVM 070600Z NIL=
METAR RPMD 070600Z NIL=
METAR RPLB 070600Z NIL=
METAR RPLI 070600Z NIL=
METAR RPMZ 070600Z NIL=


......................................................................................


Date: 07-Oct-2565

SAIR31 OIII 070600
METAR OIMM 070600Z 11004KT CAVOK 20/03 Q1023 A3023 NOSIG=
METAR OINB 070600Z NIL=
METAR OING 070600Z 27008KT 9999 SCT030CB 26/19 Q1023 NOSIG=
METAR OINK 070600Z NIL=
METAR OINN 070600Z 18002KT 8000 FEW020CB BKN026 OVC080 22/19 Q1022=
METAR OINR 070600Z 10002KT 9999 FEW023CB SCT026 BKN090 24/19 Q1022=
METAR OISA 070600Z NIL=
METAR OISF 070600Z 08008KT CAVOK 28/M05 Q1019=
METAR OISL 070600Z 00000KT CAVOK 30/05 Q1014 NOSIG=
METAR OISS 070600Z 00000KT CAVOK 25/M02 Q1022 A3018 NOSIG=
METAR OISY 070600Z 00000KT CAVOK 21/M10 Q1025=
METAR OITL 070555Z 06016KT 7000 -DZ VCFG OVC004 14/13 Q1026 TEMPO
3000 DZ BR=
METAR OITR 070550Z 02004KT 9999 FEW040 20/05 Q1023 NOSIG=
METAR OITT 070600Z 07012KT 9999 FEW070 SCT170 21/04 Q1024 A3026
NOSIG=
METAR OITU 070600Z NIL=
METAR OIYY 070550Z 33006KT CAVOK 25/M07 Q1023 NOSIG=
METAR OIZB 070600Z 36027KT 8000 NSC 24/M12 Q1015=
METAR OIZC 070600Z 00000KT 9999 FEW035 31/23 Q1008=
METAR OIZH 070600Z 03004KT CAVOK 23/M27 Q1020 A3013 NOSIG=
METAR OIZI 070600Z 04004KT CAVOK 32/M12 Q1013=
METAR OIZJ 070600Z 14010KT 5000 BR FEW015 28/27 Q1008=


......................................................................................


Date: 07-Oct-2565

SAIR77 OIII 070600
METAR AZUH 070600 NIL=
METAR KHME 070600 NIL=
METAR OIAA 070600Z 24004KT 6000 NSC 32/08 Q1008 NOSIG=
METAR OIAG 070600Z 14002KT CAVOK 36/05 Q1008=
METAR OIAH 070600Z 00000KT CAVOK 31/04 Q1011=
METAR OIAI 070600 NIL=
METAR OIAM 070600Z 00000KT CAVOK 35/09 Q1007=
METAR OIAW 070553Z 09002KT 7000 NSC 34/07 Q1007 NOSIG=
METAR OIBA 070600Z 04008KT 4000 HZ NSC 33/27 Q1006=
METAR OIBB 070600Z 06004KT CAVOK 34/15 Q1007 A2975 NOSIG=
METAR OIBK 070600Z 07010KT 4000 BR NSC 29/28 Q1007=
METAR OIBL 070600Z 09008KT 3500 HZ NSC 34/24 Q1007=
METAR OIBS 070600Z 06006KT 3000 BR NSC 32/29 Q1007=
METAR OICC 070552Z 00000KT CAVOK 24/M13 Q1021 A3016 NOSIG=
METAR OICI 070600Z 14004KT CAVOK 29/M01 Q1020 A3015=
METAR OICJ 070600 NIL=
METAR OICK 070555Z 07002KT CAVOK 29/M05 Q1018=
METAR OICS 070600Z VRB02KT CAVOK 20/M07 Q1023 A3022=
METAR OIFK 070600 NIL=
METAR OIFM 070600Z 25004KT 7000 NSC 21/M03 Q1025 A3029 NOSIG=
METAR OIFS 070553Z 32002KT CAVOK 19/M08 Q1028=
METAR OIGG 070600Z 12004KT 9999 FEW025CB BKN030 BKN070 22/20 Q1023
NOSIG=
METAR OIGK 070600 NIL=
METAR OIHM 070600Z AUTO VRB01KT //// // ////// 21/M05 Q1025=
METAR OIIE 070600Z 32012KT CAVOK 23/09 Q1023 NOSIG=
METAR OIII 070600Z 24006KT CAVOK 24/M00 Q1023 A3022 NOSIG=
METAR OIIK 070552Z 16004KT CAVOK 20/11 Q1024=
METAR OIIP 070600Z 30012KT 8000 NSC 19/10 Q1023 A3023=
METAR OIIS 070600 NIL=
METAR OIKB 070600Z 10006KT 4000 HZ NSC 37/18 Q1008 A2977 NOSIG=
METAR OIKK 070550Z 07004KT CAVOK 21/M07 Q1024 A3024=
METAR OIKO 070600 NIL=
METAR OIKQ 070600Z 09008KT 2000 BR NSC 34/30 Q1007=
METAR OIMB 070600Z 18004KT CAVOK 24/M28 Q1020 A3014=
METAR OIMC 070600 NIL=
METAR OIMD 070600 NIL=


......................................................................................


Date: 07-Oct-2565

SAJP35 RJTD 070600
METAR RJAA 070600Z 33014KT 2200 SHRA BR FEW002 SCT003 BKN006 14/13
Q1012 TEMPO FEW003 BKN004=
METAR RJBB 070600Z 36007KT 310V040 9999 -SHRA FEW003 BKN010 BKN020
19/17 Q1012 BECMG FEW005 SCT010 BKN020=
METAR RJTT 070600Z 34018KT 6000 RA FEW006 BKN008 BKN010 13/12 Q1012
TEMPO 3000 RA BR=
METAR RJOO 070600Z 08003KT 030V120 9000 -SHRA FEW003 BKN008 BKN020
17/16 Q1012=
METAR RJGG 070600Z 04008KT 5000 -RA BR FEW005 SCT008 BKN060 16/15
Q1011 TEMPO 3000 RA BR FEW004 BKN008=
METAR RJSN 070600Z 06003KT 030V100 9999 -RA FEW030 SCT060 OVC090
13/11 Q1012=
METAR RJCH 070600Z 05005KT 020V080 9999 FEW020 SCT030 BKN/// 12/06
Q1019=
METAR RJSA 070600Z 05004KT 360V070 9999 -RA FEW010 BKN050 BKN070
10/08 Q1018=
METAR RJSF 070600Z 34010KT 0700 R01/P2000N RA FG FEW001 BKN002 09/09
Q1016=
METAR RJSI 070600Z 36001KT 9999 -RA FEW004 SCT050 BKN060 10/09
Q1018=


......................................................................................


Date: 07-Oct-2565

SAJP37 RJTD 070600
METAR RJAA 070600Z 33014KT 2200 SHRA BR FEW002 SCT003 BKN006 14/13
Q1012 TEMPO FEW003 BKN004=
METAR RJBB 070600Z 36007KT 310V040 9999 -SHRA FEW003 BKN010 BKN020
19/17 Q1012 BECMG FEW005 SCT010 BKN020=
METAR RJTT 070600Z 34018KT 6000 RA FEW006 BKN008 BKN010 13/12 Q1012
TEMPO 3000 RA BR=
METAR RJOO 070600Z 08003KT 030V120 9000 -SHRA FEW003 BKN008 BKN020
17/16 Q1012=
METAR RJFF 070600Z 33013KT 9999 FEW025 BKN040 21/13 Q1015 NOSIG=
METAR RJGG 070600Z 04008KT 5000 -RA BR FEW005 SCT008 BKN060 16/15
Q1011 TEMPO 3000 RA BR FEW004 BKN008=
METAR RJFK 070600Z 33014KT 9999 FEW020 BKN025 BKN170 19/13 Q1014=
METAR RJFU 070600Z 30012KT 9999 FEW025 SCT140 22/13 Q1015=
METAR RJCH 070600Z 05005KT 020V080 9999 FEW020 SCT030 BKN/// 12/06
Q1019=
METAR RJNS 070600Z VRB02KT 7000 -RA FEW000 SCT003 BKN025 16/16
Q1009=


......................................................................................


Date: 07-Oct-2565

SAJP37 RJTD 070600 RRA
METAR RJFR 070600Z 31015KT 9999 FEW030 SCT040 22/12 Q1013=


......................................................................................


Date: 07-Oct-2565

SAMS31 WMKK 070600
METAR WBGG 070600Z NIL=
METAR WBKK 070600Z NIL=
METAR WBSB 070600Z NIL=
METAR WMKK 070600Z NIL=
METAR WMKP 070600Z NIL=
METAR WSSL 070600Z 21007KT 160V240 8000 -TSRA
FEW014 SCT016CB FEW017TCU BKN160 25/23 Q1009=
METAR WSSS 070600Z 19009KT 6000 -SHRA FEW010 FEW016CB FEW017TCU
SCT060 25/23 Q1010 NOSIG=


......................................................................................


Date: 07-Oct-2565

SAMS32 WMKK 070600
NIL


......................................................................................


Date: 07-Oct-2565

SAMS33 WMKK 070600
METAR WMAU 070600Z VRB04KT 9000 SCT020 31/25 Q1008=
METAR WMBA 070600Z VRB03KT 8000 -RA SCT030 26/24 Q1009=
METAR WMKA 070600Z 21007KT 160V300 9999 FEW017CB SCT018 30/24 Q1009=
METAR WMKB 070600Z 21007KT 160V280 8000 VCSH FEW017CB 29/25 Q1008
NOSIG=
METAR WMKC 070600Z 08007KT 030V150 9999 FEW018 30/25 Q1009=
METAR WMKD 070600Z 27007KT 250V320 9999 FEW017CB SCT020 30/24 Q1008
NOSIG=
METAR WMKE 070600Z 00000KT 9999 FEW014CB SCT017 29/24 Q1008=
METAR WMKI 070600Z 22007KT 160V260 9999 SCT020 30/24 Q1009=
METAR WMKL 070600Z VRB02KT 9999 SCT020 29/25 Q1009=
METAR WMKM 070600Z 18004KT 120V280 9999 VCSH FEW012 FEW017CB SCT020
29/25 Q1009=
METAR WMKN 070600Z VRB01KT 8000 -RA FEW008 FEW017CB SCT022 27/25
Q1009=


......................................................................................


Date: 07-Oct-2565

SAMS34 WMKK 070600
NIL


......................................................................................


Date: 07-Oct-2565

SAMS38 WMKK 070500 CCA
METAR COR WMKM 070500Z 15007KT 120V210 9999 FEW017CB SCT020 30/25
Q1010=


......................................................................................


Date: 07-Oct-2565

SAMS38 WMKK 070600
NIL


......................................................................................


Date: 07-Oct-2565

SAPA31 KWBC 070600 RRA
METAR
AGGH 070600Z 05006KT 9999 SCT018 FEW019CB SCT100 30/25 Q1007 RMKS
CB ASSW SH TO E/SE/S/SW=
AYPY 070600Z 15010G20KT 9999 HZ SCT030 BKN070 29/25 Q1006=
PTTP 070553Z 13004KT 15SM BKN017TCU OVC120 27/24 A2978 RMK TCU
ALQDS SLP085 60023 8/27/ T02650244 10311 20259 53003=


......................................................................................


Date: 07-Oct-2565

SAPA31 KWBC 070600 RRB
METAR
PGUM 070605Z 21004KT 10SM SCT023 SCT030 28/26 A2973 RMK AO2
T02830256=


......................................................................................


Date: 07-Oct-2565

SASB31 VCCC 070600
METAR VCCC 070600Z 27005KT 9999 SCT016
BKN300 30/24 Q1009 A2982=


......................................................................................


Date: 07-Oct-2565

SAUZ31 UTTW 070600 RRA
METAR UTNU 070600Z 26004KT CAVOK 21/M06 Q1022 R31/CLRD70 NOSIG=


......................................................................................


Date: 07-Oct-2565

SAMS33 WMKK 070500 CCA
METAR COR WMKM 070500Z 15007KT 120V210 9999 FEW017CB SCT020 30/25
Q1010=


......................................................................................


Date: 07-Oct-2565

SAPA31 KWBC 070600
METAR
AGGG NIL=
AGGH 070600Z 05006KT 9999 SCT018 FEW019CB SCT100 30/25 Q1007 RMKS
CB ASSW SH TO E,SE,S,SW=
ANAU NIL=
AYPY NIL=
PGNT NIL=
PGRO 070550Z 27006KT 7SM SCT015 BKN100 28/24 A2968=
PGSN 070554Z 34004KT 10SM SCT020 BKN100 27/25 A2972 RMK AO2
RAE0455 SLP086 P0000 60167 T02670250 10311 20261 55016 $=
PGUA 070556Z AUTO 36005KT 10SM SCT026 SCT035 29/24 A2973 RMK AO2
SLP058 T02860235 10305 20281 57017 $=
PGUM 070554Z 00000KT 10SM BKN022 BKN029 28/26 A2974 RMK AO2 SLP062
60013 T02830256 10306 20261 56016=
PGWT 070555Z 04004KT 7SM SCT015 SCT030 BKN060 BKN100 28/26=
PHJH NIL=
PHJR 070553Z 03006KT 10SM CLR 26/18 A2997 RMK AO2 SLP154 T02560178
10300 20256 53017=
PHMK 070554Z AUTO 03006KT 10SM CLR 25/20 A2998 RMK AO2 SLP154
T02500200 10289 20250 53018 TSNO $=
PJON NIL=
PKMJ 070558Z 15015KT 15SM SCT014 BKN045 BKN120 OVC300 27/24
A2971=
PKMR 070555Z 15004KT 15SM FEW012CB BKN050 BKN110 OVC300 27/23
A2970 RMK CB NE-E AND SE-S MOV NW SLP061 60080 8/371
T02710231 10271 20247 55008=
PKWA 070600Z AUTO 14006KT 7SM -RA SCT017 SCT022 BKN028 29/24 A2977
RMK AO2 T02880242=
PLCH 070600Z 10010KT 9999 FEW020 27/21 Q1010=
PMDY 070556Z AUTO 07021KT 10SM FEW038 BKN080 OVC110 26/19 A3016
RMK AO2 SLP214 T02610189 10294 20261 53007 TSNO=
PTKK 070552Z VRB03KT 15SM FEW014 BKN120 BKN280 30/26 A2971 RMK
SLP064 8/171 T03000262 10317 20300 52005=
PTKR NIL=
PTPN NIL=
PTRO 070550Z 09008KT 15SM FEW016 SCT130 BKN300 31/24 A2975=
PTSA NIL=
PTTP NIL=
// END PART 01 //


......................................................................................


Date: 07-Oct-2565

SAHK31 VHHH 070600 RRA
METAR RPLL 070600Z 08007G17KT 040V140 9999 FEW023CB SCT025 BKN100
30/24 Q1008 NOSIG RMK A2977 CB NW,E=


......................................................................................


Date: 07-Oct-2565

SAHK31 VHHH 070600 RRB
METAR RPVM 070600Z 05007KT 9999 FEW018 SCT300 31/24 Q1008 RMK A2977
CB NE SE NW=


......................................................................................


Date: 07-Oct-2565

SAHK31 VHHH 070600 RRC
METAR RPLB 070600Z 06007KT 020V090 9999 SCT020 BKN300 32/24 Q1009
NOSIG RMK A2980=


......................................................................................


Date: 07-Oct-2565

SAHK31 VHHH 070600 RRD
METAR RPMD 070600Z 20010KT 9999 FEW016CB 33/23 Q1007 RMK A2974 CB NE
SW TCU SE=


......................................................................................


Date: 07-Oct-2565

SAHK31 VHHH 070600 RRE
METAR RPLI 070600Z 31006KT 250V350 9999 FEW018 33/24 Q1008 NOSIG RMK
A2977=


......................................................................................


Date: 07-Oct-2565

SAHK31 VHHH 070600 RRF
METAR RPMZ 070600Z 25006KT 140V310 9999 FEW016CB FEW017 SCT300 31/24
Q1008 RMK A2977 CB NW N S-W=


......................................................................................


Date: 07-Oct-2565

SAMS34 WMKK 070600 RRA
METAR WBGB 070600Z 28004KT 210V010 9999 SCT016 30/26 Q1007=
METAR WBGR 070600Z 27006KT 180V330 9999 FEW015CB SCT016 29/25 Q1007=
METAR WBGS 070600Z 26005KT 210V320 9999 FEW015CB SCT018 29/24 Q1008=
METAR WBGY 070600Z 32005KT 250V020 9999 -RA FEW015CB SCT020 25/24
Q1009=
METAR WBKL 070600Z 28005KT 200V360 9999 SCT013 30/25 Q1007=
METAR WBKS 070600Z 04008KT 350V070 9999 SCT016 31/25 Q1006=
METAR WBKT 070600Z 04004KT 340V100 9999 FEW015 31/26 Q1007=
METAR WBKW 070600Z 14004KT 080V190 9999 TS VCSH FEW016CB 29/25 Q1008=


......................................................................................


Date: 07-Oct-2565

SAMS38 WMKK 070600 RRA
METAR WBGB 070600Z 28004KT 210V010 9999 SCT016 30/26 Q1007=
METAR WBGR 070600Z 27006KT 180V330 9999 FEW015CB SCT016 29/25 Q1007=
METAR WBGS 070600Z 26005KT 210V320 9999 FEW015CB SCT018 29/24 Q1008=
METAR WBKL 070600Z 28005KT 200V360 9999 SCT013 30/25 Q1007=
METAR WBKS 070600Z 04008KT 350V070 9999 SCT016 31/25 Q1006=
METAR WBKW 070600Z 14004KT 080V190 9999 TS VCSH FEW016CB 29/25 Q1008=

METAR WMKD 070600Z 27007KT 250V320 9999 FEW017CB SCT020 30/24 Q1008
NOSIG=
METAR WMKL 070600Z VRB02KT 9999 SCT020 29/25 Q1009=
METAR WMKM 070600Z 18004KT 120V280 9999 VCSH FEW012 FEW017CB SCT020
29/25 Q1009=


......................................................................................


Date: 07-Oct-2565

SAPA31 KWBC 070600 RRC
METAR
PGUM 070605Z 21004KT 10SM SCT023 SCT030 28/26 A2973=


......................................................................................


Date: 07-Oct-2565

SAMS33 WMKK 070600 RRA
METAR WMAU 070600Z VRB04KT 9000 SCT020 31/25 Q1008=
METAR WMBA 070600Z VRB03KT 8000 -RA SCT030 26/24 Q1009=
METAR WMKA 070600Z 21007KT 160V300 9999 FEW017CB SCT018 30/24 Q1009=
METAR WMKB 070600Z 21007KT 160V280 8000 VCSH FEW017CB 29/25 Q1008
NOSIG=
METAR WMKC 070600Z 08007KT 030V150 9999 FEW018 30/25 Q1009=
METAR WMKD 070600Z 27007KT 250V320 9999 FEW017CB SCT020 30/24 Q1008
NOSIG=
METAR WMKI 070600Z 22007KT 160V260 9999 SCT020 30/24 Q1009=
METAR WMKL 070600Z VRB02KT 9999 SCT020 29/25 Q1009=
METAR WMKM 070600Z 18004KT 120V280 9999 VCSH FEW012 FEW017CB SCT020
29/25 Q1009=
METAR WMKN 070600Z VRB01KT 8000 -RA FEW008 FEW017CB SCT022 27/25
Q1009=


......................................................................................


Date: 07-Oct-2565

SASD21 OEJD 070600 RRA
METAR OEKM 070600Z 10006KT CAVOK 23/00 Q1025 NOSIG=


......................................................................................


Date: 07-Oct-2565

SAAR20 OEJD 070600
METAR OBBI 070600Z 32010KT CAVOK 33/20 Q1007 NOSIG=
METAR OKBK 070600Z 33007KT 8000 NSC 34/00 Q1009
NOSIG=
METAR OMAA 070600Z 07009KT 6000 NSC 32/24 Q1007 NOSIG=
METAR OMAD 070600Z 07005KT 040V110 7000 NSC 33/26 Q1007 NOSIG=
METAR OMAL 070600Z 14006KT CAVOK 35/11 Q1009 NOSIG=
METAR OMDB 070600Z 09008KT CAVOK 35/18 Q1007 NOSIG=
METAR OMFJ 070550Z 20001KT 8000 NSC 36/19 Q1008 RMK A2978=
METAR OMRK 070600Z 33004KT 270V360 7000 NSC 36/24 Q1008 A2977=
METAR OMSJ 070600Z 05006KT CAVOK 36/16 Q1008 NOSIG=
METAR OOMS 070600Z NIL=
METAR OOSA 070600Z NIL=
METAR OOSH 070600Z NIL=
METAR OODQ 070550Z AUTO 22015KT CAVOK ////// 29/22 Q1009 NOSIG RMK
RH65? 0=
METAR OTBD 070600Z 32006KT 290V360 CAVOK 34/21 Q1007 NOSIG=
METAR OTBH 070555Z 27011KT 9999 CLR 33/22 A2974=
METAR OTHH 070600Z AUTO 33006KT 290V350 CAVOK 33/21 Q1007 NOSIG=
METAR OYAA 070600Z NIL=
METAR OYSN 070600Z NIL=


......................................................................................


Date: 07-Oct-2565

SAKO51 RJTD 070600
METAR RKPC 070600Z 33009KT 290V350 9999 FEW035 19/09 Q1019 NOSIG=
METAR RKPK 070600Z 04013KT CAVOK 20/09 Q1016=
METAR RKSI 070600Z 33012KT CAVOK 18/01 Q1020 NOSIG=
METAR RKSM 070600Z 31008KT 9999 BKN040 19/09 A3009=
METAR RKSS 070600Z 33010G22KT 300V010 9999 SCT040 19/09 Q1019 NOSIG=
METAR RKTN 070600Z 31005KT 9999 BKN040 BKN060 19/10 Q1017=
METAR RKTU 070600Z 32005KT 9999 BKN040 18/10 Q1018=


......................................................................................


Date: 07-Oct-2565

SPTH31 VTSF 070617
SPECI VTSF 070617Z 15008KT 120V190 5000 TSRA FEW016CB BKN018 27/26 Q1010 NOSIG=


......................................................................................


Date: 07-Oct-2565

SAMS31 WMKK 070600 RRA
METAR WMKK 070600Z 05007KT 010V080 8000 -RA FEW010 FEW017CB 26/24
Q1009
RETSRA RERA NOSIG=
METAR WMKP 070600Z 21007KT 160V320 9999 FEW017CB 30/24 Q1009 NOSIG=


......................................................................................


Date: 07-Oct-2565

SAMS32 WMKK 070600 RRA
METAR WMKJ 070600Z 17005KT 100V250 9000 -TSRA FEW017CB 25/23 Q1009=
METAR WMKK 070600Z 05007KT 010V080 8000 -RA FEW010 FEW017CB 26/24
Q1009
RETSRA RERA NOSIG=
METAR WMKP 070600Z 21007KT 160V320 9999 FEW017CB 30/24 Q1009 NOSIG=
METAR COR WMSA 070600Z 07004KT 010V120 9999 FEW018 26/23 Q1009=


......................................................................................


Date: 07-Oct-2565

SAHK31 VHHH 070600 CCA
METAR COR RPMD 070600Z 20010KT 9999 FEW015CB 33/23 Q1007 RMK A2974 CB
NE SW TCU SE=


......................................................................................


Date: 07-Oct-2565

SACI51 RJTD 070600
METAR ZBAA 070600Z 19004MPS 160V220 CAVOK 19/06 Q1020 NOSIG=
METAR ZBTJ 070600Z 23004MPS 160V260 CAVOK 19/08 Q1021 NOSIG=
METAR ZBYN 070600Z 19003MPS 150V260 3500 HZ NSC 12/06 Q1022 NOSIG=
METAR ZGGG 070600Z 36005MPS 9999 SCT036 30/23 Q1014 NOSIG=
METAR ZGKL 070600Z 06004MPS 020V100 9999 FEW036 OVC053 20/12 Q1020
NOSIG=
METAR ZGNN 070600Z 07005MPS 040V100 9999 FEW033 29/21 Q1015 NOSIG=
METAR ZGOW 070600Z 15003MPS 080V200 9999 SCT050 33/21 Q1013 NOSIG=
METAR ZGSZ 070600Z VRB03MPS 9999 FEW033 SCT050 31/22 Q1013 NOSIG=
METAR ZLXY 070600Z 15002MPS 110V190 4500 BR FEW010 OVC050 11/09
Q1024 NOSIG=
METAR ZPPP 070600Z 36002MPS 320V060 9999 SCT023 BKN043 17/14 Q1024
NOSIG=
METAR ZSAM 070600Z 10006MPS 070V140 9999 SCT023 31/23 Q1013 NOSIG=
METAR ZSHC 070600Z 36002MPS 330V050 6000 -RA SCT006 BKN010 BKN020
15/14 Q1022 NOSIG=
METAR ZSNJ 070600Z 05002MPS 360V080 9999 BKN040 16/09 Q1023 NOSIG=
METAR ZSQD 070600Z VRB01MPS CAVOK 19/01 Q1023 BECMG TL0700 18005MPS=
METAR ZSSS 070600Z 01007MPS 9999 SCT030 18/12 Q1022 NOSIG=
METAR ZWWW 070600Z 04003MPS 360V070 CAVOK 19/M03 Q1025 NOSIG=
METAR ZYTL 070600Z 29005MPS 250V310 9999 FEW020 18/08 Q1022 NOSIG=
METAR ZYTX 070600Z 11003MPS 080V140 CAVOK 17/M10 Q1021 NOSIG=


......................................................................................


Date: 07-Oct-2565

SASB31 VCCC 070610
METAR VCBI 070610Z 25009KT 200V320 9999 SCT016 30/24 Q1009 NOSIG=
METAR VRMM 070600Z 29014KT 9999 SCT018TCU BKN270 31/24 Q1011 NOSIG=
METAR VCRI 070610Z 27008KT 9999 FEW018 33/23 Q1008 NOSIG=


......................................................................................


Date: 07-Oct-2565

SPTH31 VTST 070622
SPECI VTST 070622Z 06003KT 040V100 6000 2000W -TSRA FEW018CB SCT040 26/25 Q1009 TEMPO FM0630 TL0700 3000 TSRA=


......................................................................................


Date: 07-Oct-2565

SAPA31 KWBC 070600 RRD
METAR
PKWA 070620Z AUTO 13005KT 10SM SCT017 SCT025 SCT031 28/24 A2978
RMK AO2 T02840243=


......................................................................................


Date: 07-Oct-2565

SAOM81 OOMS 070600
METAR OOAD 070600Z NIL=
METAR OOBH 070550Z AUTO VRB04KT //// ////// 33/10 Q1011=
METAR OOBR 070550Z AUTO 09006KT //// 37/M04 Q1010=
METAR OODB 070550Z AUTO VRB04KT //// ////// 35/21 Q1009=
METAR OODQ 070550Z AUTO 22015KT CAVOK ////// 29/22 Q1009 NOSIG=
METAR OOFD 070550Z AUTO 17004KT //// ////// 34/15 Q1009=
METAR OOIB 070600Z NIL=
METAR OOIR 070550Z AUTO VRB02KT //// ////// 33/13 Q1011=
METAR OOJB 070550Z AUTO 20005KT //// ////// 31/17 Q1009=
METAR OOJS 070600Z NIL=
METAR OOKB 070600Z NIL=
METAR OOMA 070550Z AUTO 24008KT //// ////// 29/23 Q1009=
METAR OOMJ 070550Z AUTO 00000KT //// ////// 34/24 Q1008=
METAR OOML 070600Z NIL=
METAR OOMQ 070550Z AUTO 35008KT //// ////// 31/24 Q1007=
METAR OOMS 070550Z 35012KT CAVOK 32/21 Q1008 NOSIG=
METAR OONZ 070550Z AUTO VRB02KT //// ////// 33/13 Q1011=
METAR OOQA 070600Z NIL=
METAR OOQH 070550Z AUTO 17005KT 9999 ////// 25/18 Q1014=
METAR OOQL 070550Z AUTO VRB03KT //// ////// 30/24 Q1008=
METAR OOQQ 070550Z AUTO 01007KT //// 22/M05 Q1023=
METAR OORA 070550Z AUTO VRB04KT //// ////// 27/23 Q1009=
METAR OORH 070550Z AUTO 35002KT //// ////// 30/25 Q1008=
METAR OORQ 070550Z AUTO 27001KT //// ////// 33/14 Q1010=
METAR OOSA 070550Z 19005KT 140V240 9999 BKN025 29/22 Q1010 NOSIG=
METAR OOSM 070550Z AUTO VRB04KT //// ////// 34/08 Q1011=
METAR OOSQ 070600Z NIL=
METAR OOSR 070550Z AUTO VRB02KT //// ////// 35/16 Q1007=
METAR OOTH 070600Z NIL=
METAR OOYA 070550Z AUTO 18011KT //// ////// 30/20 Q1009=


......................................................................................


Date: 07-Oct-2565

SATH31 VTBU 070630
METAR VTBU 070630Z 16008KT 9999 FEW020 SCT100 31/23 Q1009 NOSIG=


......................................................................................


Date: 07-Oct-2565

SPTH31 VTST 070627
SPECI VTST 070627Z 10006KT 070V130 2000 +TSRA FEW016CB SCT025 BKN100 26/25 Q1009 BECMG TL0700 6000 -TSRA=


......................................................................................


Date: 07-Oct-2565

SAPK31 OPKC 070625
METAR OPKC 070630Z 33004KT 5000 HZ FEW030 35/14 Q1008 NOSIG=


......................................................................................


Date: 07-Oct-2565

SAAE31 VDPP 070630
METAR VDPP 070630Z 35004KT 310V080 9999 SCT015 FEW017CB 32/24 Q1007
RMK RMK CB:S/SW=


......................................................................................


Date: 07-Oct-2565

SAAR20 OEJD 070600 RRA
METAR OOMS 070550Z 35012KT CAVOK 32/21 Q1008 NOSIG=
METAR OOSA 070550Z 19005KT 140V240 9999 BKN025 29/22 Q1010 NOSIG=


......................................................................................


Date: 07-Oct-2565

SATH31 VTBD 070630
METAR VTBD 070630Z 12006KT 050V160 9999 FEW020 SCT040 32/23 Q1008
NOSIG=


......................................................................................


Date: 07-Oct-2565

SATH31 VTBS 070630
METAR VTBS 070630Z 09005KT 030V150 9999 FEW020 32/25 Q1008 NOSIG=


......................................................................................


Date: 07-Oct-2565

SATH31 VTCC 070630
METAR VTCC 070630Z 12005KT 060V170 9999 FEW025CB BKN035 31/22 Q1011
NOSIG=


......................................................................................


Date: 07-Oct-2565

SATH31 VTSP 070630
METAR VTSP 070630Z 29004KT 240V320 9000 4000NW -RA FEW005 SCT020
25/25 Q1008 RETS NOSIG=


......................................................................................


Date: 07-Oct-2565

SATH31 VTSS 070630
METAR VTSS 070630Z 23007KT 160V260 9999 VCSH FEW018CB SCT020 BKN090
31/23 Q1008 NOSIG=


......................................................................................


Date: 07-Oct-2565

SAIR20 OIII 070630
METAR OIAA 070630 NIL=
METAR OIAW 070627Z 10002KT 7000 NSC 34/04 Q1007=
METAR OIFM 070630Z 25004KT 6000 NSC 23/M03 Q1025 A3029=
METAR OIGG 070630Z 11004KT 9999 FEW025CB BKN030 BKN070 23/20 Q1023=
METAR OIIE 070630Z 33010KT CAVOK 24/07 Q1023=
METAR OIII 070630Z 22006KT CAVOK 25/01 Q1023 A3022=
METAR OIKB 070630Z 10006KT 4000 HZ NSC 37/18 Q1008 A2977=
METAR OIMM 070630Z 06004KT CAVOK 21/05 Q1023 A3022=
METAR OISS 070630Z 00000KT CAVOK 27/M02 Q1021 A3017=
METAR OITT 070630Z 07010KT 9999 FEW070 22/04 Q1024 A3026=
METAR OIYY 070620Z 31004KT CAVOK 26/M09 Q1023=
METAR OIZH 070630Z 03008KT CAVOK 24/M26 Q1020 A3012=


......................................................................................


Date: 07-Oct-2565

SPTH31 VTSF 070631
SPECI VTSF 070631Z 14008KT 120V180 6000 -TSRA FEW016CB BKN018 25/24 Q1010 RERA NOSIG=


......................................................................................


Date: 07-Oct-2565

SAHK31 VHHH 070630
METAR VHHH 070630Z 08005KT 020V150 9999 FEW028 32/21 Q1013 NOSIG=


......................................................................................


Date: 07-Oct-2565

SAPK31 OPKC 070630
METAR OPIS 070630Z 31019KT 7000 NSC 29/15 Q1013 TEMPO 31015G25KT =
METAR OPKC 070630Z 33004KT 5000 HZ FEW030 35/14 Q1008 NOSIG=
METAR OPLA 070625Z 26003KT 2500 FU FEW040 BKN100 30/22 Q1011
BECMG 2000 RMK QFE985 A29.87=
METAR OPMT 070630Z 00000KT 4000 HZ NSC 31/18 Q1010 NOSIG=
METAR OPPS 070625Z 09004KT 9999 FEW100 28/13 Q1014=
METAR OPSK 070630Z NIL=
METAR OPFA 070630Z NIL=
METAR OPST 070630Z NIL=
METAR OPNH 070630Z NIL=


......................................................................................


Date: 07-Oct-2565

SAPK31 OPKC 070630 RRA
METAR OPFA 070630Z NIL=
METAR OPNH 070630Z NIL=
METAR OPSK 070630Z NIL=
METAR OPST 070630Z NIL=


......................................................................................


Date: 07-Oct-2565

SASR31 WSSS 070630
METAR WSSS 070630Z 18007KT 6000 RA FEW015 FEW018TCU SCT060 BKN160
25/23 Q1009 BECMG FM0700 TL0730 NSW=


......................................................................................


Date: 07-Oct-2565

SAAE31 VTBB 070630
METAR VTCT 070630Z NIL=
METAR VTSG 070630Z NIL=
METAR VTBD 070630Z 12006KT 050V160 9999 FEW020 SCT040 32/23 Q1008
NOSIG=
METAR VTBS 070630Z 09005KT 030V150 9999 FEW020 32/25 Q1008 NOSIG=
METAR VTCC 070630Z 12005KT 060V170 9999 FEW025CB BKN035 31/22 Q1011
NOSIG=
METAR VTSP 070630Z 29004KT 240V320 9000 4000NW -RA FEW005 SCT020
25/25 Q1008 RETS NOSIG=
METAR VTSS 070630Z 23007KT 160V260 9999 VCSH FEW018CB SCT020 BKN090
31/23 Q1008 NOSIG=
METAR VTBU 070630Z 16008KT 9999 FEW020 SCT100 31/23 Q1009 NOSIG=


......................................................................................


Date: 07-Oct-2565

SAAE32 VTBB 070630
METAR VDPP 070630Z 35004KT 310V080 9999 SCT015 FEW017CB 32/24 Q1007
RMK CB:S/SW=
METAR VDSR 070630Z 19007KT 160V230 9999 SCT015 FEW017CB BKN040 30/25
Q1008 RMK CB:E=
METAR VLVT 070630Z 06006KT 9999 SCT016 FEW200 33/25 Q1010 NOSIG=
METAR VYMD 070630Z 36003KT 8000 BKN020 FEW025CB 35/24 Q1008=
METAR VYNT 070630Z NIL=
METAR VYYY 070630Z 06009KT 7000 SCT018 FEW025CB 32/25 Q1008=
METAR VDSV 070630Z 18009KT 150V220 9999 SCT015 32/24 Q1008=


......................................................................................


Date: 07-Oct-2565

SAAE34 VTBB 070630
METAR VVCI 070630Z 11005KT 050V130 9999 FEW019 28/24 Q1012 NOSIG=
METAR VVCR 070630Z 07012KT 9999 FEW015 SCT050 31/25 Q1009 NOSIG=
METAR VVCT 070630Z 08004KT 9999 SCT015 31/24 Q1008 NOSIG=
METAR VVDN 070630Z 01012KT 9999 FEW015 30/25 Q1010 NOSIG=
METAR VVNB 070630Z 09017KT 0800 R11R/P2000N R11L/P2000N +RA SCT018
BKN029 FEW030CB 24/23 Q1013 BECMG TL0645 4000 TSRA=
METAR VVPB 070630Z 02007KT 9999 FEW015 SCT050 29/24 Q1012 NOSIG=
METAR VVPQ 070630Z 09007KT 9999 FEW015 31/24 Q1009 NOSIG=
METAR VVTS 070630Z VRB03KT 9999 SCT015 FEW017CB 34/23 Q1007 NOSIG RMK
CB/E/SE/W=


......................................................................................


Date: 07-Oct-2565

SAIR31 OIII 070630
METAR OIAW 070630Z 10002KT 7000 NSC 34/04 Q1007=
METAR OIFM 070630Z 25004KT 6000 NSC 23/M03 Q1025 A3029=
METAR OIII 070630Z 22006KT CAVOK 25/01 Q1023 A3022=
METAR OIKB 070630Z NIL=
METAR OIKK 070630Z 33004KT CAVOK 21/M06 Q1024 A3024=
METAR OIMM 070630Z 06004KT CAVOK 21/05 Q1023 A3022=
METAR OISS 070630Z 00000KT CAVOK 27/M02 Q1021 A3017=
METAR OITT 070630Z 07010KT 9999 FEW070 22/04 Q1024 A3026=
METAR OIZH 070630Z 03008KT CAVOK 24/M26 Q1020 A3012=


......................................................................................


Date: 07-Oct-2565

SAIR32 OIII 070630
METAR OIAA 070630Z NIL=
METAR OIBK 070630Z NIL=
METAR OICC 070630Z 06008KT CAVOK 26/M17 Q1021 A3016=
METAR OIGG 070630Z 11004KT 9999 FEW025CB BKN030 BKN070
23/20 Q1023=
METAR OIIE 070630Z NIL=
METAR OINZ 070630Z NIL=
METAR OITR 070630Z 02004KT 9999 FEW040 22/06 Q1023=
METAR OIYY 070630Z 31004KT CAVOK 26/M09 Q1023=


......................................................................................


Date: 07-Oct-2565

SAIR36 OIII 070630
METAR OIBA 070630Z NIL=
METAR OIBV 070630Z NIL=
METAR OIFS 070630Z NIL=
METAR OIIP 070630Z NIL=
METAR OIMB 070630Z NIL=
METAR OIMN 070630Z NIL=
METAR OIMS 070630Z 12012KT CAVOK 23/M08 Q1024=
METAR OIMT 070630Z NIL=
METAR OIZJ 070630Z NIL=


......................................................................................


Date: 07-Oct-2565

SAUZ31 UTTW 070630
METAR UTFN 070630Z 08004KT 050V140 8000 NSC 19/02 Q1021 R28/CLRD70
NOSIG=
METAR UTNN 070630Z 27004KT CAVOK 20/M06 Q1022 R33/CLRD60 NOSIG=
METAR UTNU 070630Z 24006KT CAVOK 22/M08 Q1021 R31/CLRD70 NOSIG=
METAR UTSA 070630Z 16002KT 6000 NSC 23/M04 Q1022 R07/CLRD70 NOSIG=
METAR UTSB 070630Z 14004KT 100V220 CAVOK 22/M02 Q1022 R01/CLRD70
NOSIG=
METAR UTSK 070630Z 24004KT 190V270 CAVOK 20/M02 Q1022 R16/CLRD70=
METAR UTSS 070630Z 28006KT 230V320 9999 NSC 20/03 Q1022 R27/CLRD70
NOSIG=
METAR UTST 070630Z 14002KT CAVOK 22/M06 Q1022 R25/CLRD70 NOSIG=
METAR UTFA 070630Z 22006KT 180V260 9999 NSC 20/02 Q1022 R28/09//70=
METAR UTFF 070630Z 07004KT 030V100 9999 NSC 20/00 Q1022 R18/CLRD70=
METAR UTTT 070630Z 22006KT 160V250 7000 NSC 21/00 Q1022 R08L/CLRD70
NOSIG=


......................................................................................


Date: 07-Oct-2565

SAHK31 VHHH 070630
METAR VHHH 070630Z 08005KT 020V150 9999 FEW028 32/21 Q1013 NOSIG=
METAR RCTP 070630Z 05020KT 9999 SCT012 BKN015 BKN050 27/23 Q1013
NOSIG RMK A2994=
METAR RCKH 070630Z 25010KT 220V280 9999 FEW016 FEW020CB BKN050
31/23 Q1010 NOSIG RMK 25011KT/R09 CB NE A2985=
METAR RCSS 070630Z 09007KT 9999 -DZ FEW008 BKN028 BKN045 25/24
Q1013 NOSIG RMK A2994=
METAR RCMQ 070630Z 36015KT 9999 FEW010 SCT025 29/23 Q1012 NOSIG
RMK A2991=
METAR RCNN 070630Z 28009KT 9999 FEW012 FEW014TCU SCT100 32/23
Q1011 NOSIG RMK A2986 TCU E=
METAR RCFN 070630Z 07009KT 020V120 9999 -SHRA FEW016 BKN018 BKN045
29/25 Q1013 NOSIG RMK A2993=
METAR VMMC 070630Z 11012KT 9999 FEW025 30/24 Q1013 NOSIG=


......................................................................................


Date: 07-Oct-2565

SAMS31 WMKK 070630
METAR WBGG 070630Z 34004KT 270V040 9999 SCT020 28/24 Q1008 NOSIG=
METAR WBKK 070630Z 29005KT 240V010 9999 TS FEW014 FEW015CB 31/26 Q1006 NOSIG=
METAR WBSB 070630Z 30008KT 9999 TS VCSH SCT014 FEW015CB BKN140 30/27 Q1007 TEMPO 8000 -TSRA=
METAR WMKK 070630Z 06003KT 330V140 9999 -RA FEW010 FEW017CB 26/24 Q1008 NOSIG=
METAR WMKP 070630Z 22008KT 170V260 9999 FEW017CB 30/25 Q1008 NOSIG=
METAR WSSL 070630Z NIL=
METAR WSSS 070630Z 18007KT 6000 RA FEW015 FEW018TCU SCT060 BKN160 25/23 Q1009 BECMG FM0700 TL0730 NSW=


......................................................................................


Date: 07-Oct-2565

SAJP51 RJTD 070630
METAR RJAA 070630Z 33015KT 3500 SHRA BR FEW003 SCT004 BKN006 13/13
Q1012 TEMPO 3000 SHRA BR FEW003 BKN004=
METAR RJBB 070630Z 01006KT 320V040 9999 -SHRA FEW003 BKN010 BKN020
19/17 Q1012 BECMG FEW005 SCT010 BKN020=
METAR RJCC 070630Z 21005KT 9999 FEW030 OVC130 12/02 Q1020=
METAR RJFF 070630Z 32013KT 9999 FEW030 SCT040 21/12 Q1015 NOSIG=
METAR RJGG 070630Z 03007KT 8000 -RA FEW005 SCT008 BKN060 16/16 Q1011
TEMPO 3000 RA BR FEW004 BKN008=
METAR RJTT 070630Z 35022KT 6000 RA FEW006 BKN010 BKN025 13/12 Q1012
TEMPO 3000 RA BR FEW005 BKN008=
METAR ROAH 070630Z 02018KT 9999 FEW023 BKN/// 29/23 Q1013=


......................................................................................


Date: 07-Oct-2565

SAMS31 WMKK 070630
METAR WBGG 070630Z NIL=
METAR WBKK 070630Z NIL=
METAR WBSB 070630Z NIL=
METAR WMKK 070630Z NIL=
METAR WMKP 070630Z NIL=
METAR WSSL 070630Z NIL=
METAR WSSS 070630Z 18007KT 6000 RA FEW015 FEW018TCU SCT060 BKN160
25/23 Q1009 BECMG FM0700 TL0730 NSW=


......................................................................................



New Window